ENHM 220920Z 21017KT 9999 SCT015 BKN030 06/04 Q1023 W09/S4 KIWI 220853Z AUTO 00000KT 10SM OVC032 02/00 A2977 RMK AO2 SLP081 T00220000 53006 KJMR 220939Z AUTO 36003KT 3SM BR OVC002 01/00 A2960 RMK AO2 KIXA 220950Z AUTO 36006KT 2 1/2SM BR OVC003 11/11 A2962 RMK AO2 KJMS 220856Z AUTO 29012KT 5SM BR OVC006 M01/M02 A2962 RMK AO2 SLP048 T10111017 53012 PPIT 220856Z AUTO 03006KT 10SM CLR M37/ A3007 RMK AO2 SLP183 T1367 412721367 53004 FZRANO UUOO 220930Z 29007MPS 9000 BKN010 M08/M10 Q1023 R30/950342 NOSIG RMK QFE754 KIXD 220935Z AUTO 04008KT 6SM BR SCT006 OVC040 08/07 A2953 RMK AO2 T00780072 ENHV 211550Z 29024G34KT 9999 -SHSNGR SCT026 SCT037 M00/M04 Q1003 KM63 220858Z AUTO 28019G29KT 10SM CLR 04/M03 A3001 RMK AO2 PK WND 28041/12 PRESRR SLP144 T00351028 53023 PPIZ 220856Z AUTO 22018KT 4SM -SN BR SCT024 M22/M24 A2996 RMK AO2 SLP149 P0000 60000 T12221244 412171250 51016 FZRANO TSNO KIYA 220935Z AUTO 30020G30KT 10SM SCT014 BKN021 OVC055 17/14 A2957 RMK AO2 FDSK 220900Z VRB02KT 9999 BKN030 28/19 Q1020 NOSIG ENKB 220920Z AUTO 24015KT 9999 OVC036/// 07/02 Q1019 RMK WIND 745FT 24024KT KJNX 220955Z AUTO 00000KT 1 1/2SM BR OVC003 15/15 A2963 RMK AO2 VLPS 220900Z 36006KT 9999 FEW024 32/16 Q1013 NOSIG KIZA 220935Z AUTO 11014G22KT 5SM -RA BKN033 BKN043 OVC065 08/06 A3002 RMK AO2 ENLA 220920Z AUTO 18015KT 9999NDV BKN019/// 06/04 Q1024 W///S/ KJOT 220935Z AUTO 00000KT M1/4SM FG OVC004 05/05 A2958 RMK AO2 T00490049 FDST 220900Z AUTO 00000KT //// // ////// 24/18 Q1021 KJQF 220950Z AUTO 15003KT 10SM OVC004 12/11 A2970 RMK AO2 LBGO 220930Z AUTO 08003KT 9999 OVC050/// M07/M07 Q1037 NOSIG KIZG 220854Z AUTO 00000KT 10SM OVC025 00/M01 A2976 RMK AO2 SLP080 T00001011 53009 ENKR 220920Z 29007KT 9999 FEW018 BKN078 M05/M07 Q1004 RMK WIND 731FT 29017KT KJRB 220935Z AUTO 25004KT OVC002 07/06 A2974 RMK AO2 SLP297 PWINO FZRANO RVRNO ENLK 220920Z 34003KT 4000 -SN VV009 00/M00 Q1006 KM91 220935Z AUTO 09003KT 10SM CLR 12/10 A2949 RMK A01 KN03 220935Z AUTO 00000KT 1/4SM -SN OVC001 05/05 A2969 RMK AO2 ENMH 211150Z 33028KT 1000 SHSN VV012 M02/M06 Q1002 VLSK 220900Z 09010KT 8000 FEW020 SCT100 28/14 Q1018 NOSIG KLAA 220853Z AUTO 24004KT 10SM CLR M02/M04 A2970 RMK AO2 SLP060 T10171039 53025 TSNO FDUS 220600Z AUTO 11005KT //// // ////// 19/18 Q1024 ENNA 220920Z 28013KT 9999 FEW036 SCT057 M02/M06 Q1008 RMK WIND 1800FT 29021KT ENML 220920Z 09006KT 9999 1000E FEW000 SCT045 00/00 Q1020 ENNE 220920Z 23031KT 9999 7000SW -RA SCT010 BKN020 07/06 Q1009 W///S6 KLAF 220940Z AUTO 02003KT 1/4SM FG VV001 05/05 A2954 RMK AO2 T00500050 ENMS 211450Z 36003KT 2000 -RA VV010 00/M00 Q1016 RMK WIND 412FT VRB06KT ENOA 220920Z 18012KT 7000 -DZ FEW008 BKN020 06/05 Q1022 W///S4 KLBB 220859Z 32027G34KT 10SM FEW029 BKN080 07/01 A2959 RMK AO2 PK WND 32034/0858 T00670006 ENNK 220550Z 16003KT 8000 -SHSN VV019 M02/M05 Q1011 KLAL 220935Z AUTO 18010KT 10SM SCT010 OVC014 20/19 A2975 RMK AO2 KJSL 220940Z AUTO 20013G20KT 2 1/2SM BR CLR 24/23 A2951 RMK A01 KJTC 220935Z AUTO VRB04KT 10SM CLR M09/M12 A3008 RMK AO2 KLAM 220935Z AUTO 00000KT 10SM CLR M02/M08 A2990 RMK AO2 T10171085 KLAN 220853Z 00000KT M1/4SM R28L/0800FT FG VV002 07/06 A2959 RMK AO2 SLP023 T00670056 56003 $ KLBE 220935Z AUTO 00000KT 1/2SM FG BKN085 BKN100 06/06 A2968 RMK AO2 KLBF 220853Z AUTO 31005KT 10SM CLR M05/M06 A2969 RMK AO2 SLP069 T10501061 53015 $ KJSO 220935Z AUTO 24007KT 10SM BKN090 BKN110 14/05 A2948 RMK AO2 T01430055 LATI 220950Z VRB02KT CAVOK 10/01 Q1027 NOSIG KLAR 220853Z AUTO 11006KT 10SM BKN055 BKN070 OVC095 M09/M11 A2975 RMK AO2 SLP112 I3000 T10891111 53020 VMMC 220930Z 05005KT CAVOK 18/07 Q1023 NOSIG KLAS 220856Z 16005KT 10SM SCT100 BKN150 OVC200 09/M01 A3000 RMK AO2 SLP154 T00891006 51001 KJST 220854Z AUTO 06003KT 10SM FEW090 10/08 A2966 RMK AO2 SLP041 T01000078 58008 TSNO KLBL 220935Z 33012KT 10SM 04/01 A2965 RMK AO1 ENOL 220920Z ///KT 9999 -RA FEW009 BKN014 06/05 Q1018 TEMPO 24020G30KT RMK WIND RWY33 26013KT KJSV 220935Z AUTO 20004G09KT 7SM -RA SCT004 BKN011 OVC018 13/11 A2936 RMK AO2 P0002 LTG LTG DSNT W THRU N KLAW 220853Z AUTO 26006KT 10SM CLR 05/02 A2936 RMK AO2 SLP939 T00500017 53002 KLAX 220853Z 11006G16KT 10SM -RA SCT027 OVC085 12/09 A3010 RMK AO2 RAB00 SLP191 P0000 60000 T01220094 58002 $ KLCG 220935Z AUTO 33013G20KT 10SM OVC005 M01/M01 A2964 RMK AO2 T10061010 KLCH 220853Z AUTO 30008KT 10SM -RA OVC100 16/12 A2958 RMK AO2 PK WND 34030/0806 RAB00E13B33 SLP023 P0000 60001 T01560122 53017 $ KLCI 220856Z AUTO 00000KT 10SM CLR 02/02 A2975 RMK AO2 SLP095 T00220017 53009 FZRANO KN38 212200Z AUTO 19004KT M1/4SM FG OVC002 07/07 A2974 RMK AO2 ENQA 220920Z AUTO 18015KT 9999NDV OVC024/// 06/04 Q1023 W05/S4 KLBT 220854Z AUTO 23006KT 10SM OVC020 16/15 A2965 RMK AO2 PRESFR SLP038 T01560150 58003 KLCK 220935Z AUTO 07006KT 5SM BR 07/07 A2958 RMK AO2 T00670068 ENQC 220920Z AUTO 20014KT 9999NDV BKN013/// 06/05 Q1022 W///S4 ENOV 211850Z VRB03KT CAVOK 04/02 Q1025 RMK WIND 2175FT 14024KT KLBX 220853Z AUTO 23004KT 10SM SCT100 14/11 A2959 RMK AO2 SLP020 T01440111 55006 KLCQ 220935Z AUTO 17006KT 10SM BKN018 OVC024 20/19 A2966 RMK AO2 VLVT 220930Z 02004TK 8000 FEW020 29/13 Q1016 NOSIG KKLS 220856Z AUTO 00000KT CLR 04/04 A2953 RMK AO2 SLP005 T00440039 58022 PWINO $ KLDJ 220935Z AUTO 00000KT 2 1/2SM BR OVC003 07/07 A2973 RMK AO2 T00650065 ENRA 220920Z 29010KT 9999 -SHRA FEW010 BKN020 04/02 Q1010 KLEB 220853Z AUTO 00000KT 9SM OVC007 02/01 A2977 RMK AO2 SLP084 T00170006 50008 KJVL 220935Z AUTO 16003KT 3/4SM BR OVC008 03/03 A2958 RMK AO2 KLDM 220935Z AUTO 00000KT 1/2SM FG OVC012 04/04 A2958 RMK AO2 T00350035 KLEE 220853Z AUTO 19010KT 10SM BKN090 21/17 A2975 RMK AO2 SLP072 T02060172 58015 KJWG 220935Z AUTO 34012G17KT 10SM SCT007 SCT060 BKN110 07/07 A2946 RMK AO2 ENQR 220920Z AUTO 23022KT 9999NDV OVC021/// 08/04 Q1020 W///S5 KN60 220852Z AUTO 30011KT M02/M02 A2963 RMK AO1 SLP060 T10171022 53014 UUWW 220930Z 27007MPS 9999 SCT018 M04/M07 Q1016 R24/410245 NOSIG ENSB 220850Z 12010KT 9999 BKN045 M09/M15 Q1013 RMK WIND 1400FT 11009KT ENSD 211350Z 08004KT 9999 FEW002 BKN037 05/05 Q1028 RMK WIND 1138FT VRB02KT UWGG 220930Z 28005MPS 9999 BKN018 M07/M11 Q1008 R36L/420140 NOSIG RMK QFE749 KJVW 220935Z AUTO 00000KT 2 1/2SM BR CLR 14/14 A2950 RMK AO2 KJWN 220935Z AUTO 00000KT 10SM FEW095 SCT120 11/10 A2949 RMK LCEN 220920Z 27004KT 9999 FEW025 13/01 Q1024 NOSIG ENSE 220920Z AUTO 22020KT 9999NDV FEW020/// OVC032/// 09/05 Q1021 W///S5 ENSF 220920Z AUTO 21022KT 9999NDV OVC034/// 09/04 Q1021 W///S4 ENRO 220920Z VRB01KT 1000 R14/1200N R32/1200N FZFG VV002 M05/M05 Q1018 ENSG 211150Z VRB01KT 9999 BKN028 03/03 Q1029 RMK WIND 3806FT 27009KT ENSH 211350Z 35004KT 310V020 9999 VCSH NSC M01/M05 Q1017 KLFI 220925Z AUTO 36007KT 3SM R08/4000FT -RA BR OVC004 09/09 A2963 RMK AO2 RAB0858E08DZB08E10RAB10E13RAB25 KJXI 220935Z AUTO 24005KT 10SM OVC004 13/07 A2939 RMK AO2 T01300065 KLGA 220851Z 05003KT 1SM BR OVC003 08/06 A2972 RMK AO2 SFC VIS 3 SLP062 T00780061 58018 $ ENRS 211250Z 16010KT 4000 -SHSN SCT006 OVC011 01/M00 Q1017 KLFK 220853Z AUTO 22007KT 10SM FEW070 OVC095 14/08 A2948 RMK AO2 RAB20E31 SLP981 P0000 60001 T01440078 56029 KLGB 220853Z 12005KT 8SM -RA SCT050 OVC085 12/08 A3010 RMK AO2 RAB32 SLP193 P0000 60000 T01170083 58002 ENSK 211550Z 36006KT 9999 VCSH FEW015 SCT030 BKN060 M02/M05 Q1015 KLGC 220935Z AUTO 09003KT 10SM -RA SCT007 SCT027 OVC050 16/16 A2959 RMK AO2 LTG DSNT NE T01570157 ENSL 220920Z 21014KT 6000 -SHRA BKN018 06/03 Q1024 W06/S3 ENTC 220850Z VRB01KT 9999 FEW110 M06/M07 Q1010 NOSIG RMK WIND 2600FT 17007KT KLGD 220935Z AUTO 11010KT 10SM BKN022 BKN031 03/M02 A2972 RMK AO1 LBPD 220930Z AUTO 11003KT 2100 BR NCD M12/M13 Q1035 TEMPO 1500 BR KLEW 220910Z AUTO 01003KT 10SM BKN027 OVC034 01/M01 A2976 RMK AO2 FZRANO KJXN 220856Z AUTO 25004KT 1/4SM FG VV003 06/05 A2959 RMK AO2 RAB0757E24 SLP023 P0000 60000 T00560050 58002 KLEX 220854Z 07005KT 10SM CLR 09/07 A2955 RMK AO2 SLP004 T00890072 56026 KJWY 220935Z AUTO 25012G16KT 10SM CLR 12/02 A2943 RMK AO2 T01150024 KJYG 220934Z AUTO 30008KT 1SM BR OVC002 01/01 A2960 RMK AO2 ENRY 220920Z 19007KT 0300 R12/0800V1600 R30/0800V1800 FG OVC001 03/03 Q1024 ENSR 211550Z 28013KT 9999 -SHSN FEW028 SCT043 BKN055 M01/M06 Q1011 WIND 1119FT 27021KT ENSS 211350Z 32029G40KT 9999 VCSH FEW045CB BKN045 M05/M05 Q0999 RMK WIND 500FT 33035KT KLFT 220933Z AUTO 31023G32KT 10SM BKN020 BKN029 19/16 A2957 RMK AO2 PK WND 32032/0933 PRESRR T01940156 KLHB 220935Z AUTO 24011G15KT 10SM CLR 13/02 A2954 RMK AO2 T01320020 ENST 211250Z 36003KT 9999 -RA FEW004 SCT006 BKN015 01/00 Q1017 RMK WIND 300FT 19010KT KJYL 220935Z AUTO 13007KT 4SM +VCTSRA SCT022 BKN033 OVC042 A2964 RMK AO2 LTG DSNT ALQS KJYM 220935Z AUTO 00000KT M1/4SM FG OVC002 07/07 A2957 RMK AO2 UUYY 220930Z 29003MPS 2300 -SHSN BKN024CB M05/M07 Q0987 R19/490531 TEMPO 0700 +SHSN RMK QFE732/0977 KJYO 220934Z AUTO 00000KT 3/4SM BR OVC003 09/09 A2971 RMK AO2 ENTO 220920Z 20007KT 0250 R18/1000D R36/0650N FG VV002 00/00 Q1024 ENUG 220920Z AUTO 01020KT 9999NDV SCT032/// 00/M07 Q1008 W06/S5 KJZI 220935Z AUTO 22009KT 5SM -RA FEW001 SCT028 BKN042 18/17 A2971 RMK AO2 LTG DSNT SW AND W KJYR 220935Z AUTO 34006KT 10SM CLR 00/00 A2965 RMK AO2 ENVA 220920Z 21010KT 9999 BKN033 06/02 Q1019 NOSIG RMK WIND 670FT 22015KT FGBT 220900Z 14002KT 9999 FEW010 29/24 Q1011 KLGU 220909Z AUTO 06003KT 8SM OVC080 M03/M04 A2995 RMK AO2 T10331039 KLIC 220855Z AUTO 31003KT 10SM CLR M04/M06 A2973 RMK AO2 SLP075 T10441056 53019 KLHM 220935Z AUTO 14011KT 7SM BKN030 BKN035 OVC041 07/06 A2974 RMK AO1 P0002 ENVD 211550Z 28013KT 9000 SHSN SCT010 M05/M06 Q1002 KJZP 220935Z AUTO 14008KT 7SM -RA OVC002 14/11 A2962 RMK AO2 T01370111 KLHQ 220948Z AUTO 00000KT 1/4SM FG FEW002 BKN090 09/08 A2960 RMK AO2 EPBY 220930Z 18005KT 150V230 3100 BR OVC002 00/M00 Q1032 R26/29//95 UWKD 220930Z 30007G12MPS 9000 DRSN BKN022 M07/M11 Q1001 R29/420345 NOSIG RMK QFE740/0987 UWKE 220930Z 29007MPS 7000 -SHSN BKN016CB M09/M12 Q0998 R21/421045 NOSIG RMK OBST OBSC QFE732/0976 VOBG 220930Z 11012KT CAVOK 29/07 Q1018 KMAE 220853Z AUTO 14015KT 10SM -RA OVC050 10/06 A2995 RMK AO2 SLP142 P0002 60006 T01000056 56013 KLHW 220945Z AUTO 00000KT 10SM -RA SCT021 BKN043 BKN050 18/16 A2963 RMK AO2 LTG DSNT NW RAE03RAB45 TSB08E23 KLHX 220853Z AUTO 30008KT 10SM OVC100 M01/M03 A2973 RMK AO2 SLP077 T10061028 51022 $ KMAF 220853Z AUTO 27025G34KT 10SM CLR 08/M04 A2970 RMK AO2 PK WND 28037/0834 SLP032 T00831044 53014 KLJF 220933Z AUTO 31003KT 3/4SM BR OVC001 02/02 A2961 RMK AO2 LBSF 220930Z VRB02KT 2000 BR SCT002 OVC004 M08/M09 Q1034 R99/19//95 TEMPO 0800 FZFG BKN002 DXNG 220900Z 34003KT 290V020 CAVOK 28/01 Q1015 NOSIG KLHZ 220940Z AUTO 00000KT 5SM BR OVC002 10/10 A2966 RMK AO2 VOCB 220930Z 05010KT 7000 SCT015 BKN080 31/13 Q1015 NOSIG KMAI 220853Z AUTO 22016G24KT 10SM BKN018 BKN025 OVC050 23/22 A2955 RMK AO2 PK WND 21026/0812 LTG DSNT N AND NE AND SW RAE0757B36E46 SLP006 P0000 60000 T02330217 55006 VOBL 220930Z 11012KT 070V140 9999 FEW015 29/06 Q1018 NOSIG VOBM 220900Z 11010KT CAVOK 31/11 Q1019 KLIT 220853Z 12004KT 7SM BCFG FEW100 09/09 A2941 RMK AO2 SLP960 VIS NE 1 T00940094 58008 $ KO22 220915Z AUTO 13008G19KT 10SM BKN038 OVC044 06/03 A2982 RMK AO1 KMAN 220935Z AUTO 13010G15KT 10SM CLR 02/M02 A2981 RMK A01 KMAO 220935Z AUTO 22005KT 7SM OVC017 15/13 A2969 RMK AO2 KMBG 220852Z AUTO 34006KT 10SM CLR M09/M12 A2965 RMK AO2 SLP067 I3000 T10891117 53020 $ VOCI 220930Z VRB03KT 6000 SCT018 BKN090 34/21 Q1010 NOSIG UWKS 220930Z 30009MPS 2400 R24/2000D -SHSN BLSN OVC011CB M08/M11 Q1003 R24/590540 TEMPO 30010G16MPS 1500 SHSN BLSN RMK QFE738 VNKT 220950Z 28007KT 7000 FEW015 20/04 Q1021 NOSIG VOCL 220700Z 31004KT 7000 FEW015 32/20 Q1013 NOSIG KMCB 220915Z AUTO 23004KT 3SM BR FEW008 BKN014 BKN019 19/17 A2950 RMK AO2 PRESFR T01890172 $ KMBL 220928Z AUTO 09003KT 1/2SM FG OVC013 02/02 A2958 RMK AO2 FZRANO KMCC 220930Z AUTO 14018G21KT 2 1/2SM -RA FEW001 SCT011 BKN019 08/07 A2976 RMK AO2 KMCD 220936Z AUTO 10005KT 1/2SM FG OVC002 02/02 A2958 RMK AO2 T00180018 ENWV 220920Z AUTO 18015KT 9999NDV OVC021/// 06/04 Q1025 W///S3 KMAW 220935Z AUTO 00000KT 10SM CLR 12/11 A2946 RMK AO2 LTG DSNT W KMCE 220853Z AUTO 15019G29KT 10SM -RA FEW047 BKN055 OVC070 09/06 A2988 RMK AO2 PK WND 14031/0820 RAE08B40 SLP118 P0001 60004 T00890061 58021 TSNO EPGD 220930Z 23007KT 4000 BR OVC003 M00/M01 Q1030 VOBZ 220930Z 11008G15KT 5000 HZ FEW020 32/16 Q1015 NOSIG KMBO 220935Z AUTO 00000KT 10SM CLR A2949 RMK AO2 PWINO KMCF 220858Z AUTO 27009KT 10SM OVC014 21/21 A2974 RMK AO2 SLP074 T02140214 58016 KMCI 220853Z 06007KT 10SM SCT050 OVC070 08/05 A2954 RMK AO2 SLP002 T00780050 53007 $ KLKR 220935Z AUTO 22004KT 10SM FEW003 OVC014 14/14 A2968 RMK AO2 PWINO KMBS 220945Z AUTO 00000KT 1/4SM R23/1200V2000FT FG VV002 02/02 A2959 RMK AO2 T00220022 KLLJ 220855Z AUTO 00000KT 10SM OVC060 M12/M12 A2984 RMK AO2 SLP159 T11221122 51014 KMCJ 220935Z AUTO 27009G21KT 030V040 10SM FEW080 SCT110 18/01 A2953 RMK AO1 KMCK 220853Z AUTO 32008KT 10SM CLR M01/M03 A2968 RMK AO2 SLP058 T10111028 53017 LCLK 220930Z 04008KT 9999 FEW030 15/02 Q1024 NOSIG UWLW 220900Z 31007MPS 8000 -SN BLSN BKN020 M07/M12 Q1005 R20/450245 TEMPO 29012MPS RMK QFE748 KLKU 220935Z AUTO 04005KT 1 3/4SM BR OVC003 11/11 A2966 RMK AO2 KLKV 220935Z AUTO 15011KT 10SM SCT017 BKN028 OVC055 M01/M03 A2965 RMK AO1 KMDD 220935Z AUTO 28021G32KT 10SM CLR 09/M04 A2973 RMK AO2 T00871040 KMCN 220915Z AUTO 11007KT 4SM +RA BR SCT005 BKN045 OVC080 16/15 A2960 RMK AO2 LTG DSNT SE AND S P0006 T01560150 KMCO 220909Z 18010KT 10SM SCT019 19/17 A2976 RMK AO2 T01940167 KMDH 220852Z AUTO 00000KT 5SM BR CLR 08/08 A2949 RMK AO2 SLP984 T00780078 55009 KLLQ 220927Z AUTO 00000KT 10SM SCT026 BKN065 OVC100 13/12 A2945 RMK AO2 T01280117 KMDJ 220935Z AUTO 21012KT 3SM BR BKN007 OVC011 23/23 A2953 RMK A01 KMEB 220945Z AUTO 23008KT 10SM BKN013 OVC018 16/14 A2966 RMK AO2 T01560144 KLNC 220935Z AUTO 26007KT 10SM CLR 12/01 A2943 RMK AO2 T01210014 KLND 220853Z AUTO 00000KT 10SM FEW080 M07/M11 A2977 RMK AO2 SLP128 T10671106 53016 KMCW 220912Z AUTO 31004KT 1/2SM FG VV002 00/00 A2958 RMK AO2 T00000000 $ KLMO 220933Z AUTO 27004KT 10SM CLR M01/M05 A2979 RMK AO2 T10151046 KMCX 220935Z AUTO 00000KT 1/4SM FG OVC001 04/03 A2954 RMK AO2 T00380031 KMDQ 220935Z AUTO 34005KT 7SM -RA SCT029 SCT047 OVC060 13/12 A2948 RMK AO2 P0014 KMEH 220856Z AUTO 00000KT 10SM CLR M02/M05 A2967 RMK AO2 SLP062 T10171050 50004 KMEI 220941Z AUTO 31003KT 3SM BR FEW002 SCT022 BKN028 14/13 A2949 RMK AO2 T01390133 KMDS 220930Z AUTO 31011KT OVC008 00/00 RMK AO2 PWINO PNO TSNO KLMT 220853Z AUTO 14023G30KT 10SM FEW017 BKN045 BKN075 01/M01 A2956 RMK AO2 PK WND 15030/0853 SLP012 T00111011 58019 KLNK 220854Z AUTO 01003KT 9SM CLR M01/M02 A2965 RMK AO2 SLP045 T10061017 53020 KMDT 220929Z 00000KT 1/8SM R13/1800V2400FT FG VV002 06/06 A2971 RMK AO2 T00610061 KLNL 220935Z AUTO 00000KT 1/2SM FG OVC002 01/01 A2955 RMK AO2 T00130013 LDDU 220930Z 02009KT 350V060 CAVOK 11/M07 Q1027 TEMPO FM1100 30007KT UWOO 220930Z 30005MPS 9999 BKN038 M12/M14 Q1003 R26/490338 NOSIG RMK QFE742/0989 KMFD 220852Z AUTO 17004KT 10SM CLR 09/09 A2963 RMK AO2 SLP034 T00940089 58009 KMEM 220927Z 07009KT 10SM -RA BKN043 OVC070 13/13 A2939 RMK AO2 WSHFT 0907 P0006 $ ENZV 220920Z 13005KT 9999 FEW001 BKN008 BKN015 03/03 Q1026 NOSIG KMDW 220927Z 00000KT 2SM R31C/4500VP6000FT BR SCT003 OVC010 06/04 A2958 RMK AO2 T00560044 KMFE 220853Z AUTO 34016G20KT 10SM CLR 20/05 A2970 RMK AO2 SLP057 T02000050 51041 KLNN 220935Z AUTO 00000KT 10SM BKN027 OVC031 11/11 A2963 RMK AO1 T01080105 LBWN 220930Z 30005KT 8000 BKN015 OVC022 01/M02 Q1035 R99/71//95 NOSIG UWOR 220900Z 26007MPS 9000 -SN DRSN BKN030 M07/M09 Q0998 R25/490150 NOSIG RMK QFE725/0967 KLNP 220935Z AUTO 16005KT 10SM CLR 10/10 A2962 RMK AO2 KMDZ 220935Z AUTO 00000KT 1/4SM FG OVC002 01/01 A2953 RMK AO2 T00070006 KMER 220445Z 16015KT 10SM RA SCT036 OVC047 10/MM A2995 KMFI 220924Z AUTO 29003KT 1/4SM FG VV004 02/ A2953 RMK AO2 T0017 $ KLNR 220938Z AUTO 20003KT 4SM BR OVC008 03/02 A2958 RMK AO2 T00280017 KLNS 220946Z AUTO 02003KT 1SM BR VV003 06/06 A2971 RMK AO2 T00610061 KO69 220935Z AUTO 11011G16KT 080V140 2SM OVC010 08/08 A2968 RMK AO1 DXSK 220900Z 32006KT 8000 NSC 27/21 Q//// KLOL 220853Z AUTO 11004KT 10SM BKN075 OVC090 00/M02 A2977 RMK AO2 SLP085 T00001022 56016 KLPC 220856Z AUTO RMK AO2 SLPNO 6//// PWINO FZRANO $ KMGC 220935Z AUTO 03003KT 1/4SM FG OVC002 02/02 A2958 RMK AO2 VOGO 220930Z 23006KT 6000 FEW090 32/19 Q1011 NOSIG KMEV 220935Z AUTO 33003KT 1 1/4SM -SN BKN001 OVC010 00/M01 A2974 RMK AO2 P0001 KLOM 220935Z AUTO 00000KT 1/4SM OVC003 06/06 A2971 RMK AO1 KMGE 220948Z AUTO 10008KT 10SM -RA FEW003 BKN016 14/13 A2954 RMK AO2 CIG 012V016 PRESFR $ KMGG 220933Z AUTO 33003KT 1/2SM FG OVC002 01/02 A2960 RMK AO2 T00140015 KMEZ 220935Z AUTO 00000KT 1SM BKN002 OVC012 12/11 A2938 RMK AO2 LCPH 220930Z 22005KT 190V270 9999 FEW025 SCT060 16/07 Q1024 KMFR 220853Z AUTO 13021G27KT 10SM BKN060 BKN080 OVC100 09/01 A2942 RMK AO2 PK WND 13036/0807 PRESFR SLP962 T00890006 56029 KLOR 220853Z AUTO 00000KT BKN017 OVC022 18/17 A2953 RMK AO2 SLP997 T01780172 53000 PWINO $ KMGJ 220927Z AUTO 00000KT 1/2SM FG VV002 06/05 A2971 RMK AO2 T00560050 TSNO KLOT 220935Z AUTO 02003KT 1/2SM FG OVC004 03/03 A2958 RMK AO2 T00340034 KLOU 220853Z AUTO 00000KT 10SM CLR 09/07 A2955 RMK AO2 SLP003 T00890067 56021 EPKK 220930Z 06003KT 030V130 9999 BKN012 00/M03 Q1033 EPLB 220930Z 21006KT 9999 OVC006 00/M01 Q1034 KMGM 220946Z AUTO 06004KT 10SM SCT004 OVC012 18/15 A2954 RMK AO2 T01780150 KMFV 220935Z AUTO 06010KT 3SM DZ BKN005 BKN019 OVC023 12/12 A2963 RMK AO2 P0001 T01230118 KMHE 220853Z AUTO 29007KT 7SM SCT017 OVC023 00/M02 A2967 RMK AO2 SLP061 T00001017 53015 KMGN 220934Z AUTO 07003KT 2 1/2SM BR OVC004 01/01 A2958 RMK AO2 T00170017 FHAW 220850Z 15013KT 9999 FEW015 26/20 Q1013 BLU VOHS 220930Z 08007KT 6000 NSC 30/11 Q1018 NOSIG KLOZ 220947Z AUTO 00000KT 3SM BR BKN001 07/06 A2957 RMK AO2 KO86 220935Z AUTO 00000KT 1 1/4SM OVC003 00/00 A2958 RMK AO1 KLPR 220934Z AUTO 17005KT 3SM BR CLR 09/08 A2962 RMK AO2 T00890078 KMGR 220935Z AUTO 17004KT 10SM SCT017 BKN021 OVC038 20/18 A2958 RMK AO2 LTG DSNT N THRU E KMIA 220853Z 18005KT 10SM FEW020 SCT050 BKN250 24/21 A2983 RMK AO2 SLP102 T02440206 55005 LCRA 220850Z 10007KT 9999 FEW060 15/02 Q1024 NOSIG KMIB 220923Z AUTO 29014KT 9SM R30/5500FT BKN007 OVC011 00/M02 A2962 RMK AO2 CIG 007V009 KMHK 220852Z AUTO 01003KT 10SM OVC110 07/04 A2957 RMK AO2 SLP014 T00670039 53018 KLQK 220935Z AUTO 00000KT 4SM RA OVC006 13/12 A2968 RMK AO2 T01250123 KMIC 220921Z AUTO 34004KT 1SM BR OVC002 02/00 A2958 RMK AO2 T00170000 TSNO KMHL 220955Z AUTO 03010KT 10SM BKN055 BKN070 OVC080 09/07 A2953 RMK AO2 LTG DSNT S EPKT 220930Z 11008KT 7000 NSC 00/M03 Q1032 KLRD 220856Z AUTO 24004KT 10SM CLR 14/04 A2975 RMK AO2 SLP076 T01440044 53011 $ EPLL 220930Z 14007KT 6000 OVC003 M00/M01 Q1032 R25/29//95 VOHY 220930Z VRB03KT 6000 NSC 31/10 Q1019 NOSIG KMGW 220853Z AUTO 00000KT 9SM BKN080 08/07 A2967 RMK AO2 SLP047 T00830072 55006 KMIE 220853Z AUTO 04008KT 10SM FEW030 FEW043 SCT075 11/08 A2958 RMK AO2 SLP011 T01110083 58007 KLRF 220948Z AUTO 00000KT 1/2SM R25/2600FT FG SCT047 10/10 A2941 RMK AO2 KMGY 220939Z AUTO 09005KT 9SM CLR 09/09 A2958 RMK AO2 T00890089 KMHR 220445Z 16012KT 7SM FEW030 OVC045 09/07 A2989 KMHS 220856Z AUTO 13006KT 1/2SM SN FG VV005 01/M01 A2954 RMK AO2 PRESFR SLP029 P0009 60032 T00061006 58037 KLRJ 220935Z AUTO 31004KT 10SM OVC013 00/M01 A2964 RMK AO2 KP08 220935Z AUTO 11009KT 10SM FEW033 FEW043 FEW050 06/02 A3014 RMK AO2 LEAB 220900Z 33008KT 300V360 CAVOK 05/M00 Q1015 NOSIG KMHT 220853Z 36003KT 9SM OVC200 02/01 A2973 RMK AO2 SLP082 T00220011 50003 KMHV 220920Z AUTO 21008KT 4SM HZ BKN010 BKN018 OVC060 06/03 A3001 RMK A01 KLSE 220942Z AUTO 22003KT 1 1/2SM BR OVC008 04/03 A2957 RMK AO2 VIS 1V3 T00390028 TSNO KLSF 220918Z AUTO 05003KT 10SM BKN029 OVC035 16/16 A2956 RMK AO2 CIG 029V036 BKN V SCT $ KLRO 220935Z AUTO 23006KT 5SM RA FEW002 FEW025 BKN045 17/17 A2970 RMK AO2 LTG DSNT SW P0003 LEAG 220930Z AUTO VRB08KT CAVOK 12/03 Q1019 EPMO 220930Z 19006KT 150V230 1200 R08/1600U BR OVC001 M00/M00 Q1033 UWSS 220930Z 30011G16MPS 9999 DRSN FEW016 M08/M12 Q1012 R30/490342 NOSIG RMK QFE746 LEBA 220930Z 00000KT CAVOK 04/01 Q1020 KMIS 220935Z AUTO 22016KT 2SM BR OVC003 21/21 A2951 RMK A01 LEBB 220930Z 11003KT 070V140 4000 BR FEW025 SCT038 05/04 Q1022 TEMPO 8000 NSW KNAK 220854Z AUTO 34005KT 1/2SM FG VV005 07/07 A2971 RMK AO2 RAE38 SLP061 P0001 60001 T00720067 58013 LEAL 220930Z 34017KT 9999 FEW020 SCT045 11/02 Q1013 NOSIG KMKC 220929Z 05005KT 8SM SCT008 BKN065 OVC080 08/07 A2955 RMK AO2 RAB05E24 P0000 T00780072 KLRU 220935Z AUTO 26017KT 10SM CLR 02/M02 A3005 RMK AO2 T00181021 KNBC 220940Z AUTO 13005KT 2SM TSRA BR SCT004 BKN008 OVC044 17/17 A2967 RMK AO2 TSB11 P0014 T01720167 LEAM 220930Z 35006KT 320V080 9999 FEW030 SCT090 13/01 Q1015 KMIV 220932Z AUTO 13007KT 5SM -RA BR SCT010 OVC090 07/07 A2970 RMK AO2 P0002 T00720072 KMKE 220852Z 00000KT 6SM BR OVC011 05/03 A2957 RMK AO2 SLP018 T00500033 56004 $ KMIW 220853Z AUTO 30005KT 1/2SM FG VV002 01/01 A2959 RMK AO2 SLP024 T00110011 53010 LEBG 220930Z 03006KT 9999 BKN013 00/M01 Q1019 KNBG 220855Z AUTO 22008KT 10SM SCT015 SCT021 21/20 A2952 RMK AO2 SLP995 T02060200 50003 PWINO $ KLRY 220935Z AUTO 05008KT 7SM -RA OVC060 08/08 A2954 RMK AO2 P0003 LTG DSNT SE KMKG 220855Z AUTO 00000KT 1/4SM R32/1400V1600FT FG VV002 05/05 A2960 RMK AO2 SLP024 T00500050 50001 KMJQ 220935Z AUTO 31008KT 3/4SM BR OVC001 00/00 A2959 RMK AO2 KNCA 220935Z AUTO 25007KT 10SM SCT026 16/15 A2964 RMK AO2 T01610150 LEAS 220943Z 24008KT 9999 SHRA SCT016 BKN033TCU 06/03 Q1023 TEMPO NSW KLUA 220935Z AUTO 00000KT 4SM BR OVC003 07/07 A2969 RMK AO2 KP28 220856Z AUTO 36011KT 07/06 A2951 RMK AO1 SLP994 P0007 60015 T00670056 53021 KMKJ 220935Z AUTO 12004KT 3/4SM BR OVC002 10/09 A2967 RMK AO2 T00980092 VOMD 220930Z 07010KT 6000 SCT020 BKN100 30/20 Q1013 NOSIG KMLB 220853Z AUTO 19011KT 10SM SCT045 SCT065 BKN080 20/18 A2979 RMK AO2 SLP087 T02000183 58012 LEBL 220930Z 04021KT 9999 FEW030 SCT045 11/04 Q1015 NOSIG KMKL 220853Z AUTO 10004KT 10SM CLR 13/12 A2943 RMK AO2 SLP962 T01330117 58016 KMLC 220853Z AUTO 18005KT 10SM FEW070 BKN085 BKN120 13/08 A2935 RMK AO2 SLP933 T01330083 56009 KLSV 220858Z AUTO 03008KT 10SM CLR 07/02 A3000 RMK AO2 SLP155 T00700023 58006 KLUD 220935Z AUTO 25009KT 10SM CLR 10/M01 A2939 RMK AO2 T01031007 KMKN 220935Z AUTO 26018G27KT 10SM CLR 12/M01 A2949 RMK AO2 T01171014 KMLE 220935Z AUTO 32003KT 7SM CLR 01/M01 A2964 RMK AO2 T00051006 KMLF 220852Z AUTO 21012KT 10SM CLR M03/M06 A2999 RMK AO2 SLP166 T10281056 51009 KMKO 220931Z AUTO 10004KT -RA FEW032 FEW042 OVC060 12/12 A2938 RMK AO2 LTG DSNT ALQDS P0001 T01220122 $ KMJX 220943Z AUTO 00000KT 2 1/2SM BR BKN002 OVC011 07/07 A2973 RMK AO2 RAE23 PNO $ KLUF 220858Z AUTO 05005KT 10SM CLR 05/05 A3010 RMK AO2 SLP193 T00510049 50005 VISNO RWY03 CHINO RWY03 $ LECH 220930Z 01013KT 340V050 9999 FEW010 BKN030 08/04 Q1014 RERA KMLI 220856Z AUTO 00000KT 3SM BR CLR 00/M02 A2958 RMK AO2 T00001017 UWUU 220930Z 24005MPS 9999 -SN BKN016 M10/M13 Q0998 R14R/350144 NOSIG RMK QFE739/0985 LEDA 220930Z VRB01KT 9999 FEW035 BKN060 05/02 Q1016 KMKS 220935Z AUTO 23004KT 10SM RA BKN110 16/15 A2968 RMK AO2 LTG DSNT S KLTS 220940Z AUTO 34015G20KT 10SM BKN007 05/03 A2943 RMK AO2 $ KMLJ 220935Z AUTO 33004KT 10SM -VCTSRA SCT007 BKN021 OVC028 15/15 A2965 RMK AO2 LTG DSNT SW VOML 220930Z 26004KT 6000 FEW015 SCT020 BKN080 34/16 Q1012 NOSIG LEBT 220900Z AUTO 36008KT 290V040 9999 // FEW056 12/02 Q1014 KMKT 220856Z AUTO 33004KT 1/4SM FG OVC003 01/01 A2959 RMK AO2 SLP031 T00060006 53014 FZRANO KLUK 220853Z AUTO 20004KT 1/4SM R21L/1200V3000FT FG VV001 06/06 A2958 RMK AO2 SLP018 T00560056 56023 KNBT 220923Z AUTO 24007KT 10SM SCT029 A2965 RMK AO2 $ VOMM 220930Z 02012KT 6000 SCT020 30/20 Q1013 NOSIG KLUL 220955Z AUTO 23006KT 5SM BKN022 BKN029 BKN040 17/17 A2953 RMK AO2 T01720172 KLUM 220935Z AUTO RMK AO2 PWINO PNO TSNO LECO 220930Z 18004KT 7000 VCFG NSC 01/01 Q1023 TEMPO 3000 BCFG DXXX 220900Z 23009KT 210V270 9999 SCT013 30/26 Q1011 NOSIG KMLP 220929Z AUTO VRB04KT 8SM -SN FEW006 OVC010 M04/M06 A2967 RMK AO2 SNB14 P0000 T10391056 KMKY 220935Z AUTO 18010G15KT 10SM CLR 23/21 A2979 RMK AO1 EPPO 220930Z 13009KT 2700 BR OVC004 M00/M01 Q1031 R10/29//95 LEBZ 220900Z 00000KT 8000 NSC 03/01 Q1020 KMMH 220935Z AUTO 15004KT 3/4SM SN OVC007 M06/M06 A2985 RMK AO2 T10581059 KLVJ 220853Z AUTO 26004KT 10SM BKN100 17/12 A2958 RMK AO2 SLP015 60012 T01720117 58003 KMLS 220915Z AUTO 23007KT 5SM BR CLR M10/M12 A2974 RMK AO2 T11001122 KLWA 220936Z AUTO 00000KT 1/4SM FG OVC001 04/04 A2958 RMK AO2 T00390038 EPRA 220930Z 20006KT 9999 OVC008 01/M00 Q1033 KMMK 220853Z AUTO 00000KT 1/4SM FG VV002 05/03 A2973 RMK AO2 SLP069 T00500033 58012 TSNO KLVK 220853Z AUTO VRB04G17KT 10SM SCT049 OVC070 11/04 A2969 RMK AO2 RAE04 SLP055 P0000 60000 T01060039 58037 KMLT 220853Z AUTO 27003KT 10SM OVC036 M01/M03 A2979 RMK AO2 SLP097 T10061028 51014 KLWB 220935Z AUTO 00000KT 2SM BR OVC036 08/08 A2964 RMK AO2 T00810080 KLWC 220852Z AUTO VRB03KT 9SM OVC060 08/07 A2953 RMK AO2 SLP001 T00830067 53005 KMLU 220853Z AUTO 27006KT 9SM OVC095 17/14 A2948 RMK AO2 RAB24E41 SLP983 P0000 60000 T01670139 50012 KMML 220945Z AUTO 33010KT 1SM BR OVC003 01/01 A2963 RMK AO2 FZRANO KLVL 220935Z AUTO 02004KT 10SM OVC003 10/09 A2963 RMK AO1 P0001 T00980093 LECV 220900Z 11005KT CAVOK 03/M04 Q1016 KLVM 220853Z AUTO 29011KT 10SM OVC075 M01/M07 A2975 RMK AO2 SLP104 T10061072 51014 KLWD 220853Z AUTO 12003KT 1/4SM FZFG VV002 M01/M01 A2957 RMK AO2 SLP021 T10111011 53006 KLVN 220929Z AUTO 31003KT 3SM BR BKN002 OVC007 01/01 A2958 RMK AO2 KMNE 220935Z AUTO 24005KT 10SM BKN100 OVC120 14/11 A2945 RMK AO2 T01370110 KP53 220856Z AUTO 20004KT 03/03 A2955 RMK AO1 SLP012 T00280028 51007 KLUX 220935Z AUTO 00000KT 3SM RA OVC001 13/13 A2969 RMK AO2 P0004 KMNH 220936Z AUTO 28005KT 10SM CLR M07/M08 A2977 RMK AO2 KMNI 220935Z AUTO 21005KT 10SM -RA SCT007 SCT014 BKN020 15/13 A2969 RMK AO2 P0001 KP58 220851Z AUTO 11005KT 02/02 A2960 RMK AO1 SLP031 T00220022 51004 KLVS 220853Z AUTO 32007KT 10SM CLR M03/M10 A2975 RMK AO2 SLP052 T10281100 52027 KMMT 220858Z AUTO 22007KT 10SM SCT021 BKN060 16/14 A2968 RMK AO2 SLP052 50004 $ KP60 220856Z AUTO VRB05KT M08/M11 A2981 RMK AO1 SLP136 T10831106 53015 KP59 220851Z AUTO 00000KT 02/02 A2955 RMK AO1 SLP013 T00220022 $ KMOB 220856Z AUTO 20010KT 7SM BKN010 BKN018 OVC024 21/19 A2952 RMK AO2 SLP994 T02110194 56009 UWWW 220930Z 29007MPS 2600 -SN BKN016 M07/M10 Q1004 R23/450536 NOSIG RMK QFE742/0989 KNEL 220900Z AUTO 00000KT 1/4SM HZ VV002 11/07 A2972 RMK AO2 SLP062 T01060072 55010 KMMU 220935Z AUTO 00000KT 1/2SM FG OVC003 06/06 A2973 RMK AO2 KMMV 220853Z AUTO 36007KT 10SM CLR 05/04 A2947 RMK AO2 PRESFR SLP981 T00500039 58034 KMOD 220853Z AUTO 14019G30KT 10SM BKN047 BKN060 OVC075 11/05 A2981 RMK AO2 PK WND 14038/0826 RAB03E20 SLP096 P0000 60000 T01060050 56026 KLWM 220854Z AUTO 00000KT 3SM BR CLR 04/03 A2976 RMK AO2 SLP077 T00390033 54000 EPSC 220930Z 14009KT 7000 BKN003 OVC004 00/M00 Q1031 KNFE 220856Z AUTO 31004KT 1/2SM FG VV002 12/10 A2962 RMK AO2 SLP031 60004 T01170100 56006 KMNN 220946Z AUTO 13005KT 1/2SM FG CLR 08/07 A2960 RMK AO2 T00830072 $ KNFG 220856Z AUTO 00000KT 7SM SCT110 08/07 A3013 RMK AO2 SLP201 T00780072 58003 KNDZ 220856Z AUTO 20010G15KT 7SM BKN011 OVC023 24/22 A2953 RMK AO2 SLP985 60000 T02390217 56008 LEGA 220900Z 00000KT 9999 FEW010 FEW070 02/00 Q1017 KP68 220937Z AUTO 15011KT M01/M08 A2984 RMK AO1 WSHFT 0920 T10061083 KLWS 220856Z AUTO 10005KT 10SM FEW110 03/M01 A2975 RMK AO2 RAB08E22 SLP082 P0000 60000 T00281011 50009 KP69 220852Z AUTO 00000KT 01/M01 A2984 RMK AO1 SLP121 T00061006 51012 KLWT 220854Z AUTO 24006KT 10SM SCT060 M04/M08 A2973 RMK AO2 SLP097 T10391083 51017 KLXL 220932Z AUTO 00000KT 1 3/4SM BR OVC001 01/00 A2961 RMK AO2 KNFL 220856Z AUTO 18019G27KT 10SM BKN044 OVC075 05/M04 A2978 RMK AO2 PK WND 17027/0856 SLP063 T00501044 55009 FGSL 220900Z 21009KT 9999 TS SCT010 FEW020CB 28/24 Q1012 BECMG NSW KLWV 220853Z AUTO 05004KT 10SM CLR 09/08 A2951 RMK AO2 SLP992 T00890083 55020 KMNV 220935Z AUTO 00000KT 10SM FEW033 BKN045 BKN065 11/11 A2958 RMK A01 LEGE 220930Z 03012KT 8000 -RA BKN025 BKN035 06/04 Q1017 KNEW 220900Z AUTO 22011KT 3SM SCT010 BKN019 20/19 A2952 RMK AO2 T02000194 KLXN 220935Z AUTO 30006KT 10SM CLR M01/M03 A2968 RMK AO2 T10131026 KMOP 220935Z AUTO 00000KT 1/2SM FG OVC002 01/01 A2959 RMK AO2 T00100010 KLYH 220854Z AUTO 00000KT 9SM OVC003 10/10 A2968 RMK AO2 RAE0756 SLP049 P0000 60008 T01000100 52002 KMNZ 220935Z AUTO 27019G23KT 10SM CLR 12/00 A2951 RMK AO2 T01151005 KMOR 220935Z AUTO 06006KT 10SM BKN046 11/11 A2958 RMK A01 EPRZ 220930Z 14006KT 9999 OVC010 01/M01 Q1034 LDOS 220930Z 04002KT 0400 FZFG SCT002 M12/M13 Q1036 KLXT 220909Z AUTO 06010KT 3SM RA BR BKN004 BKN033 OVC046 07/07 A2954 RMK AO2 P0003 T00720072 KMOT 220927Z AUTO 27013KT 10SM OVC010 00/M02 A2963 RMK AO2 T00001022 KMQB 220935Z AUTO 02004KT 1/4SM -DZ OVC001 02/02 A2959 RMK AO2 T00160016 LEHC 220930Z 26007KT 9999 FEW060 05/M02 Q1017 LDPL 220930Z 10003KT 050V120 CAVOK 09/M04 Q1028 KLXV 220946Z AUTO 36006KT 3SM -SN FEW018 BKN022 OVC037 M10/M13 A2982 RMK AO2 P0000 T11001128 KNFW 220852Z AUTO 27011KT 10SM CLR 13/01 A2942 RMK AO2 SLP949 T01280011 55001 $ KMQE 220854Z AUTO 34003KT 07/05 A2972 RMK AO1 SLP076 T00670050 58001 KMPO 220948Z AUTO 00000KT 3SM BR FEW047 OVC110 03/03 A2969 RMK AO2 KMOX 220932Z AUTO 31005KT 1/4SM UP OVC001 01/01 A2962 RMK AO2 KLXY 220935Z AUTO 24011G17KT 10SM CLR 12/02 A2947 RMK AO2 T01200016 KNGP 220856Z AUTO 32017KT 10SM CLR 19/06 A2966 RMK AO2 PK WND 34028/0819 SLP044 T01890056 51018 EPSY 220930Z 21010KT 2000 BR OVC001 M00/M00 Q1032 LEGR 220930Z 26003KT 9999 FEW035 SCT070 05/01 Q1018 KMQI 220950Z AUTO 25006KT 2SM BR SCT003 OVC009 14/14 A2962 RMK AO2 VIS 1/2V5 T01420142 KMQJ 220936Z AUTO 07005KT 7SM SCT046 SCT050 08/08 A2958 RMK AO1 LEGT 220900Z 00000KT CAVOK M01/M02 Q1017 LEIB 220945Z 01016G26KT 4000 +RA SCT019TCU BKN049 11/09 Q1009 NOSIG KNHK 220852Z AUTO 36007KT 5SM BR OVC003 08/08 A2968 RMK AO2 RAB11E43 SLP051 P0001 60002 T00830083 55011 KMRB 220853Z AUTO 04003KT 1/4SM FG VV002 07/07 A2969 RMK AO2 SLP056 T00720072 58010 TSNO KNGU 220859Z 36006KT 1 1/2SM DZ BR OVC002 09/09 A2964 RMK AO2 SLP036 P0000 60018 T00940089 56007 KMRC 220935Z AUTO 00000KT 10SM OVC015 A2947 RMK KMPV 220943Z AUTO 00000KT 1SM BR OVC004 02/02 A2978 RMK AO2 T00170017 TSNO KNID 220856Z AUTO 16008KT 10SM OVC070 15/01 A3000 RMK AO2 SLP156 T01500011 50008 $ KLYV 220855Z AUTO 31008KT 7SM BKN009 OVC016 00/M02 A2962 RMK AO2 KMRF 220856Z AUTO 29022G27KT 10SM CLR 02/M05 A2998 RMK AO2 PK WND 28034/0759 SLP147 T00221050 53018 FZRANO KMRH 220906Z AUTO 25006KT 10SM FEW027 15/13 A2966 RMK AO2 T01500133 TSNO $ KMQS 220935Z AUTO 00000KT M1/4SM FG OVC001 06/06 A2972 RMK AO2 KMRJ 220935Z AUTO 27006KT 1/4SM FG OVC003 03/03 A2956 RMK AO2 EPWA 220930Z 19006KT 7000 BKN004 00/M00 Q1034 NOSIG KLZU 220145Z 00000KT 10SM OVC018 15/13 A2969 RMK USING PDK ALTIMETER CLOSING WEATHER SU KMRN 220940Z AUTO 00000KT 1/2SM FG OVC002 11/11 A2969 RMK AO2 T01070107 VORY 220930Z 09006KT 5000 HZ SCT020 BKN100 30/16 Q1015 KMQY 220856Z AUTO 09003KT 10SM BKN120 11/10 A2951 RMK AO2 LTG DSNT NW-NE TSB10E43 SLP000 T01060100 56019 KNIP 220853Z 18010KT 10SM BKN047 BKN100 20/16 A2971 RMK AO2 SLP057 T2 SET 60000 T02000161 55017 $ KLZZ 220935Z AUTO 27013G23KT 10SM CLR 13/M01 A2954 RMK AO2 T01301013 VOTK 220930Z 05010KT 6000 FEW020 SCT025 BKN100 29/22 Q1013 LFBA 220930Z AUTO 09005KT 6000 NSC M00/M01 Q1022 NOSIG KOAJ 220856Z AUTO 21006KT 10SM SCT012 BKN030 15/14 A2966 RMK AO2 SLP048 T01500139 50007 KOAK 220853Z 15028G37KT 4SM -RA FEW022 OVC039 11/07 A2968 RMK AO2 PK WND 15038/0822 RAB29 SLP049 P0001 60002 T01110072 58041 KMRT 220932Z AUTO 00000KT 1/2SM VV005 05/05 A2960 RMK AO2 T00480046 KNJK 220856Z AUTO 22004KT 10SM CLR 09/04 A3011 RMK AO2 SLP211 T00940044 50006 LFBC 220930Z AUTO 01002KT CAVOK 01/00 Q1022 KMTC 220931Z AUTO 00000KT 1/2SM R19/1000FT FG VV001 03/03 A2960 RMK AO2 UPE06 KMSL 220941Z AUTO 00000KT 9SM BKN006 14/13 A2945 RMK AO2 RAE22 CIG 003V008 P0004 T01390128 KNJM 220928Z AUTO 22005KT 10SM FEW020 24/13 A2966 RMK AO2 T02390133 $ LFBD 220930Z AUTO 34003KT CAVOK 00/M02 Q1021 NOSIG VOTP 220930Z 05012KT 5000 HZ FEW020 31/19 Q1014 LFBE 220930Z AUTO VRB02KT 8000 NSC M02/M03 Q1022 NOSIG KMSN 220917Z AUTO 00000KT 1/2SM R36/4500V6000FT FG VV002 04/03 A2957 RMK AO2 T00390033 KOBE 220935Z AUTO 16006KT 10SM SCT022 SCT030 20/19 A2980 RMK AO2 KMSO 220932Z AUTO 00000KT 5SM BR OVC090 M06/M07 A2983 RMK AO2 I1000 T10611067 LFBG 220930Z AUTO 01006KT CAVOK 01/M04 Q1022 KMSP 220853Z 34004KT 6SM BR OVC003 02/01 A2958 RMK AO2 SLP024 60000 T00170011 53012 KMRY 220854Z AUTO 10006KT 10SM BKN045 BKN050 OVC065 11/06 A2976 RMK AO2 RAE36 SLP089 P0001 60001 T01060061 58030 LDSP 220930Z VRB03KT CAVOK 09/M04 Q1028 NOSIG VOTR 220930Z 06008G18KT 4000 HZ FEW016 30/20 Q1013 BECMG 5000 HZ LFAQ 220930Z AUTO VRB01KT 5000 BR NSC M02/M06 Q1027 NOSIG LFBH 220930Z AUTO 06009KT CAVOK 02/M03 Q1023 NOSIG KMTH 220853Z AUTO 20010G22KT 10SM FEW022 26/21 A2982 RMK AO2 SLP097 T02610211 55011 $ LFBI 220930Z AUTO 36004KT 350V050 5000 BR NSC M03/M05 Q1024 NOSIG LEJR 220930Z 00000KT CAVOK 04/03 Q1021 KMSS 220906Z AUTO 06007KT 6SM BR OVC003 02/02 A2979 RMK AO2 T00220022 $ KMTJ 220853Z AUTO 16006KT 10SM FEW060 OVC075 M01/M03 A2998 RMK AO2 SNB24E35 SLP155 P0000 60000 T10111028 53023 EPWR 220930Z 13011KT 2300 BR FEW003 M02/M03 Q1031 VOTV 220930Z 25006KT 5000 HZ BKN015 SCT020 FEW025TCU 30/24 Q1010 NOSIG LFAT 220930Z AUTO 15004KT 3500 BR NSC M02/M04 Q1027 NOSIG LELC 220900Z 34014KT 270V360 9999 FEW045 12/03 Q1013 NOSIG LFBL 220930Z AUTO 05009KT CAVOK 06/M09 Q1020 NOSIG KNLC 220856Z AUTO 15008KT 10SM -RA BKN044 BKN055 OVC080 09/07 A2997 RMK AO2 SLP149 P0003 60003 T00890072 58013 LFBM 220930Z AUTO 00000KT 7000 NSC M01/M02 Q1022 NOSIG KMSV 220935Z AUTO 00000KT 1SM OVC120 03/03 A2972 RMK AO1 KMTN 220245Z 00000KT 1/2SM FG OVC002 07/07 A2984 RMK LAST LFBO 220930Z AUTO VRB02KT CAVOK 02/M00 Q1022 NOSIG KMTO 220926Z AUTO 03003KT 1/4SM FG VV001 06/06 A2951 RMK AO2 T00560056 KOCF 220935Z 18010KT 10SM BKN012 OVC090 21/17 A2972 RMK AO1 LFBP 220930Z AUTO 13005KT 090V160 CAVOK 01/M01 Q1021 NOSIG KMSY 220928Z 23005KT 6SM BR BKN010 BKN017 21/19 A2951 RMK AO2 T02060194 $ KMTP 220854Z AUTO 00000KT 05/05 A2976 RMK AO1 SLP077 T00500050 58010 KOCH 220935Z 23005KT 10SM CLR 13/09 A2946 RMK AO1 KMUI 220948Z AUTO 00000KT 7SM OVC005 05/05 A2971 RMK AO2 $ LFCK 220930Z AUTO VRB03KT 9999 -RA FEW048 SCT056 OVC066 02/M01 Q1022 NOSIG LFBT 220930Z AUTO VRB02KT 9999 FEW070 BKN088 03/M01 Q1021 NOSIG KNKT 220854Z AUTO 23009KT 10SM OVC028 16/14 A2966 RMK AO2 SLP042 T01610139 50010 LELL 220930Z 02008KT 320V070 9999 FEW035 10/04 Q1015 LFBU 220930Z AUTO 02011KT 9999 // ///CB M00/M04 Q1021 LEMD 220930Z 22002KT CAVOK 01/M02 Q1017 NOSIG KMTV 220935Z AUTO 00000KT 7SM OVC012 10/09 A2967 RMK AO2 T00960092 LELN 220900Z VRB01KT CAVOK 01/M02 Q1019 KMTW 220908Z AUTO 1/2SM FG OVC008 03/02 A2957 RMK AO2 KMVE 220932Z AUTO 36005KT 1/2SM FG OVC002 01/01 A2964 RMK AO2 LELO 220900Z 26009KT CAVOK 03/01 Q1020 KMUO 220858Z AUTO 10012KT 10SM OVC100 00/00 A2984 RMK AO2 SLP122 T10051005 51005 FZRANO $ KNKX 220855Z 12005KT 10SM SCT030 11/07 A3012 RMK AO2 SLP197 T01110072 56006 $ LEMG 220930Z 29012KT 9999 FEW020 11/03 Q1018 NOSIG LFBY 220930Z AUTO 13003KT 4100 // ////// M00/M01 Q1022 LFBZ 220930Z AUTO 19003KT 9999 FEW009 BKN120 04/03 Q1021 NOSIG LEMH 220930Z 09011KT 9999 FEW025TCU SCT034 12/08 Q1009 KOCQ 220935Z AUTO 00000KT 1/4SM OVC002 01/01 A2956 RMK AO1 T00080007 EPZG 220930Z 12005KT 090V160 2800 BR OVC004 M01/M01 Q1031 LFCR 220930Z AUTO 00000KT CAVOK M00/M04 Q1020 NOSIG KMWA 220935Z AUTO 00000KT 10SM CLR 10/09 A2949 RMK AO2 KOEB 220935Z AUTO 00000KT 1/4SM FG OVC003 07/07 A2958 RMK AO2 T00670067 KMUT 220935Z AUTO 00000KT M1/4SM FZFG OVC001 M02/M02 A2960 RMK AO2 KMVL 220948Z AUTO 00000KT 1 3/4SM BR FEW004 BKN008 OVC020 01/00 A2978 RMK AO2 CIG 006V011 $ KMWC 220935Z AUTO 00000KT 4SM BR OVC012 04/02 A2958 RMK AO2 KNMM 220929Z AUTO 00000KT 3SM BR CLR 13/11 A2948 RMK AO2 VIS 1 1/2 SOUTH T01330111 $ KOCW 220940Z AUTO 22004KT 7SM SCT014 OVC020 15/15 RMK AO2 T01450145 KMVN 220856Z AUTO 00000KT 10SM CLR 06/05 A2950 RMK AO2 SLP988 T00560050 55014 VOVZ 220900Z 11012KT 5000 HZ NSC 30/14 Q1015 NOSIG LEMO 220900Z 16003KT 8000 NSC 03/01 Q1020 NOSIG KODO 220853Z AUTO 28024G30KT 10SM CLR 08/M05 A2972 RMK AO2 PK WND 28037/0759 SLP040 T00831050 53016 KMWH 220926Z AUTO 00000KT 1/2SM R32R/2000V3000FT FZFG VV003 M01/M02 A2968 RMK AO2 I1000 T10111022 KMWK 220940Z AUTO 09005KT 10SM OVC015 11/10 A2966 RMK AO2 T01130102 KMWL 220853Z AUTO 26013KT 10SM CLR 12/M02 A2940 RMK AO2 SLP948 T01171022 58006 KMWM 220935Z AUTO 31006KT 1SM BR OVC001 01/01 A2959 RMK AO2 KMWN 220855Z 31046KT 1/16SM FZFG VV001 M03/M03 RMK VRY LGT ICG KOFF 220858Z AUTO 00000KT 9SM CLR M01/M01 A2962 RMK AO2 SLP040 T10111011 52020 $ KODX 220853Z AUTO 33008KT 10SM CLR M02/M04 A2965 RMK AO2 SLP054 T10171039 53013 KMXF 220945Z AUTO 10003KT 10SM SCT009 OVC015 17/17 A2953 RMK AO2 RAE01DZB10E13RAB13E22DZB22E30 CIG 007V015 OVC V BKN KMWO 220935Z AUTO 3/4SM HZ OVC001 05/03 A2960 RMK AO2 T00470025 KOEO 220935Z AUTO 34003KT 4SM BR OVC002 01/01 A2961 RMK AO2 T00130013 KMVY 220853Z AUTO 21003KT 1/4SM R24/1600FT FG VV002 04/04 A2974 RMK AO2 SLP072 T00440044 58009 TSNO KNOG 220856Z AUTO 32013KT 10SM CLR 17/02 A2970 RMK AO2 SLP037 T01670022 51010 LEPA 220939Z 06014KT 9999 RA FEW022 SCT044 12/09 Q1009 NOSIG LFGA 220930Z AUTO VRB02KT 4300 BR NSC M07/M08 Q1026 KNPA 220943Z AUTO 23006KT 3SM BR BKN006 BKN011 OVC018 21/21 A2953 RMK AO2 T02110206 $ KOGA 220935Z AUTO 25004KT 10SM CLR M04/M05 A2971 RMK AO2 T10411049 PTKK 220851Z 05010KT 15SM FEW014 SCT120 OVC280 28/25 A2982 RMK SLP100 8/171 T02810249 52012 KMWT 220931Z AUTO 00000KT 5SM BR BKN004 OVC008 13/12 A2935 RMK AO2 CIG 002V006 T01280122 KOGB 220929Z AUTO 26004KT 4SM -RA BR SCT011 SCT046 OVC075 16/15 A2969 RMK AO2 P0009 T01560150 KOFK 220942Z AUTO 33010KT 5SM BR BKN003 M02/M03 A2963 RMK AO2 T10221033 KOGD 220853Z AUTO 18009KT 10SM CLR M03/M05 A2995 RMK AO2 SLP157 60000 T10331050 51012 $ KMYF 220853Z AUTO 12005KT 10SM BKN110 09/06 A3013 RMK AO2 SLP200 T00940061 58004 KMXO 220935Z AUTO 13004KT M1/4SM FZFG OVC002 M01/M01 A2958 RMK AO2 KOFP 220854Z AUTO VRB04KT 7SM OVC002 09/08 A2969 RMK AO2 SLP053 60008 T00940083 55004 GABG 220900Z 04004KT CAVOK 22/08 Q//// PTKR 220950Z 07009KT 15SM FEW018 BKN120 OVC300 28/25 A2987 RMK SLP114 T02780253 KNQA 220935Z AUTO 07005KT 7SM FEW040 BKN050 OVC065 14/14 A2942 RMK LFGJ 220930Z AUTO 00000KT 3700 BR NSC M04/M06 Q1024 BECMG 7000 BR KMYJ 220955Z AUTO 36007KT 7SM OVC100 06/05 A2952 RMK AO2 LTG DSNT SW PWINO LDZA 220930Z VRB01KT 3000 BR FEW023 BKN040 M03/M06 Q1035 NOSIG KMYL 220904Z AUTO 17006KT 6SM -SN BR FEW020 BKN026 OVC055 M02/M04 A2975 RMK AO2 P0000 T10221039 LDZD 220930Z VRB01KT CAVOK 07/M03 Q1028 NOSIG KNOW 220935Z AUTO 21006KT 10SM CLR 04/03 A2952 RMK AO2 T00380029 LEPP 220930Z 33012KT CAVOK 05/01 Q1019 ESCF 220920Z AUTO 25011KT 9999 OVC004/// 00/00 Q1025 KMYP 220933Z AUTO 31007KT 280V010 OVC001 M13/M15 A2988 RMK AO2 PWINO KMZG 220935Z AUTO 30032G38KT 10SM CLR 20/07 A2963 RMK A01 KMZH 220934Z AUTO 00000KT 4SM BR OVC002 01/00 A2958 RMK AO2 KMYR 220935Z AUTO 27007KT 10SM BKN025 16/13 A2972 RMK AO1 KNQI 220856Z AUTO 32016G21KT 10SM CLR 18/03 A2968 RMK AO2 SLP048 T01830028 51019 $ KOGS 220935Z AUTO 05003KT 4SM BR BKN024 03/02 A2975 RMK AO2 T00250023 TSNO KNRB 220852Z AUTO 18011KT 10SM OVC100 20/16 A2971 RMK AO2 SLP059 T02000156 55014 GABS 220930Z 06012KT CAVOK 23/M02 Q1017 NOSIG KMYV 220853Z AUTO 13017G25KT 9SM -RA SCT032 OVC041 08/06 A2977 RMK AO2 PK WND 14028/0820 SLP083 P0007 60023 T00830061 58027 ESDF 220920Z AUTO 26004KT 230V290 0500 0400// R01/0650V1100U R19/0750N FZFG BKN001/// OVC003/// M02/M02 Q1029 FJDG 220855Z 29017KT 9999 FEW015 SCT080 BKN220 30/26 A2987 RMK SLP112 8/132 T03030261 57017 KMYZ 220935Z AUTO 34005KT 10SM CLR 00/M01 A2960 RMK AO2 LERI 220900Z 34013KT 9999 FEW040 12/01 Q1014 NOSIG WIBB 220930Z AUTO 18006KT 9999NDV TS SCT065 SCT080 27/24 Q1008 LESA 220930Z 00000KT 5000 BR NSC M03/M03 Q1020 KOJA 220935Z AUTO 34011KT 10SM CLR 05/05 A2945 RMK AO2 KOJC 220942Z AUTO 06008KT 3SM -RA BR OVC004 07/07 A2953 RMK AO2 RAB27 P0001 T00720072 LGAD 220920Z 00000KT CAVOK 12/02 Q1027 KPAE 220853Z AUTO 12007KT 10SM FEW026 BKN033 BKN041 06/03 A2959 RMK AO2 RAB03E34 SLP023 P0000 60000 T00610033 58002 KNSE 220856Z AUTO 22013G20KT 10SM -RA BKN013 BKN019 OVC024 22/21 A2952 RMK AO2 SLP983 P0000 60000 T02220206 58009 $ KNQX 220853Z AUTO 19018KT 10SM CLR 25/21 A2981 RMK AO2 PK WND 19027/0811 SLP094 T02500211 56011 $ FIMP 220900Z 10010KT 9999 SCT016 BKN250 30/21 Q1017 KPAH 220853Z AUTO 14005KT 10SM CLR 12/09 A2947 RMK AO2 SLP978 T01220089 55004 $ KMZZ 220934Z AUTO 11008KT 7SM CLR 09/08 A2956 RMK AO2 KNSI 220857Z AUTO A3007 RMK AO2 SLPNO 50000 PWINO $ LERS 220930Z 01014KT 9999 FEW048 12/01 Q1015 FIMR 220800Z 09016KT 9999 FEW017 30/25 Q1016 LFKB 220930Z 10013KT 6000 RA FEW008 FEW026TCU BKN033 BKN053 10/08 Q1021 NOSIG LERT 220900Z VRB02KT CAVOK 07/04 Q1020 NOSIG KOKB 220852Z AUTO 04003KT 9SM FEW030 SCT043 BKN110 09/08 A3012 RMK AO2 SLP198 T00940078 58004 LGAL 220920Z 06012KT CAVOK 04/M03 Q1033 LFJL 220930Z AUTO VRB02KT 5000 BR ////// M06/M08 Q1025 LFKC 220930Z 22010KT 180V290 9999 FEW023 SCT073 BKN180 10/05 Q1017 NOSIG KOKC 220852Z 36006KT 10SM BKN180 BKN250 08/07 A2936 RMK AO2 SLP935 T00830067 53006 RCFN 220930Z 35010KT 310V030 9999 VCSH FEW020 BKN035 BKN050 16/12 Q1026 NOSIG RMK A3032 KPAM 220946Z AUTO 20008KT 9SM BKN012 22/21 A2957 RMK AO2 BKN V SCT $ KNTD 220856Z AUTO 04006KT 10SM SCT023 SCT037 OVC080 11/09 A3010 RMK AO2 RAE53 SLP194 P0002 60002 T01110089 51002 $ KPAN 220935Z AUTO 05004KT 10SM CLR M01/M02 A3013 RMK AO2 LESO 220930Z 17003KT CAVOK 04/02 Q1022 LFKF 220930Z AUTO 08013G24KT 040V110 9999 BKN014/// OVC020/// ///CB 13/10 Q//// BECMG RA FEW020 SCT040 BKN050 KPAO 220447Z 12015KT 10SM -RA FEW020 BKN042 OVC100 10/08 A2984 RMK LAST KPBF 220935Z AUTO 19004KT 5SM BR SCT001 OVC047 12/12 A2945 RMK AO2 T01170117 KPBG 220853Z AUTO 00000KT 1/4SM FG VV003 02/02 A2980 RMK AO2 SLP092 T00170017 51010 KPBH 220935Z AUTO 00000KT 1/2SM FG OVC005 01/01 A2953 RMK AO2 T00100010 LFJR 220930Z AUTO 04004KT 010V070 3800 BR NSC M02/M04 Q1025 BECMG 7000 NSW KPBI 220853Z 19006KT 10SM BKN055 22/19 A2984 RMK AO2 SLP103 T02220194 55006 LFKJ 220930Z 08003KT 010V170 9999 -RA FEW030 BKN060 BKN073 11/08 Q1016 TEMPO 02012G22KT WIDD 220930Z 04011KT 9999 SCT014 29/24 Q1011 LEST 220930Z 00000KT 9999 PRFG NSC M01/M01 Q1022 TEMPO 1500 BCFG LFLB 220930Z AUTO 00000KT 5000 BR FEW015 BKN210 BKN230 M03/M04 Q1024 TEMPO 2000 BR KOKK 220856Z AUTO 11006KT 10SM FEW080 09/08 A2956 RMK AO2 RAE03 SLP010 P0000 60009 T00890083 58017 KNUC 220156Z 24006KT 9SM FEW025 FEW200 BKN250 13/07 A3004 RMK SLP169 T01280072 LESU 220930Z 05007KT 9999 FEW020 SCT055 BKN088 05/M04 Q1017 LETL 220930Z AUTO 31007KT 9999 FEW070 01/M03 Q1016 LFLC 220930Z AUTO 00000KT 7000 NSC M04/M06 Q1023 NOSIG LGBL 220920Z 31008KT 9999 FEW035 BKN080 05/02 Q1033 PTPN 220855Z 13004KT 15SM SCT018TCU BKN300 27/25 A2981 RMK TCU N-E LGAV 220920Z 01015KT 9999 SCT025 09/01 Q1030 NOSIG KOKM 220935Z AUTO 00000KT 10SM SCT055 SCT070 OVC095 11/11 A2936 RMK AO2 LTG DSNT N P0002 T01080106 KOLE 220935Z AUTO 00000KT 1/2SM FG BKN002 OVC120 06/06 A2968 RMK AO2 LETO 220900Z VRB01KT CAVOK M02/M04 Q1017 NOSIG KOLF 220922Z AUTO 24004KT 5SM BR OVC010 M04/M06 A2973 RMK AO2 CIG 007V015 T10441061 KOLG 220935Z AUTO 00000KT 1/2SM OVC003 01/00 A2957 RMK AO1 ESGG 220920Z 21007KT 2000 BR OVC003 02/02 Q1026 R21/29//95 KNUI 220936Z AUTO 02006KT 8SM OVC004 09/08 A2965 RMK AO2 RAE0857 P0000 T00890083 LFKS 220930Z AUTO 10018KT 7000 -DZ BKN014/// OVC024/// ///CB 12/11 Q1020 KOMA 220852Z 01006KT 7SM FEW005 M01/M03 A2964 RMK AO2 SLP040 I1000 I3000 T10111033 53020 ESGJ 220920Z AUTO 22006KT 4400 BR OVC002/// M00/M00 Q1026 WIEE 220930Z 10005KT 9999 BKN020 25/24 Q1010 LEVC 220930Z 32008KT 9999 FEW026 SCT048 12/03 Q1015 NOSIG LFLL 220930Z VRB02KT 1900 BR NSC M04/M06 Q1023 NOSIG LFMC 220930Z AUTO 06009KT 9999 // BKN038/// OVC044/// ///CB 08/05 Q1021 KNTU 220856Z 32005KT 1/2SM FG VV002 09/09 A2961 RMK AO2 SLP029 T00940089 58001 $ KPDC 220935Z AUTO 00000KT 2 1/2SM BR OVC030 02/01 A2958 RMK AO2 T00150010 LEVD 220930Z VRB01KT CAVOK M00/M03 Q1019 LFMD 220930Z AUTO 05011G23KT 360V100 9999 -RA FEW040 BKN048 OVC054 11/04 Q1021 TEMPO 3000 SHRA FEW030TCU KOLM 220917Z AUTO 35003KT 1/4SM FG VV001 02/02 A2955 RMK AO2 T00170017 KOKV 220935Z AUTO 32003KT 1 3/4SM BR OVC002 06/06 A2970 RMK AO2 KPCM 220935Z AUTO 18005KT 10SM OVC011 21/20 A2977 RMK AO2 LFLN 220930Z AUTO 16001KT 2800 BR NSC M05/M06 Q1023 BECMG 8000 NSW KPBX 220935Z AUTO 11003KT 10SM CLR 10/10 A2957 RMK AO2 T00950095 LFLP 220930Z AUTO VRB02KT 6000 NSC M05/M07 Q1023 NOSIG KOKZ 211835Z AUTO 08005KT 10SM VCTSRA SCT015 BKN029 OVC100 A2963 RMK AO2 LTG DSNT SW THRU NE LFMH 220930Z AUTO 00000KT 8000 NSC M05/M06 Q1023 NOSIG KNUQ 220856Z 16018G27KT 10SM -RA SCT023 OVC028 10/06 A2971 RMK AO2 PK WND 15033/0802 RAB23 SLP063 P0000 60000 T01000061 57028 KOMH 220935Z AUTO 00000KT 1 1/2SM BR 09/09 A2971 RMK AO2 PTSA 211650Z 13006KT 10SM SCT018 BKN130 OVC300 26/24 A2979 RMK LAST LFMI 220930Z AUTO 36013KT 6000 -RA ///TCU 03/02 Q1020 TEMPO 4000 SHRA FEW014CB BKN020 LFLS 220930Z AUTO 11004KT 080V140 5000 BR NSC M04/M06 Q1022 NOSIG ESGR 220920Z AUTO 25006KT 9999 OVC006/// 03/01 Q1025 KOLS 220854Z AUTO 00000KT 10SM CLR 00/M03 A3014 RMK AO2 SLP192 T00001028 51002 KONA 220933Z AUTO 00000KT 4SM BR OVC007 02/01 A2958 RMK AO2 KPEA 220935Z AUTO 30004KT M1/4SM FZFG OVC001 M01/M01 A2961 RMK AO2 T10081010 LFMK 220930Z AUTO 29003KT 7000 -RA BKN052 OVC076 04/03 Q1022 NOSIG KOMK 220946Z AUTO 00000KT 2SM -RA BR FEW007 BKN013 OVC021 01/M01 A2971 RMK AO2 RAB0855 P0005 T00111006 KPDK 220853Z 08003KT 4SM -RA BR FEW003 BKN070 OVC090 13/13 A2960 RMK AO2 TSE0759 SLP018 P0022 60029 T01330128 56019 LFLU 220930Z AUTO 03007KT 3000 BR NSC M02/M04 Q1023 LFML 220930Z AUTO 06025KT 9999 ///TCU 09/03 Q1018 TEMPO 09023G33KT 4000 SHRA FEW014CB BKN020 ESIB 220920Z AUTO 21009KT 5000 BR OVC006/// 03/02 Q1025 KOLU 220935Z AUTO 00000KT 6SM CLR M03/M04 A2965 RMK AO2 RVRNO KOLV 220150Z 00000KT 10SM FEW110 OVC150 A2956 KOMN 212350Z 21005KT 7SM SKC 24/16 A2981 RMK LAST LFLW 220930Z AUTO 10004KT CAVOK 02/M06 Q1019 NOSIG LFMN 220930Z 07018KT 9999 FEW040 BKN050 13/03 Q1021 NOSIG KPCW 220929Z AUTO 20003KT 1/2SM SCT001 BKN043 07/07 A2959 RMK AO2 $ PTRO 220850Z 05010KT 15SM FEW090 SCT016 BKN120 BKN300 28/25 A2984 KNUW 220856Z 12014KT 10SM BKN031 BKN110 08/03 A2961 RMK AO2 SLP027 T00830028 50003 $ LFLX 220930Z AUTO 08005KT 5000 BR NSC M02/M04 Q1024 NOSIG LFMO 220930Z AUTO VRB03KT 8000 NSC 03/M03 Q1022 TEMPO 4000 SHRA SCT050TCU LFLY 220930Z AUTO 30001KT 2800 BR NSC M03/M04 Q1024 BECMG 3000 BR LFMP 220930Z AUTO 30010KT 270V330 9999 -RA BKN030 OVC035 05/04 Q1021 TEMPO BKN006 BKN020 KOLY 220935Z AUTO 00000KT 10SM CLR 10/10 A2952 RMK AO2 KOLZ 220935Z AUTO 25003KT 1/4SM FG OVC002 00/00 A2957 RMK AO2 KPCZ 220935Z AUTO 00000KT 1/4SM FG OVC002 03/03 A2956 RMK AO2 T00340030 LEVS 220930Z 00000KT CAVOK 03/M01 Q1017 LFOA 220930Z AUTO 08006KT 7000 NSC M02/M05 Q1023 NOSIG KOOA 220935Z AUTO 00000KT 1/4SM FZFG OVC001 M01/M01 A2960 RMK AO2 T10151015 LEVT 220930Z VRB01KT 4200 BR FEW013 SCT030 04/04 Q1020 LFOB 220930Z AUTO 30002KT 3000 BR NSC M04/M05 Q1027 BECMG 9999 NSW LFMT 220900Z 01008KT 8000 -RA FEW023 BKN046 03/00 Q1022 NOSIG KPDT 220853Z AUTO 17005KT 10SM OVC080 05/M01 A2966 RMK AO2 SLP044 T00501011 51005 TSNO LFMU 220930Z AUTO 02006KT 9999 -RA OVC034/// ///TCU 04/01 Q1021 TEMPO SCT010 BKN020 LFOC 220930Z AUTO 03005KT 4900 BR NSC M02/M05 Q1025 LGEL 220850Z 35007KT 9999 FEW025 10/02 Q1029 KONL 220935Z AUTO 31008KT 10SM CLR M01/M02 A2967 RMK AO2 T10111022 LFMV 220930Z AUTO VRB02KT 7000 BKN078/// OVC088/// ///TCU 03/M02 Q1021 TEMPO 3000 SHRA FEW014CB BKN020 KONM 220935Z AUTO 34011G23KT 10SM CLR 02/M07 A3000 RMK AO2 T00211072 LFOE 220930Z AUTO 04002KT 2100 BR ////// M02/M03 Q1026 ETAD 220858Z AUTO 00000KT 9999 CLR M09/M12 A3027 RMK AO2 SLP274 T10871118 53001 FZRANO TSNO $ LEVX 220930Z VRB01KT CAVOK 03/03 Q1022 NOSIG KONO 220934Z AUTO 24004KT 1/4SM FZFG M03/M04 A2983 RMK AO2 T10281039 $ KPDX 220853Z 00000KT 10SM OVC190 03/01 A2953 RMK AO2 SLP999 T00280011 58026 KPEO 220853Z AUTO 22006KT 10SM CLR 07/05 A2968 RMK AO2 SLP052 T00720050 57003 RCKH 220930Z 25006KT 220V280 9999 FEW018 SCT060 BKN080 21/14 Q1023 NOSIG RMK A3022 LFMY 220930Z AUTO 31006KT 210V340 6000 -RA FEW046/// OVC056/// ///TCU 03/02 Q1020 KONP 220935Z AUTO 08011KT 10SM SCT070 07/05 A2936 RMK AO2 LFOH 220930Z AUTO 08006KT 3500 BR NSC M01/M03 Q1026 BECMG 7000 NSW KPEQ 220857Z AUTO 27027G35KT 10SM CLR 08/M04 A2985 RMK AO2 LEXJ 220930Z VRB02KT 9999 BKN040 07/05 Q1023 LFOJ 220930Z AUTO 05008KT 4300 BR NSC M03/M05 Q1025 BECMG 8000 NSW KPGA 220853Z AUTO 00000KT 10SM CLR 01/M05 A3004 RMK AO2 SLP167 T00111050 53013 TSNO GAKA 220900Z 18006KT CAVOK 25/M00 Q1014 LFPB 220930Z AUTO 01002KT 4600 BR NSC M02/M05 Q1027 BECMG 6000 NSW LFOK 220930Z AUTO 02004KT 4300 BR NSC M05/M07 Q1026 BECMG 6000 NSW KONT 220853Z 00000KT 10SM FEW045 SCT095 BKN110 OVC200 09/08 A3011 RMK AO2 SLP199 T00940078 50006 $ KNYC 220917Z AUTO 00000KT 4SM BR BKN005 06/06 A2974 RMK AO2 CIG 004V008 T00610061 KPGD 220932Z 18012KT 10SM SCT016 22/21 A2978 RMK AO2 T02220206 GAKD 220900Z 04010KT CAVOK 20/M02 Q1017 WIHH 220930Z 30005KT 6000 SCT020 30/23 Q1009 NOSIG KONX 220950Z AUTO 27004KT 1/2SM FG OVC003 13/13 A2963 RMK AO2 T01330133 KOPF 220853Z AUTO 20008KT 10SM SCT047 24/21 A2984 RMK AO2 SLP104 T02390211 55005 PTTP 220850Z 07006KT 15SM BKN018 OVC300 27/25 A2986 RMK SLP110 8/101 T02730248 52014 KPEX 220932Z AUTO 33003KT 1 1/2SM BR SCT002 OVC008 01/01 A2961 RMK AO2 T00060007 LFOP 220930Z AUTO 11003KT 3300 BR NSC M02/M04 Q1027 BECMG 7000 NSW LFPG 220930Z 02004KT 6000 NSC M02/M04 Q1026 NOSIG KNYG 220856Z AUTO 03007KT 1SM BR OVC002 08/08 A2971 RMK AO2 SFC VIS 2 1/2 SLP062 T00830083 56008 KNXP 220856Z AUTO 00000KT 10SM OVC100 07/02 A3011 RMK AO2 SLP179 T00720022 58001 KONZ 220933Z AUTO 00000KT 1/4SM FG OVC001 02/02 A2960 RMK AO2 T00220021 KPEZ 220935Z AUTO 28022G27KT 10SM CLR 16/M01 A2970 RMK AO2 T01611008 LFQA 220930Z AUTO 00000KT 4400 BR NSC M06/M07 Q1027 ETAR 220858Z 00000KT 9999 CLR M10/M11 A3030 RMK AO2A SLP290 T10981115 53003 $ LFQB 220930Z AUTO 30003KT 4700 BR NSC M05/M06 Q1026 LFOT 220930Z AUTO 05004KT 360V080 6000 NSC M01/M04 Q1024 NOSIG KOPL 220935Z AUTO 29012G21KT 10SM SCT030 SCT038 BKN120 16/12 A2957 RMK AO2 T01560116 PWINO KNYL 220857Z AUTO 00000KT 10SM CLR 09/06 A3011 RMK AO2 SLP194 T00890056 50005 $ LFPM 220930Z AUTO VRB02KT 4800 BR NSC M02/M04 Q1026 LFOV 220930Z AUTO 35005KT 3300 BR NSC M02/M04 Q1025 KPHD 220853Z AUTO 13006KT 5SM BR OVC080 10/10 A2965 RMK AO2 SLP040 60002 T01000100 58017 LFPN 220930Z AUTO 00000KT 4400 BR NSC M02/M03 Q1026 BECMG 6000 BR ESKM 220920Z AUTO 25008KT 9999 NCD M01/M03 Q1020 KOPN 220935Z AUTO 12009KT 10SM BKN036 OVC046 15/13 A2960 RMK AO2 LTG DSNT SE AND S LFPO 220930Z 08001KT 8000 NSC M01/M04 Q1026 ESKN 220920Z 27009KT 0800 R08/1600U R26/1200N FZFG VV003 M00/M00 Q1024 R26/390135 KPHF 220909Z 03003KT 3SM BR OVC003 10/09 A2964 RMK AO2 RAB0857E0859 P0000 T01000094 GAKO 220900Z 04010KT CAVOK 21/04 Q//// LFQG 220930Z AUTO 00000KT 6000 NSC M05/M06 Q1024 LEZG 220930Z 27009KT 9999 SCT060 BKN080 06/00 Q1019 WIII 220830Z 310116KT 9999 SCT020 28/24 Q1009 NOSIG LGHI 220850Z 02020KT CAVOK 08/00 Q1028 KPIA 220917Z 02005KT 1SM R13/6000VP6000FT BR VV002 05/05 A2956 RMK AO2 T00500050 LFPT 220930Z AUTO 00000KT 2900 BR NSC M04/M05 Q1027 LFRB 220930Z AUTO 16003KT CAVOK 03/M03 Q1024 NOSIG KORB 220933Z AUTO 00000KT 4SM -SN OVC002 01/M01 A2958 RMK AO2 P0001 KPIB 220935Z AUTO 22004KT 3SM FEW032 18/16 A2954 RMK AO1 GAKT 220900Z 04006KT CAVOK 22/M01 Q//// GAMB 220900Z 02008KT CAVOK 21/01 Q1015 LEZL 220930Z VRB02KT CAVOK 06/04 Q1020 NOSIG LFRC 220930Z AUTO 14005KT 3300 BR NSC 02/01 Q1025 BECMG 6000 NSW KPHL 220854Z 00000KT 1/2SM R09R/P6000FT FG VV003 08/07 A2974 RMK AO2 SLP069 T00780072 58008 KORC 220935Z AUTO 31010KT 7SM OVC017 00/M01 A2962 RMK AO2 LFRD 220930Z AUTO VRB02KT 5000 BR NSC 01/M03 Q1025 NOSIG LFPV 220930Z AUTO 06004KT 7000 NSC 00/M05 Q1026 TEMPO 4000 BR KORD 220929Z 00000KT 1 1/2SM R10L/2200VP6000FT BR OVC006 05/05 A2958 RMK AO2 T00500050 $ KPGV 220945Z AUTO 23006KT 7SM SCT010 OVC015 15/15 A2965 RMK AO2 KORE 220852Z AUTO 00000KT 1/4SM FG VV003 00/00 A2974 RMK AO2 SLP074 T00000000 58004 $ KPIE 220853Z AUTO 18016G23KT 10SM BKN011 BKN034 23/21 A2973 RMK AO2 SLP068 T02280206 58017 KPHN 220936Z AUTO 00000KT 1/4SM FG OVC003 03/03 A2962 RMK AO2 KORF 220925Z 34006KT 1SM R05/5500VP6000FT BR VV003 09/08 A2962 RMK AO2 T00890083 RCMQ 220930Z 02018G28KT 9999 FEW012 SCT060 15/09 Q1021 NOSIG RMK A3017 LFRG 220930Z AUTO 16004KT 130V190 9000 NSC 02/M04 Q1026 TEMPO 3000 BR KPHP 220855Z AUTO 27010KT 10SM CLR M04/M06 A2971 RMK AO2 SLP077 T10441056 53019 KORG 220935Z AUTO 00000KT 10SM -RA SCT075 OVC085 15/13 A2955 RMK AO2 T01530126 GAKY 220900Z 04010KT CAVOK 20/M02 Q1017 LFRH 220930Z AUTO 06006KT 4900 BR NSC 01/M02 Q1025 BECMG 9999 NSW LFQQ 220930Z AUTO 00000KT 3800 BR NSC M03/M05 Q1027 BECMG 6000 NSW KPIH 220853Z AUTO 18007KT 10SM OVC075 01/M04 A2990 RMK AO2 SLP141 T00061044 51016 KORH 220854Z AUTO 01004KT 10SM CLR 07/04 A2972 RMK AO2 SLP067 T00720044 58002 LFRI 220930Z AUTO 06003KT CAVOK 02/M03 Q1023 NOSIG LFRJ 220930Z AUTO VRB01KT CAVOK 04/M03 Q1024 KOSA 220935Z AUTO 22007KT 10SM CLR 12/07 A2941 RMK AO1 T01200070 LFRK 220930Z AUTO 13004KT 4400 BR NSC M03/M05 Q1026 BECMG 6000 NSW LFSB 220930Z 11008KT 080V140 6000 FEW008 M04/M06 Q1025 NOSIG KOQT 220853Z AUTO 00000KT 10SM BKN041 11/09 A2959 RMK AO2 SLP016 T01060094 56020 KPHT 220935Z AUTO 00000KT 10SM CLR 12/09 A2945 RMK KOQU 212150Z 21010KT 15SM BKN250 07/04 A2977 LFRL 220930Z AUTO 07005KT CAVOK 02/M03 Q1024 ESMK 220920Z AUTO 12001KT 1700 BR VV002 00/00 Q1029 KORL 220913Z AUTO 18009KT 10SM FEW020 19/17 A2975 RMK AO2 T01940172 KPIL 220853Z AUTO 35018G24KT 10SM CLR 19/06 A2966 RMK AO2 PK WND 34030/0754 SLP042 T01940056 51038 KOSC 220933Z AUTO 00000KT 1/4SM FG OVC002 03/03 A2960 RMK AO2 T00310027 ETEB 220915Z AUTO 00000KT 5000 BR CLR M09/M11 A3028 RMK AO2 RCNN 220930Z 35008KT 9999 FEW012 BKN050 18/09 Q1022 NOSIG RMK A3020 LFSD 220930Z AUTO 36009KT 350V050 9000 NSC M01/M06 Q1023 LFRM 220930Z AUTO 00000KT 4400 BR NSC 01/M03 Q1026 BECMG 7000 NSW KPIM 220935Z AUTO 14006KT 10SM SCT007 BKN028 OVC044 16/15 A2959 RMK AO2 LTG DSNT SE T01600152 LFRN 220930Z AUTO 00000KT 3300 BR NSC M02/M02 Q1025 BECMG 6000 NSW ESND 220920Z AUTO 31002KT 9999 NCD M05/M06 Q1018 LFRO 220930Z AUTO 14003KT 9000 NSC 01/M04 Q1025 NOSIG KPHX 220851Z 10007KT 10SM CLR 07/04 A3010 RMK AO2 SLP188 T00670039 50004 LGIO 220920Z AUTO /////KT //// // ////// 04/00 Q1027 RE// KNZY 220552Z 11005KT 10SM SCT017 BKN034 BKN042 BKN200 11/08 A3013 RMK SLP203 T01060078 10150 20094 51023 LFSG 220930Z AUTO 02007KT 5000 BR NSC M06/M07 Q1024 KQC5 220856Z AUTO 00000KT 9999 CLR 33/09 A2991 RMK AO2 SLPNO T03280090 58003 LFRQ 220930Z AUTO 06004KT 9000 NSC 02/M03 Q1024 NOSIG ESNG 220920Z AUTO 31002KT 2900 -SN VV008 M09/M10 Q1009 KOSH 220920Z AUTO 00000KT 1SM R36/4000VP6000FT BR SCT002 OVC040 03/02 A2955 RMK AO2 T00280022 LFSI 220930Z AUTO 00000KT 4300 BR NSC M05/M07 Q1026 LGIR 220920Z 32008KT 9999 FEW020 BKN025 11/04 Q1027 NOSIG ESMQ 220750Z 22007KT 0700 R16/P1500N R34/1100N FZFG VV002 M01/M01 Q1028 PTYA 220850Z 06008KT 12SM SCT016TCU SCT130 BKN300 27/25 A2985 RMK SHRAE20 TCU N AND SE-SW SLP110 60001 8/272 T02710251 52014 KPIR 220853Z AUTO 26006KT 10SM CLR M07/M08 A2969 RMK AO2 SLP075 I3000 T10671083 51026 LFRS 220930Z AUTO 05004KT 360V080 4300 BR NSC 00/M03 Q1024 BECMG 7000 BR KORS 220935Z AUTO 16003KT 10SM CLR 08/03 A2954 RMK AO2 LFRT 220930Z AUTO 14004KT 8000 NSC 01/M03 Q1025 KPIT 220851Z 35004KT 10SM OVC060 11/11 A2966 RMK AO2 SLP048 T01060106 58008 ESMS 220920Z 19003KT 6000 BR SCT003 BKN005 01/01 Q1029 R17/29//95 KPKB 220853Z AUTO 00000KT 8SM OVC080 11/10 A2967 RMK AO2 SLP044 T01060100 58003 LGKC 211050Z /////KT 9999 BKN018 08/04 Q1027 GANK 220900Z 04002KT CAVOK 16/M04 Q//// LFRU 220930Z AUTO VRB02KT CAVOK 04/M02 Q1024 LFSL 220930Z AUTO 00000KT CAVOK M01/M03 Q1020 NOSIG ESNK 220920Z AUTO VRB03KT 9999 NCD 01/M01 Q1016 ESMT 220920Z AUTO 15003KT 4800 BR OVC001/// 01/01 Q1028 LHBC 220845Z 19003KT 2200 BR OVC004 M09/M10 Q1037 LFRV 220930Z AUTO 05008KT 4900 BR NSC 01/M02 Q1024 ESNL 220920Z AUTO 26010KT 9999 SCT064/// 04/M00 Q1011 KPKD 220935Z AUTO 00000KT 3SM BR OVC003 01/00 A2960 RMK AO2 T00110000 LFSN 220930Z AUTO 00000KT 4000 BR NSC M04/M07 Q1026 KQD3 220856Z AUTO 02009G17KT 9999 CLR 29/17 A2998 RMK AO2 SLP150 T02890166 58016 LGKF 220550Z 00000KT CAVOK 06/03 Q1026 LFSO 220930Z AUTO 00000KT 3800 BR NSC M07/M08 Q1024 ESNN 220920Z AUTO 00000KT 0250 R16/P1500N R34/0500N FZFG NCD M03/M04 Q1018 R34/79//39 ESOE 220920Z AUTO 24011KT 3600 BR FEW001/// OVC003/// 01/01 Q1024 KQBF 220856Z AUTO 01010G14KT 9999 CLR 24/M06 A2985 RMK AO2 SLPNO T02381063 52019 ESNO 220920Z AUTO 24003KT 9999 FEW170/// 02/00 Q1015 ESMX 220920Z AUTO 22004KT 1600 -FZDZ OVC001/// M02/M03 Q1028 KOTG 220907Z AUTO 29009KT 6SM BR OVC007 00/M01 A2960 RMK AO2 FZRANO KS25 220935Z AUTO 29008KT 5SM BR OVC006 M03/M03 A2969 RMK AO2 LFTH 220930Z AUTO 05016KT 9999 -RA BKN044/// OVC052/// ///TCU 09/05 Q1020 TEMPO 05029G47KT 4000 SHRA FEW014CB BKN020 LFRZ 220930Z AUTO 02004KT 4400 BR NCD M01/M03 Q1024 BECMG 8000 BR KOTH 220935Z 18009G15KT 10SM BKN038 OVC048 08/06 A2938 RMK AO1 P0002 ESNQ 220920Z 22006KT 1100 R03/1400D R21/P1500N +SN VV007 M08/M09 Q1008 GANR 220900Z 04004KT CAVOK 17/M06 Q1018 LFST 220930Z AUTO 30003KT 0250 R23/0250N R05/0275N FZFG VV/// M08/M09 Q1027 NOSIG ESNS 220920Z 10001KT 0250 R10/0450N R28/0600D FZFG OVC002 M03/M03 Q1012 ESPA 220920Z 00000KT 9999 -SN FEW020 SCT027 BKN034 M05/M06 Q1013 KQBL 220556Z AUTO 24006KT 3SM BR FEW008 SCT015 BKN018 BKN050 22/22 A2960 RMK AO2 LTG DSNT NE AND S SHRAE0458 SLP025 WND DATA ESTMD T02220215 10222 20184 57006 ESOK 220920Z AUTO 19003KT 1200 R03/P1500N R21/P1500N BR OVC001/// M01/M01 Q1024 KOSU 220945Z AUTO 08005KT 1SM BR CLR 09/09 A2958 RMK AO2 T00940094 LGKL 220850Z 32009KT 9999 SCT080 SCT180 11/01 Q1027 KOTM 220942Z AUTO 29003KT 3SM BR OVC001 M01/M02 A2957 RMK AO2 T10111022 ESNU 220920Z 25004KT CAVOK 02/01 Q1013 R14/72//33 KS32 220935Z AUTO 28009KT 5SM BR BKN005 OVC009 00/M00 A2963 RMK AO2 ESNV 220920Z AUTO 20005KT 170V240 9999 FEW029/// SCT044/// 02/00 Q1012 ESPE 220920Z AUTO 12004KT 1200 1100// R11/1800U R29/1600U -SN VV014/// M05/M06 Q1010 LGKO 220920Z 36012KT 9999 FEW018 10/02 Q1025 ESNX 220920Z AUTO VRB02KT 9999 FEW038/// BKN052/// M03/M03 Q1008 LGKP 220920Z 31016KT 9999 FEW025 SCT180 14/05 Q1025 LHBP 220930Z VRB01KT 3000 BR BKN024 M05/M08 Q1036 NOSIG ETGG 220920Z 19004KT 9999 OVC017 03/01 Q1028 WHT LGKR 220920Z 14006KT CAVOK 14/09 Q1027 NOSIG ESNZ 220920Z 26009KT 9999 SCT024 03/M00 Q1016 KQBR 220855Z AUTO VRB03KT 4800 -DZ BR FEW005 BKN009 OVC013 15/14 A2965 RMK AO2 LTG DSNT SW RAB0826E0828DZB0828 SLP039 WND DATA ESTMD P0000 60000 T01530142 50003 VRMM 220900Z 28006KT 8000 FEW018 SCT019CB 31/24 Q1011 CB N NE E W NOSIG ETHA 220920Z AUTO 20001KT //// // ////// M09/M11 Q1022 /// WIMM 220930Z 13003KT 9000 FEW016CB FEW017 29/22 Q1009 KS39 220940Z AUTO 12006KT 10SM CLR 03/M03 A2956 RMK AO2 ETHB 220920Z AUTO 07001KT //// // ////// M02/M03 Q1028 /// LHDC 220915Z 04002KT 2400 BR OVC021 M02/M06 Q1036 NOSIG ETHC 220920Z 08006KT 1100 BR OVC003 M02/M03 Q1029 AMB KPMD 220853Z AUTO VRB04KT 10SM OVC060 09/02 A3002 RMK AO2 SLP161 T00890017 56005 LGLM 220920Z 04015KT 9999 FEW020 07/M00 Q1033 LGKV 220920Z 08005KT 9999 FEW020 05/M00 Q1033 KPKV 220935Z AUTO 27007KT 10SM CLR 15/07 A2964 RMK AO2 T01540065 LFTW 220930Z AUTO 02006KT 350V060 6000 -RA FEW039/// BKN046/// OVC058/// ///TCU 03/00 Q1021 TEMPO SCT004 BKN020 KOVE 220853Z AUTO 13020G27KT 8SM RA OVC037 08/06 A2977 RMK AO2 PK WND 14030/0826 SLP082 P0007 60025 T00830056 58028 KPLN 220854Z AUTO 00000KT 1/4SM FG VV003 02/01 A2959 RMK AO2 SLP025 T00170011 51001 KOUN 220935Z AUTO 30004KT 10SM CLR 07/05 A2938 RMK AO2 ETHE 220920Z AUTO 10002KT //// // ////// M04/M05 Q1028 /// ESOW 220920Z AUTO 24008KT 5000 BR OVC001/// 00/M00 Q1023 ETHF 220936Z VRB01KT 1300 VCFG BR BKN002 M08/M09 Q1028 AMB KQDG 220856Z AUTO 20011KT 9999 CLR 01/M02 A2969 RMK AO2 SLP056 T00091023 56012 PWINO FZRANO $ LGKZ 220850Z 31004KT 4000 BR SCT002 BKN018 OVC070 M02/M04 Q1031 KPLR 220935Z AUTO 21007KT 10SM FEW060 16/16 A2954 RMK A01 LGLR 220850Z 00000KT 3000 BR FEW008 03/03 Q1033 RMK FEW180 YLO KOWA 220934Z AUTO 00000KT 1/4SM FG OVC002 01/00 A2957 RMK AO2 KPNA 220935Z AUTO 08004KT 10SM BKN048 OVC055 M15/M16 A2990 RMK AO2 TSNO KOWB 220856Z AUTO 00000KT 10SM FEW120 11/09 A2951 RMK AO2 SLP003 T01110089 56020 LGMK 220920Z 36020G30KT 9999 SCT018 09/02 Q1027 KPNC 220853Z AUTO 04007KT 7SM RA FEW019 OVC065 09/07 A2943 RMK AO2 SLP963 P0004 60004 T00890067 53012 TSNO KOVL 220933Z AUTO 32004KT 3/4SM BR OVC002 01/01 A2961 RMK AO2 KPLU 220935Z AUTO 00000KT 2 1/2SM -DZ 03/03 A2955 RMK AO2 ETHL 220920Z 24001KT 0300 FZFG VV001 M12/M14 Q1025 RED KOWD 220853Z AUTO 00000KT 6SM BR CLR 01/01 A2974 RMK AO2 SLP071 I3001 T00110006 58002 $ ETIC 220858Z AUTO 00000KT 9999 CLR M13/M15 A3029 RMK AO2 SLP306 50000 KPNE 220854Z AUTO 00000KT 1/4SM FG VV002 08/08 A2974 RMK AO2 SLP073 T00780078 56012 TSNO RVRNO ETHN 220920Z 10010KT 4000 HZ M08/M11 Q1024 GRN LFVP 220900Z 30006KT CAVOK M01/M05 Q1002 NOSIG KPMP 220934Z AUTO 20006KT 8SM SCT022 24/21 A2982 RMK AO2 T02390206 KQEI 220940Z AUTO 14005KT 9999 CLR M09/M17 A3022 RMK A02 TSNO KOWI 220935Z AUTO 36006KT 8SM OVC042 08/07 A2952 RMK AO2 ETIH 220858Z AUTO 00000KT 8000 HZ CLR M13/M16 A3031 RMK AO2 SLP320 T11321156 55000 KOVS 220947Z AUTO 22005KT 3SM BR SCT006 OVC022 03/02 A2958 RMK AO2 KQEJ 220510Z AUTO 22009G14KT 9999 CLR M05/M19 A3017 RMK A02 TSNO PWAK 220858Z AUTO 06007KT 9999 CLR 26/23 A3001 RMK AO2 SLP169 T02550232 52016 $ ETHS 220920Z 14004KT 4000 BR BKN004 M01/M02 Q1028 YLO ESSA 220920Z 24012KT 9999 BR BKN003 M01/M01 Q1022 R01L/31//68 R08/29//72 R01R/32//64 BECMG BKN002 KPOB 220931Z AUTO 30003KT 8SM R23/5500FT DZ OVC005 16/15 A2963 RMK AO2 DZB31 TSNO VISNO RWY05 CHINO RWY05 $ KQFB 220940Z AUTO 31003KT 9999 CLR M03/M14 A3031 RMK A02 TSNO KOXB 220853Z AUTO 04007KT 9SM -RA OVC003 08/08 A2969 RMK AO2 SLP054 P0004 60027 T00780078 56020 LGMT 220920Z 00000KT CAVOK 08/00 Q1030 ESSB 220920Z AUTO 24010KT 9999 OVC002/// M01/M01 Q1023 KQEL 220940Z AUTO 27003KT 9999 CLR M07/M18 A3039 RMK A02 TSNO KPOC 220447Z 00000KT 10SM SCT027 BKN035 10/08 A3013 RMK LAST KOXC 220935Z AUTO 00000KT 1/2SM VV005 05/03 A2973 RMK AO1 KPMU 220935Z AUTO 18007KT 10SM SCT009 OVC019 12/11 A2943 RMK AO2 T01220112 ETIK 220858Z AUTO 00000KT 6000 BR CLR M09/M11 A3032 RMK AO2 SLP303 T10931111 53001 FZRANO $ WIOO 220900Z 25005KT 9999 SCT012 30/24 Q1008 KPNM 220934Z AUTO 32003KT 1 1/4SM BR OVC003 02/01 A2960 RMK AO2 KPMV 220935Z AUTO 33005KT 5SM BR CLR 00/M02 A2962 RMK AO2 T10051017 ESSD 220920Z AUTO VRB01KT 9999 NCD M02/M02 Q1020 KQEN 220940Z AUTO 24012G19KT 9999 CLR M12/M19 A3000 RMK A02 TSNO KPOE 220942Z AUTO 24007KT 8SM -RA FEW043 BKN070 OVC085 14/12 A2954 RMK AO2 RAE18RAB21E34RAB42 KPOF 220853Z AUTO 01003KT 5SM BR OVC110 11/11 A2945 RMK AO2 SLP973 T01110111 56004 TSNO KQEP 220940Z AUTO 28007KT 9999 CLR M06/M17 A3035 RMK A02 TSNO KOWP 220915Z AUTO 08006KT 7SM -TSRA 11/10 A2938 RMK AO2 LTG DSNT NE THRU SW T01110099 GASG 220900Z 04006KT CAVOK 20/02 Q//// KQEQ 220940Z AUTO 30006G10KT 9000 HZ CLR M08/M16 A3040 RMK A02 TSNO RCSS 220930Z 09011KT 9999 FEW020 BKN038 14/05 Q1028 NOSIG RMK A3038 KQER 220940Z AUTO 18002KT 9999 CLR M09/M17 A3024 RMK A02 TSNO KOXI 220935Z AUTO 00000KT 1/2SM OVC001 02/00 A2955 RMK AO1 KQES 220940Z AUTO 32017G23KT 9999 BKN029 M04/M10 A3040 RMK A02 TSNO KPNS 220853Z AUTO 21014KT 6SM BR BKN008 OVC017 23/21 A2953 RMK AO2 SLP002 60002 T02280206 56010 LGPA 220850Z 01017KT 9999 FEW030 10/02 Q1027 KPPA 220935Z AUTO 35019G28KT 7SM RA SCT007 BKN014 OVC021 05/03 A2961 RMK AO2 T00450033 ESTA 220920Z AUTO 11004KT 2800 BR OVC001/// 01/01 Q1028 KPNT 220935Z AUTO 02008KT 1/4SM DZ OVC002 05/05 A2957 RMK AO2 T00480048 GASK 220900Z 02012KT CAVOK 23/M01 Q//// ESSL 220920Z AUTO 27010KT 9999 OVC003/// 00/00 Q1025 KQEV 220940Z AUTO 31002KT 9999 BKN034 M05/M11 A3033 RMK A02 TSNO KQGE 220456Z AUTO 20010KT 7SM BKN011 OVC016 22/21 M RMK AO2 RAB04E16DZB16E17RAB18E40RAB42E54 SLPNO P0002 T02210211 402260159 $ WIPP 220930Z 35005KT 2000 RA OVC008 FEW015CB 24/24 Q1010 FKKD 220900Z 24001KT 9999 BKN013 FEW016CB 28/25 Q1011 NOSIG KQEW 220940Z AUTO 28007G15KT 9999 CLR M05/M15 A3028 RMK A02 TSNO GASN 220900Z 04006KT CAVOK 20/04 Q//// LGNX 220850Z 02016KT 9999 SCT025 11/04 Q1028 RCTP 220930Z 06021KT 9999 FEW025 BKN037 14/06 Q1027 NOSIG RMK A3035 KPPF 220852Z AUTO 05010G18KT 4SM RA BR BKN040 OVC050 09/08 A2943 RMK AO2 SLP964 P0003 60003 T00940078 58002 KQEX 220940Z AUTO 34007G13KT 9999 CLR M04/M14 A3021 RMK A02 TSNO KOWX 220935Z AUTO 27003KT 5SM SCT055 OVC070 08/08 A2961 RMK AO1 KQEY 220940Z AUTO 30005KT 9999 FEW036 M06/M12 A3002 RMK A02 TSNO ESSP 220920Z AUTO 26009KT 5000 BR OVC002/// M00/M00 Q1025 KOXR 220948Z AUTO 04009KT 3SM RA BR SCT024 BKN028 OVC047 12/09 A3008 RMK AO2 P0005 KOZA 220935Z AUTO 10SM CLR 10/M05 A2976 RMK AO2 KQFT 220940Z AUTO 22002KT 9999 FEW220 M06/M16 A3032 RMK A02 TSNO ESST 220920Z AUTO 00000KT 1300 R16/1600U R34/1500D BR OVC002/// M03/M03 Q1023 KPOU 220918Z AUTO 00000KT 4SM BR BKN003 04/04 A2973 RMK AO2 T00390039 KQFU 220940Z AUTO 24003KT 9999 CLR M08/M17 A3037 RMK A02 TSNO ESTL 220920Z AUTO VRB02KT 9999NDV FEW002/// BKN007/// OVC009/// 01/01 Q1029 KQFV 220940Z AUTO 29002KT 8000 HZ CLR M09/M18 A3027 RMK A02 TSNO KOXV 220935Z AUTO 31007KT M1/4SM FZFG OVC002 M01/M01 A2958 RMK AO2 KPOV 220937Z AUTO 00000KT 7SM BKN033 BKN042 OVC120 10/10 A2964 RMK AO2 T01010095 PWINO ESSV 220920Z 21008KT 0800 R03/0900N R21/1000N FG VV001 01/01 Q1025 R21/93//36 ESUD 220920Z AUTO 26007KT 9999 BKN043/// OVC055/// 04/00 Q1010 KQFW 220940Z AUTO 22004KT 9999 CLR M07/M17 A3028 RMK A02 TSNO FKKN 220900Z 22002KT 5000 HZ 27/14 Q1017 KQFX 220940Z AUTO 16002G10KT 9000 HZ CLR M06/M14 A3031 RMK A02 TSNO KPPO 220935Z AUTO 36006KT M1/4SM FG OVC001 03/03 A2956 RMK AO2 T00290029 KPOY 220935Z AUTO 15008KT 10SM CLR M06/M10 A2974 RMK AO2 KPPQ 220935Z AUTO 29005KT 3SM BR BKN005 OVC070 06/06 A2958 RMK AO2 T00620059 LFYR 220930Z AUTO VRB02KT 5000 BR NSC M03/M05 Q1025 KPQI 220904Z AUTO 31005KT 10SM SCT025 OVC043 M01/M03 A2977 RMK AO2 FZRANO FKKR 220900Z 28006KT 8000 NSC 32/03 Q1010 NOSIG KPRB 220853Z AUTO 13008KT 10SM -RA BKN042 OVC048 09/07 A2991 RMK AO2 PRESFR SLP126 P0003 60004 T00890067 58022 TSNO KPQL 220919Z AUTO 22006KT 2SM BR OVC003 21/19 A2953 RMK AO2 T02060194 TSNO KPRC 220853Z AUTO 15008KT 10SM CLR M02/M04 A3007 RMK AO2 SLP178 T10171039 50001 KPQN 220933Z AUTO 34009KT 5SM BR OVC005 01/00 A2961 RMK AO2 KPRG 220935Z AUTO 09004KT 5SM BR CLR 07/07 A2953 RMK AO2 T00740074 ESUP 220920Z AUTO 28001KT 9999 NCD M09/M12 Q1011 LGPZ 220650Z 03006KT CAVOK 07/02 Q1027 KOZR 220856Z AUTO 21008KT 10SM BKN012 BKN019 22/22 A2952 RMK AO2 SLP997 60030 T02190219 55016 $ LGSA 220920Z 07008KT 9999 FEW020 BKN030 11/05 Q1027 KOZS 220935Z AUTO 36007KT 10SM -VCTSRA BKN032 OVC070 08/08 A2946 RMK AO2 LTG DSNT SE THRU W P0001 VTBD 220930Z 02007KT 9999 FEW040 31/20 Q1012 NOSIG KQJB 220856Z AUTO 00000KT 9999 CLR 37/06 A2985 RMK AO2 SLPNO T03680058 58012 ESUT 220920Z AUTO 29018KT 9999 NCD 03/M00 Q1009 KPSC 220915Z AUTO 36005KT 1 1/4SM BR OVC080 M02/M02 A2972 RMK AO2 T10221022 KRAC 220919Z AUTO 00000KT 1/2SM FG OVC014 02/02 A2959 RMK AO2 T00220022 KPRN 220948Z AUTO 00000KT 1/2SM FG VV001 18/17 A2952 RMK AO2 T01830172 KOZW 220934Z AUTO 00000KT 1/4SM FG OVC002 03/03 A2958 RMK AO2 T00340030 ETMN 220920Z 13007KT 5000 BR OVC005 00/M01 Q1029 YLO KPSF 220942Z AUTO 00000KT 1/2SM FG SCT002 OVC065 01/01 A2970 RMK AO2 T00060006 KPRO 220935Z AUTO 32010KT 7SM OVC007 00/00 A2961 RMK AO2 T00001003 KQHY 220556Z AUTO 22013G22KT 6SM BR BKN009 BKN036 22/21 A2961 RMK AO2 LTG DSNT N-NE AND SE-S SHRAE00 SLP029 60007 T02210213 10222 20184 57006 $ LGRP 220920Z VRB02KT CAVOK 13/05 Q1025 NOSIG ETNH 220920Z 17006KT 7000 BKN008 01/M01 Q1029 GRN VTCC 220930Z 16006KT 9999 SCT040 30/12 Q1017 A3003 NOSIG KPRS 220935Z AUTO 29013G18KT 10SM CLR 09/M04 A3000 RMK AO2 T00901036 LGSK 220850Z 35007KT 9999 FEW015 BKN020 07/03 Q1031 KPSK 220935Z AUTO 00000KT 1/2SM FG OVC003 10/10 A2965 RMK AO2 T00960096 KT20 220935Z AUTO 29012G18KT 10SM CLR 16/00 A2963 RMK AO2 T01601003 KPTB 220936Z AUTO 36003KT 10SM OVC005 09/09 A2966 RMK AO2 KRAL 220853Z AUTO 11003KT 10SM SCT085 BKN120 09/07 A3013 RMK AO2 SLP193 T00890072 50005 LGSM 220920Z 01013KT CAVOK 09/05 Q1027 ETNL 220942Z VRB03KT 9999 OVC006 01/M01 Q1030 YLO VTBO 220900Z 36012KT 9999 FEW023 32/19 Q1011 KPSM 220858Z 35003KT 10SM OVC200 02/01 A2973 RMK AO2A SLP070 T00180011 50004 LIBD 220920Z VRB03KT 9000 FEW048 11/07 Q1026 KRBD 220853Z 26012KT 10SM CLR 13/02 A2940 RMK AO2 SLP952 T01330022 55003 LHKE 220915Z 09002KT 0800 FZFG BKN027 M08/M10 Q1036 NOSIG RMK AMB KPSN 220935Z AUTO 24009G17KT 10SM SCT100 13/06 A2948 RMK AO2 T01370059 LIBF 220850Z 28004KT 1500 RA BR BKN010 07/07 Q1027 ETNN 220920Z VRB02KT 9999 FEW220 M05/M08 Q1027 BLU+ VTCH 220900Z VRB02KT 9999 FEW025 33/14 Q1013 A2992 INFO LGRX 220850Z 06005KT CAVOK 12/03 Q1027 LGSO 220850Z 01018G28KT 9999 FEW020 10/01 Q1028 KPRX 220935Z 22007KT 10SM FEW095 11/06 A2938 RMK AO1 KPSO 220935Z AUTO 28003KT 10SM OVC019 M04/M05 A2992 RMK AO2 T10441049 LIBG 220850Z 10007KT CAVOK 13/06 Q1026 LGTG 220850Z 30005KT 9000 FEW010 SCT025 07/03 Q1031 BLU KRAP 220852Z AUTO 31006KT 10SM CLR M03/M06 A2970 RMK AO2 SLP080 T10331061 53016 KPSP 220853Z 22003KT 10SM FEW110 12/04 A3008 RMK AO2 SLP186 T01170039 50001 KRBG 220853Z AUTO VRB03KT 7SM -RA OVC048 05/04 A2941 RMK AO2 SLP961 P0001 60002 T00500044 56028 KQKG 220855Z AUTO 00000KT 9999 SCT050 24/15 A3014 RMK AO2 SLP131 WND DATA ESTMD T02420149 58005 VTBS 220930Z 07009KT 030V110 9999 FEW030 31/17 Q1013 NOSIG LIBH 220855Z 09010KT 9999 BKN030 10/07 Q1025 RMK BKN SCT080 QUK 3 QUL 2 SE VIS MAR 20 KM VIS MIN 9999 LGSR 220920Z 35013KT 9999 FEW020 SCT025 12/03 Q1027 VTCL 220900Z 04005KT 9999 SCT020 BKN100 29/16 Q1015 A2998 VTBU 220930Z 19008KT 9999 FEW020 30/20 Q1011 NOSIG LICA 220850Z 08020KT 9999 FEW025 SCT050 14/07 Q1023 KRAS 220935Z AUTO 31017G24KT 10SM CLR 18/02 A2968 RMK AO2 T01800018 KRCA 220858Z AUTO 30007KT 10SM CLR M04/M07 A2969 RMK AO2 SLP081 52015 LICB 220850Z 12011G26KT 090V160 6000 -DZ SCT020 BKN040 13/10 Q1019 ETNS 220920Z AUTO 13006KT 9000 // ////// 02/M00 Q1028 /// KPTK 220853Z AUTO 00000KT 1/4SM R09R/1000V1200FT FG VV002 03/02 A2959 RMK AO2 SLP025 T00330022 56001 KPUB 220853Z AUTO 29005KT 10SM SCT090 M03/M04 A2975 RMK AO2 SLP086 T10281044 53021 VTCN 220800Z 02002KT 9999 SCT025 29/13 Q1015 A2999 ETNT 220920Z 11005KT 0700 R26/2400U FZFG BKN001 M02/M02 Q1028 RED LICC 220920Z 10017KT 6000 FEW015 BKN025 14/10 Q1021 KPUC 220853Z AUTO 02009KT 10SM CLR M11/M13 A2995 RMK AO2 SLP191 T11061128 53016 KRBL 220943Z AUTO 16030G39KT 6SM RA BR FEW008 BKN014 OVC019 08/06 A2965 RMK AO2 PK WND 15039/0938 P0012 T00780061 LICD 220850Z 27003KT CAVOK 14/06 Q1016 KRCE 220855Z AUTO 33007KT 10SM 07/07 A2941 RMK AO2 LIBN 220855Z 14004KT CAVOK 12/09 Q1026 VTCP 220900Z 29002KT 9999 SCT025 31/14 Q1014 A2996 KPTN 220856Z AUTO 24008KT 4SM BR BKN006 BKN018 20/20 A2953 RMK AO2 CIG 005V010 SLP000 T02000200 50002 KQN3 220856Z AUTO 35006KT 9999 CLR 26/M03 A2991 RMK AO2 SLP119 T02581026 GAYE 220900Z 08010KT CAVOK 21/M03 Q//// ETNW 220920Z AUTO 12005KT //// // ////// M03/M03 Q1028 /// LICF 220855Z 20011G26KT 9999 SCT025 14/08 Q1020 RMK BKN SCT080 BKN200 QUK 4 QUL 3 SW VIS MAR 18 KM MON CIME INC NC VIS MIN 9999 KPSX 220853Z AUTO 28008KT 10SM CLR 16/06 A2962 RMK AO2 SLP031 T01560056 51013 $ KRBO 220935Z AUTO 31016KT 10SM CLR 17/03 A2971 RMK AO2 T01700029 LICG 220855Z 10003KT CAVOK 13/07 Q1015 LIBP 220850Z 24005KT 3000 -DZ BR BKN015 BKN040 06/05 Q1028 LGSY 220850Z 02011KT 9999 FEW025 08/01 Q1030 RMK BLU KT35 220935Z AUTO 26012G17KT 10SM 14/01 A2953 RMK AO2 T01360005 LIBQ 220855Z 05010KT 9999 BKN010 SCT050 02/M00 Q1022 VTCT 220900Z VRB02KT 9999 SCT025 28/18 Q1016 A3003 LIBR 220915Z 17007KT 9999 SCT025 13/11 Q1027 NOSIG KQKR 220856Z AUTO 28007KT 8000 HZ FEW007 33/04 A2988 RMK AO2 SLPNO T03300038 LICJ 220920Z 28007KT 9999 -RA BKN030 14/10 Q1018 KPTS 220935Z AUTO 06008KT 4SM +RA SCT005 BKN023 OVC046 11/11 A2944 RMK AO2 LTG DSNT E P0012 T01050106 LGTS 220920Z 00000KT 8000 4000SE BR FEW005 04/M01 Q1034 NOSIG KPUJ 220935Z AUTO 12007KT 5SM RA OVC003 16/ A2954 RMK AO2 LTG DSNT SE KPVB 220935Z AUTO 27003KT M1/4SM OVC002 01/01 A2957 RMK AO1 T00110011 KPTT 220935Z AUTO 36012KT 10SM SCT027 BKN042 OVC050 04/03 A2957 RMK AO2 P0002 T00410027 LICL 211755Z 10010G20KT 9999 FEW023 BKN050 15/10 Q1017 RMK BKN BKN090 QUK / QUL / VIS MAR 10 KM VIS MIN 9999 KPVC 220944Z AUTO 22003KT 1/2SM FG OVC001 04/03 A2974 RMK AO2 LIBV 220855Z 09006KT 9000 FEW033 08/04 Q1025 KPVD 220934Z AUTO 00000KT 4SM BR CLR 03/03 A2975 RMK AO2 T00330028 KRCM 221015Z AUTO 36006KT 7SM SCT048 SCT065 OVC085 07/06 A2952 RMK AO2 LTG DSNT SE KRDD 220853Z AUTO 15022G27KT 5SM RA BR BKN019 BKN024 OVC029 08/06 A2966 RMK AO2 PK WND 15030/0810 SLP043 P0010 60026 T00780056 58039 KPTV 220856Z AUTO 15006KT 10SM -RA CLR 08/07 A2999 RMK AO2 RAB0758 SLP171 P0001 60001 T00830067 55003 ETOU 220858Z AUTO 00000KT 9999 CLR M06/M09 A3033 RMK AO2 SLP284 T10561087 53001 $ GCGM 220930Z VRB07KT 9999 FEW025 18/09 Q1025 RMK R09/VRB03KT ARP/01006KT 320V070 GCFV 220930Z 36008KT 340V040 9999 FEW025 17/11 Q1024 KPTW 220935Z AUTO 00000KT 2 1/2SM BR OVC003 06/06 A2972 RMK AO2 T00610061 KRBW 220935Z AUTO 20006KT 5SM +TSRA SCT050 OVC065 16/16 A2970 RMK AO2 LTG DSNT ALQS KPVF 220935Z AUTO 17019G32KT 9SM BKN023 BKN030 OVC038 04/03 A2971 RMK AO1 LIBY 220855Z 13007KT 9999 FEW020 11/06 Q1025 RMK SCT SCT180 QUK 2 QUL 1 SE VIS MAR 20 KM VIS MIN 9999 KPVG 220935Z 03003KT 1 1/4SM OVC002 11/09 A2960 RMK AO1 KRDG 220940Z 31004KT 2SM R36/6000VP6000FT BR OVC004 06/06 A2972 RMK AO2 T00610061 LICR 220900Z 14018G28KT 9999 BKN050 15/07 Q1021 KRCR 220935Z AUTO 00000KT 1/4SM FG OVC001 05/05 A2955 RMK AO2 GCHI 220930Z 03008KT 340V060 9999 FEW022 19/14 Q1025 LIEA 220920Z 08006KT CAVOK 13/07 Q1014 KPWA 220853Z 34007KT 10SM CLR 08/07 A2937 RMK AO2 SLP940 60000 T00780067 53009 LIEB 220855Z 16014KT 6000 SCT020 SCT025 12/06 Q1013 RMK BKN QUK 4 QUL 3 SE VIS MAR 14 KM MON INVIS VIS MIN 6000 LICT 220855Z 06004KT 7000 -RA SCT015 BKN018 12/09 Q1017 KRDK 220935Z AUTO 02005KT 7SM CLR M01/M01 A2962 RMK AO2 KPWC 220932Z AUTO 00000KT 7SM BKN004 BKN009 OVC013 01/01 A2965 RMK AO2 LIED 220855Z 12008KT 9999 FEW018 BKN040 13/09 Q1012 KRCV 220930Z AUTO 28012KT 10SM CLR M07/M12 A2985 RMK AO2 T10661123 KQND 220856Z AUTO 13005KT 8000 HZ FEW220 34/01 A2986 RMK AO2 SLPNO T03350006 51010 KRDM 220856Z AUTO 09007KT 10SM CLR 03/M04 A2954 RMK AO2 SLP009 T00281044 58018 LIEE 220920Z 13019KT 7000 SCT040 14/07 Q1014 KPUW 220853Z AUTO 08008KT 10SM SCT055 OVC075 02/M01 A2974 RMK AO2 SLP085 60001 T00171006 51009 FLHN 220800Z 09010KT 9999 BKN020 SCT080 23/20 Q1017 KRCX 220935Z AUTO 00000KT 1/2SM FG OVC001 01/01 A2956 RMK AO2 T00140011 KPWG 220856Z AUTO 25013G20KT 10SM CLR 12/02 A2949 RMK AO2 SLP996 T01220017 58008 LICZ 220855Z 10023KT 5000 BR SCT015 FEW020CB SCT060 15/14 Q1020 KRCZ 220940Z AUTO 22005KT 7SM OVC003 15/15 A2966 RMK AO2 T01480148 KRDR 220913Z AUTO 27003KT 7SM R35/5000FT OVC009 00/00 A2963 RMK AO2 CIG 009V011 ETSA 220920Z 00000KT 0100 FZFG VV000 M12/M13 Q1023 RED KPWK 220940Z AUTO 00000KT 2 1/2SM BR OVC011 04/04 A2959 RMK AO2 T00440039 ETSB 220920Z AUTO 10004KT 6000 // ////// M05/M10 Q1024 /// KRDU 220851Z VRB03KT 1/8SM BR OVC003 12/11 A2966 RMK AO2 SFC VIS 3 SLP042 T01170111 51006 KPVU 220922Z AUTO 12003KT 3SM BR OVC065 M07/M08 A3003 RMK AO2 FZRANO KPWM 220851Z AUTO 00000KT 10SM OVC032 02/01 A2975 RMK AO2 SLP077 T00220006 53003 KRFD 220901Z 31004KT 1/4SM R01/1200V1800FT FG VV002 01/00 A2960 RMK AO2 TWR VIS 1/4 T00060000 KPVW 220935Z AUTO 33021G30KT 10SM OVC019 05/02 A2962 RMK AO2 T00500017 KPXE 220935Z AUTO 00000KT 7SM -VCTSRA 17/16 A2960 RMK AO2 LTG DSNT NE THRU SW T01730161 LIEO 220920Z 10008KT 050V170 9999 R05/1400VP1500N FEW015 BKN020 13/08 Q1017 KREO 220852Z AUTO 21006KT 01/M04 A2972 RMK AO1 SLP074 T00111039 58007 KT65 220935Z AUTO 36012G19KT 10SM CLR 18/04 A2970 RMK AO2 T01840044 ETSH 220920Z 08004KT 9999 FEW220 M03/M04 Q1029 BLU+ KRFI 220935Z AUTO 23005KT 10SM SCT090 13/07 A2945 RMK AO2 T01310070 KQNS 220855Z 24010KT 10SM BKN075 OVC100 05/02 A3005 RMK SLP207 WND DATA ESTMD ALSTG/SLP ESTMD T00540017 53007 ETSI 220920Z AUTO 27001KT 4200 // ////// M12/M14 Q1026 /// KRGA 220935Z AUTO 11003KT 7SM CLR 09/08 A2955 RMK AO2 LHPA 220915Z 21004KT 6000 NSC M02/M07 Q1035 NOSIG RMK WHT KPWT 220935Z 00000KT 3SM FEW023 BKN035 BKN080 05/04 A2959 RMK AO1 ETSL 220920Z AUTO VRB01KT 0050 // ////// M11/M13 Q1024 /// ETSN 220941Z 24001KT 0600 FZFG OVC001 M10/M11 Q1026 RED LGZA 220550Z VRB03KT CAVOK 04/02 Q1027 GCLA 220930Z 34010KT 9999 FEW025 BKN040 17/13 Q1025 KRGK 220936Z AUTO 00000KT 1/4SM FG OVC003 02/01 A2957 RMK AO2 FLKK 220800Z 06003KT 9000 -DZRA BKN009 OVC090 19/19 Q1020 KPYM 220852Z AUTO 00000KT 1/2SM FG VV002 02/01 A2975 RMK AO2 SLP073 T00170011 58004 KT82 220935Z AUTO 27023G30KT 10SM CLR 12/M05 A2964 RMK AO2 T01201050 LHPP 220915Z 09004KT 4500 BR M05/M07 Q1035 FMCH 220900Z 27005KT 9999 FEW020 31/26 Q1015 NOSIG KRHI 220906Z AUTO 00000KT 1/4SM FG VV003 02/02 A2953 RMK AO2 T00170017 TSNO LHPR 220915Z 09004KT 050V120 3500 BR NSC M03/M05 Q1035 RMK YLO AGGH 220900Z 00000KT 25KM FEW015 SCT100 BKN300 26/25 Q1009 KRIC 220854Z 03004KT 4SM BR OVC003 09/09 A2966 RMK AO2 RAE02 SLP048 P0001 60028 T00940094 55002 KQRD 220358Z AUTO M 10SM FEW001 SCT045 22/22 A2959 RMK AO2 LTG DSNT NE SLP024 $ KPYX 220935Z AUTO 35018G24KT 5SM SCT008 SCT021 OVC027 06/05 A2959 RMK AO2 P0001 T00570048 KRHP 220940Z AUTO 00000KT 7SM -RA SCT019 BKN026 OVC060 11/11 A2964 RMK AO2 P0003 T01050105 GCLP 220930Z 01010KT 340V040 9999 FEW035 BKN050 18/11 Q1024 NOSIG KPZQ 220935Z AUTO 00000KT 2 1/2SM BR SCT002 OVC013 04/03 A2960 RMK AO2 T00350029 KQRH 220856Z AUTO 13005KT 9999 FEW035 28/18 A3003 RMK AO2 SLP162 T02780180 58015 KSAA 220935Z AUTO 24011KT 10SM OVC080 M05/M08 A2986 RMK AO2 KSAC 220930Z AUTO 14013G23KT 5SM RA BR FEW009 BKN023 OVC037 08/08 A2974 RMK AO2 PK WND 13027/0916 P0004 T00830078 KRIL 220853Z AUTO 00000KT 10SM OVC044 00/M02 A2993 RMK AO2 SLP146 T00001022 51022 KSAD 220851Z AUTO 20005KT 10SM CLR 03/00 A3011 RMK AO2 SLP189 T00330000 51012 KRHV 220547Z 13015G25KT 10SM BKN055 OVC075 10/06 A2985 RMK LAST FMEE 220930Z 08021KT 9999 FEW031 BKN110 BKN210 29/22 Q1016 TEMPO SHRA KSAF 220853Z AUTO 15004KT 10SM FEW043 BKN060 00/M06 A2989 RMK AO2 SLP106 T00001056 51028 KQQY 220855Z AUTO VRB01KT 9999 CLR 22/18 A2997 RMK AO2 SLP130 WND DATA ESTMD T02230179 56010 $ FMCZ 220930Z 28009KT 9999 SCT022TCU BKN300 29/22 Q1013 NOSIG KSBA 220853Z 09011KT 7SM -RA FEW037 BKN060 OVC075 11/09 A3006 RMK AO2 SLP179 P0007 60012 T01110094 50003 KSBD 220938Z AUTO 10005KT 10SM BKN017 OVC041 11/06 A3012 RMK AO2 T01060062 KRKD 220930Z AUTO 04009G15KT 10SM BKN008 OVC025 02/01 A2977 RMK AO2 FZRANO KRIV 220858Z AUTO 15005KT 10SM FEW080 SCT110 07/07 A3011 RMK AO2 SLP196 T00720072 50006 LHSM 220915Z 00000KT 2300 BR M08/M10 Q1036 ETWM 220920Z AUTO 12001KT 3900 // ////// M01/M02 Q1028 /// KSAN 220851Z 11004KT 10SM FEW030 SCT100 12/06 A3014 RMK AO2 SLP206 T01170061 58003 LHSN 220915Z 00000KT 1000 R02/P1500 BR OVC022 M08/M09 Q1036 TEMPO 1500 BR RMK AMB KRIW 220853Z AUTO 23005KT 7SM CLR A2979 RMK AO2 SLPNO I1000 I3000 53017 FMEP 220930Z AUTO 13025KT 9999 FEW084 31/21 Q1015 BECMG 13022G34KT KSAR 220935Z AUTO 11004KT 7SM CLR 09/09 A2949 RMK AO2 T00890087 KSAT 220851Z 28022G34KT 10SM FEW110 16/M03 A2965 RMK AO2 PK WND 29034/0806 SLP022 T01561033 51009 $ KSAV 220936Z AUTO VRB04KT 8SM R10/6000VP6000FT TSRA OVC033 17/15 A2967 RMK AO2 LTG DSNT ALQDS TSE23B30 PRESRR P0016 T01670150 $ KSBM 220939Z AUTO 00000KT 5SM BR OVC005 03/03 A2956 RMK AO2 T00330028 KSCD 220935Z AUTO 00000KT 10SM BKN070 17/17 A2954 RMK AO2 LTG DSNT S T01660166 KRLD 220935Z AUTO 00000KT M1/4SM FZFG OVC002 M01/M01 A2972 RMK AO2 T10111011 LHUD 220915Z 03002KT 1100 BR M07/M09 Q1037 LJCE 220930Z 25004KT 6000 OVC020 M04/M07 Q1035 RMK WHT GBYD 220900Z 02010 CAVOK 21/04 Q1014 KSBN 220941Z AUTO 03003KT M1/4SM R27L/0800V2000FT FG VV001 02/02 A2957 RMK AO2 T00170017 KSAW 220937Z AUTO 00000KT 1/4SM FG OVC001 00/00 A2954 RMK AO2 T00030002 KSBO 220935Z AUTO 14008KT 7SM VCTSRA SCT003 BKN055 OVC100 16/16 A2964 RMK AO2 LTG DSNT SE THRU W KSCF 220940Z AUTO 28020KT 2 1/2SM BR BKN006 BKN013 21/21 A2953 RMK A01 KRKP 220853Z AUTO 29009G14KT 10SM CLR 18/05 A2966 RMK AO2 SLP044 T01780050 51014 $ KSBP 220856Z AUTO 14016G24KT 6SM -RA OVC049 11/08 A2994 RMK AO2 SLP139 P0003 60008 T01110078 58016 KSCH 211748Z 20004KT 15SM SCT014 OVC035 07/04 A2978 KSAZ 220932Z AUTO 00000KT 1/2SM FG BKN002 OVC007 00/00 A2961 RMK AO2 KRKR 220935Z AUTO 00000KT 7SM -RA SCT055 BKN090 OVC110 M16/M17 A2936 RMK AO2 LTG DSNT NE P0002 T11651170 LIMA 220850Z 00000KT CAVOK M01/M05 Q1029 KRKS 220854Z AUTO 25017KT 10SM CLR M07/M09 A2988 RMK AO2 SLP167 T10721094 53016 $ KSBS 220934Z AUTO 24009KT 4SM SCT006 BKN020 OVC031 M05/M06 A2991 RMK AO1 T10511060 KSDA 220935Z AUTO 04008KT 10SM FEW004 01/01 A2962 RMK AO2 KSDB 220853Z AUTO 21029G41KT 1/4SM -SN FG VV004 02/02 A2996 RMK AO2 PK WND 19043/0831 UPB24E32SNE24B27E28B32 SLP135 P0000 60000 T00220017 58008 KSCK 220855Z AUTO 14026G38KT 10SM FEW024 BKN039 OVC055 10/07 A2976 RMK AO2 PK WND 14040/0844 RAE37 SLP076 P0001 60006 T01000067 58032 LIMC 220920Z 36006KT CAVOK 04/M04 Q1029 NOSIG KU42 220935Z AUTO 18012KT 10SM CLR M02/M02 A3000 RMK AO1 T10231023 LIME 220920Z 01004KT CAVOK 03/M05 Q1029 KRME 220853Z AUTO 08003KT 6SM BR CLR 03/03 A2971 RMK AO2 SLP062 T00330033 58005 KQVF 220900Z AUTO VRB06KT 9999 FEW180 31/21 A2995 RMK AO2 SLP140 WND DATA ESTMD T03060210 58013 LIMF 220920Z VRB02KT CAVOK 01/M06 Q1029 KSDF 220856Z 00000KT 9SM CLR 09/07 A2953 RMK AO2 SLP000 T00890072 56022 LIMG 220850Z 36025G48KT 330V030 9999 SCT050 10/M09 Q1022 KSBY 220854Z AUTO 05007KT 9SM -RA OVC003 08/08 A2968 RMK AO2 RAB01 SLP053 P0002 60006 T00830083 56021 TSNO KRMG 220941Z AUTO 13009KT 10SM BKN009 OVC048 15/13 A2952 RMK AO2 RAE20 CIG 007V013 P0000 T01500133 LIMH 220855Z /////KT 9999 FEW060 M15/M27 Q1019 KSCR 220940Z AUTO 00000KT 10SM OVC003 11/11 A2966 RMK AO2 T01110111 LIMJ 220920Z 04009KT 360V080 CAVOK 07/M04 Q1025 KSEA 220853Z 09009KT 10SM BKN034 OVC045 07/04 A2958 RMK AO2 RAE04 SLP025 P0000 60002 T00670039 58001 FKYS 220900Z 25004KT 210V300 7000 BKN013 26/22 Q1016 BECMG BKN016 LIMK 220855Z 02003KT CAVOK 01/M07 Q1026 LIML 220920Z VRB02KT CAVOK 02/M03 Q1030 NOSIG KSDL 220853Z AUTO 05003KT 10SM CLR 05/02 A3011 RMK AO2 PRESFR SLP192 T00500022 50004 KRNC 220935Z AUTO VRB03KT 10SM OVC020 14/13 A2950 RMK KSDM 220853Z AUTO 16006KT 10SM BKN110 09/08 A3013 RMK AO2 SLP201 T00940078 58004 TSNO KRND 220858Z AUTO 29016G25KT 10SM CLR 16/M04 A2963 RMK AO2 PK WND 27032/09 SLP027 T01571041 52014 KSEE 220935Z AUTO 00000KT 10SM 08/07 A3014 RMK AO2 KRMN 220935Z AUTO 00000KT 3/4SM BR OVC001 09/09 A2974 RMK AO2 T00860086 LIMP 220850Z VRB01KT CAVOK M02/M04 Q1030 KSEG 220924Z AUTO 30003KT 3/4SM BR OVC003 05/05 A2973 RMK AO2 T00500050 KRNH 220935Z AUTO 36003KT 1 1/4SM BR OVC002 01/01 A2958 RMK AO2 T00100010 KROA 220854Z 00000KT 10SM OVC038 11/10 A2969 RMK AO2 RAB05E27 SLP050 P0000 60000 T01060100 58002 LIMT 220855Z 36010KT 9999 SCT014 M03/M05 Q1023 KSFB 220916Z AUTO 20008KT 10SM BKN020 21/17 A2975 RMK AO2 T02060167 LIMU 220855Z 36027G42KT 9999 SCT025 09/M03 Q1023 KROC 220930Z 36004KT 1/4SM R04/1800V2200FT FG VV001 03/03 A2968 RMK AO2 T00280028 LIMV 211655Z /////KT CAVOK 01/M05 Q1025 KRNM 220926Z AUTO 00000KT 4SM BR BKN100 05/05 A3012 RMK AO2 T00500050 $ KSEM 220935Z AUTO 15006KT 10SM BKN019 OVC023 16/15 A2951 RMK AO2 TSNO VTPH 220900Z 02010KT 8000 NSC 29/22 Q1012 KSFF 220942Z AUTO 06005KT 10SM SCT025 BKN075 02/01 A2973 RMK AO2 UPE0854 P0000 T00220011 KRNO 220944Z 17008KT 2SM -SN OVC033 01/M02 A2972 RMK AO2 SNB17 P0000 T00111017 LIMY 220855Z 27003KT 8000 NSC 00/M05 Q1028 KSDY 220924Z AUTO 25005KT 10SM OVC008 M03/M04 A2971 RMK AO2 FZRANO KRMY 220934Z AUTO 00000KT 1/4SM FG OVC002 05/05 A2957 RMK AO2 T00530050 KRNP 220935Z AUTO 00000KT 1/4SM FG OVC002 06/06 A2958 RMK AO2 T00570057 KSEP 220935Z AUTO 25015G18KT 10SM CLR 11/M02 A2948 RMK AO2 T01111016 KROG 220858Z AUTO 08005KT 10SM OVC110 10/09 A2938 RMK AO2 SLP942 60001 T01000094 56016 LIMZ 220850Z 29004KT 9999 SCT100 M01/M04 Q1028 LIPA 212055Z 32004KT CAVOK M00/M04 Q1029 GCRR 220930Z 01006KT 9999 FEW040 17/10 Q1024 KU68 220935Z AUTO 00000KT 10SM OVC100 M12/M12 A2982 RMK AO2 LIPB 220850Z VRB01KT CAVOK M06/M09 Q1032 VTPM 220900Z 06009KT 9999 SCT030 31/16 Q1011 KRNT 220853Z AUTO 00000KT 10SM OVC040 07/04 A2959 RMK AO2 RAE05 SLP026 P0000 60000 T00670039 50001 $ KSET 220854Z AUTO 29008KT 10SM CLR 08/06 A2952 RMK AO2 SLP994 T00780056 53001 FLSK 220900Z 14004KT 9999 -RA FEW004 FEW040CB OVC090 18/17 Q1020 LIPC 220855Z 29006KT 9999 OVC060 03/00 Q1029 FNBC 220900Z 03004KT 9999 FEW012 BKN090 26/// Q//// VTPO 220900Z 23006KT 9999 FEW022 31/18 Q1014 KSFM 220856Z AUTO 00000KT 10SM SCT032 M02/M02 A2975 RMK AO2 SLP086 T10171022 53007 FZRANO KRNV 220935Z AUTO 19006KT 10SM OVC012 12/12 A2947 RMK AO2 T01220122 KRPD 220935Z AUTO 30003KT 1SM BR OVC002 01/01 A2957 RMK AO2 T00110011 VTPP 220900Z 29004KT 9999 FEW025 30/18 Q1013 LIPE 220920Z 30004KT 270V340 7000 BKN050 02/M03 Q1029 LIPF 220855Z 32002KT 6000 NSC 01/M01 Q1029 KSGF 220902Z AUTO 03007KT 10SM FEW012 BKN039 OVC110 10/09 A2943 RMK AO2 LTG DSNT NE AND E T01000089 KQWX 220855Z AUTO VRB02KT 8SM CLR 00/M01 A2964 RMK AO2 SLP048 WND DATA ESTMD T00021011 53019 KSFO 220856Z 14026KT 7SM -RA FEW030 OVC037 11/07 A2967 RMK AO2 PK WND 15035/0811 RAB24 SLP047 P0002 60002 T01060067 58037 FNBG 220900Z 32006KT 9999 FEW020 BKN100 29/20 Q1011 LIPH 220920Z 06005KT CAVOK 06/M05 Q1029 KSGH 220919Z AUTO 08005KT 1/4SM FG VV002 06/05 A2958 RMK AO2 KSEZ 220935Z AUTO 00000KT 10SM CLR 01/M01 A3011 RMK AO2 KSFQ 220935Z AUTO 02004KT 1 1/4SM BR OVC002 11/11 A2963 RMK AO2 T01050105 KRPH 220936Z AUTO 25013G18KT 10SM CLR 11/01 A2940 RMK AO2 KRPJ 220935Z AUTO 00000KT M1/4SM FG OVC002 00/00 A2959 RMK AO2 T00030003 KSGJ 220858Z 20008KT 10SM BKN095 21/16 A2972 RMK AO2 SLP065 T02110161 56021 KROS 220938Z AUTO 00003KT 4SM BR OVC003 01/00 A2959 RMK AO2 EVLA 220920Z 22012KT 3600 BR OVC002 02/02 Q1028 KRQB 220935Z AUTO 00000KT 1/2SM FG BKN002 OVC008 02/01 A2958 RMK AO2 T00160014 FNCA 220900Z VRB03KT 9999 FEW015 SCT025 29/26 Q1011 LIQC 220855Z 06004KT CAVOK 12/05 Q1022 RMK SCT SCT090 QUK 3 QUL 1 NE VIS MAR 25 KM VIS MIN 9999 LIPL 220855Z /////KT CAVOK M02/M04 Q1029 KSHD 220935Z AUTO 00000KT 5SM BR OVC006 07/07 A2969 RMK AO2 T00730070 KROW 220851Z AUTO 30019G26KT 10SM CLR 07/M07 A2976 RMK AO2 PK WND 29042/0752 SLP052 T00721067 53028 LIPO 220850Z 27002KT CAVOK 00/M05 Q1029 KROX 220935Z AUTO 00000KT 1/2SM HZ OVC004 01/M02 A2964 RMK AO2 KSFY 220935Z AUTO 00000KT 1/4SM FZFG OVC001 M01/M02 A2959 RMK AO2 T10151016 LIPQ 220920Z VRB03KT CAVOK 05/M08 Q1029 KSFZ 220926Z AUTO 00000KT 1 3/4SM BR FEW002 03/03 A2973 RMK AO2 VTSB 220900Z 05015KT 8000 SCT020 29/25 Q1011 LIPR 220915Z 28007KT 9999 SCT035 BKN050 05/M02 Q1029 KSGR 220853Z AUTO 26011KT 10SM BKN110 17/09 A2958 RMK AO2 SLP016 60000 T01670089 55004 VTSC 220900Z 08010KT 050V110 8000 SCT020 SCT030 BKN100 28/24 Q1011 RWY20 INFO J LIPS 220855Z 03003KT CAVOK 04/00 Q1029 LIRA 220920Z 07010KT 9999 FEW060 12/03 Q1021 KSGS 220931Z AUTO 00000KT 5SM BR OVC004 02/02 A2958 RMK AO2 T00200020 GCTS 220930Z 06011KT 9999 BKN043 17/11 Q1024 NOSIG KSGT 220935Z AUTO 24004KT 1SM OVC065 12/08 A2945 RMK AO1 LIPU 220653Z VRB01KT CAVOK M03/M05 Q1028 VTSE 220900Z 04007KT 330V090 9999 FEW025 28/23 Q1011 KSGU 220935Z AUTO 10007KT 10SM FEW120 03/M02 A3005 RMK AO1 KSHL 220935Z AUTO 30010KT 7SM OVC009 00/00 A2960 RMK AO2 VTSF 220900Z 07004KT 020V160 8000 -TSRA SCT014 FEW016CB BKN018 24/24 Q1011 RERA VTSG 220900Z 04007KT 350V080 9999 SCT020 30/24 Q1010 LIRE 220855Z 05007KT 9999 SCT060 11/04 Q1021 LIQN 220850Z VRB01KT CAVOK 02/01 Q1022 KSHN 220943Z AUTO 02006KT 3SM BR OVC002 06/05 A2953 RMK AO2 T00560050 LIQO 220855Z 06023KT CAVOK 06/M02 Q1019 VTSH 220900Z 07012KT 8000 FEW020 30/25 Q1010 NOSIG KRPX 220915Z AUTO 19011KT 10SM M04/M10 A2968 LIPX 220920Z VRB02KT CAVOK 02/M04 Q1030 LIRF 220920Z 06014KT 9999 SCT050 11/03 Q1021 NOSIG KSIF 220945Z AUTO 00000KT 10SM OVC014 10/10 A2965 RMK AO2 T01010101 LIPY 220850Z 27004KT 240V310 8000 SCT025 BKN060 05/M01 Q1029 WMBA 220900Z 26008KT 9999 FEW017CB SCT150 30/24 Q1009 LIPZ 220920Z 05005KT CAVOK 03/M05 Q1029 NOSIG LIRI 220850Z 06017KT CAVOK 14/04 Q1022 KSHR 220853Z AUTO 22006KT 10SM FEW100 M03/M08 A2973 RMK AO2 SLP102 T10331083 53015 FMMI 220930Z 14009G19KT 090V230 9999 BKN023 27/12 Q1021 NOSIG LIRK 220855Z AUTO 10021KT //// M03/M03 Q1021 VTSM 220930Z /////KT 9000 FEW020 29/23 Q1012 KSIK 220955Z AUTO 03003KT 10SM BKN110 12/10 A2946 RMK AO2 KSJC 220853Z AUTO 12031G38KT 8SM -RA OVC042 10/07 A2972 RMK AO2 PK WND 12039/0826 SLP062 P0000 60000 T01000067 56028 KRRL 220935Z AUTO 00000KT 1/2SM FG OVC001 01/01 RMK AO2 T00080008 LIRM 220855Z 07020G30KT 9999 FEW050 11/08 Q1022 KTAD 220854Z AUTO 29006KT 10SM CLR M03/M07 A2975 RMK AO2 SLP080 T10331067 51022 KSHV 220856Z 21009KT 10SM BKN110 OVC180 15/10 A2943 RMK AO2 SLP962 T01500100 55018 VTSP 220930Z 03004KT 8000 SCT018 32/22 Q1010 NOSIG LIRN 220920Z 05009KT CAVOK 13/05 Q1022 NOSIG VTSR 212300Z VRB02KT 8000 SCT025 27/25 Q1011 ILS/DME RWY02 INFO E LIRP 220915Z 12020KT 9999 SCT030 SCT080 09/01 Q1024 NOSIG VTSS 220930Z 07015KT 9999 FEW020 29/23 Q1010 NOSIG LIRQ 220920Z VRB03KT 9999 FEW060 09/M02 Q1025 VTST 220900Z 05010KT 7000 -RA FEW018 SCT025 25/24 Q1009 WMAU 220900Z 05013KT 9999 FEW017CB SCT140 BKN270 29/26 Q//// QFF1010 LIRS 220855Z 03013KT 9999 FEW060 10/04 Q1022 KSKA 220942Z 11010KT 10SM OVC065 00/00 A2969 RMK AO2A $ VTUD 220900Z 03007KT 340V120 9999 FEW050 29/15 Q1016 LIRT 220855Z 16020KT 0000 FG VV/// 01/M01 Q1022 KRRT 220934Z AUTO 00000KT 1/2SM FG OVC001 01/M02 A2965 RMK AO2 LIRU 220850Z VRB02KT CAVOK 07/02 Q1022 FMMT 220900Z 12008KT 9999 SCT017 30/21 Q1015 NOSIG KRSL 220853Z AUTO 34010KT 10SM CLR 02/01 A2959 RMK AO2 SLP023 T00170006 53019 LIRV 211755Z 05014KT CAVOK 06/00 Q1022 FMNM 220900Z 08012KT 9999 SCT020CB 32/19 Q1013 NOSIG KTAN 220913Z AUTO 00000KT 4SM BR FEW004 01/00 A2974 RMK AO2 T00110000 KSJN 220854Z AUTO 24011KT 10SM CLR M02/M06 A3005 RMK AO2 SLP174 T10221056 TSNO $ KRSN 220935Z AUTO 21005KT 10SM SCT065 OVC090 16/12 A2949 RMK AO2 T01560118 LIRX 220855Z 04009KT 9999 OVC020 07/05 Q1019 KSKF 220858Z AUTO 28018G32KT 10SM CLR 16/M02 A2963 RMK AO2 PK WND 28032/51 SLP027 T01641020 52007 $ VTUI 220900Z 12010KT 9999 SCT040 28/15 Q1016 KRSP 220854Z AUTO 02003KT 1/4SM FG VV001 06/06 RMK AO2 SLPNO T00610061 $ KSIY 220853Z AUTO 18027G36KT 10SM SCT027 BKN050 OVC110 04/M01 A2953 RMK AO2 PK WND 18036/0850 RAB03E24 SLP015 P0000 60000 T00391006 58017 LIRZ 220850Z 03012KT CAVOK 09/04 Q1024 VTUK 220900Z 07007KT 030V130 9999 FEW035 30/16 Q1015 NOSIG KSJS 220555Z AUTO 00000KT 10SM CLR 11/11 A2965 RMK AO2 T01120111 10149 20111 VTUL 220900Z 10006KT 020V160 9999 FEW035 28/16 Q1016 KSJT 220851Z 27026G37KT 10SM CLR 11/M03 A2962 RMK AO2 PK WND 27040/0833 SLP020 T01061033 53001 $ KSLB 220935Z AUTO 31009KT 3SM BR OVC005 M00/M01 A2960 RMK AO2 KRST 220947Z AUTO 29007KT 1/2SM R31/1800V2800FT FG VV002 01/01 A2956 RMK AO2 T00060006 KTCC 220853Z AUTO 29009KT 10SM CLR 02/M03 A2971 RMK AO2 SLP044 T00221028 53037 KSLC 220854Z 13009KT 10SM FEW070 M02/M04 A2997 RMK AO2 SLP162 T10221044 51012 VTUO 220900Z 04012KT 340V070 9999 FEW020 30/18 Q1015 A2998 INFO J RWY 04 KRSV 220935Z AUTO 00000KT 7SM CLR 07/07 A2953 RMK AO2 T00650065 KRSW 220853Z 15004KT 10SM BKN021 20/19 A2980 RMK AO2 SLP087 T02000189 58005 KRTN 220853Z AUTO 33011KT 10SM CLR M01/M07 A2972 RMK AO2 SLP054 T10111067 51024 KRUE 220940Z AUTO 00000KT 3SM BR BKN002 11/11 A2939 RMK AO2 T01110106 KSLE 220856Z AUTO 31003KT 10SM BKN110 04/03 A2946 RMK AO2 SLP976 T00390028 58030 KTBN 220943Z AUTO 14003KT 10SM BKN023 10/08 A2946 RMK AO2 LTG DSNT SW-W DZB15E33 BKN V SCT $ VTUQ 220900Z 02008KT 290V080 9999 FEW024 30/17 Q1015 KSJX 220936Z AUTO 21004KT 1/2SM FG OVC002 04/04 A2957 RMK AO2 T00410041 VVCR 220930Z 03015KT 9999 FEW015 SCT050 27/21 Q1017 NOSIG GCXO 220930Z 33011KT 300V020 9999 FEW013 BKN030 12/10 Q1026 NOSIG KSLG 220935Z AUTO 00000KT 6SM FEW035 SCT120 09/07 A2937 RMK AO1 KRUG 220935Z AUTO 29014KT 10SM M02/M02 A2962 RMK AO2 KSLH 220934Z AUTO 00000KT 1/2SM FG OVC002 01/01 A2958 RMK AO2 T00170017 KTAZ 220935Z AUTO 01006KT 10SM CLR 06/05 A2951 RMK AO2 T00550045 VVCT 220930Z 10004KT 8000 SCT015 BKN050 28/23 Q1012 NOSIG KSLI 220926Z AUTO 11003KT 10SM FEW044 OVC080 11/09 A3011 RMK AO2 RAE26 KTBR 220935Z AUTO 12005KT 7SM VCTSRA SCT007 BKN032 OVC075 17/ A2964 RMK AO2 LTG DSNT ALQS T0170 FNGI 211400Z 17007KT 9999 FEW010 SCT018 34/13 Q1012 VTUU 220900Z 03014KT 9999 FEW035 29/18 Q1014 NOSIG LJLJ 220930Z 10003KT 0800 R30/1600N FZFG VV002 M07/M08 Q1034 NOSIG KRTS 220935Z AUTO 17010KT 3SM -RA FEW006 SCT015 BKN024 00/M03 A2971 RMK AO2 VTUV 220700Z 04014KT 9999 FEW025 30/13 Q1016 A3002 INFO H RWY 36 LJMB 220930Z 00000KT 1000 R32/0900N BR FEW008 M07/M08 Q1034 KSLK 220924Z AUTO 05006KT 1SM BR OVC003 02/01 A2970 RMK AO2 T00170011 $ VTUW 220900Z 10010KT 040V140 9999 FEW028 27/14 Q1017 VVDN 220930Z 05008KT 010V090 5000 BR FEW013 BKN060 23/19 Q1020 NOSIG LIVC 220855Z 17014KT CAVOK M03/M07 Q1021 KTCL 220853Z AUTO 17006KT 10SM CLR 14/14 A2950 RMK AO2 SLP989 60054 T01440139 50037 LIVD 220855Z /////KT CAVOK M12/M13 Q1029 KTCM 220858Z AUTO 12003KT 10SM SCT041 SCT090 05/05 A2958 RMK AO2 SLP021 60002 T00460046 58004 $ LIVE 220855Z VRB02KT CAVOK M12/M14 Q1026 KSLN 220853Z AUTO RMK AO2 SLPNO $ KSME 220935Z AUTO 00000KT 7SM CLR 07/07 A2958 RMK AO2 LIVF 220855Z 29004KT 3000 -RA BR FEW001 OVC007 M00/M01 Q1025 KTDF 220940Z AUTO 34005KT 1SM BR OVC002 10/10 A2966 RMK AO2 KSMF 220853Z 14022G33KT 5SM -RA BR SCT012 OVC037 09/08 A2974 RMK AO2 PK WND 14035/0842 SLP072 P0003 60015 T00890078 58032 KSKX 220935Z AUTO 25009KT 10SM BKN065 M04/M10 A2988 RMK AO1 KSLO 220935Z AUTO 00000KT 10SM CLR 10/08 A2950 RMK AO2 T00960083 KTBX 220935Z AUTO 21005KT 10SM OVC065 M02/M10 A2983 RMK AO2 PWINO KRUQ 220940Z AUTO 04005KT 4SM BR OVC004 11/11 A2965 RMK AO2 T01120112 KSLR 220935Z AUTO 22010KT 10SM SCT110 13/07 A2941 RMK AO2 T01250070 KTCS 220853Z AUTO VRB03KT 10SM CLR 02/M07 A3001 RMK AO2 SLP142 T00171072 51021 KSNA 220853Z AUTO 11006KT 10SM OVC090 12/08 A3010 RMK AO2 SLP193 T01220083 58006 $ KTEB 220851Z 00000KT 2SM BR OVC003 07/07 A2971 RMK AO2 SLP061 T00720067 58020 EVRA 220950Z 24007KT 210V280 9999 OVC006 02/01 Q1026 R18/320195 NOSIG KRUT 220856Z AUTO 00000KT 10SM BKN003 BKN008 OVC013 03/02 A2975 RMK AO2 SLP097 T00280022 50006 $ KSNC 220935Z AUTO 00000KT 1/2SM FG BKN002 04/04 A2973 RMK AO2 LKCV 220900Z 07004KT CAVOK M03/M10 Q1030 NOSIG RMK BLU+ BLU KSMN 220935Z AUTO 00000KT 8SM OVC070 M12/M13 A2988 RMK AO1 LIVO 220855Z 00000KT CAVOK M09/M11 Q1029 RMK SKC VIS MIN 9999 KSMO 220851Z AUTO 07003KT 10SM OVC080 12/09 A3010 RMK AO2 RAB24E43 SLP192 P0000 60000 T01170094 58002 KRWF 220853Z AUTO 31005KT 1/2SM FG VV002 01/00 A2960 RMK AO2 SLP034 T00110000 53015 LIVP 220855Z VRB02KT CAVOK M05/M22 Q1023 KSMP 220856Z AUTO VRB04KT 1/2SM FZFG VV002 M01/M02 A2955 RMK AO2 SLP023 I1000 I3000 T10061017 51002 $ KSMQ 220853Z AUTO 00000KT 1/4SM FG VV004 07/06 A2971 RMK AO2 SLP063 T00670056 58013 KSNH 220935Z AUTO 03005KT 6SM BR FEW040 BKN060 OVC075 14/13 A2940 RMK A01 LIVR 220855Z 08002KT CAVOK M05/M22 Q1023 KTDR 220943Z AUTO 20008G18KT 5SM BR BKN014 OVC150 22/21 A2957 RMK AO2 LTG DSNT NW $ KRWI 220916Z AUTO 00000KT 1 1/2SM BR OVC003 13/13 A2964 RMK AO2 T01280128 KRVS 220931Z 34007KT 10SM VCTS BKN015 BKN024 13/10 A2938 RMK AO2 LTG DSNT N AND SE AND NW RAE10 P0000 T01280100 KSMS 220935Z AUTO 00000KT 10SM -DZ FEW013 BKN022 OVC044 16/14 A2969 RMK AO2 KSOA 220935Z AUTO 28014G26KT 10SM CLR 11/M05 A2975 RMK AO2 LIVT 220855Z 04018G39KT CAVOK 05/M09 Q1028 KSNK 220935Z AUTO 29024G31KT 10SM BKN055 BKN070 09/M01 A2960 RMK AO2 T00871014 KRWL 220853Z AUTO 24016KT 10SM BKN048 M07/M10 A2982 RMK AO2 SLP129 60000 T10721100 53022 $ KSNL 220935Z AUTO 27004KT 10SM SCT120 09/07 A2936 RMK AO2 T00900069 FNHU 220800Z 00000KT 9999 FEW014 BKN060 19/15 Q1022 FMSD 220900Z 06016KT 9999 FEW020 33/22 Q1015 KRXE 220853Z AUTO 22006KT 10SM BKN026 OVC045 M05/M06 A2989 RMK AO2 SLP156 T10501056 51017 KSMX 220851Z AUTO 14012G21KT 7SM -RA FEW041 BKN070 OVC095 10/08 A2997 RMK AO2 SLP152 P0003 60008 T01000083 58010 KTDZ 220924Z AUTO 20003KT 1/2SM FG SCT003 OVC110 07/07 A2960 RMK AO2 T00720072 KSNS 220853Z AUTO 11030G39KT 10SM RA OVC070 11/06 A2975 RMK AO2 PK WND 12039/0849 SLP083 P0000 60000 T01060061 58037 KSPA 220935Z AUTO 19003KT 1SM -DZ OVC002 12/11 A2969 RMK AO2 KSNT 220851Z AUTO 00000KT M07/M09 A2979 RMK AO1 SLP094 T10721094 51012 KSPB 220942Z AUTO 00000KT 1/4SM FG VV001 02/02 A2947 RMK AO2 T00170017 KSPD 220856Z AUTO 33012KT M01/M02 A2969 RMK AO1 SLP051 T10111022 53030 $ KTEW 220924Z AUTO 00000KT OVC001 04/04 A2958 RMK AO2 T00390039 PWINO KTEX 220935Z AUTO 29007KT 10SM BKN036 OVC050 M07/M12 A2996 RMK AO2 T10701118 KSPF 220935Z AUTO 25007KT 10SM CLR M03/M07 A2972 RMK AO2 KSNY 220853Z AUTO 32012KT 10SM CLR M01/M04 A2971 RMK AO2 SLP073 T10061039 53018 KSPG 220943Z AUTO 21015KT 10SM SCT010 BKN022 22/21 A2971 RMK AO2 T02220211 KSOP 220856Z AUTO 00000KT 1SM BR OVC003 13/13 A2966 RMK AO2 RAE02 SLP061 P0000 60000 T01330128 50002 KTFP 220935Z AUTO 32023G31KT 10SM CLR 18/03 A2966 RMK AO2 T01770030 KSPI 220852Z AUTO 02008KT 7SM CLR 07/06 A2954 RMK AO2 SLP002 T00720056 55011 KTGI 220940Z AUTO 03010G14KT 5SM BKN002 OVC044 09/08 A2964 RMK AO1 P0001 KTHA 220935Z AUTO 15005KT 4SM FEW005 BKN014 OVC048 13/12 A2950 RMK KRYN 220258Z 29007KT 10SM CLR 08/01 A3006 RMK LAST KSOW 220935Z AUTO 19012KT 10SM -RA CLR M05/M07 A3010 RMK AO2 KSQE 220935Z AUTO 21009KT 190V250 4SM BR FEW016 BKN027 23/23 A2951 RMK A01 KSPR 220935Z AUTO 28011KT 2 1/2SM BR SCT017 SCT022 BKN028 22/22 A2951 RMK A01 KSQI 220856Z AUTO 00000KT 1/4SM FZFG OVC001 M01/M01 A2959 RMK AO2 SLP042 60000 T10111011 55000 FZRANO RVRNO KSPS 220852Z AUTO 25008KT 10SM CLR 07/00 A2936 RMK AO2 SLP937 T00720000 55000 MBGT 212300Z 10003KT 9999 FEW015 21/14 Q1016 FNMA 220900Z 00000KT 9999 SCT040 22/20 Q1016 EVVA 220920Z AUTO 23010KT 1600 BR OVC002 02/02 Q1026 KSQL 220935Z AUTO 13014KT 9SM BKN035 BKN041 OVC070 09/08 A2967 RMK AO2 KSRC 220856Z AUTO 09007KT 10SM BKN075 OVC090 13/13 A2942 RMK AO2 RAE10 SLP967 P0000 60002 T01280128 58015 KRZL 220935Z AUTO 03003KT 1SM BR VV007 03/03 A2955 RMK AO2 KRYV 220935Z AUTO 00000KT 1 1/4SM BR OVC003 04/04 A2956 RMK AO2 T00350035 KSPW 220853Z AUTO A2959 RMK AO2 SLPNO 53006 PWINO FZRANO $ KRYW 220935Z AUTO 28020G26KT 10SM CLR 14/M02 A2957 RMK AO2 T01381021 KRZN 220935Z AUTO 00000KT 7SM BKN003 OVC007 01/01 A2959 RMK AO2 T00110010 KTIF 220935Z AUTO 31004KT 10SM CLR M04/M04 A2971 RMK AO2 T10361043 KRYY 220350Z 00000KT 10SM BKN024 13/13 A2967 RMK LAST WMKA 220900Z 06009KT 9999 FEW020 SCT140 BKN280 32/25 Q1009 LJPZ 220930Z VRB02KT CAVOK 07/M03 Q1028 WMKB 220900Z 06008KT 020V080 9000 FEW017CB SCT140 BKN270 30/24 Q1009 KRZR 220935Z AUTO 00000KT 4SM BR 13/12 A2954 RMK A01 WMKC 220900Z 07016KT 9999 FEW010 SCT018 BKN280 28/24 Q1011 WMKD 220900Z 36007KT 290V080 8000 -RA FEW018 SCT160 BKN280 28/26 Q1010 NOSIG KRZT 220935Z AUTO 00000KT 1/4SM FG VV002 06/06 A2959 RMK AO2 KTIK 220858Z 34003KT 10SM BKN150 08/07 A2935 RMK AO2A SLP942 T00790067 53009 $ WMKE 220900Z 03009G19KT 330V070 6000 -RA SCT018 BKN140 BKN230 27/24 Q1010 KSSC 220941Z AUTO 27008KT 9SM R04/5500FT -RA FEW013 SCT029 15/14 A2966 RMK AO2 RAB16 GEML 220930Z 29020G34KT 250V330 9999 FEW020 SCT028 14/07 Q1016 FNLU 220900Z 15008KT 9999 FEW023 30/22 Q1010 KTHV 220853Z AUTO 00000KT 1/2SM FG VV003 07/07 A2971 RMK AO2 SLP065 T00720072 58011 KW13 220935Z AUTO 33004KT 1/4SM OVC003 08/07 A2968 RMK AO1 T00790072 KSSF 220853Z AUTO 27016G24KT 10SM CLR 17/M03 A2964 RMK AO2 PK WND 29030/0808 SLP027 T01721028 53012 FNMO 220800Z 24005KT 9999 FEW017 BKN040 24/19 Q1010 WMKI 220900Z 30007KT 9999 TS FEW017CB SCT140 BKN280 27/24 Q1009 KTIP 220935Z AUTO 03010KT 10SM CLR 08/07 A2953 RMK AO2 T00770070 WMKJ 220900Z VRB03KT 9999 FEW017CB SCT130 BKN270 28/26 Q1009 KSRQ 220941Z AUTO 18015KT 10SM FEW009 SCT023 22/21 A2972 RMK AO2 PK WND 18028/0912 T02220206 WMKK 220930Z 07010KT 9999 TS FEW017CB SCT140 BKN280 29/22 Q1009 NOSIG KSSI 220853Z AUTO 18011G20KT 10SM FEW070 OVC100 19/17 A2968 RMK AO2 SLP050 T01890167 58013 KSRR 220935Z AUTO 30021G30KT 10SM CLR M02/M09 A2988 RMK AO2 LTG DSNT W WMKL 220900Z 06006KT 9999 FEW022 BKN280 31/27 Q1009 WMKM 220900Z 04006KT 340V110 9999 FEW012 FEW017CB SCT140 BKN260 27/24 Q1010 LKKB 220900Z 04005KT 340V050 2000 BR NSC M08/M09 Q1030 NOSIG WMKN 220900Z 07010KT 9999 SCT018 BKN150 28/24 Q1011 KSTC 220906Z AUTO 31004KT 4SM BR BKN003 OVC008 01/01 A2959 RMK AO2 T00060006 KTKC 220933Z AUTO 32008KT 3/4SM BR OVC001 01/01 A2962 RMK AO2 T00110012 KW22 220935Z AUTO 00000KT 10SM OVC070 10/09 A2963 RMK AO2 PWINO WMKP 220930Z 21002KT 8000 -RA FEW020 SCT025 BKN270 28/25 Q1009 NOSIG KTIW 220853Z AUTO 07005KT 10SM OVC040 06/04 A2958 RMK AO2 SLP018 60005 T00610044 58002 KUBE 220935Z AUTO 34006KT 2 1/2SM BR OVC003 00/00 A2956 RMK AO2 KSTE 220935Z AUTO 00000KT 1/4SM FG OVC003 01/01 A2955 RMK AO2 T00070007 KTIX 220147Z 20008KT 7SM SKC 21/15 A2984 RMK LAST KUAO 220853Z AUTO 03008KT 10SM CLR 06/02 A2948 RMK AO2 PRESFR SLP984 T00560022 58035 KSTF 220935Z AUTO 17003KT 7SM CLR 13/13 A2947 RMK AO2 LLBG 220920Z 36006KT 9999 FEW040 17/01 Q1023 NOSIG KTKI 220853Z AUTO 24007KT 10SM FEW110 12/06 A2939 RMK AO2 SLP956 T01170056 55008 KSTJ 220853Z AUTO 36009KT 8SM OVC060 06/05 A2957 RMK AO2 SLP014 T00560050 53008 $ KSUA 220935Z AUTO 18006KT 10SM CLR 21/19 A2982 RMK AO2 KW29 220940Z AUTO 02005KT 1/2SM -RA FG OVC003 07/06 A2969 RMK AO2 TSNO KSTK 220935Z AUTO 30007KT 10SM SCT120 00/M03 A2973 RMK AO2 KSTL 220851Z 30006KT 10SM FEW150 OVC250 09/05 A2951 RMK AO2 SLP988 T00940050 55005 KW31 220935Z AUTO 01006KT 10SM OVC004 10/10 A2963 RMK AO1 T00950095 KSUE 220944Z AUTO 00000KT 1/4SM FG OVC003 03/03 A2957 RMK AO2 RVRNO KSTP 220853Z AUTO 32006KT 6SM BR OVC004 02/02 A2959 RMK AO2 SLP023 T00170017 53010 KTLH 220853Z AUTO 20018KT 10SM BKN016 OVC024 23/22 A2959 RMK AO2 PK WND 22028/0807 SLP018 60000 T02330217 56018 $ VVNB 220930Z 26007KT 230V300 9000 NSC 20/13 Q1022 NOSIG KSTS 220853Z 13013G19KT 4SM RA BR BKN021 OVC030 08/07 A2966 RMK AO2 SLP037 P0014 60031 T00830072 56028 KTMA 220935Z AUTO 20007KT 10SM -TSRA SCT017 BKN023 OVC031 19/19 A2957 RMK AO2 LTG DSNT ALQS T01900187 KTMB 220853Z 19005KT 10SM CLR 23/20 A2983 RMK AO2 SLP100 T02330200 55005 KSVC 220935Z AUTO 30007KT 10SM CLR M01/M03 A3007 RMK AO2 T10121031 KTKV 220935Z AUTO 00000KT 1/2SM FG OVC002 01/00 A2955 RMK AO2 T00070004 LKKV 220930Z 05006KT 4000 BR NSC M07/M08 Q1026 R29/32//94 LKLN 220900Z AUTO 00000KT 2300 BR NCD M12/M15 Q1028 KSUN 220935Z AUTO 31006KT 10SM SCT027 SCT035 OVC060 M05/M06 A2988 RMK AO2 KW43 220935Z AUTO 21009KT 10SM CLR M05/M06 A2974 RMK AO2 KTME 220935Z AUTO 28008G15KT 10SM SCT017 BKN023 OVC120 17/03 A2959 RMK AO2 KTKX 220935Z AUTO 04004KT 7SM OVC110 13/12 A2943 RMK AO2 KUCP 220947Z AUTO 00000KT 1/2SM FG BKN001 OVC080 09/09 A2966 RMK AO2 RVRNO $ KUDG 220856Z AUTO 23005KT 10SM OVC023 16/14 A2966 RMK AO2 SLP050 T01560139 58002 KSVH 220940Z AUTO 05007KT 4SM BR OVC003 11/11 A2963 RMK AO2 T01100110 LKNA 220900Z 13006KT 5000 BR NSC M07/M10 Q1030 NOSIG RMK WHT WHT KSUS 220854Z AUTO 35005KT 10SM CLR 09/06 A2950 RMK AO2 SLP988 T00940056 55003 KSUT 220945Z AUTO 25003KT 10SM CLR 14/14 A2968 RMK AO2 T01410135 KTNB 220935Z AUTO 00000KT 3/4SM BR OVC001 08/08 A2967 RMK AO2 T00810081 KTMK 220935Z AUTO 02007G12KT 350V050 10SM SCT120 08/03 A2941 RMK AO2 KSUU 220928Z AUTO 13026G36KT 6SM -RA BR BKN012 OVC042 09/07 A2969 RMK AO2 RAB0859E11RAB13 CIG 012V042 $ KSUW 220935Z AUTO 36003KT 4SM BR OVC008 02/02 A2960 RMK AO2 T00160016 KSVN 220945Z AUTO 00000KT 4SM BR FEW014 OVC028 17/17 A2964 RMK AO2 LTG DSNT NW-N TSB30E45 PRESRR KSUX 220852Z 32010KT 8SM OVC011 01/M01 A2963 RMK AO2 SLP042 I3000 T00061011 53003 KSWF 220945Z 00000KT 1/4SM R9/3000FT FG OVC002 05/05 A2973 KUCY 220935Z AUTO 00000KT 10SM CLR 13/13 A2943 RMK VVPB 220930Z 06011KT 6000 SCT020 BKN035 23/19 Q1021 NOSIG KTOA 220347Z 00000KT 10SM SCT030 SCT100 12/08 A3008 RMK LAST FNSA 220900Z 00000KT 9999 SCT030 BKN130 23/19 Q1018 KTOB 220934Z AUTO 00000KT 1/2SM FG OVC001 01/01 A2956 RMK AO2 LKMT 220930Z 21005KT 9000 NSC M03/M06 Q1032 NOSIG KTOC 220936Z AUTO 00000KT 2 1/2SM RA BKN003 BKN009 OVC030 15/15 A2968 RMK AO2 KW63 220935Z AUTO 35003KT 7SM OVC004 10/10 A2964 RMK AO1 KSWO 220853Z AUTO 01005KT 10SM OVC009 09/07 A2937 RMK AO2 LTG DSNT N AND W CIG 006V012 SLP942 T00890067 53004 KTOI 220943Z AUTO 00000KT 2 1/2SM BR FEW022 16/16 A2954 RMK AO2 T01610161 $ KTPA 220853Z 18010KT 10SM BKN013 OVC090 23/20 A2975 RMK AO2 SLP072 T02280200 58017 KUES 220935Z AUTO 00000KT 4SM BR OVC013 03/03 A2957 RMK AO2 LLET 220850Z 02014KT CAVOK 17/05 Q1022 KTOL 220901Z 00000KT 1/2SM FG VV004 04/04 A2960 RMK AO2 T00390039 RVRNO $ KTNU 220935Z AUTO 00000KT 1/2SM FG OVC003 01/01 A2959 RMK AO2 PWINO LKPD 220900Z VRB01KT 7000 NSC M08/M11 Q1030 NOSIG RMK WHT WHT KSWW 220935Z AUTO 28025G32KT 10SM SCT041 SCT100 10/M01 A2958 RMK AO2 T00951014 VVPQ 220930Z 07010KT 9999 FEW017 SCT040 28/21 Q1012 NOSIG KTPF 220935Z AUTO 17009KT 10SM OVC016 22/21 A2974 RMK AO2 KSYF 220935Z AUTO 24004KT 10SM CLR M03/M04 A2972 RMK AO2 T10261038 FNSO 220900Z VRB02KT 9999 SCT012 ///// Q1012 KTOP 220853Z AUTO 35006KT 10SM FEW050 BKN060 OVC070 07/06 A2954 RMK AO2 SLP003 T00720056 53009 KW75 220935Z AUTO 00000KT 10SM OVC004 08/08 A2966 RMK AO1 T00810081 KTPH 220856Z AUTO 16011KT 10SM FEW023 BKN095 OVC110 01/M03 A2992 RMK AO2 SLP126 T00111033 55006 KTOR 220853Z AUTO 31007KT 10SM CLR M03/M07 A2973 RMK AO2 SLP083 T10281067 53019 KSYI 220935Z AUTO 17005KT 10SM OVC070 14/13 A2950 RMK LLHA 220850Z VRB02KT 9999 FEW030 16/04 Q1024 KW78 220935Z AUTO 02003KT 4SM OVC005 11/10 A2965 RMK AO1 P0001 T01050097 KSXT 220912Z AUTO 12010G23KT 080V160 3SM BR FEW003 SCT009 OVC017 00/M01 A2933 RMK AO2 PK WND 13026/0900 SNE04 P0001 T00001006 FNUB 220800Z 19009KT 9999 FEW020 BKN070 23/15 Q1023 KTPL 220851Z AUTO 25016G21KT 10SM CLR 14/00 A2953 RMK AO2 PK WND 26027/0807 SLP006 T01390000 56002 KW81 220935Z AUTO 36004KT 10SM OVC003 10/10 A2964 RMK AO1 T00970097 FNSU 220900Z 25010KT 9999 FEW012 SCT060 27/// Q1013 KSYM 220930Z AUTO 07007KT 10SM CLR 12/09 A2956 RMK AO2 KTQE 220942Z AUTO 33009KT 6SM BR OVC009 M01/M02 A2966 RMK AO2 T10061022 KSYN 220934Z AUTO 00000KT 3/4SM BR OVC002 01/01 A2957 RMK AO2 T00130006 KUGN 220915Z AUTO 00000KT 1/4SM FG VV010 04/04 A2957 RMK AO2 T00390039 FNUE 220900Z 27007KT 9999 BKN028 21/18 Q1018 FNUG 220900Z 15006KT 9999 FEW020 BKN070 23/21 Q1014 WMSA 220900Z 33010KT 260V050 1000 SHRA SCT018 SCT140 OVC260 27/24 Q1010 KTQH 220935Z AUTO 00000KT 7SM SCT044 11/10 A2937 RMK AO2 KSYR 220941Z 00000KT 1 3/4SM R28/1000V1800FT BR FEW003 02/02 A2968 RMK AO2 VIS 1V2 T00170017 LKPR 220937Z 34003KT 0150 R24/0200N R30/0500D FZFG VV001 M09/M11 Q1029 RMK REG QNH 1023 LLIB 220850Z 16005KT 110V190 CAVOK 12/02 Q1023 KSZL 220858Z AUTO 02009KT 10SM FEW055 SCT070 BKN110 08/08 A2951 RMK AO2 SLP996 60001 T00780078 58000 $ MBPV 220100Z 00000KT CAVOK 22/18 Q1016 GFLL 220800Z 06005KT 9999 FEW014 26/24 Q1011 KW96 220935Z AUTO 32007KT 280V020 10SM OVC003 09/09 A2966 RMK AO1 T00890089 KTRI 220853Z 00000KT 10SM SCT032 OVC050 10/09 A2961 RMK AO2 SLP013 T01000094 58017 MDAB 212200Z 00000KT 9999 SCT017 25/23 Q1014 KSZT 220935Z AUTO 00000KT BKN016 BKN026 OVC038 01/00 A2976 RMK AO2 PWINO KTRK 220935Z AUTO 00000KT 3/4SM SN OVC010 M02/M02 A2969 RMK AO2 P0001 KW99 220930Z AUTO 00000KT 4SM BR OVC004 08/07 A2970 RMK AO2 T00800073 KTRL 220853Z AUTO 22009KT 10SM BKN110 12/06 A2942 RMK AO2 SLP960 T01170061 55009 KUIL 220853Z AUTO 08007KT 10SM FEW027 BKN070 BKN085 04/03 A2949 RMK AO2 SLP988 60000 T00390028 58004 KTRM 220852Z AUTO 00000KT 10SM BKN110 10/06 A3006 RMK AO2 SLP179 T01000061 51002 KVAD 220940Z AUTO 20014KT 10SM FEW005 SCT013 BKN021 BKN027 OVC046 22/20 A2958 RMK AO2 RAB07E32 CIG 014V021 CIG 016 RWY36 $ KUIN 220854Z AUTO 03004KT 4SM BR OVC075 05/04 A2956 RMK AO2 SLP011 T00500044 55002 KVAF 220935Z AUTO VRB04G17KT 10SM CLR 22/11 A2959 RMK A01 KTTA 220945Z AUTO 00000KT 4SM BR OVC005 12/12 A2964 RMK AO2 T01170115 LKTB 220930Z 08005KT 7000 NSC M08/M09 Q1033 R27/31//95 NOSIG KTTD 220853Z AUTO 09018G25KT 10SM CLR 04/02 A2952 RMK AO2 PK WND 09029/0806 SLP997 T00440017 58031 KUKF 220940Z AUTO 00000KT 5SM BR OVC003 10/10 A2970 RMK AO2 P0001 KTTF 220931Z AUTO 00000KT 1/4SM FG OVC002 04/04 A2959 RMK AO2 T00360036 KTSP 220935Z AUTO 09005KT 5SM -RA FEW028 OVC035 02/00 A2999 RMK AO2 P0001 KVBG 220931Z AUTO 14016G21KT 9SM -RA FEW015 SCT048 BKN060 OVC075 09/09 A2996 RMK AO2 RAB00E23RAB31 CIG 049 RWY12 MDBH 220000Z 11006KT 9999 FEW018 24/18 Q1014 FOOG 220900Z 23014KT 8000 TS SCT006 FEW020CB BKN030 27/25 Q1012 VVTS 220930Z VRB03KT 9999 FEW020 31/19 Q1011 NOSIG KUKI 220856Z AUTO 16009KT 5SM RA BR OVC030 07/05 A2962 RMK AO2 SLP026 P0013 60036 T00720050 58038 KVCB 220919Z AUTO 14014G26KT 5SM RA BR BKN013 BKN025 OVC035 09/08 A2972 RMK AO2 PK WND 13032/0905 P0004 T00890083 FOOL 220900Z 00000KT 9999 TS SCT013 FEW016CB 28/24 Q1011 NOSIG KTTN 220853Z AUTO 00000KT 1/4SM FG VV001 07/07 A2973 RMK AO2 SLP061 T00670067 56018 FOON 220900Z /////KT 6000 TS SCT003 SCT010 FEW016CB 23/22 Q1014 KVAY 220901Z AUTO 00000KT 1/2SM FG VV003 07/07 A2973 RMK AO2 T00670067 TSNO $ KVBS 211230Z AUTO 00000KT 1/4SM FG BKN003 OVC008 21/21 A2965 RMK A01 KTTS 220923Z AUTO 20013G19KT 10SM BKN024 21/18 A2974 RMK AO2 BKN V SCT KVBT 220935Z AUTO 10003KT 10SM SCT120 A2937 RMK AO1 KUKT 220935Z AUTO 19003KT 1SM OVC001 06/06 A2972 RMK AO1 KTUL 220935Z VRB05KT 5SM +TSRA BR BKN022CB OVC030 11/11 A2937 RMK AO2 LTG DSNT E AND W FRQ LTGICCCCG OHD-W TS OHD-W MOV NW P0032 T01110111 $ KTVC 220938Z AUTO 00000KT 1/2SM FG OVC004 04/03 A2957 RMK AO2 T00390033 KULM 220934Z AUTO 32004KT 1/2SM FG OVC002 01/01 A2960 RMK AO2 KVBW 220935Z AUTO 03004KT 5SM OVC004 07/07 A2968 RMK AO2 T00730072 KVDF 220935Z AUTO 18008KT 10SM OVC017 22/19 A2975 RMK AO2 KTVF 220909Z AUTO 00000KT 1/2SM FG OVC002 01/00 A2963 RMK AO2 FZRANO KTUP 220853Z 13003KT 10SM OVC006 15/13 A2944 RMK AO2 SLP964 T01500133 55010 PWINO $ RJAA 220930Z 06004KT 010V100 9999 FEW030 08/M05 Q1007 NOSIG RMK 1CU030 A2974 KTVI 220935Z AUTO 22012G16KT 10SM OVC015 22/22 A2959 RMK AO2 LTG DSNT NW THRU E KVDI 220935Z AUTO 13008KT 4SM TSRA SCT014 BKN033 OVC049 17/17 A2963 RMK AO2 LTG DSNT ALQS KTUS 220853Z 17004KT 10SM CLR 04/01 A3016 RMK AO2 SLP200 T00440006 53001 KVCT 220851Z AUTO 28009KT 10SM CLR 17/03 A2964 RMK AO2 SLP035 T01670033 50006 KTVK 220935Z AUTO 00000KT 1/2SM FZFG OVC001 00/00 A2960 RMK AO2 KTVL 220943Z AUTO 20006KT 1 1/2SM -SN BR OVC011 M01/M03 A2965 RMK AO2 P0005 T10111028 KVCV 220935Z AUTO 18017G24KT 10SM -RA SCT042 BKN065 OVC070 07/03 A3002 RMK AO2 RJAF 220700Z 17014KT 9999 -SHSN FEW040 SCT050 BKN070 02/M05 Q1007 KTWF 220853Z AUTO 17012KT 10SM BKN075 OVC090 02/M06 A2984 RMK AO2 SLP101 T00221056 50005 MDCY 220000Z 36012KT 9999 FEW016 24/21 Q1014 RJAH 220900Z VRB02KT 9999 FEW030 04/M06 Q1006 KTVR 220853Z AUTO 24005KT 5SM BR FEW070 FEW090 SCT110 17/17 A2949 RMK AO2 SLP993 T01720167 53008 KUNI 220930Z AUTO 00000KT OVC001 06/06 A2962 RMK AO2 T00560056 PWINO RJBB 220930Z 31018KT 9999 FEW020 BKN040 05/M04 Q1017 NOSIG KX60 220935Z AUTO 12004KT 10SM BKN015 BKN022 BKN032 21/19 A2971 RMK A01 RJBD 220900Z 33018G28KT 9999 FEW025 SCT060 BKN080 06/M01 Q1015 KVEL 220924Z AUTO 17003KT 6SM BR BKN014 BKN025 M07/M07 A2998 RMK AO2 I1000 T10671072 RJBE 220900Z 28015KT 9999 -SHRA FEW025 BKN060 05/M02 Q1016 KTWM 220934Z AUTO 00000KT 3SM HZ OVC012 03/01 A2957 RMK AO2 SABE 220900Z 35010KT CAVOK 26/21 Q1013 KUNO 220853Z AUTO 10004KT 10SM OVC037 13/12 A2945 RMK AO2 SLP965 T01280122 56001 KTVY 220935Z AUTO 15011KT 10SM OVC085 M02/M05 A2998 RMK AO2 SAAR 220900Z 02005KT CAVOK 23/19 Q1012 KVER 220935Z AUTO 02010G14KT 10SM -RA BKN070 OVC090 09/09 A2951 RMK AO2 LTG DSNT S T00850086 RJCB 220940Z 32003KT 240V040 2400 -SHSN FEW005 SCT008 BKN020 M08/M09 Q1006 RMK 1ST005 3ST008 7CU020 A2972 KVES 220935Z AUTO 01007KT 2SM BR SCT002 OVC009 08/08 A2959 RMK AO2 EYKA 220931Z 25011KT 1300 0900E R26/1800D BCFG BR OVC002 M00/M01 Q1030 R08/290095 RJCC 220930Z 33010KT 7000 -SHSN FEW005 BKN009 BKN030 M05/M05 Q1002 RMK 1ST005 6ST009 7CU030 A2961 KTXK 220853Z AUTO 16003KT 10SM CLR 13/11 A2937 RMK AO2 PRESFR SLP943 T01280111 58026 KUNU 220935Z AUTO 00000KT M1/4SM FG OVC003 03/03 A2957 RMK AO2 T00260025 RJAW 220900Z 31005KT 280V340 9999 SCT030 BKN100 18/07 Q1020 RMK 3CU030 6AC100 A3014 KUNV 220935Z AUTO 00000KT 1/4SM FG OVC002 05/05 A2971 RMK AO2 T00460046 RJCH 220900Z 22026G43KT 9999 -SHSN FEW035 SCT045 BKN060 03/M05 Q1000 RJBT 220900Z 23008KT 0600 SHSN VV009 M01/M01 Q1016 RJCK 220934Z 03010KT 350V060 1000 R35/1600VP1800U -SHSN FEW004 SCT005 BKN006 M06/M08 Q1007 RMK 1ST004 4ST005 7ST006 A2974 RJDC 220900Z 34004KT 260V060 9999 FEW020 SCT035 BKN060 04/M05 Q1021 RJCM 220934Z 07003KT 3200 -SHSN FEW005 SCT010 BKN030 M06/M07 Q1009 RMK 1ST005 3ST010 6CU030 A2981 RJCN 220900Z 06010KT 1400 R08/P1800N -SHSN FEW002 BKN004 BKN006 M05/M05 Q1010 LLOV 220850Z 03010KT CAVOK 13/05 Q1023 SADF 220900Z 02002KT CAVOK 22/17 Q1014 SACO 220900Z 36005KT 9999 FEW035CB 22/20 Q1014 RJCO 220930Z 04002KT 1000 R32/1800N -SHSN FEW005 BKN007 BKN015 M04/M05 Q1003 RMK 2ST005 5ST007 7ST015 A2964 KUOX 220935Z AUTO 19006KT 10SM SCT027 BKN038 12/11 A2944 RMK AO2 KTYQ 220935Z AUTO 09007KT 10SM CLR 09/08 A2956 RMK AO2 T00910080 FQCH 220900Z 10006KT 9999 BKN015 BKN020 23/22 Q1021 KTYR 220853Z 22011KT 10SM BKN100 OVC120 14/07 A2944 RMK AO2 SLP964 T01390072 58002 RJEB 220700Z 13009KT 9999 FEW015 BKN020 BKN070 M04/M09 Q1010 KTYS 220853Z 00000KT 8SM FEW040 OVC150 11/09 A2957 RMK AO2 PRESRR SLP009 T01060094 56019 $ FQBR 220900Z 13006KT 9999 BKN018 29/26 Q1014 RJEC 220932Z 11003KT 1600 -SN FEW008 SCT015 BKN025 M10/M12 Q1005 RMK 1ST008 3ST015 7SC025 A2968 KVGT 220853Z AUTO 13004KT 10SM BKN100 07/01 A2999 RMK AO2 SLP175 T00670011 58002 RJDM 220734Z 27012KT 9999 -SHSN FEW020 BKN035 04/M04 Q1023 RMK 1CU020 6CU035 A3023 MAX WIND 19KT RJCW 220900Z 08017KT 9999 -SHSN SCT020 BKN025 M05/M09 Q1010 KVIH 220853Z AUTO 01007KT 10SM SCT029 BKN090 09/08 A2946 RMK AO2 SLP972 60004 T00890078 55018 KTZR 220935Z AUTO 07004KT 1/4SM BKN003 08/08 A2959 RMK AO2 T00810081 PWINO RJDT 220900Z 29009KT 260V330 9999 FEW035 SCT040 BKN045 02/M08 Q1023 MDJB 212300Z 00000KT 9999 SCT018 25/20 Q1014 RJFE 220432Z 32015G27KT 5000 SHSNGS FEW015 SCT020 BKN025 04/M01 Q1024 RMK 1CU015 3CU020 5CU025 A3026 SNOW PELLETS LLSD 220850Z 02005KT 9999 FEW035 17/02 Q1024 RJFF 220930Z 28011G21KT 250V330 9999 VCSH FEW025 BKN040 BKN050 04/M06 Q1023 RMK 1CU025 5CU040 6SC050 A3021 KUSE 220935Z AUTO 11003KT 1/4SM FG BKN001 BKN055 OVC075 06/06 A2957 RMK AO2 RJFG 220900Z 32015KT 9999 FEW015 BKN020 06/03 Q1021 KVJI 220935Z AUTO 07005KT 1/2SM FG OVC003 10/10 A2963 RMK AO2 T01020102 RJFK 220900Z 35009KT 9999 VCSH FEW015 SCT060 02/M01 Q1021 RMK 1CU015 4SC060 A3018 KUTA 220935Z AUTO 09008KT 10SM SCT006 SCT010 12/11 A2940 RMK AO2 TSNO KVIS 220856Z AUTO 18005KT 10SM -RA OVC060 09/07 A3000 RMK AO2 RAB24 PRESRR SLP168 P0001 60001 T00940067 55003 KY19 220935Z AUTO 29010KT 10SM OVC005 M04/M04 A2968 RMK AO2 RJFM 220900Z 28020KT 9999 FEW030 06/M02 Q1020 KWAL 220917Z AUTO 05017KT 5SM +RA BR BKN003 OVC037 08/08 A2966 RMK AO2 P0008 T00830083 RJFO 220900Z 30007KT 250V330 9999 VCSH FEW006 SCT015 BKN025 02/00 Q1021 KY23 220935Z AUTO 00000KT 3/4SM BR OVC002 01/01 A2956 RMK AO2 T00090009 RJGG 220930Z 33019KT 9999 -SHRA FEW012 SCT040 BKN050 06/M00 Q1014 NOSIG SAEZ 220900Z 03005KT CAVOK 25/18 Q1013 RJFR 220900Z 24010KT 9999 -SHSN FEW010 BKN025 BKN030 03/M00 Q1022 RJFS 220900Z VRB02KT 9999 FEW020 SCT045 BKN060 03/M02 Q1023 RJFT 220900Z 32003KT 260V010 9999 VCSH FEW020 BKN045 01/M03 Q1023 RJFU 220900Z 30019KT 9999 -SHRASN FEW020 BKN030 BKN040 04/M02 Q1023 EYPA 220920Z 23006KT 200V280 3700 BR OVC002 02/02 Q1030 R19/2///95 KY31 220933Z AUTO 01005KT 1/4SM FG OVC003 01/01 A2958 RMK AO2 T00120010 KVLD 220918Z AUTO 20011G18KT 10SM SCT020 BKN026 OVC046 22/21 A2961 RMK AO2 LTG DSNT N AND NE RAE0858B02E17 P0000 T02220206 RJFY 220332Z 27020G30KT 9999 FEW020 SCT030 BKN080 10/05 Q1020 RMK 1CU020 4CU030 6AC080 A3013 KUTS 220853Z AUTO 27011G21KT 10SM FEW090 SCT110 17/03 A2951 RMK AO2 PRESFR SLP990 60000 T01670028 58012 KUVA 220935Z AUTO 29017G21KT 10SM CLR 14/M03 A2974 RMK AO2 T01391026 KVKS 220935Z AUTO VRB04KT 4SM BR FEW024 SCT046 BKN070 18/17 A2948 RMK A01 KVLL 220935Z AUTO 00000KT M1/4SM FG OVC001 04/04 A2962 RMK AO2 T00420035 GGOV 220900Z 04010KT CAVOK 22/02 Q1009 NOSIG KVKY 220935Z AUTO 21019KT 10SM OVC004 23/22 A2952 RMK A01 KWDG 220935Z AUTO 35011KT 7SM RA SCT047 OVC055 07/07 A2944 RMK AO2 P0007 MDLR 220300Z 00000KT 9999 FEW018 18/18 Q1016 NOSIG KY50 220940Z AUTO 25003KT 4SM BR OVC004 03/03 A2957 RMK AO2 CIG 002V006 KY49 220935Z AUTO 00000KT 1/2SM FG OVC002 00/00 A2961 RMK AO2 T00020001 LMML 220915Z 14024KT 9999 FEW015 16/13 Q1017 NOSIG KUUU 220853Z AUTO 00000KT 1/4SM FG VV001 04/04 A2974 RMK AO2 SLP072 T00390039 58002 KVNC 220935Z AUTO 17013G19KT 10SM CLR 22/22 A2975 RMK AO2 KY51 220935Z AUTO 26005KT 1/4SM OVC003 02/02 A2955 RMK AO1 T00180018 SBAF 220800Z 29002KT 9999 SCT015 22/20 Q1014 KWDR 220618Z AUTO 00000KT 7SM OVC001 15/14 A2970 RMK AO1 LTG DSNT SE AND W RJKA 220900Z 31014G24KT 280V350 9999 FEW040 BKN050 14/04 Q1023 KVOA 220935Z AUTO 20021KT 3SM BR FEW120 24/22 A2952 RMK A01 EYSA 220920Z 25012KT 6000 OVC002 01/01 Q1028 R32R/29//95 R32L/29//95 AMB NOSIG SBAN 220900Z 12005KT 9999 FEW010 BKN070 18/16 Q1018 SBBE 221000Z 15002KT CAVOK 24/23 Q1011 KY63 220935Z AUTO 30006KT 1/2SM -SN OVC003 00/00 A2964 RMK AO2 T00010001 FQIN 220900Z 11006KT 9999 BKN020 30/24 Q1018 an ErrorDocument to handle the request. SBBH 220900Z 09005KT CAVOK 20/16 Q1017 SBBI 220900Z 00000KT 9999 FEW004 17/17 Q1018 SBAR 220900Z 10007KT 9999 SCT018 27/23 Q1013 SBCA 211400Z 03012KT 9999 BKN020 28/19 Q1021 SBAT 220915Z 00000KT 9999 BKN090 22/21 Q1013 SBCB 220900Z 00000KT 9999 FEW020 SCT070 25/22 Q1014 SBCC 212000Z 30004KT 9999 BKN005 BKN100 22/21 Q1011 KY70 220934Z AUTO 00000KT 1/4SM FG OVC002 01/01 A2958 RMK AO2 T00130013 KVOK 220938Z AUTO 00000KT 2 1/2SM R27/3500FT BR OVC005 02/02 A2956 RMK AO2 VIS 2 1/2V3 KVPC 220853Z AUTO 08006KT 10SM -RA SCT006 OVC065 14/13 A2956 RMK AO2 RAE31B53 SLP001 P0011 60017 T01390133 50008 KUXL 220935Z AUTO 00000KT 10SM -RA SCT045 SCT075 OVC095 15/14 A2958 RMK AO2 T01500135 MDPC 220900Z 00000KT 9999 FEW018 17/17 Q1014 SBCF 220900Z 10005KT CAVOK 20/15 Q1017 SBCG 220900Z 10005KT CAVOK 19/18 Q1014 KUYF 220935Z AUTO 07003KT M1/4SM FG OVC002 07/07 A2958 RMK AO2 SBCH 220900Z 05004KT CAVOK 21/17 Q1015 SBBQ 220800Z 08005KT 9999 BKN007 BKN070 18/17 Q1020 KVNY 220851Z AUTO 12005KT 10SM -RA FEW031 SCT048 OVC075 11/09 A3009 RMK AO2 RAB21 SLP185 P0000 60000 T01060089 58000 SBBR 220900Z 00000KT 9999 FEW020 SCT100 17/16 Q1017 SBCJ 212130Z 00000KT 9999 FEW030 25/21 Q1012 SBBT 220800Z AUTO 10002KT CAVOK 23/21 Q1011 KUZA 220854Z AUTO 18004KT 7SM OVC003 13/12 A2966 RMK AO2 PRESRR SLP042 T01280122 58004 SBBU 220800Z 07001KT 0800 FG OVC001 20/20 Q1015 SBCM 212130Z 11006KT 9999 SCT016 SCT030 26/20 Q1016 FPST 220900Z 05014KT 5000 TSRA FEW017CB BKN030 26/26 Q1012 NOSIG SBBV 221000Z 07011KT CAVOK ///// Q1010 SBBW 220915Z 00000KT 9999 FEW002 BKN080 22/22 Q1015 FQLC 220900Z 01008KT 9999 SCT014 BKN016 FEW020CB BKN070 22/16 Q1021 RMK CB TO ALL/D SAME 220900Z 32005KT CAVOK 23/18 Q1011 SBCO 220900Z 15003KT CAVOK 19/18 Q1014 SBCP 220900Z 09002KT 9999 FEW020 25/24 Q1014 MDPP 220900Z 00000KT 9999 FEW016 18/18 Q1014 SBCR 220900Z 12003KT 5000 BR SCT004 SCT020 23/22 Q1011 SBCT 220940Z 12002KT 9999 BKN006 BKN040 18/17 Q1018 KVPS 220909Z 21010G16KT 9SM OVC007 22/21 A2954 RMK AO2A CIG 006V010 OVC V BKN $ KVRB 220853Z AUTO 18008KT 10SM FEW030 FEW065 19/17 A2981 RMK AO2 SLP094 T01940172 58007 FQMA 220900Z 14006KT 090V160 9999 BKN020 30/22 Q1019 NOSIG SBDN 220800Z 08003KT 9999 SCT020 20/19 Q1014 RJNG 220929Z 29008KT 250V310 9999 FEW015 SCT045 05/M04 Q1013 RMK 1CU015 4SC045 A2994 SBEG 220900Z 00000KT 9999 BKN004 BKN080 24/23 Q1012 SBCY 220900Z 32005KT 9999 BKN004 BKN100 24/22 Q1012 KWHP 212250Z 20005KT 10SM FEW045 14/03 A2998 SBCZ 220645Z 18002KT 9999 SCT004 BKN010 23/22 Q1011 KVQQ 220935Z AUTO 16007G14KT 10SM FEW029 FEW037 OVC100 19/17 A2968 RMK AO2 KVPZ 220856Z AUTO 02003KT 1/4SM FG BKN002 OVC080 02/02 A2958 RMK AO2 SLP017 T00220022 58007 $ RJOA 220900Z 30011KT 9999 FEW025 M01/M06 Q1018 RJNK 220900Z 26014KT 9999 -SHRASN FEW005 SCT008 BKN015 03/M01 Q1014 RJOB 220900Z 29011KT 260V330 9999 FEW020 00/M08 Q1017 EYVI 220928Z 24007KT 2800 BR OVC002 M01/M01 Q1029 R01/2///95 TEMPO 0600 FZDZ FZFG RJOC 220900Z 28019KT 9999 -SHSN FEW025 SCT030 BKN040 03/M04 Q1019 SAOC 220900Z 36005KT CAVOK 24/20 Q1011 KVQT 220935Z AUTO 28015KT 5SM HZ FEW016 SCT022 BKN029 23/21 A2954 RMK A01 MDSD 220900Z 02004KT 9999 FEW016 18/17 Q1014 NOSIG RJOF 220623Z 28015KT 9999 FEW015 SCT040 05/M03 Q1020 RMK 1CU015 3CU040 A3014 MAX WIND 21KT KVSF 220854Z AUTO 00000KT 6SM BR OVC020 01/M01 A2976 RMK AO2 SLP082 T00111006 50003 KWJF 220947Z AUTO 24011KT 7SM RA BKN026 BKN032 OVC042 07/04 A3004 RMK AO2 P0004 T00670044 RJOH 220900Z 27016G26KT 9999 -SHSN FEW015 BKN030 BKN045 03/M09 Q1019 RJOI 220855Z 30009KT 9999 FEW012 SCT025 03/M06 A3016 RMK SLP213 60000 T00281061 51024 SBFI 220900Z 12003KT CAVOK 19/19 Q1012 SBES 220800Z 05004KT 9999 FEW008 23/23 Q1014 RJNS 220900Z 27018KT 9999 FEW020 05/M01 Q1010 RJOK 220900Z 28008KT 9999 FEW020 SCT045 06/M06 Q1017 RJNT 220934Z 26018G28KT 0900 SHSN VV005 01/M01 Q1014 RMK A2996 SANT 220900Z 27004KT 8000 NSC 24/20 Q1011 KVTA 220854Z AUTO 00000KT 1/4SM FG VV002 07/06 A2962 RMK AO2 SLP029 60001 T00670061 58016 SANU 220900Z 23004KT CAVOK 25/14 Q1012 SBFL 220920Z 27003KT 9999 VCTS FEW040 FEW045CB 22/21 Q1014 RJOM 220900Z 31019KT 9999 VCSH FEW020 SCT030 04/M03 Q1020 SBFN 220900Z 08005KT 040V100 9999 BKN018 25/23 Q1012 RJNW 220900Z 30005KT 250V360 1000 R25/P1800N -SHSN FEW001 SCT003 BKN006 00/00 Q1011 LOAN 220900Z 17003KT 0800 FZFG BKN005ST RJOO 220900Z 29007KT 240V320 9999 FEW025 SCT070 05/M08 Q1016 RMK 1CU025 3AC070 A3002 RJOP 220903Z 30015G25KT 9999 FEW015 BKN030 BKN050 04/M01 Q1018 RMK 1CU015 5CU030 6SC050 A3006 RJNY 220910Z 27017G27KT 9999 FEW025 06/M02 Q1010 RMK 1CU025 A2985 FQNP 220900Z 08004KT 9999 SCT020 FEW100 29/23 Q1016 RJOR 220942Z 23013KT 3500 -SHSN FEW005 SCT020 BKN025 00/M02 Q1018 RMK 1ST005 3CU020 5CU025 A3008 SBFS 220900Z /////KT 9999 SCT015 SCT080 ///// Q//// RJOS 220651Z 31011KT 9999 FEW015 SCT030 BKN050 05/02 Q1016 RMK 1CU015 4CU030 6SC050 A3001 KVTI 220955Z AUTO 00000KT 1SM BR BKN001 OVC014 01/01 A2958 RMK AO2 RJOT 220928Z 28016G27KT 9999 FEW025 BKN050 01/M04 Q1018 RMK 1CU025 5SC050 A3008 VYMD 220930Z 34005KT 7000 NSC 29/14 Q1013 SBGL 220900Z 01004KT 9999 FEW008 BKN013 24/22 Q1013 MDST 220900Z 00000KT 9999 FEW014 17/17 Q1014 SBGM 211600Z 31005KT 9999 BKN043 28/24 Q1013 FQPB 220800Z 00000KT 9999 FEW020 FEW025CB BKN/// 30/23 Q1014 RMK CB TO N/E LOAV 220900Z 22004KT 1000 FZBR BKN005ST M07/M09 RJOW 220900Z 30017G29KT 9999 FEW015 SCT030 BKN040 03/M07 Q1021 KWLD 220932Z AUTO 02011KT 10SM BKN013 OVC028 09/07 A2946 RMK AO2 LTG DSNT SE T00940072 KVTN 220852Z AUTO 30007KT 10SM CLR M03/M06 A2969 RMK AO2 SLP074 I3000 T10331056 53015 SBGO 220900Z 00000KT 9999 FEW003 BKN100 20/19 Q1016 RJOY 220900Z 30014KT 9999 FEW020 SCT050 BKN070 06/M06 Q1016 RJOZ 220623Z 32016G27KT 9999 FEW025 SCT035 BKN060 05/M04 Q1021 RMK 1CU025 3CU035 7SC060 A3016 SBFZ 220900Z 11004KT 9999 SCT017 FEW023TCU SCT100 25/24 Q1011 KVTP 220933Z AUTO 04023G30KT 10SM OVC004 M08/M10 A2977 RMK AO2 KXBP 220935Z AUTO 25006KT 10SM CLR 11/00 A2942 RMK AO2 T01070001 SBGR 220900Z 00000KT 6000 BKN013 OVC100 17/17 Q1017 KVUJ 220940Z AUTO 04004KT 10SM OVC004 12/12 A2969 RMK AO2 LTG DSNT W T01200120 PWINO SARC 220900Z 14004KT 8000 NSC 23/22 Q1011 KWMC 220856Z AUTO 01003KT 10SM BKN120 01/M03 A2977 RMK AO2 SLP084 T00061033 58013 SBGW 220900Z VRB02KT 3000 BR SCT005 SCT017 BKN100 20/19 Q1016 SARE 220900Z 07003KT 6000 BCFG NSC 23/22 Q1010 SARF 220900Z 14003KT 8000 NSC 23/22 Q1010 KVUO 220853Z AUTO 00000KT 9SM CLR 02/01 A2953 RMK AO2 SLP000 T00170006 58024 SBIH 212215Z 00000KT 9999 TS FEW015 FEW017CB BKN080 24/23 Q1009 KVVG 220935Z AUTO 10SM 21/21 A2963 RMK A01 SARI 220900Z 05005KT CAVOK 18/18 Q1014 RJSA 220900Z 22013KT 9999 FEW020 SCT050 BKN120 M00/M05 Q1003 SASA 220900Z 00000KT CAVOK 18/15 Q1016 SBHT 220900Z 00000KT 9999 FEW009 BKN080 23/23 Q1012 REDZ RKJB 220918Z 31015KT 4200 -SHSN BKN025 M01/M06 Q1028 NOSIG SBIL 220800Z 24003KT 9999 SCT025 22/21 Q1013 RJSC 220922Z 36004KT 1500 R01/P1800N -SHSN FEW002 SCT003 BKN005 00/M01 Q1008 RMK 1ST002 4ST003 6ST005 A2977 SARL 220900Z 09008KT 8000 NSC 20/19 Q1012 FQQL 220900Z 09012KT 050V150 9999 BKN020 31/26 Q1015 SBJF 212000Z 15004KT 9999 FEW025 25/19 Q1018 RJSF 220900Z 36007KT 9999 FEW020 SCT070 01/M03 Q1006 SBIP 220900Z 08003KT CAVOK 22/18 Q1014 SARP 220900Z 09002KT CAVOK 22/20 Q1012 RJSH 220430Z 21012KT 5000 -SHSN FEW015 SCT020 BKN030 02/M01 Q1006 RMK 1CU015 3CU020 5CU030 A2973 RJSI 220944Z 18003KT 1500 R20/1400U -SHSN FEW002 SCT010 BKN020 M00/M02 Q1007 RMK 1ST002 4CU010 6CU020 A2974 SASJ 220900Z 32007KT CAVOK 20/13 Q1014 SCBA 220900Z AUTO 31017KT CAVOK 08/03 Q1019 RJSK 220900Z 29010KT 9999 FEW010 SCT040 BKN050 01/M03 Q1007 RKJK 220858Z AUTO 34011KT 7SM -SN FEW018 SCT028 SCT035 M02/M07 A3036 RMK AO2 UPB10E20SNB20E32SNB52 SLP286 P0000 60000 T10241066 53004 $ HAAB 220900Z 08012KT C A V O K 21/01 Q1027 RJTE 220033Z 25016G26KT 190V280 9999 FEW030 SCT045 12/02 Q1015 RMK 1CU030 3SC045 A3000 RJSN 220900Z 31007KT 270V340 9999 -SHRA FEW008 BKN010 BKN020 03/01 Q1010 KVVV 220934Z AUTO 00000KT 4SM UP OVC009 01/00 A2964 RMK AO2 RJSO 220805Z 22016G29KT 9999 FEW010 BKN020 03/M03 Q1003 RMK 2ST010 6CU020 A2962 RJTF 220700Z 36008KT 330V050 9999 FEW030 10/M06 Q1006 SBKG 220830Z VRB01KT 9999 FEW014 22/20 Q1014 SCAP 220900Z AUTO VRB01KT 5000 // NSC 06/05 Q1027 SBJP 220900Z 19004KT 5000 RA BKN007 BKN011 24/23 Q1012 RESHRA SBIZ 220900Z 00000KT 9999 BKN018 25/24 Q1011 SBJR 220900Z 00000KT 9999 FEW020 24/24 Q1013 RJTI 220700Z 02005KT 350V060 9999 FEW030 11/M04 Q1006 RJSR 220900Z 23010KT 9999 FEW015 SCT040 BKN110 01/M04 Q1006 SCAR 220900Z 23002KT CAVOK 24/20 Q1013 RJSS 220900Z VRB02KT 9999 -SHRASN FEW015 BKN040 04/M01 Q1008 SBLB 220900Z 09014KT 9999 FEW020 SCT070 27/22 Q1015 W///S3 SCAT 220900Z AUTO 00000KT 9999 // NCD 20/14 Q1015 SBJU 220800Z 07003KT 9999 FEW020 26/22 Q1015 SBJV 220915Z 33003KT 4000 -DZ FEW010 BKN020 BKN040 23/22 Q1014 KVWU 220937Z AUTO 00000KT 1SM BR OVC002 01/01 A2962 RMK AO2 SBLE 211600Z 17004KT 9999 SCT040 32/16 Q1015 RJTO 220700Z 25014G26KT 200V280 9999 FEW030 11/M01 Q1009 SCCF 220900Z 30004KT CAVOK 13/09 Q1027 RJSY 220900Z 30012G22KT 260V340 7000 -SHSNRA FEW004 SCT020 BKN025 03/M02 Q1008 SBKP 220900Z 12005KT 9999 -RA NSC 18/17 Q1016 SCCH 220900Z AUTO 21009KT 9999 ///////// 15/11 Q1014 SCCI 220900Z 26004KT 9999 SCT040 BKN120 08/05 Q1006 NOSIG SBMA 220900Z 21002KT 9999 FEW010 SCT100 23/23 Q1012 SCDA 220900Z 18003KT CAVOK 25/18 Q1014 RJTT 220930Z 22006KT 9999 FEW050 09/M05 Q1007 BECMG 27008KT RMK 1SC050 A2975 SAVC 220900Z 27017KT CAVOK 15/03 Q1016 SBME 220900Z 03002KT CAVOK 23/22 Q1014 SBLO 220900Z 17003KT 9999 SCT016 21/19 Q1015 SBMG 220800Z 08005KT CAVOK 20/18 Q1014 RJTY 220858Z AUTO 00000KT 10SM CLR 07/M06 A2978 RMK AO2 SLP095 T00711060 53004 SBLS 220900Z 14005KT CAVOK 20/16 Q1017 SBMK 220800Z 00000KT 9999 FEW030 20/15 Q1015 KVYS 220935Z AUTO 00000KT 1/4SM FG OVC002 01/01 A2957 RMK AO2 T00090006 SAWC 211330Z 25020G32KT 9999 FEW025 SCT200 16/M02 Q1009 KWRB 220940Z AUTO 35006KT 9SM R15/5500FT RA FEW004 BKN008 BKN015 OVC045 16/15 A2961 RMK AO2 LTG DSNT NW TSE14TSB16E31 CIG 007V041 FQTT 220900Z 21005KT 9999 BKN020 BKN090 31/26 Q1015 SAWE 220900Z 29010KT 9999 SCT027 07/06 Q1005 SBMN 220900Z 00000KT 9999 BKN006 24/23 Q1009 SBNF 220900Z 23009KT 9999 VCTS FEW030CB 22/20 Q1014 SBMO 221000Z 08007KT 8000 SCT017 SCT070 24/22 Q1014 SCCY 220900Z AUTO 03005KT CAVOK 07/05 Q1020 SAWG 220900Z 27005KT 9999 FEW020 OVC080 11/05 Q1009 SAWH 220900Z 23003KT 9999 BKN043 07/04 Q1003 SBMQ 220940Z 33007KT 5000 -RA BKN006 25/25 Q1011 RERA KXIH 220935Z AUTO 29008KT 10SM BKN090 18/13 A2955 RMK A01 SBMS 212145Z 03016KT 9999 SCT030 29/23 Q1009 KWRI 220943Z AUTO 00000KT 1/2SM R24/1400FT FG VV002 07/07 A2969 RMK AO2 SCFA 220900Z 36002KT 9999 FEW036 23/17 Q1014 NOSIG SBMT 220800Z 17002KT 7000 -RA FEW017 BKN100 18/17 Q1017 SCEL 220900Z VRB02KT 8000 NSC 17/11 Q1014 NOSIG KWRL 220853Z AUTO 18004KT 10SM OVC100 M08/M09 A2979 RMK AO2 SLP142 T10831094 53015 FQVL 220800Z 15004KT 110V190 9999 SCT020 SCT080 26/23 Q1016 SBOI 212000Z 04008KT 9999 BKN015 BKN020 BKN100 26/23 Q1010 SBPA 220900Z 11005KT CAVOK 21/18 Q1014 SBPB 212145Z 07011KT 9999 FEW020 29/23 Q1010 SBNT 220900Z 19005KT 9999 VCSH SCT018 FEW021TCU 25/23 Q1011 SBPC 220930Z 00000KT 9999 SCT018 OVC100 18/18 Q1020 RKPC 220919Z 32014KT 290V350 4000 -SHSN SCT020 BKN030 02/M04 Q1029 WS ALL RWY NOSIG SCFM 211700Z 28012KT 9999 FEW020 BKN030 OVC100 12/04 Q1004 SCGE 212100Z 21022KT 8000 NSC 35/11 Q1014 SBPF 220900Z 05012KT CAVOK 19/16 Q1015 RKNY 220900Z 24010KT CAVOK M04/M17 Q1022 NOSIG SBPJ 220800Z 12005KT 9999 SCT010 BKN100 23/22 Q1011 SBPK 220915Z 25002KT 9999 FEW020 19/18 Q1015 LPBJ 220900Z 31007KT 8000 04/04 Q1021 RKPK 220900Z 31010KT 9999 FEW040 01/M09 Q1023 NOSIG SCFT 220900Z AUTO 28003KT 230V300 //// SKC 08/07 Q1021 MGCB 220000Z 27004KT CAVOK 22/15 QFE867.7 FEW200 KWST 220853Z AUTO 00000KT 1/4SM FG VV002 04/03 A2975 RMK AO2 SLP074 T00440033 58006 SBPL 220900Z 14009KT CAVOK 24/17 Q1014 SBPP 212100Z 06004KT 9999 FEW020 FEW030TCU 30/19 Q1013 SBPR 220900Z 10006KT CAVOK 21/17 Q1017 LPAZ 220930Z 13004KT 9999 FEW011 14/13 Q1026 SBPS 221000Z 25004KT 9999 FEW020 SCT100 24/21 Q1014 SBRB 220900Z 36002KT 7000 -RA FEW002 SCT020 BKN100 22/20 Q1011 SCIC 220900Z AUTO 16007KT 9999 NCD 17/11 Q1014 SBPV 220900Z 21002KT 3000 -RA BKN006 OVC070 23/22 Q1011 SAZM 220900Z 32004KT 9999 SCT030TCU BKN100 21/19 Q1016 KXLL 220935Z AUTO 28003KT 2 1/2SM BR OVC003 06/06 A2974 RMK AO2 SCIE 220900Z 22007KT CAVOK 14/10 Q1016 SAZN 220900Z 16003KT CAVOK 21/11 Q1014 SBRF 220900Z 14010KT 9999 SCT020 27/24 Q1012 SCGZ 220900Z 00000KT 9999 BKN050 SCT066 07/05 Q1002 KWVI 220853Z AUTO 10008G17KT 4SM RA BR OVC044 10/08 A2979 RMK AO2 RAE00B22 SLP088 P0004 60007 T01000083 58023 SBRJ 220900Z 05005KT 9999 FEW025 BKN100 25/23 Q1013 SAZS 220900Z 00000KT CAVOK 05/01 Q1021 SAZT 211320Z 34015KT 9999 TS FEW035CB 29/15 Q1016 LPCS 220930Z 00000KT 9999 FEW030 08/06 Q1021 KXNA 220853Z AUTO 07004KT 7SM CLR 10/09 A2936 RMK AO2 SLP934 60003 T01000094 56020 $ SBSC 220900Z 02004KT 9999 FEW020 SCT100 23/21 Q1013 FSIA 220900Z 34018KT 9999 -SHRA FEW008 BKN016 28/25 Q1012 NOSIG SBQV 211800Z 13009KT 9999 FEW025 27/23 Q1018 KWVL 220907Z AUTO 04006KT 10SM BKN008 OVC015 01/00 A2976 RMK AO2 FZRANO KWWD 220856Z AUTO 04005KT 10SM -RA OVC018 07/07 A2972 RMK AO2 SLP067 P0001 60005 T00670067 58015 $ SBSG 220900Z 25004KT 9999 VCSH VCTS SCT017 FEW020CB 23/22 Q1012 SCIP 220900Z 30007KT 9999 SCT020 BKN030 25/22 Q1017 NOSIG SBRP 220900Z 10006KT 8000 -RA SCT045 OVC080 20/20 Q1015 RKSG 220858Z 31011KT 6SM HZ SCT030 M06/M12 A3035 RMK AO2A SLP282 T10621122 50003 $ SCIR 211700Z 15017KT 9999 BKN011 23/18 Q1022 RKSI 220930Z 32012KT 9999 FEW025 M07/M13 Q1029 NOSIG SBTA 220900Z 22002KT 3000 BR FEW004 SCT015 BKN050 19/19 Q1016 SBSJ 220900Z 16003KT 3000 -RA BR BKN008 BKN020 19/18 Q1017 KXMR 220858Z AUTO 19012KT 10SM SCT037 21/18 A2976 RMK AO2 SLP081 T02110178 58011 $ SBTC 220000Z 12004KT CAVOK 27/22 Q1014 SBSL 220900Z 06004KT 9999 SCT017 25/22 Q1010 SBSM 220900Z 10003KT 7000 OVC004 19/19 Q1013 SBSN 220900Z 18003KT 9999 SCT017 23/23 Q1010 SBTE 220923Z 00000KT 9999 BKN007 25/23 Q1011 SBTF 212245Z 00000KT 9999 FEW020 FEW025TCU 30/26 Q1008 SCJO 212300Z 16008KT 090V200 9999 FEW040 23/10 Q1018 RKSO 220858Z 30007KT 7SM FEW030 M06/M14 A3037 RMK AO2A SLPNO WND DATA ESTMD ALSTG ESTMD $ KXNO 220858Z AUTO 18004KT 7SM -TSRA OVC006 15/15 A2969 RMK AO2 RAB13 TSB48 SLP055 P0006 60006 T01520152 52006 $ SBSP 220900Z 14003KT 9999 FEW011 18/16 Q1017 SBSR 220900Z 00000KT 9000 BKN025 OVC100 22/19 Q1016 SBUA 212030Z 24002KT 9999 FEW020 BKN070 22/22 Q1009 RETS RKSS 220900Z 32009KT CAVOK M08/M20 Q1028 NOSIG KWWR 220935Z AUTO 34014KT 7SM -RA OVC004 05/04 A2957 RMK AO2 P0001 MGES 220000Z 00000KT 9999 FEW018 SCT200 24/14 QFE907.6 SBST 220900Z 05002KT 9999 -DZ FEW010 OVC050 21/20 Q1013 KXNT 220935Z AUTO 00000KT 3/4SM BR VV005 07/07 A2968 RMK AO2 LPFL 220930Z 18021G34KT 9999 FEW012 SCT016 17/15 Q1017 SBSV 220900Z 11006KT 9999 FEW023 27/21 Q1013 RKTN 220900Z 32017KT 9999 FEW040 M02/M14 Q1025 NOSIG SBUF 211945Z 16008KT CAVOK 34/12 Q1011 RKTP 220000Z 34008KT 9999 FEW020 SCT030 M04/M10 A3037 SBUG 220900Z 09008KT CAVOK 20/18 Q1012 SBSY 220807Z AUTO 24003KT //// R02C///// -RA BKN001 20/// Q1015 LPFR 220930Z 27004KT CAVOK 11/07 Q1021 SBTT 212300Z 30004KT CAVOK 25/22 Q1010 SBUL 220800Z 16005KT 9999 SCT040 SCT080 19/16 Q1016 RKTU 220900Z 27007KT 9999 FEW020 SCT030 M06/M11 Q1027 NOSIG VYYY 220930Z 36004KT 8000 FEW020 33/21 Q1012 SBVH 212300Z 10007KT 9999 TS VCSH BKN030 FEW035CB BKN070 22/21 Q1013 SBUR 220900Z 11008KT 1500 BR OVC002 19/19 Q1016 SCMK 211600Z 04004KT 9999 FEW020 18/11 Q1020 KWYS 220905Z AUTO 21008KT 10SM OVC011 M05/M07 A2982 RMK AO2 MGGT 220900Z 18010KT 5000 BR SCT004 BKN012 16/15 Q1023 A3021 NOSIG KXPY 220935Z AUTO 22004KT 3SM BR FEW002 BKN007 OVC013 22/21 A2952 RMK A01 YABA 220930Z AUTO 23014KT 9999 // SCT041 BKN049 19/08 Q1010 LPHR 220930Z 21010KT 9999 SCT008 BKN011 17/15 Q1023 KXSA 220935Z AUTO 02003KT 3SM BR OVC003 09/09 A2968 RMK AO2 T00870087 SBVT 220800Z 33002KT 9999 FEW015 SCT100 22/21 Q1014 MGHT 220000Z 27006KT CAVOK 22/10 QFE815.0 WSAP 220900Z 04006KT 9999 FEW018 BKN250 29/24 Q1009 KYIP 220853Z AUTO 06004KT 1/4SM R05R/0800V1000FT FG VV002 04/04 A2962 RMK AO2 SLP028 T00440039 56001 SCNT 212000Z 31028G38KT 260V340 9999 VCSH BKN033 SCT100 16/03 Q1007 MHAM 220000Z 23008KT 9999 FEW030 27/24 SCON 220900Z AUTO VRB02KT CAVOK 08/07 Q1021 LPLA 220900Z 22009KT 9999 FEW014 16/14 Q1024 MHCA 220900Z 06002KT 9999 SCT026 21/20 LQBK 220930Z 34001KT 2000 BR BKN020 M07/M08 Q1035 NOSIG KYKM 220941Z AUTO 25005KT 2SM BR SCT014 M01/M01 A2967 RMK AO2 I1000 T10061011 KYKN 220935Z AUTO 31012KT 8SM OVC011 00/M03 A2966 RMK AO1 SCPQ 220900Z AUTO 19007KT CAVOK 09/06 Q1021 MHCH 220000Z 18010KT 9999 FEW030 30/23 HZ SBYS 220900Z 27001KT 6000 SCT002 BKN010 OVC100 20/20 Q1015 LPMA 220930Z 01008KT 340V050 9999 SCT015 SCT030 16/09 Q1026 SCRD 220000Z 33004KT 6000 VCFG BKN004 17/15 Q1015 SCQP 220900Z 02005KT 9999 FEW004 08/08 Q1018 KXVG 220936Z AUTO 00000KT 1/2SM FG OVC002 01/01 A2960 RMK AO2 FSPP 220900Z 36011KT //// //// 29/24 Q1012 SCRM 220900Z 32006KT 0300 FG OVC002 02/02 Q0991 MGMM 220200Z 00000KT CAVOK 24/22 Q1009 A2980 SCSE 220900Z 29004KT CAVOK 18/16 Q1014 LOWG 220920Z VRB02KT 8000 SKC M07/M10 Q1033 R17/19//95 NOSIG KYNG 220851Z 12005KT 10SM -RA FEW028 SCT065 OVC085 11/09 A2967 RMK AO2 SLP045 P0000 60006 T01060094 58012 LOWI 220920Z 29003KT 160V320 CAVOK M06/M08 Q1026 R08/1///95 NOSIG SCTB 220000Z 22005KT 5000 FU NSC 26/13 Q1015 MGMT 220000Z 00000KT CAVOK 27/22 QFE1010.5 LOWK 220920Z VRB01KT 2800 0400E R10/P1500U R28/0450N FZBCFG SCT002 M12/M13 Q1034 R10L/19//95 BECMG 5000 FZBR SEAM 212300Z 00000KT 9999 -RA BKN040 OVC100 15/11 Q1027 LOWL 220920Z 23004KT 0300 R26/0325N FZFG BKN001 M10/M11 Q1027 BECMG 1500 FEW002 SCTE 220900Z VRB02KT CAVOK 08/07 Q1021 NOSIG SCSN 220900Z AUTO VRB01KT 9999 OVC006 17/15 Q1014 SECA 212300Z 34009KT 9999 BKN040 BKN090 23/13 Q1017 LOWS 220920Z VRB02KT 2900 FZBR FEW002 M12/M14 Q1026 BECMG 5000 MGPB 220900Z 27006KT CAVOK 24/19 Q1007 A2973 LPPD 220930Z VRB02KT 9999 FEW008 16/15 Q1026 SCTN 220900Z AUTO VRB02KT 9999 BKN011 10/09 Q1021 LOWW 220920Z 11011KT 5000 FZBR SKC M04/M07 Q1032 R88/19//95 NOSIG LOXT 220850Z 12011KT 090V190 9000 SKC M01/M09 Q1031 RMK SKC SCVD 220900Z 16003KT 070V210 CAVOK 12/09 Q1019 SECO 212200Z 17004KR 9999 FEW026 BKN100 25/24 Q1010 LOXZ 220920Z VRB01KT 10KM SKC M10/M11 Q1031 NOSIG LPPR 220930Z VRB03KT 7000 NSC 05/03 Q1022 LPPS 220930Z 35003KT 9999 FEW015 BKN030 14/10 Q1026 LPPT 220930Z 00000KT CAVOK 10/07 Q1021 SECU 220900Z AUTO 06003KT ////NDV BKN003 BKN015 OVC049 12/12 Q1026 SCVM 220900Z 12003KT 7000 OVC010 16/16 Q1014 YBAF 220930Z AUTO 09010KT 9999 // NCD 24/17 Q1016 RMK MGQZ 220000Z 14004KT 5000 BR SCT006 BKN012 14/12 QFE7715 PCPN NE/E YBAS 220930Z AUTO 07005KT 9999 // NCD 34/19 Q1007 RF00.0/005.4 MGSJ 220000Z 18004KT 8000 FEW020 27/22 Q1012 A2988 HZ MGRT 220000Z 22006KT 9999 BKN017 BKN090 27/20 Q1015 A2997 PCPN N/NNE VOL. STA. MARIA Y SANTIAGUITO EN ACTIVIDAD LRBC 220930Z 35005KT 9999 SCT010 OVC015 02/01 Q1035 YBBN 220930Z 10008KT 9999 SCT035 25/16 Q1015 NOSIG YBCG 220930Z AUTO 13008KT 9999 // OVC045 24/16 Q1016 RF00.0/000.0 YBCK 220930Z AUTO 35004KT //// // ////// 31/16 Q1009 RMK LRAR 220930Z 16003KT 2800 BR SCT007 OVC008 M05/M05 Q1036 YAMB 220930Z AUTO 06013KT 9999 // SCT050 OVC060 24/16 Q1015 MHLC 220600Z 20002KT 9999 FEW026 SCT080 21/20 Q1007 A2974 NOSIG LRBM 220930Z AUTO 11008KT 090V150 9999 SCT017/// M02/M05 Q1036 YBDG 220930Z AUTO 12002KT 9999 // NCD 28/09 Q1010 RMK MHLE 220000Z 19002KT 9999 FEW022 17/13 LRBO 220900Z 04008KT 9999 SCT020 BKN070 02/M02 Q1035 BLU BLU YBCS 220930Z 10008KT 9999 FEW022 SCT040 29/25 Q1009 NOSIG SEGS 220000Z 06006KT 9999 FEW020 27/22 Q1012 LRBS 220930Z 26005KT 3000 BR BKN028 M03/M05 Q1036 R07/910295 NOSIG LRCK 220930Z 29011KT 1700 BR FEW013 OVC026 M02/M03 Q1035 BECMG 3000 SEGU 220900Z 15003KT 9999 FEW010 BKN100 26/22 Q1011 NOSIG RMK A2987 YBCV 220930Z AUTO 05006KT 9999 // NCD 30/23 Q1009 MGTU 220000Z 00000KT 8000 VCSH FEW018 29/21 FEW080 PCPN N/NE/E LRCL 220930Z 11008KT 9999 FEW019 M02/M07 Q1034 R07/12//95 MHLM 220900Z 18011KT 9999 FEW024 26/20 Q1008 A2977 NOSIG LRCT 220900Z VRB03KT 1000 BR BKN040 M06/M07 Q1035 AMB AMB YBDV 220930Z AUTO 26001KT //// // ////// 30/30 Q1005 SEJD 212300Z 05004KT 9999 SCT026 BKN100 25/23 Q1012 RMK A2991 LRCV 220930Z 04002KT 3000 BR FEW048 M06/M10 Q1035 R27/390094 LQMO 220900Z 12007KT 9999 4200SE NSC 04/M05 Q1028 ROAH 220930Z 35020KT 9999 FEW035 BKN045 16/07 Q1025 RMK 1CU035 6SC045 A3027 BGBW 220850Z AUTO 08003KT 9999NDV SCT140/// OVC170/// M12/M19 Q0997 SFAL 211950Z 22023KT 9999 FEW008 BKN015 11/09 Q1003 RERA GMAD 220930Z 07007KT CAVOK 08/06 Q1021 NOSIG MHNO 220000Z 19004KT 9999 FEW040 25/14 HZ GMAG 220900Z 34006KT 9999 FEW016 11/04 Q1021 NOSIG FTTA 220900Z 10008KT CAVOK 34/04 Q1011 FTTC 220900Z 10014KT CAVOK 33/M04 Q1013 FTTD 220900Z 00000KT 6000 NSC 30/10 Q1011 HDAM 220900Z 09007KT 9999 FEW023 29/19 Q1017 YBHI 220930Z AUTO 05006KT 9999 // NCD 32/00 Q1008 RMK KZPH 220935Z AUTO 18006KT 10SM OVC012 21/19 A2975 RMK AO2 T02100190 MGZA 220000Z 00000KT 9999 FEW022 OVC200 32/14 QFE983.3 SEMC 212200Z 36007KT 9999 SCT030 SCT100 BKN300 24/18 Q1014 FTTJ 220900Z 11005KT 070V140 4500 HZ NSC 34/M02 Q1011 NOSIG YBHM 220930Z AUTO 11017KT 9999 // NCD 28/20 Q1011 MHPL 220000Z 09010KT 9999 SCT026TCU 26/22 Q1010 TCU S SW HZ GMAT 220900Z 04006KT 9999 FEW016 12/06 Q1021 NOSIG YARG 220900Z AUTO 05004KT 9999 // SCT105 32/24 Q1005 LRIA 220930Z 31005KT 9999 OVC032 02/M01 Q1035 R14/29//95 BGGH 220850Z AUTO 02014KT 9999NDV FEW016/// M15/M17 Q1006 SELT 220900Z 33004KT 9999 SCT030 08/08 Q1029 YARM 220930Z AUTO 09010KT 9999 // NCD 21/15 Q1019 RMK FVBU 220500Z 11010KT 080V150 9999 -DZ BKN008 18/17 Q1021 TEMPO BKN010 RODN 220858Z AUTO 35016G27KT 10SM OVC044 15/07 A3028 RMK AO2 PK WND 33027/52 SLP262 T01510066 53007 FTTY 220900Z 04008KT CAVOK 29/00 Q1014 YCBA 220930Z AUTO 07003KT //// NCD 34/12 Q1008 RMK HCMH 220900Z 09004KT CAVOK 22/04 Q1021 NOSIG YCBB 220930Z AUTO 35004KT //// // ////// 28/14 Q1015 RMK LQSA 220930Z VRB01KT 5000 BR BKN009 M03/M06 Q1033 BECMG NSC SEMT 220900Z 00000KT 9999 FEW026 SCT120 25/23 Q1012 RMK A2988 WSSL 220900Z 03011KT 9999 FEW015 FEW018TCU BKN250 28/24 Q1010 RMK 0830Z Q1010 SENL 212300Z 10004KT CAVOK 26/23 Q1011 YBKE 220930Z AUTO 21004KT //// // ////// 36/10 Q1007 RMK MHSC 220858Z AUTO 14010KT 9999 CLR 19/14 A2994 RMK AO2 SLP099 T01930135 57013 $ HCMM 220900Z 05019KT 9999 FEW023 30/22 Q1013 NOSIG MHRO 220200Z 08/012KT 9999 FEW025 26/23 Q1008 A2977 NOSIG YCAR 220930Z AUTO 20020KT //// // NCD 26/19 Q1007 WSSS 220930Z 05011KT 010V070 9999 FEW016 FEW018TCU BKN270 28/25 Q1010 NOSIG FVCZ 220900Z 13006KT 9999 BKN015 25/22 Q1021 FVFA 220900Z 08012KT 9999 SCT015 BKN080 23/20 Q1017 NOSIG MHTE 220000Z 09006KT 9999 FEW028 30/24 Q1007 HZ YCBP 220930Z AUTO 05002KT 9999 NCD 38/16 Q1005 RMK MHTG 220900Z 00000KT 9999 SKC 13/12 Q1017 A3003 NOSIG GMFF 220900Z 25010KT 9999 BKN036 SCT100 08/03 Q1021 NOSIG YBMA 220930Z AUTO 01003KT 9999 // SCT067 BKN089 30/22 Q1008 YBKT 220930Z AUTO 09004KT //// // ////// ///// Q1006 MHSR 220000Z 20008KT 9999 FEW030 SCT250 23/09 HZ YBLN 220930Z AUTO 23014KT //// // ////// 22/09 Q1011 RMK GMFK 220900Z 34006KT 120V360 9999 FEW026 06/M06 Q1018 NOSIG GMFM 220900Z 20005KT 9999 BKN020 07/04 Q1021 NOSIG BGJN 220850Z 08006KT 9999 FEW020 M22/M30 Q1015 GMFO 220900Z VRB07KT 6000 RA SCT013 BKN026 BKN100 05/04 Q1017 NOSIG YBNA 220930Z AUTO 10005KT 9999 // BKN038 22/16 Q1017 RMK YBLT 220930Z AUTO 10011KT 9999 // NCD 25/11 Q1011 RMK MHTR 220000Z 00000KT 9999 FEW025 BKN250 27/23 HZ YBMK 220930Z AUTO 08010KT 9999 // OVC029 28/23 Q1011 RMK SERB 212300Z 19005KT 9999 BKN030 OVC100 14/11 Q1027 FVHA 220900Z 07015KT 9999 BKN015 BKN080 23/19 Q1022 NOSIG YCEE 220930Z AUTO 12011KT //// // ////// 23/16 Q1008 SEQM 220900Z 00000KT 9999 BCFG FEW003 BKN020 12/10 Q1027 NOSIG RMK A3035 YCDO 220930Z AUTO 03006KT //// // ////// 32/12 Q1009 RMK BGKK 220850Z AUTO 08021KT 9999NDV -SN BKN038/// M04/M08 Q1007 YCCY 220930Z AUTO 22017KT //// // ////// 28/23 Q1007 RMK ROIG 220900Z 02014KT 9999 FEW034 BKN042 16/08 Q1026 LQTZ 220930Z 28003KT 1000 R09/1300N BR FEW002 M05/M07 Q1033 SESA 220300Z 33004KT 9999 BKN026 SCT070 26/23 Q1013 YCDU 220930Z AUTO 14013KT //// // NCD 29/20 Q1004 RMK YCEM 220930Z AUTO 16007KT //// // ////// 26/15 Q1010 RMK SESD 212300Z 31003KT 9999 SCT020 SCT150 26/21 Q1013 GLRB 220930Z 34005KT 9000 SCT014 26/25 Q1013 RMK BRVC SERO 220200Z 19003KT 9999 FEW040 BKN100 26/22 Q1013 YBNS 220930Z AUTO 10008KT 9999 // NCD 19/13 Q1013 RMK YBOK 220930Z AUTO 06011KT 9999 // NCD 22/17 Q1016 YCFL 220930Z AUTO 08004KT //// // ////// 28/23 Q1009 RMK SESM 212300Z 08003KT 9999 SCT050 BKN100 23/19 Q1015 A2998 YAYE 220930Z AUTO 08004KT 9999 // NCD 30/27 Q1007 RMK LROD 220930Z 22005KT 3100 BR SCT023 M04/M06 Q1036 YCFS 220930Z AUTO 05007KT 9999 // OVC035 24/18 Q1017 RF00.0/000.0 SGAS 220900Z 00000KT CAVOK 23/20 Q1011 SEST 220000Z 35004KT 9999 FEW023 SCT100 27/22 Q1010 A2984 HEBA 220800Z 36003KT 9999 SCT020 16/09 Q1024 NOSIG FVKB 220900Z 14001KT 9999 SCT030TCU 28/22 Q1014 YBPN 220930Z AUTO 10009KT 9999 // NCD 27/22 Q1011 RMK LSGC 220920Z VRB01KT CAVOK M07/M09 Q1020 SETN 212300Z 05004KT 9999 FEW030 BKN300 27/22 Q1011 A2987 LROP 220930Z 26005KT 2000 BR OVC029 M03/M06 Q1036 R26L/19//95 R26R/09//95 NOSIG LSGG 220920Z 36003KT 330V080 4800 BR OVC007 M03/M04 Q1024 NOSIG YCHK 220930Z AUTO 33006KT 9999 // SCT068 36/20 Q1006 RMK HEAR 220900Z 06002KT CAVOK 18/08 Q1023 NOSIG SETU 212300Z 08004KT 9999 SCT020 SCT080 12/10 Q1031 HECA 220930Z 03009KT CAVOK 17/06 Q1023 NOSIG HEAT 220900Z 36008KT CAVOK 13/05 Q1022 NOSIG HEBL 220900Z 03006KT CAVOK 21/03 Q1017 NOSIG HEAX 220900Z 10004KT 9999 BKN020 17/06 Q1023 NOSIG MHYR 220000Z 25004KT 9999 FEW025 27/18 HZ YBRK 220930Z AUTO 11009KT 9999 // OVC029 OVC110 27/22 Q1012 YBRL 220930Z AUTO 00000KT //// // ////// 28/24 Q1005 RMK LSGS 220920Z 05006KT 020V080 CAVOK M03/M08 Q1025 YBRM 220930Z AUTO 27010KT 9999 // NCD 30/22 Q1006 GMMB 220900Z AUTO /////KT //// ////// ///// Q//// NOSIG YCIN 220930Z AUTO 32008KT //// // SCT039 SCT056 31/24 Q1005 GMMC 220900Z 18006KT 9999 FEW016 BKN026 08/04 Q1022 FWCL 220900Z 16006KT 9999 BKN030TCU 28/19 Q1018 TEMPO TS YBSG 220930Z AUTO 00000KT //// // ////// 26/24 Q1009 RMK GMMD 220900Z 16002KT 9999 SCT023 07/06 Q1022 NOSIG GMME 220930Z 21009KT 8000 SCT020 SCT070 11/06 Q1022 NOSIG GMMH 220900Z 07009KT 8000 SCT023 15/13 Q1023 NOSIG GMMI 220900Z AUTO 09008KT 9999NDV ////// 09/06 Q1021 NOSIG LRSB 220930Z 07002KT 6000 BKN012 M05/M09 Q1034 LTAC 220920Z 32003KT 9999 SCT015 M04/M07 Q1028 NOSIG SGEN 220900Z 09003KT CAVOK 20/18 Q1012 KZZV 220853Z AUTO 00000KT 8SM BKN075 OVC100 09/09 A2964 RMK AO2 SLP037 T00940089 58011 TSNO GMML 220900Z 04004KT 9999 FEW030 SCT033 15/06 Q1023 NOSIG YBRY 220930Z AUTO 27005KT 230V310 9999 // SCT100 35/15 Q1007 YBTH 220930Z AUTO 02008KT 9999 // NCD 24/12 Q1015 RMK ROMY 220900Z 01012G23KT 9999 SCT034 BKN044 16/08 Q1025 LTAF 220920Z 17003KT 090V250 CAVOK 13/M08 Q1024 NOSIG GMMN 220930Z 19007KT 9999 FEW023 SCT100 08/06 Q1023 NOSIG LTAG 220920Z 22004KT CAVOK 12/M08 Q1024 NOSIG SGES 220900Z 10003KT 9000 NSC 19/19 Q1012 LTAI 220920Z 01005KT 330V070 CAVOK 12/M06 Q1025 NOSIG YBSU 220930Z AUTO 13010KT 9999 // SCT036 SCT056 24/16 Q1015 YBTL 220930Z AUTO 08011KT 9999 // NCD 29/23 Q1010 LTAJ 220920Z 36005KT 320V040 CAVOK 09/M13 Q1021 NOSIG LTBA 220920Z 06005KT 330V130 9999 FEW014 BKN020 04/M00 Q1034 NOSIG YBUD 220930Z AUTO 13011KT 9999 // SCT042 OVC050 25/17 Q1014 YCKN 220930Z AUTO 08006KT 9999 // BKN030 BKN037 29/24 Q1009 LTAL 220850Z 23007KT 7000 FEW012 BKN023 BKN070 M04/M04 Q1027 LRTC 220930Z 34007KT 7000 BKN031 01/00 Q1035 LRSM 220930Z AUTO 10008KT 9999 OVC023/// M01/M05 Q1035 FVMV 220600Z 14004KT 8000 -DZ BKN010 20/19 Q1020 LTAN 220850Z 33005KT CAVOK M02/M06 Q1027 NOSIG LTBF 220850Z 05005KT 010V090 CAVOK 04/M01 Q1032 NOSIG GMMW 220900Z 25011KT CAVOK 12/04 Q1016 NOSIG GMMX 220930Z 00000KT 8000 NSC 06/04 Q1022 NOSIG LTAP 220920Z VRB02KT 9999 SCT040 BKN100 M02/M07 Q1029 NOSIG BGSF 220850Z AUTO 06009KT 9999NDV NCD M32/M36 Q1016 LTBH 220850Z 04016KT 9999 FEW035 05/M01 Q1033 GMMZ 220900Z VRB01KT CAVOK 02/M07 Q1018 NOSIG LTAR 220850Z VRB02KT 1600 1000NW R01/P1500N R19/1100U BR BKN005 M11/M13 Q1024 LTAS 211430Z 26005KT 9999 BKN030 03/M03 Q1030 RMK RWY18 33004KT 300V360 LTBJ 220920Z 35013KT CAVOK 07/M02 Q1027 NOSIG LTCA 220850Z 30009KT 270V330 CAVOK 03/M10 Q1024 NOSIG LTAT 220920Z 01004KT CAVOK 03/M11 Q1024 NOSIG LTCB 220850Z 29005KT 260V320 9999 SCT035 BKN090 07/M03 Q1032 LTAU 220920Z VRB01KT CAVOK M03/M08 Q1027 NOSIG LTCC 220920Z 35011KT CAVOK 07/M11 Q1020 NOSIG LRSV 220930Z 35006KT 5000 -SN BKN010 OVC025 00/M00 Q1033 R16/19//95 LRTM 220930Z 00000KT 5000 BR NSC M01/M06 Q1035 LTCD 220850Z VRB02KT CAVOK M02/M09 Q1025 NOSIG LTAW 220850Z 25004KT 220V290 9999 SCT040 M00/M05 Q1031 YDBY 220930Z AUTO 34014KT //// // ////// 31/24 Q1005 RMK LTCE 220920Z 00000KT 2000 BR NSC M15/M17 Q1022 BECMG TL1100 3500 LTCF 220850Z 32004KT 250V330 9999 SCT035 M14/M17 Q1020 LTCG 220920Z 29004KT 210V340 9999 SCT035 BKN100 07/M04 Q1031 NOSIG LTAY 220850Z 09011KT CAVOK 02/M05 Q1026 LTAZ 220920Z VRB04KT 9999 FEW040 M00/M07 Q1028 LTBQ 220850Z 31003KT 280V360 7000 BKN028 00/00 Q1034 NOSIG LRTR 220930Z 11003KT 080V140 1500 BR OVC003 M05/M06 Q1036 R11/520195 LTBR 220920Z VRB02KT CAVOK 02/M02 Q1032 NOSIG LTCI 220850Z 32003KT 8000 FEW012 SCT030 BKN070 M01/M06 Q1019 NOSIG LSMA 220850Z AUTO 20004KT 4000NDV BR OVC003 M06/M06 Q1025 RMK LTBS 220920Z 36010KT 9999 FEW030 13/M02 Q1025 NOSIG LTCJ 220920Z VRB03KT CAVOK 07/M06 Q1021 LTDA 220850Z VRB02KT CAVOK 07/M01 Q1025 YCMM 220930Z AUTO 22003KT //// // ////// 22/21 Q1007 RMK LTBT 220622Z VRB01KT 5000 BR NSC M03/M03 Q1029 RMK RWY14 VRB01KT LTCK 220927Z 33002KT 1700 BR BKN004 OVC035 M10/M11 Q1024 RESG RMK RWY11 VRB02KT BIAR 220900Z 19012KT 9999 SCT055 03/M03 Q1012 LTBU 220920Z 31009KT 8000 SCT015 BKN035 02/M04 Q1033 LTCL 220850Z 20004KT 120V280 CAVOK 08/M05 Q1021 LTCM 220850Z 26007KT 9999 BKN030 BKN080 05/M01 Q1031 LSMD 220850Z AUTO 10004KT 4100NDV BR OVC005 M07/M08 Q1025 RMK BGTL 220858Z AUTO 08009KT 9999 CLR M26/M30 A2986 RMK AO2 SLP104 T12601301 57016 LSME 220849Z AUTO 01003KT 330V030 1200NDV R04/P2000D R22/P2000N BR OVC003 M06/M06 Q1025 RMK LTCN 220850Z VRB01KT CAVOK 06/M10 Q1023 NOSIG HEGN 220900Z 35015KT CAVOK 20/06 Q1020 NOSIG LTCO 220850Z 00000KT 0900 R16/1000U R34/1100U BCFG FEW003 M15/M18 Q1022 LTBY 220850Z VRB02KT 9999 BKN015 M03/M06 Q1030 LTCP 220850Z 25005KT 210V300 CAVOK 07/M08 Q1021 LTBZ 220550Z 35005KT 6000 BKN005 M07/M07 Q1026 LRTZ 220900Z 31012KT 3000 BR SCT012 BKN020 OVC030 M02/M04 Q1035 YLO GRN YCMT 220930Z AUTO 05009KT //// // ////// 32/19 Q1010 RMK YCNK 220930Z AUTO 15008KT //// // ////// 23/17 Q1014 RMK LTCR 220850Z 35011KT 310V020 CAVOK 09/M07 Q1020 LTCS 220920Z 36007KT 300V050 CAVOK 07/M07 Q1022 LTCT 220927Z 20001KT 3000 BR NSC M09/M10 Q1024 RMK RWY30 25003KT 180V280 YCNM 220930Z AUTO 08006KT //// // ////// 31/13 Q1010 RMK YCOE 220930Z AUTO 19001KT //// // ////// 24/23 Q1010 LTCU 220850Z 00000KT CAVOK M01/M08 Q1023 LTCV 220850Z VRB03KT CAVOK 09/M03 Q1019 LSMM 220850Z AUTO 00000KT 6000NDV R10/1400N R28/P2000U OVC003 M05/M06 Q1023 RMK YBWP 220930Z AUTO 36003KT //// // NCD ///// Q//// LTCW 220850Z VRB01KT 3500 BR SCT035 SCT100 M03/M03 Q1018 LSMP 220850Z 12003KT 080V160 1700 BR OVC002 M07/M08 Q1025 RMK AMB RORS 220900Z 01023KT 9999 SCT034 BKN045 16/08 Q1025 LSMS 220850Z 05005KT CAVOK M03/M08 Q1025 YCOM 220930Z AUTO 04013KT 9999 // NCD 20/12 Q1016 RMK YBWW 220930Z AUTO 07009KT 9999 // NCD 23/17 Q1016 RMK LTFC 220920Z 00000KT CAVOK 02/M05 Q1026 LSMV 211350Z 15004KT CAVOK M03/M11 Q1024 NOSIG YBWX 220930Z AUTO 27017KT //// // ////// 28/19 Q1007 LTFD 220850Z 09017KT 9999 FEW035 06/M03 Q1031 YCNY 220930Z AUTO 02007KT //// // ////// 30/21 Q1006 RMK LTFE 220920Z VRB02KT CAVOK 11/01 Q1026 NOSIG LTFG 220850Z 02002KT CAVOK 15/M03 Q1025 LTFH 220850Z 26007KT 220V300 9999 FEW036 07/M04 Q1032 NOSIG BIEG 220900Z 19010G20KT 9999 FEW040 BKN090 04/M05 Q1011 R04/790195 RMK RWY SANDED RPLB 220900Z 06006KT 9999 BKN020 29/19 Q1013 NOSIG RMK A2991 LTFJ 220920Z 04007KT 9999 FEW030 BKN100 03/M02 Q1033 NOSIG FWKA 220600Z 00000KT 9999 FEW022CB BKN090 23/21 Q1018 HEIS 220900Z 00000KT 4000 HZ NSC 16/10 Q1023 RPLC 220900Z 05003KT 9999 SCT020 BKN100 29/20 Q1014 NOSIG RMK A2994 GMTA 220900Z 32004KT 9999 FEW020 15/04 Q1018 NOSIG ROTM 220858Z 35017G24KT 9999 BKN040 14/07 A3028 RMK PK WND 36030/0808 SLP243 WND WRNG XWND ADV T01440072 51007 RPLI 220900Z 02010KT 9999 FEW019 BKN290 28/22 Q1013 NOSIG RMK A2991 FWKI 220900Z 10010KT 9999 SCT025 BKN100 23/18 Q1020 NOSIG RPLL 220900Z VRB03KT 9999 SCT023 BKN100 29/22 Q1014 NOSIG RMK A2994 RPMD 220900Z 02008KT 8000 -RA SCT015CB BKN090 OVC290 28/24 Q1012 RMK A2988 CB E-SE NNW GMTN 220900Z 27009KT 220V340 9999 FEW026 13/05 Q1019 NOSIG HEMA 220900Z 34020KT CAVOK 20/12 Q1019 NOSIG GMTT 220930Z VRB02KT 9999 SCT016 10/08 Q1021 NOSIG GMTU 211800Z 31007KT 9999 BKN016 10/04 Q1018 NOSIG RPMR 220900Z 04004KT 9999 FEW018 BKN080 30/24 Q1011 RMK A2985 PCPN DSNT WNW HEMM 220900Z 06011KT 9999 SCT020 BKN100 16/07 Q1024 NOSIG HELX 220900Z 00000KT CAVOK 18/08 Q1020 NOSIG RPMZ 220900Z 00000KT 9999 FEW017 SCT100 BKN300 30/25 Q1013 RMK A2991 FVWN 211200Z 09005KT 9999 TS FEW030CB SCT040 BKN090 28/20 Q1015 MKJP 220900Z 10004KT 9999 FEW022 25/19 Q1012 MKJS 220900Z 07003KT 9999 FEW022 23/18 Q1012 YCUN 220930Z AUTO 25017KT //// // ////// 31/07 Q1007 RMK BIIS 220900Z VRB02KT 9999 FEW025 BKN040 02/M03 Q1011 YDLQ 220930Z AUTO 14005KT //// // ////// 31/05 Q1008 RMK YCWA 220930Z AUTO 25005KT 9999 // BKN120 35/14 Q1008 RMK GOGG 220900Z 02008KT CAVOK 20/06 Q1014 BIKF 220930Z 17007KT 9999 VCSH FEW018 SCT032 BKN220 02/00 Q1013 GOGK 220900Z 04004KT CAVOK 22/04 Q1013 HEPS 220900Z 06005KT 9999 SCT025 18/11 Q1024 NOSIG GOGS 220900Z 04014KT CAVOK 21/06 Q1014 YCWR 220930Z AUTO 00000KT //// // ////// 28/13 Q1011 HESC 220900Z 02005KT CAVOK 12/M08 Q1023 NOSIG HESG 220900Z 01008KT CAVOK 15/05 Q1018 NOSIG HESH 220900Z 01013KT CAVOK 20/04 Q1019 NOSIG YDPO 220930Z AUTO 01005KT 9999 // NCD 17/15 Q1013 RMK HESN 220900Z 02012KT CAVOK 20/04 Q1018 NOSIG LSZA 220920Z VRB01KT CAVOK M01/M04 Q1030 NOSIG LSZB 220920Z VRB02KT 3000 BR BKN003 M07/M08 Q1024 R14/420195 NOSIG RPVD 220900Z 04012KT 9999 VCSH SCT015 SCT080 26/24 Q1011 RMK A2985 VCSH N NE SW-W LSZC 220920Z VRB05KT 3600 BR OVC004 M05/M06 Q1025 RMK SVFR LSZG 220920Z VRB02KT 1800 BR OVC003 M07/M08 Q1025 NOSIG LSZH 220920Z 03004KT 2500 BR OVC005 M06/M07 Q1025 TEMPO 3000 HETR 220900Z 30014KT CAVOK 19/09 Q1020 RPVM 220900Z 02009KT 9999 FEW020 BKN100 27/24 Q1013 NOSIG RMK A2991 LSZL 220850Z AUTO 08003KT 040V100 9999NDV NCD M03/M05 Q1030 RMK RPVP 220900Z 09014KT 9999 FEW019CB FEW019 SCT240 30/24 Q1012 RMK A2988 CB W N W/ DSNT PCPN LSZR 220920Z 12004KT 0350 R10/0550N FG VV001 M08/M08 Q1025 NOSIG RMK A LSZS 220920Z VRB01KT CAVOK M16/M18 Q1024 RMK G MMAA 220850Z 34003KT 8SM SCT015 24/21 A2992 RMK SLP131 57008 955 8/100 HZY FXMM 220900Z 08008KT 9999 FEW035 24/14 Q1027 NOSIG CAHR 220900Z AUTO 32005KT M02/M03 RMK AO1 SOG 08 2012 SLP052 T10181029 BIRK 220900Z 16008KT 9999 -SHRA FEW027 BKN038 02/M00 Q1013 GOOD 220900Z 04006KT CAVOK 20/02 Q1015 MMAN 220540Z 36010KT 7SM SKC 20/00 A2969 RMK SLP/// 5//// 9// YFBS 220930Z AUTO 36007KT //// // ////// 29/12 Q1010 RMK GOOG 220900Z 04004KT CAVOK 18/05 Q//// MMAS 220541Z 19006KT 10SM SKC 08/M05 A3027 RMK SLP173 MMCB 220041Z 21003KT 15SM SKC 23/06 A3004 RMK ISOL CI LUKK 220930Z 36005KT 9999 SCT009 OVC028 02/M00 Q1034 R08/290199 TEMPO 5000 RASN BR BKN004 GOOK 220900Z 36010KT CAVOK 21/01 Q1015 FYGB 220800Z AUTO 06008KT //// // ////// 28/11 Q1023 YFDF 220930Z AUTO 31006KT 9999 // SCT125 35/20 Q1006 RMK MMCE 220043Z 00000KT 7SM SKC 27/22 A2970 CBBC 220900Z AUTO VRB02KT 9SM BKN070 OVC085 05/01 A2943 RMK SLP968 FYGF 220600Z 17002KT 9999 FEW090 21/15 Q1021 YEML 220930Z AUTO 06013KT 9999 // NCD 32/21 Q1010 MMBT 220040Z 27015G25KT 8SM FEW030 25/20 A2990 RMK 8/100 MMCL 220440Z 00000KT 10SM SKC 16/13 A3007 MMCM 220140Z 12010KT 7SM SCT015 26/23 A2976 RMK 8/500 MMCN 220141Z 22004KT 10SM FEW020 FEW080 16/14 A3002 RMK 8/430 HZY MMCP 220241Z 00000KT 7SM SKC 27/22 A2971 RMK HZY GOOY 220930Z 05014KT 8000 NSC 21/07 Q1017 NOSIG MMCS 220340Z 25025G35KT 10SM SKC 06/00 A2985 MMCT 212144Z 18010KT 8SM BKN030 32/21 A2969 RMK 8/400 MSGTX MMMD MMCU 220344Z 33007KT 10SM SKC 09/M03 A2995 RMK ISOL CU MMCV 220048Z 21008KT 8SM SKC 27/00 A2949 RMK LWR ST W/NW HZY MMDO 220243Z 23010KT 8SM SKC 13/M07 A3015 RMK SLP128 52026 916 MMCZ 220740Z 00000KT 7SM SKC 25/24 A2976 RMK CU BIVM 211800Z 22018KT 9999 SCT015 SCT030 05/03 Q1005 RESHRA MMEP 220041Z 36005KT 12SM SKC 20/17 A3007 GOSM 220900Z 10004KT CAVOK 20/04 Q1016 GOSP 220900Z 10004KT CAVOK 20/04 Q1016 GOSS 220900Z 06008KT 020V090 CAVOK 18/03 Q1016 GOTK 220900Z 04004KT CAVOK 24/06 Q1014 MMGL 220843Z 00000KT 10SM SKC 05/M04 A3023 RMK SLP154 54000 975 MMGM 220141Z 25005KT 10SM FEW030 19/12 A2998 RMK 8/100 FYKM 220800Z 10003KT 9999 OVC015 23/21 Q1017 MMIA 220048Z 25008KT 8SM SKC 22/14 A3007 RMK 6//// YERN 220930Z AUTO 11007KT //// // ////// 31/22 Q1008 GOTT 220900Z 02010KT CAVOK 22/M02 Q1015 FYKT 220800Z AUTO 00000KT //// // ////// 32/00 Q1018 MMHO 220843Z 00000KT 10SM SKC 12/09 A3014 RMK SLP203 54000 947 HZY NCRG 220900Z 17002KT 9999 SCT021 24/21 Q1007 NCPY 220900Z AUTO 35010KT //// ///// 27/25 Q1009 YESP 220930Z AUTO 19019KT 9999 // BKN022 OVC027 19/13 Q1008 MMIO 220240Z 29014KT 6SM SKC 21/04 A2988 YGBI 220930Z AUTO 29005KT //// // ////// 25/25 Q1008 RMK YEST 220930Z AUTO 19013KT 9999 // BKN024 BKN028 20/14 Q1008 FYLZ 220800Z AUTO 18007KT //// // ////// 22/14 Q1012 FYOA 220800Z AUTO 08007KT //// // ////// 30/15 Q1015 YGAY 220930Z AUTO 11007KT //// // ////// 25/18 Q1014 RMK YFLI 220930Z AUTO 31006KT 9999 // NCD 18/14 Q1013 RMK MNBL 212300Z 13004KT 9999 SCT018 27/23 Q1012 YGDH 220930Z AUTO 14007KT //// // ////// 29/14 Q1012 RMK FYOO 220800Z AUTO 10005KT //// // ////// 29/15 Q1016 MNCH 212300Z 25004KT 9999 FEW025 29/21 Q1012 MMMA 220140Z 15004KT 8SM SKC 22/13 A2946 MMLM 220344Z 00000KT 10SM SKC 18/12 A3008 MMMD 220848Z 12005KT 7SM SKC 23/20 A2970 RMK SLP082 57008 980 FYOW 220800Z AUTO 08008KT //// // ////// 28/12 Q1018 MMLO 220841Z 35005KT 8SM SKC 08/M03 A3030 RMK SLP155 52002 918 MMLP 220540Z 17007KT 10SM SKC 16/12 A3014 RMK SLP208 52022 934 YGEL 220930Z AUTO 19019KT 9999 // SCT025 22/14 Q1010 MMLT 220141Z 34010KT 8SM BKN050 21/12 A3001 RMK 8/500 MMML 220840Z 10009KT 10SM FEW070 09/04 A3010 RMK SLP193 52007 949 8/070 MMMM 220851Z 00000KT 7SM SKC 08/04 A3025 RMK SLP144 52008 914 MMMT 220043Z 19015KT 12SM SKC 29/20 A2970 MMNL 220140Z 32021KT 10SM SKC 28/00 A2951 YGFN 220930Z AUTO 08004KT 9999 // BKN039 OVC049 23/16 Q1017 MMMV 220040Z 24025KT 5SM SKC 31/M04 A2951 HZY MMMX 220851Z 22004KT 12SM SKC 11/02 A3028 NOSIG RMK SLP128 57005 904 FYRN 220800Z 09012KT 9999 -DZ BKN025 24/19 Q1016 SKBG 220900Z 18004KT 9999 FEW015 SCT240 19/17 A3004 MMMY 220840Z 33012KT 7SM SKC 17/02 A2970 RMK SLP057 52014 952 SKAR 220500Z 06003KT 9999 SCT020 SCT100 18/17 A3014 MMMZ 220843Z 00000KT 3SM BR HZ SKC 09/09 A3007 RMK SLP168 57003 908 MMPA 220147Z 00000KT 7SM SKC 25/20 A2965 RMK MSGTX MMMX MMPB 220141Z 16007KT 10SM SKC 12/04 A3024 SKCC 220500Z 00000KT 8000 SCT015 SCT090 23/21 A2997 RMK/HZ FYRU 220800Z 09012KT 9999 -DZ BKN025 24/19 Q1016 MMPE 211457Z RTD 00000KT 10SM BKN050 BKN100 13/08 A2976 RMK 7/530 SKBO 220900Z 34003KT 9999 NSC 02/02 A3033 SKCG 220900Z 01005KT 9999 SCT017 24/24 A2987 MMPG 212044Z 23012G22KT 10SM FEW200 31/08 A2938 RMK 8/001 PRESFR SKBQ 220900Z 02005KT CAVOK 23/22 A2987 SKCL 220900Z 13003KT 9999 FEW030 SCT120 16/16 A3005 MMPN 220341Z 00000KT 8SM SKC 14/11 A3020 RMK BR HZ MMOX 220146Z 15006KT 8SM SKC 20/07 A3012 RMK PRESRR MMPQ 220046Z 00000KT 5SM SKC 30/24 A2969 RMK HZY MSGTX MMMD MMPR 220851Z 05002KT 12SM SKC 17/17 A3003 RMK SLP166 57010 913 SC MMPS 220040Z 26018KT 8SM SCT015 26/23 A2998 RMK 8/100 CI HZY YHBA 220930Z AUTO 14010KT 9999 // SCT032 SCT040 BKN048 26/18 SKEJ 212300Z 35003KT CAVOK 30/23 A2982 YFRT 220930Z AUTO 16009KT //// // ////// 29/22 Q1005 BKPR 220930Z 00000KT 0800 R17/P1500 FZFG SCT004 BKN015 M07/M09 Q1033 TEMPO 0500 RMK 17010095 MMQT 220845Z 31005KT 7SM SKC 10/M01 A3027 FYWB 220800Z 36006KT 9999 FEW021 21/16 Q1012 MMSD 220640Z 00000KT 12SM BKN040 15/11 A3010 RMK 8/400 FYWE 220800Z 03010KT 9999 FEW035 26/09 Q1023 MNJG 212300Z 00000KT 9999 SCT020 25/14 Q1013 YGLA 220930Z AUTO 13008KT 9999 // OVC034 27/20 Q1013 RMK YGLB 220930Z AUTO 08008KT 9999 // NCD 22/15 Q1015 RMK TAPA 220900Z VRB02KT CAVOK 19/15 Q1014 NOSIG FYWH 220800Z 05009KT CAVOK 25/11 Q1023 NOSIG MMTC 220346Z 24014G24KT 10SM SKC 24/M13 A2988 MMSL 220243Z 32009KT 6SM FEW030 SCT120 18/13 A3014 RMK 8/510 YHAY 220930Z AUTO 00000KT //// // ////// 33/03 Q1008 RMK MMRX 220044Z 11008KT 10SM SKC 24/10 A2943 YGLI 220930Z AUTO 09010KT 9999 // NCD 19/13 Q1019 RMK MMTG 220442Z 16004KT 12SM SKC 24/15 A2999 MMSP 220846Z 23006KT 10SM SKC 13/M07 A3014 RMK SLP079 52003 906 MMTJ 220842Z 00000KT 8SM FEW020 09/06 A3016 RMK SLP223 54002 949 8/100 MNJU 212300Z 18006KT 9999 FEW020 30/21 Q1012 MMTM 220446Z 16012KT 6SM SKC 27/13 A2958 RMK HZY YFTZ 220930Z AUTO 26007KT //// // ////// 32/22 Q1005 RMK FYWW 220800Z 03009KT 9999 FEW030 26/11 Q1022 MMTO 220846Z 00000KT 6SM SKC 01/M01 A3036 RMK SLP135 54000 906 HZY MMTP 220844Z 00000KT 10SM SKC 21/20 A2990 RMK SLP149 57021 957 YGLS 220930Z AUTO 30010KT //// // ////// 34/17 Q1007 RMK MMVA 220443Z 00000KT 4SM SKC 21/20 A2977 RMK BR SKIB 220200Z 22003KT 9999 BKN030 22/21 A3012 MMUN 220845Z 14014KT 7SM FEW018 26/23 A2973 RMK SLP071 57023 991 8/500 K04V 220935Z AUTO 35012KT 10SM SCT043 M05/M10 A2985 RMK AO2 K06D 220935Z AUTO RMK AO2 PWINO PNO TSNO K04W 220933Z AUTO 35006KT 1/2SM FG OVC002 01/01 A2960 RMK AO2 MNMG 220700Z 00000KT 9999 FEW020 SCT300 22/19 Q1011 A2988 GQPP 220900Z 03015KT 8000 NSC 16/12 Q1022 NOSIG K05U 220935Z AUTO 16009G15KT 10SM OVC075 M01/M08 A2986 RMK A01 SKIP 212300Z 02006KT 9999 FEW016 SCT080 12/07 A3039 GQQP 220800Z 03016KT 8000 NSC 16/12 Q1021 NOSIG MMVR 220442Z 21004KT 7SM SKC 24/19 A2970 RMK HZY SLAL 212300Z 10016KT 9999 FEW020 17/04 Q1030 K08D 220935Z AUTO 29012KT 2SM BR OVC003 M01/M01 A2966 RMK AO2 LWOH 220930Z 32001KT 9999 -SN BKN035 M00/M04 Q1029 SLCA 212300Z 00000KT 9999 SCT036 32/16 Q1013 SLCB 220900Z 29003KT 9999 FEW030 SCT070 BKN200 14/06 Q1026 SKLC 220000Z 31008KT 9999 FEW020 27/24 A2988 LXGB 220850Z 29013KT 9999 FEW030 11/05 Q1019 NOSIG MNPC 212300Z 09008KT 7000 BKN016 27/25 Q1011 HZ NFFN 220900Z 16004KT 9999 FEW030 SCT120 26/23 Q1009 NOSIG YHID 220930Z AUTO 23003KT 9999 -SHRA NCD 27/24 Q1008 SKMD 212300Z 36014KT 9999 FEW040TCU SCT200 24/13 A3014 RMK TCU/NE/SE MMZC 220846Z 22018KT 8SM SKC 08/M07 A3023 SLCO 212200Z 26008KT 9999 FEW015 BKN080 27/23 Q1009 SLCP 212200Z 00000KT 9999 BKN017 28/23 Q1012 MMZH 220246Z 33004KT 8SM SKC 25/19 A2995 RMK SLP126 52013 900 HZY SKLT 220800Z 00000KT 9999 SCT012 BKN080 24/23 A2984 MMZO 220151Z 35005KT 10SM SKC 23/19 A2991 SKMR 220300Z 00000KT 9999 SCT020 25/23 A292 K11R 220935Z AUTO 27009G15KT 10SM CLR 16/00 A2958 RMK AO2 T01640002 YGTE 220930Z AUTO 03003KT 9999 // NCD 27/26 Q1005 RMK YGTH 220930Z AUTO 16005KT 9999 // NCD 31/11 Q1009 RMK K12N 220854Z AUTO 00000KT 04/04 A2970 RMK AO1 SLP064 T00440039 58020 YHLC 220930Z AUTO 25007KT //// // SCT090 33/20 Q1007 RMK MNRS 212300Z 00000KT 9999 SCT014 28/23 Q1011 SLET 220900Z 34010KT 9999 BKN010 SCT070 BKN200 22/21 Q1012 TBPB 220900Z 08011KT 9999 FEW018 25/22 Q1012 NOSIG SKPC 212300Z 05007KT 9999 FEW020 SCT200 30/21 A2970 LWSK 220930Z 02006KT 5000 BR OVC013 M04/M07 Q1035 R99/////95 NOSIG YGTN 220930Z AUTO 12001KT 9999 // NCD 29/24 Q1008 SKNV 220300Z 17003KT 9999 FEW027 24/20 A2998 SKPE 220500Z 08006KT 9999 FEW016 19/16 A3004 LYBE 220930Z VRB02KT 1000 R12/1100N R30/1400N BR BKN006 M05/M06 Q1036 R12/3///94 NOSIG MPBO 220100Z 00000KT 9999 FEW020 SCT100 Q1015 SKPS 212300Z 00000KT 9999 FEW026 SCT080 17/14 A3019 YHML 220930Z AUTO 15009KT 9999 // NCD 25/11 Q1010 RMK MPDA 220300Z 00000KR(E) CAVOK Q1013 LYBT 220930Z VRB02KT 0900 R12/1200N R30/1900U FZFG OVC006 M06/M07 Q1036 R12/////// NOSIG SKPV 220000Z 18004KT 9999 SCT017 26/23 A//// SKRG 220900Z 24003KT 9000 BKN008 13/12 A3030 RMK HZ SKRH 212300Z 05012KT 9999 FEW020 25/23 A2992 K14Y 220941Z AUTO 00000KT 1/2SM -SN OVC002 00/00 A2962 RMK AO2 NFNA 220900Z 00000KT 9999 BKN020 BKN048 27/24 Q1010 K0A9 220935Z AUTO 11004KT 10SM BKN055 11/09 A2962 RMK AO2 SLJE 212200Z 00000KT 9999 FEW017 32/23 Q1013 K18A 220935Z AUTO 00000KT 2SM RA OVC002 14/14 A2969 RMK AO2 LTG DSNT N T01400135 SKSM 220400Z 00000KT 9999 FEW025 25/21 A2989 YHOO 220930Z AUTO 15014KT //// // ////// 26/22 Q1006 RMK SLJO 212200Z 18006KT 9999 FEW017 BKN200 28/25 Q1009 SKSP 220900Z 13008KT 090V160 9999 FEW016 25/21 A2987 YHOT 220930Z AUTO 24002KT 9999 // ////// 17/11 Q1018 SKUC 220200Z 00000KT 9999 FEW015 26/22 A2988 TDCF 220000Z 15004KT 9999 FEW019 23/18 Q1013 SKUI 220100Z 00000KT 9999 FEW030 26/23 A2989 NGFU 220800Z 22008KT 9999 SCT020TCU BKN110 28/25 Q1009 K0E0 220935Z AUTO 30018G27KT 10SM CLR 00/M07 A2992 RMK AO2 T10031070 K21D 220932Z AUTO 00000KT 1 1/2SM BR OVC003 01/01 A2959 RMK AO2 SLMG 212200Z 00000KT 8000 -RA FEW015 FEW023CB BKN070 OVC200 23/23 Q1008 SLLP 220900Z 11008KT 4000E VCFG FEW003 SCT012 BKN200 05/03 Q1036 YJAB 220930Z AUTO 32006KT //// // ////// 26/25 Q1007 RMK K20U 220935Z AUTO 26012KT 10SM CLR M08/M08 A2973 RMK AO2 K20V 220934Z AUTO 00000KT 10SM OVC080 M07/M09 A2989 RMK AO2 K0F2 220935Z AUTO 24007KT 10SM CLR 10/00 A2939 RMK AO2 T01010001 SKVP 220100Z 04011KT 9999 FEW020 27/20 A2993 YHSM 220930Z AUTO 07004KT //// NCD 30/08 Q1008 RMK SKVV 212300Z 00000KT 9999 SCT020 BKN090 26/20 A2987 K22N 220935Z AUTO 00000KT 1/4SM FG 05/05 A2973 RMK AO2 K24A 220940Z AUTO 10003KT 10SM TS SCT001 SCT028 OVC045 10/09 A2968 RMK AO2 LTG DSNT S THRU NW T00960095 HKEL 220930Z 07012KT 9999 FEW025 BKN300 25/04 Q1024 YHUG 220930Z AUTO 02005KT //// // ////// 28/21 Q1008 RMK NFTF 220900Z 00000KT 9999 FEW016 25/23 Q1010 SLOR 212000Z 09015G25KT 9999 FEW020 SCT200 17/01 Q1035 K24J 220935Z AUTO 19008G15KT 150V210 10SM BKN015 OVC022 23/22 A2965 RMK A01 NFTL 220600Z 25005KT 9999 FEW020 BKN280 29/24 Q1007 SLPO 211400Z 00000KT 9999 FEW017 SCT200 13/03 Q1043 SLPS 212300Z 00000KT 9999 BKN017 BKN070 23/22 Q1009 SLRB 212300Z 00000KT 9999 SCT020 30/25 Q1011 LYKV 220930Z VRB01KT 0300 FZFG VV/// M10/M13 Q1035 BECMG 1000 BR BKN004 NFTV 220600Z 00000KT 9999 FEW017 BKN120 29/25 Q1008 MPMG 220300Z 00000KT 9999 FEW020 26/22 Q1014 NOSIG K0J4 220921Z AUTO 22012KT 8SM SCT013 BKN021 OVC026 22/20 A2954 RMK AO2 T02220200 $ SLRI 220900Z 00000KT 8000 VCSH SCT004 BKN015 BKN070 23/23 Q1011 K1A5 220940Z AUTO 08003KT 4SM +DZ BKN003 OVC033 10/09 A2966 RMK AO2 T01010094 SLSA 212300Z 00000KT 9999 FEW017 BKN200 28/23 Q1008 K1A6 220935Z AUTO 00000KT 1/2SM FG OVC002 06/06 A2961 RMK AO2 T00610061 K1A9 220935Z AUTO 00000KT 7SM OVC016 16/16 A2951 RMK AO2 P0001 T01610161 SLRQ 212200Z 00000KT 9999 BKN023 OVC200 29/26 Q1008 SLSI 212300Z 00000KT 9999 SCT017 27/24 Q1010 LYNI 220930Z VRB02KT 0800 R29/1200N R11/P2000N FZFG BKN002 OVC007 M07/M08 Q1036 TEMPO 1500 BR SLRY 212200Z 00000KT 9999 BKN070 BKN200 28/24 Q1009 SMJP 220900Z 27001KT 9999 SCT030 23/23 Q1011 NOSIG SLTJ 212300Z 13006KT 9999 FEW030 24/06 Q1021 MPPA 220300Z 00000KT 9999 FEW020 25/23 Q1014 K28J 220935Z AUTO 20004KT 10SM SCT017 OVC090 20/17 A2972 RMK AO2 HKJK 220930Z 04012KT 9999 BKN025 25/13 Q1022 K1AM 220858Z AUTO 00000KT 10SM BKN070 M04/M06 A2975 RMK AO2 SLP064 T10381060 52015 $ K1AN 220856Z AUTO 27007KT 4SM BR OVC008 M01/M02 A2958 RMK AO2 SLP056 T10141023 52014 $ LYPG 220930Z VRB02KT CAVOK 05/M06 Q1030 NOSIG SLTR 220900Z 36004KT 9999 BKN080 24/24 Q1010 HKKI 220900Z 24014KT 9999 FEW023 SCT090 30/14 Q1016 K1BM 220858Z AUTO 25008KT 10SM BKN065 M02/M06 A2972 RMK AO2 SLP097 T10231058 52015 $ K1BN 220856Z AUTO 28008KT 3SM BR OVC007 M01/M02 A2961 RMK AO2 SLP054 T10131017 52015 $ ZBAA 220930Z 09001MPS CAVOK M03/M18 Q1033 NOSIG LZIB 220930Z 07007KT 4600 BR NSC M06/M10 Q1035 R13/9/2095 NOSIG SLVM 211800Z 18008KT 9999 SCT023 39/19 Q1011 K1F0 220935Z AUTO 28005KT 10SM CLR 11/00 A2937 RMK AO2 K1CM 220858Z AUTO 30007KT 10SM FEW065 M04/M07 A2972 RMK AO2 SLP103 T10381069 52014 $ K1CN 220856Z AUTO 28012KT 4SM BR OVC008 M02/M02 A2963 RMK AO2 CIG 005V008 SLP063 T10191018 52013 $ K1BW 220858Z AUTO 28015KT 10SM CLR M03/M07 A2974 RMK AO2 SLP094 T10311068 52016 $ SLVR 220900Z 36005KT 9999 BKN007 FEW030CB BKN200 24/23 Q1011 HKML 220900Z 05018KT 9999 FEW026 30/21 Q1014 K1DM 220858Z AUTO 25009KT 10SM BKN065 M06/M08 A2971 RMK AO2 SLP110 T10621085 52015 $ K1DN 220856Z AUTO 30014KT 6SM BR OVC005 M02/M02 A2962 RMK AO2 SLP062 T10191021 52015 $ K1CW 220858Z AUTO 30003KT 10SM SCT110 M03/M05 A2978 RMK AO2 SLP095 T10281052 52020 $ HKMO 220900Z 06005KT 9999 FEW026 33/19 Q1014 NOSIG GUCY 220900Z 07006KT 9999 FEW015 SCT110 26/24 Q1012 NOSIG SLYA 212300Z 00000KT 9999 NSC 32/22 Q1011 YJLC 220930Z AUTO 15001KT //// // ////// 31/24 Q1006 RMK NGTA 220600Z 08006KT 9999 FEW020 SCT300 28/24 Q1008 TDPD 220100Z 27006KT 9999 FEW022 22/21 Q1015 MPSM 220100Z 00000KT 9999 FEW030 25/22 Q1010 K1EM 220858Z AUTO 26007KT 10SM CLR M04/M07 A2972 RMK AO2 SLP105 T10401066 52015 $ K1H2 220935Z AUTO 09005KT 10SM CLR 10/10 A2952 RMK AO2 T01020102 CERM 220900Z AUTO 36002KT M01/M03 RMK AO1 SOG 54 1021 SLP089 T10141033 K1EN 220856Z AUTO 29012KT 4SM BR OVC004 M02/M02 A2960 RMK AO2 SLP063 T10191023 52016 $ K1DW 220858Z AUTO 30015KT 10SM SCT100 M02/M06 A2976 RMK AO2 SLP094 T10191061 52017 $ K33V 220935Z AUTO 00000KT 10SM M07/M11 A2984 RMK AO2 K1FM 220858Z AUTO 01005KT 10SM CLR M09/M11 A2972 RMK AO2 SLP120 T10901107 52014 $ HKNW 220900Z 06012KT 9999 BKN024 22/17 Q1023 MPTO 220900Z 00000KT 9999 FEW020 20/20 Q1013 NOSIG K1FN 220856Z AUTO 31017KT 6SM BR OVC004 M02/M02 A2952 RMK AO2 SLP063 T10201023 52015 $ K1EW 220858Z AUTO 32011KT 10SM FEW080 M03/M06 A2973 RMK AO2 SLP093 T10261062 52017 $ K0R4 220935Z AUTO 26019G25KT 10SM SCT026 BKN035 OVC100 17/14 A2958 RMK AO2 T01700139 NGTT 220900Z 07007KT 9999 SCT020 27/24 Q1010 K1J0 220858Z AUTO 22007G19KT 10SM BKN017 OVC022 23/22 A2956 RMK AO2 RAE21 TSE33 SLP968 P0000 60000 T02280217 56004 $ K2A0 220935Z AUTO 00000KT 7SM FEW023 BKN037 OVC055 12/11 A2955 RMK A01 YIVO 220930Z AUTO 09003KT //// // ////// 34/04 Q1007 RMK LYTV 220930Z VRB01KT CAVOK 09/M01 Q1027 NOSIG K1GM 220858Z AUTO 21010KT 10SM BKN070 M05/M08 A2972 RMK AO2 SLP107 T10481077 52015 $ K1GN 220856Z AUTO 30014KT 7SM OVC006 M02/M02 A2959 RMK AO2 SLP063 T10181021 52016 $ K1FW 220858Z AUTO 30014KT 10SM OVC110 M02/M05 A2972 RMK AO2 SLP075 T10161051 52019 TSNO $ LZKZ 220930Z 14003KT 1800 BR OVC013 M04/M06 Q1035 NOSIG K0S9 220935Z AUTO 14007KT 7SM SCT008 BKN012 OVC021 07/06 A2956 RMK AO2 K1K1 220935Z AUTO 36005KT 10SM OVC045 08/06 A2950 RMK AO2 T00750055 K1HN 220856Z AUTO 30012KT 10SM OVC009 M01/M01 A2963 RMK AO2 SLP068 T10141014 52015 $ LYUZ 220930Z VRB02KT CAVOK M02/M06 Q1029 R10/////// LYVR 220930Z VRB03KT 3000 BR OVC006 M05/M06 Q1037 R01/////// NOSIG K1L0 220935Z AUTO 25006KT 5SM BR SCT016 SCT021 20/19 A2952 RMK AO2 T02030193 GVAC 220900Z 06015KT 9999 FEW014 BKN200 21/14 Q1017 NOSIG K36U 220933Z AUTO 00000KT 10SM OVC060 M08/M11 A2998 RMK AO2 K1IM 220858Z AUTO M 10SM BKN085 M03/M05 A2976 RMK AO2 SLP120 T10331051 52017 $ K1IN 220856Z AUTO 29013KT 8SM OVC005 M02/M02 A2960 RMK AO2 SLP060 T10211025 52016 $ K1HW 220858Z AUTO 31009KT 10SM FEW120 BKN130 M04/M05 A2971 RMK AO2 SLP081 T10401050 52019 $ SOCA 220930Z AUTO VRB03KT 9999 FEW035/// SCT044/// OVC140/// ///TCU 24/24 Q1011 TEMPO 3000 SHRA BKN001 GVBA 220900Z 06014KT 9999 FEW015 BKN100 BKN200 21/15 Q1018 NOSIG K2C8 220935Z AUTO 00000KT 3/4SM BR OVC001 00/00 A2964 RMK AO2 K40B 220916Z AUTO 00000KT M02/M03 A2977 RMK AO1 SLP105 T10241033 52015 K1JM 220858Z AUTO 29007KT 10SM BKN050 M06/M08 A2974 RMK AO2 SLP126 T10581081 52018 $ ZBHH 220900Z 23002MPS CAVOK M06/M19 Q1027 NOSIG K1JN 220856Z AUTO 29014KT 10SM OVC007 M02/M02 A2959 RMK AO2 SLP055 T10221025 52014 $ K1IW 220858Z AUTO 30010KT 10SM FEW110 BKN130 M02/M04 A2970 RMK AO2 SLP075 T10161038 53015 $ K1M4 220856Z AUTO VRB03KT 10SM FEW004 SCT075 SCT110 13/13 A2946 RMK AO2 TSB02E17RAE49 SLP991 P0008 60055 T01330128 58010 K0V4 220935Z AUTO 00000KT 10SM OVC005 11/10 A2965 RMK AO1 T01070095 K1M5 220935Z AUTO 13003KT 10SM FEW120 12/10 A2950 RMK A01 K40J 220935Z AUTO 20012G19KT 10SM OVC008 23/21 A2965 RMK AO2 T02290210 K1KM 220858Z AUTO 30011KT 10SM BKN190 M04/M08 A2974 RMK AO2 SLP104 T10431076 52016 $ K1KN 220856Z AUTO 30016KT 10SM OVC003 M03/M03 A2959 RMK AO2 SLP053 T10281032 52013 $ K1JW 220858Z AUTO M 10SM BKN110 00/M04 A2974 RMK AO2 SLP080 T10041045 52019 TSNO $ YKII 220930Z AUTO 09008KT 9999 // NCD 18/13 Q1012 RMK LZPP 220930Z VRB02KT 4700 BR NSC M09/M10 Q1035 HLLM 220850Z 25005KT 6000 SKC 14/01 Q1017 K1LM 220858Z AUTO 36005KT 10SM BKN070 M04/M09 A2972 RMK AO2 SLP105 T10361093 52015 $ K1LN 220856Z AUTO 30015KT 7SM BKN015 BKN031 M03/M03 A2961 RMK AO2 SLP055 T10301031 52014 $ K1KW 220858Z AUTO 19013KT 10SM BKN110 BKN130 M01/M04 A2970 RMK AO2 SLP073 T10081042 52018 $ K2F5 220935Z AUTO 30026G30KT 10SM BKN100 BKN120 07/M04 A2968 RMK AO2 K0VG 220935Z AUTO 00000KT 7SM OVC048 07/07 A2963 RMK AO2 YLBD 220930Z AUTO 26009KT 9999 // SCT023 30/24 Q1006 RMK K42J 220935Z AUTO 17005KT 10SM OVC017 20/17 A2971 RMK AO1 TSNO MSAC 212250Z 23006KT 9999 SCT037 29/23 Q1011 A2984 K1P1 220935Z AUTO 00000KT 10SM OVC025 01/01 A2974 RMK AO2 T00110005 K1MM 220858Z AUTO 23006KT 10SM BKN065 M04/M06 A2973 RMK AO2 SLP110 T10391060 52015 $ TFFF 220930Z AUTO 13003KT 100V170 CAVOK 19/18 Q1013 NOSIG K1MN 220856Z AUTO 30017KT 8SM OVC007 M03/M03 A2960 RMK AO2 SLP053 T10261032 52014 $ K1LW 220858Z AUTO M 10SM OVC120 M01/M05 A2974 RMK AO2 SLP085 T10061051 52016 $ K2G4 220940Z AUTO 11005KT 10SM 08/05 A2969 RMK AO1 K2DP 220856Z AUTO 25008KT 10SM BKN008 17/16 A2962 RMK AO2 SLPNO P0001 60002 T01650159 55002 $ K2G9 220935Z AUTO 17003KT 10SM CLR 06/06 A2968 RMK AO2 LZSL 220930Z 00000KT 1500 R36/1400N BR FEW002 BKN017 M11/M13 Q1035 K1NM 220858Z AUTO 33003KT 10SM CLR M04/M07 A2970 RMK AO2 SLP096 T10431071 52016 $ K1NN 220856Z AUTO 31016KT 5SM BR OVC007 M03/M03 A2962 RMK AO2 SLP056 T10271032 52015 $ K1MW 220858Z AUTO 33013KT 10SM BKN120 01/M05 A2972 RMK AO2 SLP073 T00071046 52015 $ TFFR 220930Z AUTO 09002KT CAVOK 16/16 Q1014 NOSIG MRLB 220600Z 07003KT CAVOK 22/21 A2994 NOSIG K2I0 220755Z AUTO 00000KT 10SM CLR 13/11 A2952 RMK AO2 T01290107 K1OM 220858Z AUTO M 10SM CLR M03/M06 A2970 RMK AO2 SLP086 T10311063 52014 $ K1ON 220856Z AUTO 31012KT 1 7/8SM BR M 01/M01 A2960 RMK AO2 VIS 1 3/8V1 7/8 SLP046 T00101010 52015 $ K1NW 220858Z AUTO 32006KT 10SM FEW110 M01/M05 A2973 RMK AO2 SLP078 T10121049 52019 TSNO $ YLEC 220930Z AUTO 20006KT //// // ////// 33/11 Q1007 RMK K1R7 220935Z AUTO 24003KT 4SM BR BKN006 BKN010 18/18 A2951 RMK AO2 LZTT 220930Z VRB02KT 0700 R27/0800N FZFG OVC002 M05/M06 Q1031 NOSIG MRLM 220000Z 12008KT 9999 BKN015 27/23 A2988 YKMP 220930Z AUTO 06006KT //// // ////// 23/17 Q1016 RMK SMZO 220900Z 00000KT 9999 FEW008 25/23 Q1011 NOSIG K46D 220935Z AUTO 30008KT 1 3/4SM BR OVC002 M02/M02 A2966 RMK AO2 K1OW 220858Z AUTO 32015KT 10SM CLR M02/M06 A2972 RMK AO2 SLP086 T10251064 53017 $ K1S5 220935Z AUTO 02004KT M1/4SM FZFG OVC001 M01/M01 A2969 RMK AO2 T10121015 YLEO 220930Z AUTO 24014KT 9999 // NCD 42/02 Q1001 RMK YKNT 220930Z AUTO 31008KT //// // ////// 34/19 Q1006 MROC 220900Z 04004KT 9999 SCT020 19/16 A3002 NOSIG K46U 220920Z AUTO VRB05KT 10SM SCT039 BKN048 OVC055 M02/M04 A2993 RMK A01 AYMO 220600Z 34010KT 9999 -SHRA BKN018 28/24 QNIL K49A 220935Z AUTO 14005KT 10SM -RA SCT024 BKN060 OVC070 A2960 RMK AO2 LTG DSNT NE YKOW 220930Z AUTO 35006KT 9999 // SCT052 BKN070 29/24 Q1007 K3D2 220935Z AUTO 24003KT 1/2SM FG OVC003 03/03 A2955 RMK AO2 T00250025 YLHI 220930Z AUTO 11005KT 9999 // OVC044 22/12 Q1017 K1V4 220854Z AUTO 01/01 A2976 RMK AO1 SLP086 T00060006 53007 K1V6 220935Z AUTO 28011KT 10SM CLR M01/M06 A2976 RMK AO2 SPCL 220900Z 00000KT 8000 BKN012 BKN080 21/20 Q1011 RMK PP000 K3AU 220935Z AUTO 01006KT 10SM -DZ OVC042 07/06 A2949 RMK AO2 YLHR 220930Z AUTO 26006KT //// // SCT100 OVC120 28/25 Q1008 LZZI 220930Z 12003KT 060V170 6000 BKN009 M03/M05 Q1033 YKSC 220930Z AUTO 24006KT 9999 // SCT088 BKN100 OVC125 22/16 MRPV 220000Z 28008KT 9999 FEW035 21/17 A3005 NOSIG K3F3 220935Z AUTO 17008KT 10SM SCT100 SCT110 15/10 A2947 RMK AO2 T01480095 PWINO YMBA 220930Z AUTO 03007KT //// // ////// 26/22 Q1011 YLIS 220930Z AUTO 12005KT 9999 // NCD 22/17 Q1016 RMK ZBSJ 220900Z 17003MPS CAVOK 00/M18 Q1032 NOSIG OAHR 220855Z COR 07010KT 9999 FEW010 BKN030 08/04 Q1020 RMK BLU COR 0856 YMBD 220930Z AUTO 23013KT 9999 // NCD 28/08 Q1008 RMK YKRY 220930Z AUTO 08005KT 9999 // BKN026 OVC035 21/18 Q1017 K2P2 220935Z AUTO 00000KT 3/4SM BR OVC003 01/01 A2956 RMK AO2 T00090008 ZBTJ 220930Z 08002MPS 030V100 CAVOK M02/M17 Q1034 NOSIG AYPY 220400Z 34018KT 9999 SCT020 BKN300 30/23 Q1008 OAKB 220950Z 07005KT 2500 1200SW FU HZ BKN080 06/M05 Q1026 NOSIG RMK YLO YLO YMAV 220930Z AUTO 23008KT 9999 // NCD 21/16 Q1010 RF00.0/000.0 YLLE 220930Z AUTO 21005KT 9999 // SCT125 31/24 Q1006 OAJL 220855Z 10002KT 8000 HZ SCT100 BKN250 16/01 A3031 RMK AO2A SLP267 T01640009 57023 $ YMAY 220930Z AUTO 16006KT 9999 // NCD 28/12 Q1010 RMK GVNP 220900Z 05015KT 9999 FEW016 BKN200 22/16 Q1016 NOSIG OBBI 220900Z 13009KT 7000 -RA FEW030 20/17 Q1016 NOSIG K54J 220935Z AUTO 21009G17KT 7SM OVC008 22/21 A2956 RMK AO2 LTG DSNT S T02200213 SPGM 212100Z /////KT 9999 SCT040 OVC100 23/20 Q1014 RMK TX/// BIRD HAZARD RWY19 PP000 YMCO 220930Z AUTO 01010KT //// // ////// 21/14 Q1014 NIUE 220900Z AUTO 22001KT //// ////// 26/25 Q1009 OAKN 220855Z 05021G26KT 9999 SCT050 BKN070 12/07 A3015 RMK PK WND 06027/28 SLP194 Q1021 DA3648 57045 K3I2 220935Z AUTO 00000KT 1/2SM FG OVC001 06/06 A2963 RMK AO2 T00620061 YMDG 220930Z AUTO 06009KT 9999 // NCD 28/10 Q1014 RMK MTCH 211800Z 02012KT 9999 FEW028 26/17 Q1016 A3002 SPHI 220900Z 35006KT 9999 OVC050 23/22 Q1014 RMK PP000 SPHO 212300Z 35005KT 9999 SCT040 BKN100 19/14 Q1025 RMK PP000 MSLP 220950Z 05003KT 9999 FEW024 21/20 Q1011 A2988 NOSIG K4A6 220935Z AUTO 29003KT 10SM -RA SCT013 BKN019 OVC055 14/14 A2943 RMK AO2 P0002 YMEK 220930Z AUTO 25010KT 9999 // NCD 38/05 Q1005 K3J7 220935Z AUTO 00000KT 2 1/2SM VCTSRA SCT006 SCT047 OVC085 15/15 A2962 RMK AO2 LTG DSNT S SPJC 220900Z 17005KT 9999 BKN090 24/22 Q1014 NOSIG RMK PP000 K4A9 220935Z AUTO 18008G14KT 10SM SCT016 BKN046 OVC060 15/11 A2947 RMK AO2 K1YT 220933Z AUTO 12008KT 7SM SCT010 01/00 A2963 RMK AO2 $ YMEN 220930Z AUTO 20004KT 9999 // NCD 25/16 Q1010 RMK K57C 220935Z AUTO 00000KT 1/4SM FG OVC016 03/03 A2956 RMK AO2 T00300030 SPHY 211900Z /////KT 9999 SCT015 BKN050 15/08 Q1035 RMK PP000 K3K3 220935Z AUTO 34009KT 10SM CLR 01/M01 A2969 RMK AO2 YMER 220930Z AUTO 03007KT //// // ////// 21/16 Q1015 RMK YMES 220930Z AUTO 08011KT 9999 // NCD 19/14 Q1013 SPJI 212100Z 00000KT 9999 BKN030 25/24 Q1020 RMK TX25.6 PP000 YMGB 220930Z AUTO ///08KT //// // ////// 25/24 Q1007 OAMS 220850Z 02008KT 9000 SCT100 OVC180 10/03 Q1020 BLU BLU SPJL 220200Z 01003KT CAVOK 08/03 Q1038 RMK PP000 K3L4 220935Z AUTO 32015KT 10SM SCT070 SCT095 BKN120 17/13 A2956 RMK A01 SPJR 220900Z VRB01KT 9999 SCT026 BKN043 11/10 Q1028 RMK RA AT NIGHT PP032 YMHB 220930Z 11007KT 9999 FEW040 18/13 Q1012 ZBYN 220930Z 25002MPS CAVOK 03/M19 Q1026 NOSIG K2V5 220935Z AUTO 27006KT 10SM OVC080 01/M01 A2972 RMK AO2 YMIA 220930Z AUTO 00000KT 9999 // NCD 32/09 Q1008 RMK K2V6 220934Z AUTO 28009KT 10SM OVC120 00/M02 A2973 RMK AO2 YLRE 220930Z AUTO 10004KT 9999 // SCT100 30/25 Q1008 RMK SPME 220300Z 00000KT 9999 OVC013 26/24 Q1013 RMK BIRD HAZARD RWY 32/14 PP000 SPLO 212100Z 16009KT CAVOK 26/22 Q1010 RMK TX 27.0 PP000 GVSV 220900Z 06020KT 9999 SCT022 BKN200 21/15 Q1018 NOSIG K4BM 220935Z AUTO 31005G14KT 10SM CLR M11/M16 A2977 RMK AO2 K3LF 220935Z AUTO 08006KT 10SM CLR 08/06 A2950 RMK AO2 T00830056 K2W6 220943Z AUTO 04003KT 2SM OVC002 07/07 A2968 RMK AO1 YMHU 220930Z AUTO 08003KT 9999 // NCD 26/26 Q1005 K3N8 220935Z AUTO 00000KT 3/4SM BR OVC005 01/00 A2962 RMK AO2 T00050004 YMIN 220930Z AUTO 18016KT //// // ////// 25/13 Q1007 RMK SPMS 212300Z 15003KT 9999 FEW013 SCT100 24/23 Q1012 RMK BIRD HAZARD RWY 09/27 PP000 YNAR 220930Z AUTO 18003KT //// // ////// 29/11 Q1009 RMK YLST 220930Z AUTO 25011KT 9999 // NCD 38/04 Q1003 RMK YLTN 220930Z AUTO 34012KT //// // ////// 34/18 Q1004 MSSM 212250Z 21005KT CAVOK 30/17 Q1010 A2983 DAAD 211800Z 24012KT 6000 SCT010 SCT030 BKN033 06/04 Q1007 DAAE 220500Z 25008KT 9999 FEW023 SCT040 09/03 Q1005 YNBR 220930Z AUTO 06003KT 9999 // OVC084 32/15 Q1011 RMK YMMB 220930Z AUTO 11009KT 9999 // NCD 23/16 Q1010 RMK DAAG 220830Z 15004KT 9999 -RA SCT020 FEW026CB BKN033 08/07 Q1007 MSSS 220550Z 30003KT 9999 FEW017 18/17 Q1016 A3003 YLTV 220930Z AUTO 06010KT 9999 // NCD 22/10 Q1013 RMK DAAJ 220000Z 13007KT 9999 SCT046 SCT100 15/12 Q1015 MUCC 220850Z 14004KT 100V180 9000 FEW020 21/19 Q1013 DABB 220830Z 00000KT 9999 FEW026 11/05 Q1009 DABC 220830Z 16005KT 9999 SCT030 07/01 Q1009 K4I3 220929Z AUTO 00000KT 5SM BR CLR 10/10 A2963 RMK AO2 MUCF 220858Z AUTO 20012KT 150V220 23/16 Q1013 K2WX 220856Z AUTO 29008KT M07/M08 A2962 RMK AO1 SLP062 T10671083 53017 DAAP 220500Z 00000KT CAVOK 03/M09 Q1015 YMLT 220930Z AUTO 33013KT 9999 // NCD 18/08 Q1012 RF00.0/000.0 K4I7 220935Z AUTO 00000KT 5SM BR SCT120 07/07 A2956 RMK AO2 K3R7 220936Z AUTO 31014KT 10SM -RA SCT060 SCT080 OVC090 15/12 A2986 RMK AO2 YMML 220930Z 22007KT CAVOK 24/16 Q1010 NOSIG YMNE 220930Z AUTO 23009KT 180V240 9999 // NCD 39/05 Q1004 RMK DAAS 220500Z 18007KT 6000 SCT010 BKN026 01/M00 Q1006 MUCL 220905Z AUTO 10004KT 26/19 Q1011 DAAT 220830Z 34005KT CAVOK 12/M19 Q1017 MUCM 220850Z 04002KT 9000 NSC 17/15 Q1014 YMNG 220930Z AUTO 31004KT 9999 // NCD 29/09 Q1010 RMK DAAV 220500Z 18012KT 9999 SCT020 BKN030 12/03 Q1006 TGPY 220900Z 00000KT 9999 -RA FEW017 OVC036 23/23 Q1012 NOSIG DAAY 220730Z 30024G34KT 5000 OVC003 02/00 Q1014 K5A6 220935Z AUTO 19004KT 10SM CLR 11/11 A2945 RMK AO2 T01140114 SPQT 220906Z 19002KT 6000 2000SW PRFG BKN005 BKN100 23/22 Q1010 K65S 220930Z AUTO 00000KT 9SM BKN005 OVC015 00/M01 A2977 RMK AO2 SPQU 220900Z 27004KT 4000 BR OVC002 12/11 Q1027 RMK PP000 DABS 220500Z 12008KT 9999 SCT033 04/00 Q1010 MUCU 220850Z 35005KT 9000 FEW020 17/14 Q1014 DABT 220500Z 16009KT 9999 SCT023 04/M01 Q1007 YMOG 220930Z AUTO 22017KT //// // ////// 37/06 Q1006 RMK K3T5 220935Z AUTO 27010G15KT 10SM CLR 17/00 A2958 RMK AO2 T01690003 K66R 220935Z AUTO 27010KT 10SM SCT120 16/M01 A2961 RMK AO2 T01551010 SPRU 220900Z 11002KT 9999 BKN040 OVC130 23/21 Q1013 RMK PP000 K5C1 220935Z AUTO 29012G27KT 10SM CLR 13/M05 A2966 RMK AO1 SPSO 220900Z 23003KT 9999 -RA SCT048 BKN100 24/22 Q1014 RMK PPTRZ YMOR 220930Z AUTO 04009KT 9999 // NCD 32/16 Q1012 RMK SPST 220300Z 00000KT 9999 SCT020 SCT070 22/21 Q1014 RMK BIRD HAZARD RWY 17/35 PP000 SPTN 220900Z 22003KT 9999 BKN070 22/18 Q1015 RMK PP000 YMRB 220930Z AUTO 06013KT 9999 // NCD 29/20 Q1011 RMK YNHL 220930Z AUTO 00000KT //// // ////// 31/06 Q1009 RMK DAFH 211800Z 33012KT 9999 SCT030 08/03 Q1011 MUHA 220855Z 17007KT 9000 NSC 23/21 Q1010 SPTU 212300Z 28004KT 9999 FEW013 SCT050 25/23 Q1008 RMK BIRD HAZARD RWY 01/19 PP000 K4M9 220935Z AUTO 03004KT 10SM SCT070 BKN090 OVC110 12/12 A2944 RMK AO2 MUGM 220856Z 34007KT 9999 FEW040 17/16 A2995 RMK SLP143 T01720161 55008 MTPP 220100Z 26004KT 8000 FEW020 25/17 Q1014 A2996 MUHG 220850Z 12005KT 8000 FEW020 17/15 Q1013 K4O4 220935Z AUTO 14003KT 7SM CLR 10/09 A2938 RMK AO2 YMRY 220930Z AUTO 03010KT 9999 // NCD 23/17 Q1014 RMK YMTG 220930Z AUTO 16007KT 9999 // NCD 22/13 Q1010 RMK YMTI 220930Z AUTO 03007KT //// // ////// 29/26 Q1006 RMK K4MR 220858Z AUTO 30021G28KT 10SM CLR 05/M03 A2973 RMK AO2 PK WND 30030/06 SLP049 T00461032 52034 $ K5H4 220935Z AUTO 26007KT 4SM M02/M02 A2966 RMK AO2 PWINO PNO SPZA 212130Z ///// 9999 OVC070 27/19 Q1013 SPYL 212100Z 33016KT CAVOK 29/21 Q1010 RMK TX 32.4 BIRD HAZARD RWY 17/3LVA2274 212100 GG EGZZMSAM KWBCYMYX MPZZMAMX 212100 SCSCYZYX SACH10 SCSC 212100 METAR SCFA 212100Z 19011KT 9999 SCT012 BKN027 24/19 Q1012 NOSIG DBBB 220900Z 24012KT 7000 SCT010 31/26 Q1009 NOSIG K4R5 220935Z AUTO 35003KT OVC003 01/01 A2956 RMK AO2 T00110010 PWINO K6A1 220935Z AUTO 08003KT 10SM -VCTSRA 12/12 A2959 RMK AO2 LTG DSNT SE AND S T01170117 K74V 220935Z AUTO 00000KT 7SM SCT009 M08/M09 A3001 RMK AO2 K6A2 220935Z AUTO 00000KT 10SM BKN060 BKN085 OVC110 15/15 A2960 RMK AO2 LTG DSNT W AND NW SPZO 220900Z 00000KT 9999 FEW020 SCT040 BKN080 09/06 Q1031 RMK VIS 9000E BR BIRD HAZARD RWY 28 PP000 UAAA 220930Z 03004MPS 5000 BR FU SCT200 BKN200 01/M02 Q1019 R88/91//60 NOSIG K6B0 220935Z AUTO 00000KT 3SM BR OVC003 A2976 RMK AO2 UAAH 220930Z 13005MPS 4000 -SN BR OVC012 M05/M05 Q1020 R05/491035 NOSIG RMK QFE727/0970 YMYB 220930Z AUTO 15009KT 9999 // OVC056 25/17 Q1015 K6B9 220935Z AUTO 00000KT 1/4SM FG BKN030 BKN049 03/03 A2967 RMK AO2 UACC 220930Z 20011MPS 9000 DRSN BKN026 OVC073 M10/M12 Q1011 R22/3/0045 NOSIG RMK QFE727/0969 K4V0 220935Z AUTO 00000KT 10SM OVC080 M07/M08 A2998 RMK AO2 T10751085 DAOB 220805Z 29016KT 4000 -RA BR SCT013 BKN020 03/03 Q1007 TJBQ 220450Z 13005KT 10SM SCT030 20/18 A3000 DAOF 220500Z 30014KT 9999 SCT046 06/02 Q1016 YNRC 220930Z AUTO 20009KT //// // ////// 27/12 Q1009 RMK UACK 220930Z 22013MPS 9999 DRSN OVC048 M09/M12 Q1002 R20/820339 NOSIG RMK QFE728/0971 K79J 220856Z AUTO 23006KT 8SM OVC017 23/20 A2953 RMK AO2 SLP994 60008 T02280200 55007 $ K5M9 220935Z AUTO 12003KT 10SM CLR 11/11 A2949 RMK AO2 T01120105 UADD 220930Z 04002MPS 340V090 9999 SCT040 OVC100 06/02 Q1017 R13/19//60 NOSIG RMK QFE706/0941 DAOL 220500Z 30014KT 6000 RA SCT016 BKN026 10/09 Q1012 UACP 220930Z 18008MPS 9999 -SHSN DRSN SCT013 BKN030CB M08/M11 Q1000 R23/3/0145 NOSIG RMK QFE738/0984 DAON 220830Z 19012KT 6000 RA SCT010 BKN026 FEW030CB 06/05 Q1016 DAOO 220830Z 33010KT 9999 -RA FEW016 FEW023CB BKN100 12/07 Q1013 DAOR 220300Z 36007KT CAVOK 03/M00 Q1015 YPAD 220930Z 19008KT CAVOK 28/10 Q1007 NOSIG K82C 220935Z AUTO 00000KT 3SM BR SCT007 OVC025 02/02 A2956 RMK AO2 T00220020 YPAG 220930Z AUTO 08005KT 9999 ////// 32/12 Q1006 RMK DAOV 220500Z 27020KT 5000 RA FEW013 SCT016 BKN100 07/06 Q1010 YNSM 220930Z AUTO 18015KT //// // ////// 25/14 Q1006 RMK OEAB 220900Z 20010KT CAVOK 21/06 Q1026 NOSIG MUSC 220851Z 17001KT 8000 FEW025 17/15 Q1013 OEAH 220900Z 15003KT 2000 HZ FEW050 BKN100 20/17 Q1016 NOSIG OEBA 220900Z 19003KT CAVOK 23/10 Q1021 NOSIG YPCC 220930Z AUTO 19010KT 9999 // SCT022 OVC064 27/23 Q1010 YOLD 220930Z AUTO 14003KT 9999 // NCD 35/17 Q1005 RMK YNTN 220930Z AUTO 08007KT //// // ////// 28/24 Q1006 YPBO 220930Z AUTO 28009KT 9999 // OVC105 38/10 Q1005 RMK K82V 220935Z AUTO 30018G23KT 10SM CLR M01/M07 A2975 RMK AO2 PWINO OEAO 220900Z 33010KT CAVOK 18/M06 Q1021 OEBH 220900Z 01003KT CAVOK 25/11 Q1019 NOSIG OEAR 220900Z 27005KT 9999 BKN040 26/19 Q1016 MWCB 220000Z 15008KT 9999 SCT016 26/23 Q1014 K6I2 220930Z AUTO 00000KT 10SM CLR 09/08 A2955 RMK AO2 YPEA 220930Z AUTO 23018KT 9999 // NCD 22/12 Q1010 YPED 220930Z AUTO 20011KT 9999 NCD 29/09 Q1007 RMK K5R8 220935Z AUTO 30005KT 10SM -RA SCT055 SCT070 OVC090 14/13 A2956 RMK AO2 P0001 T01380125 YOLW 220930Z AUTO 28019KT //// // ////// 28/19 Q1007 RMK DAUA 220500Z 12007KT CAVOK 03/M10 Q1015 YPDN 220930Z 29007KT 9000 VCSH FEW012 SCT024 BKN150 26/25 Q1007 DAUB 220500Z 12015KT 9999 SCT040 07/03 Q1011 TJIG 212249Z 03006KT 10SM SCT030 SCT040 25/18 A3000 OEDF 220900Z 14009KT 5000 HZ FEW040 BKN100 21/15 Q1016 NOSIG UAII 220930Z 32003MPS 2000 -SHRA BR BKN004 OVC030CB 03/03 Q1020 R28/2///55 NOSIG RMK QBB120 QFE727/0970 MWCR 220250Z 15007KT 130V190 9999 FEW024 26/23 Q1013 NOSIG DAUG 220500Z 24006KT CAVOK 04/M03 Q1012 DAUH 220830Z 19008KT CAVOK 05/M04 Q1015 YOOD 220930Z AUTO 29005KT //// // ////// 39/19 Q1003 RMK YNWN 220930Z AUTO 35017KT 3600 // SCT024 SCT037 SCT049 27/21 Q1006 DAUK 220500Z 17010KT CAVOK 03/00 Q1012 OEDM 220900Z 35012KT 7000 NSC 21/M04 Q1018 DAUO 220500Z 19005KT CAVOK 04/M00 Q1012 MUVR 220852Z 17008KT 9000 FEW020 22/19 Q1011 OEDR 220900Z 13008KT 040V150 4000 SCT040 BKN080 21/15 Q1014 NOSIG UBBB 220930Z 04004KT 9999 FEW014 BKN025 BKN200 06/03 Q1021 R88/CLRD// NOSIG YOOM 220930Z AUTO 18008KT 9999 NCD 39/14 Q1005 RMK K5T9 220935Z AUTO RMK A01 DAUT 220500Z 14005KT CAVOK 00/M10 Q1015 DAUU 220500Z 15010KT CAVOK 01/M04 Q1013 ZGGG 220930Z 32005MPS 300V360 CAVOK 19/M00 Q1024 NOSIG UBBG 220930Z 32015KT 9999 FEW100 08/M09 Q1020 R30/CLRD// NOSIG K6L4 220955Z AUTO 00000KT 10SM CLR 11/09 A2958 RMK AO2 ZGHA 220900Z 34002MPS 290V070 CAVOK 15/M03 Q1028 NOSIG DAUZ 220500Z 29002KT CAVOK 01/M12 Q1014 UAKK 220930Z 19009MPS 9999 -SG DRSN OVC036 M06/M08 Q1013 R23/920555 NOSIG RMK QFE713/0951 TIST 220853Z 03003KT 10SM CLR 23/18 A2995 RMK AO2 SLP141 T02280178 55004 UBBL 220900Z 34007KT 9999 SCT100 08/M01 Q1024 R33/CLRD// RMK MT OP UBBN 220930Z VRB02KT 2900 BR OVC004 M06/M08 Q1024 R14R/CLRD// NOSIG RMK MT OBSC QFE692 TISX 220853Z AUTO 35003KT 10SM FEW032 SCT046 BKN055 20/18 A2996 RMK AO2 SLP145 60000 T02000183 55003 K5SM 220935Z AUTO OVC002 A2990 RMK AO2 PWINO TSNO UBBQ 220900Z 32012KT 9999 FEW028 FEW150 04/M02 Q1020 R34/////// NOSIG RMK MT OP YPGV 220930Z AUTO 35011KT 9999 // BKN016 OVC024 27/24 Q1007 YORG 220930Z AUTO 35006KT 9999 // NCD 22/12 Q1017 RMK OEGN 220900Z 23010KT 8000 FEW030 30/22 Q1016 NOSIG K7BM 220935Z AUTO 24018G29KT 210V270 10SM CLR M05/M14 A2979 RMK AO2 UBBY 220900Z VRB02KT 9999 FEW100 04/M05 Q1024 R33/////// NOSIG RMK MT OP OEGS 220900Z 34015KT CAVOK 19/07 Q1018 OEGT 220900Z 02002KT CAVOK 11/02 Q1023 NOSIG OEHL 220900Z 36010KT CAVOK 13/00 Q1021 UBEE 220900Z 33020G30KT CAVOK 09/M04 Q1022 R30/CLRD// NOSIG YPKA 220930Z AUTO 28021KT 9999 // NCD 29/22 Q1005 RMK OEJB 220900Z 12006KT 4000 HZ SCT021 21/16 Q1017 NOSIG YPKG 220930Z AUTO 16011KT 9999 // SCT115 32/18 Q1003 TJNR 220853Z AUTO 30003KT 10SM FEW080 18/18 A2998 RMK AO2 SLP153 T01830183 55001 $ YPJT 220930Z AUTO 23018KT 9999 // SCT033 21/11 Q1011 RF00.0/000.0 YPLC 220930Z AUTO 19009KT 9999 // BKN065 OVC077 21/20 Q1008 ZHCC 220900Z VRB01MPS 6000 NSC 06/M12 Q1030 NOSIG ZGKL 220900Z 09002MPS 040V130 CAVOK 18/M04 Q1025 NOSIG K6P9 220935Z AUTO 27012G26KT 10SM SCT055 SCT100 11/M01 A2945 RMK AO2 UAOO 220930Z 23007MPS CAVOK 01/M05 Q1018 R23/CLRD70 NOSIG RMK QFE751/1002 OEJN 220900Z 06004KT 9999 FEW035 28/16 Q1015 NOSIG YPKS 220930Z AUTO 05007KT 9999 // NCD 27/12 Q1012 RMK YPKT 220930Z AUTO 30005KT //// // ////// 29/24 Q1006 RMK OEKJ 220800Z 19012KT 8000 FEW040 SCT080 23/12 Q1020 YPKU 220930Z AUTO 05004KT 9999 // BKN092 BKN125 30/26 Q1005 OEKK 220800Z 09010KT CAVOK 14/09 Q1019 NOSIG YPLM 220930Z AUTO 25015KT 9999 // NCD 29/16 Q1007 OEKM 220900Z 21010KT CAVOK 23/M01 Q1025 NOSIG K6R3 220935Z AUTO 28003KT 10SM SCT070 SCT080 OVC095 15/09 A2955 RMK AO2 T01500085 TJPS 220750Z 00000KT 10SM FEW025 19/18 A2999 K6R6 220853Z AUTO 26018G25KT 12/M05 A2979 RMK AO1 PK WND 25033/0759 SLP067 T01171050 53008 OEMA 220900Z 00000KT CAVOK 23/02 Q1020 NOSIG K8A0 220935Z AUTO 22011G22KT 10SM SCT017 13/13 A2948 RMK AO2 YPMQ 220930Z AUTO 04009KT 9999 // BKN032 OVC043 24/18 Q1016 SUAA 212200Z 06009KT CAVOK 32/16 Q1015 YPOD 220930Z AUTO 09007KT 9999 // NCD 19/14 Q1010 RMK OEMK 220900Z 18002KT 9999 SCT040 29/19 Q1015 ZGNN 220900Z 07002MPS 010V150 8000 NSC 18/06 Q1023 NOSIG K8B0 220935Z AUTO 30005KT 10SM BKN013 OVC019 00/00 A2973 RMK AO2 OENG 220900Z 12002KT CAVOK 30/05 Q1018 NOSIG UARR 220930Z 29007MPS 9999 OVC040 M10/M12 Q1008 R22/750134 NOSIG RMK QFE752/1003 TJSJ 220856Z 00000KT 10SM FEW042 23/20 A2997 RMK AO2 SLP147 T02330200 55002 UASK 220930Z VRB01MPS 9999 -SN OVC036 M03/M08 Q1023 R12/820245 NOSIG RMK QFE742/0989 YPPD 220930Z AUTO 30018KT 9999 // NCD 30/23 Q1005 YPPF 220930Z AUTO 21011KT 9999 // NCD 28/09 Q1007 RMK UATE 220930Z 31011G19MPS 270V340 9999 SCT031CB BKN043 02/M03 Q1020 R30/2///60 NOSIG RMK QFE763/1018 K7L2 220935Z AUTO 00000KT 7SM M09/M09 A2972 RMK AO2 UATG 220930Z 32009MPS 9999 SCT021 M05/M10 Q1014 R32/42//60 NOSIG RMK QFE763/1017 UASP 220930Z 20009MPS 9999 DRSN SCT033 BKN100 M08/M11 Q1017 R21/4/0155 NOSIG RMK QFE752/1002 YPPH 220930Z 22020KT 9999 FEW032 22/11 Q1011 NOSIG SUCA 212200Z XXXXXKT CAVOK 29/23 Q1011 UASS 220930Z 14002MPS CAVOK M09/M12 Q1023 R26/92//50 NOSIG RMK QFE749/0998 OEPA 220900Z 10006KT CAVOK 18/06 Q1018 NOSIG ZGOW 220900Z 12004MPS 090V150 CAVOK 18/07 Q1024 NOSIG ZHHH 220900Z 09003MPS 7000 NSC 11/M05 Q1030 NOSIG K8D3 220856Z AUTO 35004KT 01/01 A2963 RMK AO1 SLP049 T00110011 53021 UATT 220930Z 28007MPS 5000 -SN BKN020 M06/M08 Q1000 R31/450150 NOSIG RMK QFE730/0974 K7N0 220856Z AUTO 20005KT 5SM BR 21/20 A2953 RMK AO2 SLP998 6//// T02110200 50006 PNO $ CMGB 220945Z AUTO 04003KT M00/M00 RMK AO1 SOG 01 1011 SLP095 T10011001 CMFM 220900Z AUTO 00000KT M05/M05 RMK AO1 SOG 84 3015 SLP094 T10481049 UAUU 220930Z 20006MPS 2500 -SHSN DRSN OVC027CB M08/M09 Q0997 R15/820150 TEMPO 2000 BKN006 BKN010CB RMK QFE732/0976 OERF 220900Z 35015KT CAVOK 14/02 Q1020 SUDU 212100Z 06006KT CAVOK 31/17 Q1013 OERK 220900Z 26005KT 9000 NSC 24/05 Q1017 NOSIG OESH 220900Z 18006KT CAVOK 30/04 Q1017 NOSIG OERR 220900Z 33010KT CAVOK 13/09 Q1022 NOSIG UCFL 220000Z 02003MPS 9999 SCT023 BKN100 M00/M05 Q1019 R07/////// RMK V/G/Z OETB 220900Z 15003KT CAVOK 12/M01 Q1022 NOSIG OESK 220900Z 07004KT CAVOK 12/02 Q1022 NOSIG UCFM 220930Z 30002MPS 6000 NSC 03/M01 Q1019 R08/19//60 NOSIG YPTN 220930Z AUTO 29006KT 9999 // SCT098 28/24 Q1006 UCFO 220930Z 28003MPS 5000 BR FU FEW050 BKN130 04/M02 Q1020 R12/CLRD70 NOSIG OETF 220900Z VRB03KT 9999 FEW030 23/12 Q1021 NOSIG ZGSZ 220900Z 33005MPS CAVOK 18/06 Q1023 NOSIG TKPK 220200Z 34005KT 9999 FEW024 21/19 Q1016 TKPN 212300Z 00000KT 9999 FEW020 22/16 Q1014 OETR 220900Z 01004KT CAVOK 09/03 Q1022 NOSIG K9A5 220935Z AUTO 00000KT 10SM BKN014 BKN041 OVC060 15/14 A2952 RMK AO2 T01460136 YREN 220930Z AUTO 12004KT 9999 // NCD 32/07 Q1007 RMK OEWD 220900Z 19004KT CAVOK 26/13 Q1015 NOSIG YPWR 220930Z AUTO 05006KT 9999 // NCD 35/15 Q1006 OEWJ 220900Z 25006KT CAVOK 25/11 Q1017 NOSIG YPXM 220930Z AUTO 30009KT 9999 -SHRA SCT004 BKN009 OVC019 26/24 Q1010 MYGF 220300Z 20013KT 9999 FEW020 24/20 A2988 OEYN 220900Z 28008KT CAVOK 26/13 Q1014 NOSIG K7W4 220935Z AUTO 00000KT 1SM OVC002 09/09 A2969 RMK AO1 T00880088 SULS 220900Z 12003T CAVOK 18/16 Q1016 HTDA 220900Z 36010KT 9999 SCT027 33/24 Q1014 NOSIG SUMU 220900Z 03005KT CAVOK 19/15 Q1015 NOSIG YSBK 220930Z AUTO 04009KT 9999 // NCD 24/16 Q1015 YSCB 220930Z AUTO 07015KT 9999 // NCD 24/15 Q1014 TLPC 220000Z 00000KT 9999 FEW026 24/22 Q1014 NOSIG HSOB 220800Z 03017KT CAVOK 29/04 Q1015 HSNN 220800Z 04015KT CAVOK 28/M02 Q1015 YRMD 220930Z AUTO 03005KT //// // ////// 30/24 Q1007 RMK TLPL 220900Z 05005KT 9999 FEW024 24/21 Q1013 NOSIG YSCN 220930Z AUTO 06007KT 9999 // NCD 23/15 Q1015 RMK YSCO 220930Z AUTO 18011KT //// // ////// 25/15 Q1013 RMK YSCR 220930Z AUTO 23017KT //// // ////// 34/08 Q1005 RMK HSPN 220800Z 34015KT 9999 BKN030 25/19 Q1017 MZBZ 220400Z 14003KT 9999 FEW018 25/24 A2979 Q1008 NOSIG HRYR 220900Z 12008KT 9999 SCT025 SCT100 24/16 Q1020 NOSIG YSDU 220930Z AUTO 08004KT 9999 // NCD 27/16 Q1011 RF00.0/000.0 YROM 220930Z AUTO 06013KT 9999 // BKN071 27/19 Q1012 RMK YSGE 220930Z AUTO 01011KT //// // ////// 31/19 Q1011 SUSO 220900Z 12006KT CAVOK 18/17 Q1013 MYNN 220500Z 00000KT CAVOK 22/22 A2994 K9L2 220942Z AUTO 22009KT 10SM -RA BKN055 07/04 A3003 RMK AO2 LTG DSNT NW RAB16E39RAB42 TNCA 220800Z 07006KT 9999 FEW018 24/20 Q1012 A2990 NOSIG TNCB 220855Z AUTO 07005KT 9999 NSC 24/22 Q1012 TNCC 220900Z 08007KT 9999 SCT017 25/22 Q1013 NOSIG TNCE 220855Z AUTO VRB01KT //// // ///////// 17/17 Q1014 RE// DFFD 220900Z 05012KT 020V080 8000 NSC 25/M02 Q1014 NOSIG YSHK 220930Z AUTO 19021KT //// // ////// 25/16 Q1008 RMK ZJHK 220900Z 05005MPS 010V100 9999 FEW033 18/12 Q1022 NOSIG HTKJ 220900Z 08013KT 9999 FEW038 29/16 Q1016 NOSIG HSSS 220930Z 03013KT CAVOK 32/11 Q1013 NOSIG TNCM 220900Z 10001KT 9999 FEW022 BKN028 24/20 Q1014 A2995 K8W2 220935Z AUTO 00000KT 3SM OVC003 07/07 A2969 RMK AO1 T00740068 YSHT 220930Z AUTO 00000KT 9999 // NCD 29/11 Q1009 RMK YSHW 220930Z AUTO 05007KT 9999 // NCD 23/16 Q1015 RMK UEEE 220930Z 00000MPS 2400 -SN BR NSC M36/M40 Q1027 R23L/490150 NOSIG RMK QFE761 HTMG 211700Z 06008KT 9999 FEW026 29/19 Q1013 OIAA 220900Z 00000KT CAVOK 19/04 Q1018 OIAD 220900Z 00000KT 5000 HZ FEW040 17/05 Q1019 A3010 K9MN 220934Z AUTO 26004KT 1 3/4SM OVC002 02/02 A2957 RMK AO1 T00150015 YTAR 220930Z AUTO 00000KT //// // ////// 37/18 Q1005 RMK YRTI 220930Z AUTO 21022KT //// // ////// 20/13 Q1011 RMK OIAG 220800Z 33004KT 8000 FEW035TCU FEW040 18/11 Q1019 OIAH 220900Z 13004KT 9999 SCT040 OVC100 16/07 Q1018 OIBA 220900Z 18010KT 5000 HZ FEW025 BKN090 24/17 Q1017 OIBB 220900Z 30004KT 6000 -RA FEW030CB SCT040 OVC090 18/13 Q1016 A3003 DGAA 220900Z 24010KT 5000 BR BKN012 OVC018 28/26 Q1011 NOSIG OIAM 220900Z 32010KT 9999 SCT040 20/02 Q1017 HTMW 220900Z 09018KT 9999 FEW024 FEW025CB BKN110 30/15 Q1016 NOSIG HUEN 220900Z 21012KT 9999 FEW023 FEW025CB SCT150 27/20 Q1017.5 30.04 886.1 26.16 NOSIG OIBJ 220900Z 07004KT 4000 -RA BKN035 OVC080 16/12 Q1019 OIBK 220930Z 13010KT 4000 HZ FEW025CB SCT030 OVC090 23/19 Q1016 OICC 220930Z 35006KT 6000 -SHRA FEW035CB SCT040 OVC080 03/M01 Q1017 A3005 TEMPO SHRA OIBL 220900Z 09006KT 4000 HZ SCT025 BKN090 23/17 Q1017 OIAW 220930Z 31002KT CAVOK 19/03 Q1017 YSMH 220930Z AUTO 13009KT 9999 // SCT015 SCT018 SCT027 26/22 YSMI 220930Z AUTO 32006KT //// // ////// 19/13 Q1012 OIBP 220930Z VRB02KT 7000 RA FEW030CB SCT035 OVC090 21/14 Q1016 A3000 OIBQ 220900Z 00000KT 9999 SCT040 BKN100 19/15 Q1016 OICI 220930Z 11004KT 0300 +SN FEW020CB OVC025 02/02 Q1019 A3012 OIBS 220900Z 15012KT 9999 SCT035 BKN090 24/17 Q1017 OICK 220530Z 14002KT 9999 FEW045 SCT190 02/M02 Q1019 YTEE 220930Z AUTO 24005KT 9999 SCT058 BKN100 BKN120 28/23 KMG 220930Z AUTO 16003KT 9999 // NCD 24/13 Q1013 OIBV 220800Z 12010KT 5000 BR FEW025CB SCT030 OVC080 22/19 Q1017 OICM 220800Z 32008KT 9999 FEW043 OVC080 09/07 Q1018 YTEF 220930Z AUTO 33010KT 9999 // NCD 35/20 Q1005 RMK YSNF 220930Z AUTO 15010KT 9999 // BKN042 21/12 Q1013 OICS 220800Z 19012KT 9000 FEW040 BKN200 06/M04 Q1017 YTEM 220930Z AUTO 36007KT //// // ////// 29/10 Q1011 RMK CPBT 220800Z AUTO 30008KT M06/M07 RMK AO1 T10621068 UDSG 220930Z 15002KT 9000 SCT049 M11/M14 Q1020 R02/CLRD70 NOSIG YSNW 220930Z AUTO 07007KT 9999 // NCD 22/16 Q1014 CPEH 220800Z AUTO 35008KT M02/M02 RMK AO1 T10211023 YTGM 220930Z AUTO 09004KT //// // ////// 37/18 Q1006 OIFM 220930Z 08004KT 9999 FEW040 11/M06 Q1015 A2999 OIGG 220930Z 28004KT 9999 SCT025 OVC080 07/04 Q1023 YTIB 220930Z AUTO 17008KT //// // ////// 36/11 Q1007 RMK OIFS 220900Z 25008KT 9999 FEW030CB SCT035 06/M02 Q1017 CPFI 220900Z AUTO 30004KT M02/M02 RMK AO1 T10151015 K9V9 220935Z AUTO 00000KT 10SM SCT001 M05/M06 A2970 RMK AO2 T10551058 YSRI 220930Z AUTO 07009KT 9999 NCD 24/16 Q1014 RF00.0/000.0 PRESENT WEATHER SENSOR US DFOO 220900Z 36010KT CAVOK 24/M01 Q1014 OIHH 220900Z 18004KT 9999 FEW040 SCT200 06/M10 Q1016 YSRN 220930Z AUTO 27004KT 9999 // NCD 17/12 Q1012 RMK OIIE 220900Z 00000KT 8000 FEW040 SCT100 10/M00 Q1017 OIHR 220930Z 13006KT 8000 FEW035TCU FEW040 06/M04 Q1016 OIII 220930Z 18006KT 5000 HZ FEW035 SCT200 09/M01 Q1016 A3001 NOSIG OIIK 220900Z 26002KT 5000 BR FEW040CB OVC090 05/02 Q1017 PAAD 220935Z AUTO 22013KT 10SM CLR M29/M33 A3001 RMK AO2 T12931334 YSTH 220930Z AUTO 28009KT 9999 // NCD 23/08 Q1011 OIIP 220900Z 34004KT 4000 BR SCT035 BKN090 04/02 Q1017 OJAI 220900Z 04004KT 7000 SCT030 10/04 Q1024 NOSIG PABA 220852Z AUTO 19007KT 10SM CLR M32/M35 A3005 RMK AO2 SLP160 T13171350 412611322 52014 FZRANO TSNO OIKB 220930Z 13008KT 5000 HZ FEW025CB SCT025 BKN090 25/18 Q1016 A3003 PAAK 220736Z 10031G39KT 2SM OVC008 02/M02 A2913 RMK AO1 OJAM 220900Z 36005KT 5000 HZ SCT030 10/00 Q1023 NOSIG ZJSY 220900Z 10006MPS 9999 SCT050 25/14 Q1020 NOSIG YSSY 220930Z 04015KT CAVOK 24/17 Q1015 NOSIG PABE 220853Z 35006KT 10SM CLR M34/ A3006 RMK AO2 SLP184 T1344 412331344 53003 $ OJAQ 220900Z 35010KT 6000 NSC 17/04 Q1021 NOSIG PAAQ 220853Z AUTO 00000KT 10SM BKN070 M17/M19 A2958 RMK AO2 SLP025 T11671189 411111178 51007 TSNO PABI 220853Z AUTO 00000KT 10SM CLR M31/M33 A2978 RMK AO2 SLP161 I1000 I3000 T13111333 412221328 53003 TSNO $ CPIR 220800Z AUTO 34007KT M05/M05 RMK AO1 T10451052 OIKK 220900Z 10006KT 9999 FEW035CB SCT040 BKN100 08/04 Q1021 A3016 PABL 220856Z AUTO 15005KT 10SM CLR M38/ A3016 RMK AO2 SNE0757 SLP216 60000 T1383 412721383 51005 FZRANO YSTW 220930Z AUTO 18007KT 9999 // NCD 26/13 Q1013 RF00.0/000.0 PACD 220853Z AUTO 15015KT 10SM FEW050 M08/M12 A2990 RMK AO2 SLP126 T10781117 410671144 56021 TSNO $ OIKQ 220900Z 23008KT 8000 FEW030 SCT090 25/19 Q1017 PABR 220853Z 21012KT 5SM HZ OVC075 M25/M28 A2980 RMK AO2 SLP095 60000 T12501283 412171328 52013 HTZA 220900Z 09006KT 9999 SCT024 33/20 Q1013 NOSIG OIMB 220900Z 27012KT 9999 FEW030CB SCT035 12/M01 Q1018 PABT 220853Z 01003KT 6SM BR FEW002 M43/ A3003 RMK AO2 SLP213 T1428 413061450 55001 OIMC 220900Z AUTO 27002KT //// // ////// 06/03 Q1021 YTMO 220930Z AUTO 03005KT //// // ////// 31/22 Q1008 RMK OIMD 220900Z AUTO 22006KT //// // ////// 08/06 Q1016 PACM 220947Z AUTO 09003KT 9SM FEW001 M26/M28 A3012 RMK AO2 FZRANO PABV 220856Z AUTO 00000KT 5SM -SN BR BKN055 BKN070 OVC095 M14/M16 A2961 RMK AO2 SLP035 P0001 60005 T11391156 53004 FZRANO $ YTNG 220930Z AUTO 11008KT 9999 // NCD 26/19 Q1013 PADE 220905Z AUTO 19006KT 10SM FEW012 SCT019 M29/ A3011 RMK AO2 T1289 TSNO $ YSWG 220930Z AUTO 22002KT 9999 // NCD 30/09 Q1010 RMK YSWH 220930Z AUTO 00000KT 9999 // NCD 32/03 Q1008 RMK PADG 220149Z 05002KT 7SM FEW040 M32/M34 A2989 UDYZ 220930Z 00000KT 0900 0800 R09/0900N FZFG BKN004 M08/M09 Q1025 R09/0///70 NOSIG YTNK 220930Z AUTO 04007KT 9999 // NCD 33/20 Q1006 PADK 220936Z AUTO 10028G34KT 2 1/2SM OVC013 01/M03 A2883 RMK AO1 P0003 PAEC 220153Z 36012KT 10SM BKN050 BKN080 M14/M19 A2943 RMK NOSPECI LAST PADL 220856Z AUTO 31003KT 10SM CLR M26/M29 A2994 RMK AO2 SLP145 T12561294 411671272 51004 FZRANO OIMM 220930Z 03004KT 2000 BR BKN006 OVC100 04/04 Q1018 A3007 PAED 220938Z 00000KT 5SM -SN BR OVC035 M10/M11 A2958 RMK AO2A PACV 220853Z 00000KT 10SM CLR M14/M16 A2953 RMK AO2 SLP002 I1000 I3000 T11441161 410721144 51013 PADM 220856Z AUTO 06006KT 10SM CLR M36/ A3011 RMK AO2 SLP207 T1356 50005 FZRANO OINE 220900Z 30004KT 9999 FEW030 SCT100 11/02 Q1020 OIMN 220900Z 29002KT 6000 SCT015 BKN030 OVC070 02/M01 Q1019 OING 220900Z 00000KT 7000 NSC 12/04 Q1022 PAEG 220853Z AUTO 00000KT 10SM CLR M33/M36 A2987 RMK AO2 SLP150 T13281361 412111344 51009 TSNO OIMQ 220900Z AUTO 10002KT //// // ////// 08/05 Q1019 PADQ 220853Z 31011KT 10SM BKN040 BKN050 M08/M12 A2961 RMK AO2 SLP028 T10781122 410171083 50006 PACZ 220855Z AUTO 00000KT 10SM CLR M21/M25 A3001 RMK AO2 SLP186 T12121249 52006 PAEH 220855Z AUTO 00000KT 10SM OVC090 M19/M21 A2994 RMK AO2 SLP163 T11891212 57007 PAEI 220858Z AUTO 00000KT 10SM CLR M30/M34 A2989 RMK AO2 SNE02 SLP145 P0000 60000 T13031340 412001306 53002 $ OIMS 211600Z 29016KT 8000 FEW030CB SCT035 SCT200 07/03 Q1020 NSFA 220900Z 12002KT 9999 FEW020 SCT280 27/25 Q1009 PAFA 220853Z 21005KT 9SM -SN OVC100 M28/M31 A2990 RMK AO2 SLP145 PCPN VRY LGT P0000 60000 T12781306 411941300 53001 VISNO NE $ PAFB 220923Z AUTO 23003KT 10SM OVC005 M27/M31 A2991 RMK AO2 PAEL 220145Z 09010KT 25SM SKC M07 A2947 RMK NOSPECI LAST PADU 220856Z AUTO 13015G23KT 9SM -SN OVC047 M01/M07 A2981 RMK AO2 SLP093 P0000 60000 T10111072 56026 FZRANO OINN 220900Z 29008KT 6000 SCT012 BKN023 OVC080 08/07 Q1022 PAEN 220853Z 00000KT 10SM FEW011 FEW033 OVC045 M11/M12 A2961 RMK AO2 SLP028 60000 T11111122 410941122 53005 PAFE 220936Z AUTO 04012G17KT 10SM CLR M02/M09 A2956 RMK AO1 OINR 220900Z 33008KT 9999 BKN015 FEW020CB OVC080 09/05 Q1021 PAGA 220944Z AUTO 30004KT 2SM BR CLR M41/ A3011 RMK AO2 VIS 1 1/2V4 FZRANO PAFM 220856Z AUTO 02003KT 10SM CLR M41/ A3014 RMK AO2 SLP228 T1406 58000 FZRANO YTRA 220930Z AUTO 02006KT 9999 // NCD 35/16 Q1004 RMK OINZ 220900Z 33004KT 9999 FEW023CB SCT025 BKN090 12/05 Q1020 PAGH 220857Z AUTO 00000KT 10SM CLR M41/ A3015 RMK AO2 SLP249 T1411 413831411 51004 FZRANO PAFR 220934Z AUTO 00000KT 10SM SCT028 BKN036 OVC050 M11/M13 A2958 RMK AO1 SYCJ 220900Z VRB02KT 9999 SCT014 BKN038 22/22 Q1012 NOSIG PAFS 220901Z AUTO 04005KT 10SM CLR M37/ A2992 RMK AO2 SLP160 T1367 51002 FZRANO PAGK 220853Z AUTO 00000KT 10SM CLR M33/M37 A2961 RMK AO2 SLP112 T13331372 412111344 53010 TSNO PAGL 220936Z AUTO 31008KT 10SM CLR M32/ RMK AO1 PAHC 220856Z AUTO 00000KT 10SM CLR M37/ A3008 RMK AO2 SLP191 6//// T1367 413001411 52002 FZRANO PNO $ YTRE 220930Z AUTO 06010KT 9999 // NCD 23/17 Q1016 RMK PAGN 220856Z AUTO 03007KT 10SM FEW120 M03/M10 A2959 RMK AO2 SLP011 T10281100 410061050 51010 FZRANO PAGS 220856Z AUTO 00000KT 10SM OVC080 M09/M10 A2959 RMK AO2 SLP022 T10891100 410221156 51009 FZRANO SYEC 211800Z 02012KT 9999 BKN019 SCT040 BKN100 28/25 Q1011 NOSIG PAHL 220939Z AUTO 34004KT 1 1/2SM BR CLR M41/ A3012 RMK AO2 FZRANO PAHN 220854Z AUTO 30015G19KT 9SM FEW070 SCT090 M11/M16 A2967 RMK AO2 SLP049 T11061156 410781144 53002 TSNO PAHO 220853Z AUTO 30003KT 10SM SCT016 OVC024 M05/M08 A2959 RMK AO2 SNB05E22 SLP021 P0000 60000 T10501083 410441067 53007 TSNO PAGY 220853Z AUTO 05027G40KT 9SM -SN OVC080 M07/M20 A2972 RMK AO2 PK WND 04040/0807 SLP064 P0000 60000 T10721200 410671106 51001 TSNO PAHP 220856Z AUTO 00000KT 10SM CLR M26/M28 A3009 RMK AO2 SLP227 T12561278 412001256 53003 FZRANO PAIG 220931Z AUTO 14006KT 10SM BKN017 OVC085 M27/M29 A2988 RMK AO2 FZRANO $ PAII 220856Z AUTO 01003KT 10SM CLR M23/M26 A2994 RMK AO2 SLP143 T12281261 51007 FZRANO NTAA 220930Z 02012KT 9000 SCT013 SCT020 BKN036 27/25 Q1006 TEMPO 34020G30KT 2000 SHRA FEW010 BKN015 OVC040 PAIK 220901Z AUTO 00000KT 10SM FEW090 M39/ A3016 RMK AO2 SNE0804 SLP266 P0000 60000 T1394 413941394 51006 FZRANO PAIL 220853Z AUTO 00000KT 10SM OVC090 M22/M26 A2983 RMK AO2 SLP108 T12221256 411501222 51009 TSNO $ PAIM 220855Z AUTO 00000KT 10SM CLR M38/ A2990 RMK AO2 SLP216 T1382 53002 PAIN 220936Z AUTO 00000KT 10SM SCT100 M33/M36 RMK AO1 OISF 220900Z 12004KT 2000 +SH SCT030CB SCT035 OVC080 09/09 Q1019 PAHX 220856Z AUTO 00000KT 10SM CLR M39/ A3008 RMK AO2 SLP190 T1394 413221400 58001 FZRANO YTTI 220930Z AUTO 27017KT //// // ////// 30/25 Q1007 RMK PAHY 220856Z AUTO 00000KT 7SM FEW045 BKN080 02/01 A2941 RMK AO2 SLP956 T00170006 50001 FZRANO YTST 220930Z AUTO 28011KT 9999 // NCD 30/24 Q1007 OISL 220900Z 09008KT 9999 FEW035CB FEW040 BKN100 17/11 Q1018 PAJN 220853Z 00000KT 10SM BKN110 M06/M09 A2961 RMK AO2 SLP027 T10611089 410391117 51009 PAIW 220858Z AUTO 09009KT 5SM -SN SCT023 BKN030 BKN039 M21/M23 A3016 RMK AO2 SNB27 SLP212 P0000 60000 T12061233 50004 FZRANO DIAD 220800Z 34004KT 8000 SCT013 22/21 Q1011 NOSIG PAKF 220901Z AUTO 19008KT 160V230 10SM -SN FEW055 M03/M08 A2990 RMK AO2 UPE0809B0838E0841SNB0813E0838B0858 SLP222 P0000 60000 T10331083 410331033 56021 FZRANO $ CPRO 220900Z AUTO 33005KT M03/M04 RMK AO1 T10341038 50007 PAKH 220856Z AUTO 30029G39KT OVC006 M12/M14 A2969 RMK AO2 PK WND 30039/0848 CIG 003V009 SLP056 T11171139 410501117 57005 PWINO FZRANO $ OISR 220900Z 33004KT 4000 HZ FEW035CB FEW040 OVC090 18/13 Q1019 RERA ZLLL 220900Z VRB01MPS CAVOK 03/M22 Q1024 NOSIG OISS 220930Z 16008KT 3000 -RA FEW030CB SCT035 OVC090 07/05 Q1019 A3011 OITK 220900Z 01004KT 2000 BR BKN020 M06/M08 Q1022 PAKK 220936Z AUTO 00000KT 10SM CLR M32/ A3006 RMK AO1 OKBK 220900Z 05004KT CAVOK 18/04 Q1018 NOSIG OITL 220930Z 06008KT 8000 VCFG FEW006 SCT090 BKN180 01/M03 Q1016 OITM 220900Z 00000KT 1200 BR BKN020 BKN080 OVC180 M01/M03 Q1019 PAKN 220854Z 33005KT 10SM CLR M25/M29 A2989 RMK AO2 SLP123 T12501289 411671256 50004 $ OISY 220900Z 00000KT 5000 -RA FEW030CB SCT035 OVC070 05/02 Q1020 OITP 220800Z 00000KT 9999 BKN035 06/M02 Q1019 PAKP 220936Z AUTO 20010KT 5SM CLR M34/ A2973 RMK AO1 PALG 220946Z AUTO 00000KT 2 1/2SM CLR M40/M61 A3007 RMK AO2 SLP301 PWINO FZRANO TSNO RVRNO PALH 220930Z 00000KT 4SM -SN BR BKN037 OVC060 M10/M12 A2961 RMK AO2 P0000 T11001122 $ PAJZ 220856Z AUTO 33007KT 8SM CLR M24/M29 A2994 RMK AO2 SLP147 T12441289 50003 FZRANO $ YTWB 220930Z AUTO 08011KT 9999 // NCD 20/16 Q1019 RMK CPRY 220900Z AUTO 25004KT M06/M06 RMK AO1 T10581061 OITR 220900Z 33008KT 9999 SCT020 M01/M06 Q1020 DIAP 220930Z 32004KT 280V360 7000 FEW012 28/23 Q1011 NOSIG PALJ 220157Z 24007KT 10SM -SN BKN035 OVC060 M16/M18 A2974 RMK LAST 410831169 EST PASS CLSD NOSPECI OITT 220930Z 28004KT 7000 FEW020 SCT180 M01/M10 Q1021 A3016 PAKT 220853Z AUTO 23004KT 10SM FEW065 SCT080 00/00 A2946 RMK AO2 SLP977 T00000000 400331039 51004 TSNO $ PAKU 220345Z 21012KT 10SM R24/P6000FT SKC M29/M32 A2991 RMK LAST PAMC 220853Z AUTO 00000KT 10SM CLR M37/ A2996 RMK AO2 SLP164 T1372 412831406 53001 TSNO DIBK 220900Z 30008KT CAVOK 26/22 Q1015 NOSIG CPST 220900Z AUTO 36006KT M05/M05 RMK AO1 T10481051 PAKV 220946Z AUTO 00000KT 5SM HZ CLR M42/ A3014 RMK AO2 T1422 TSNO PAMD 220936Z AUTO 00000KT 10SM BKN046 02/M07 A2950 RMK AO1 PAKW 220853Z AUTO 04011KT 10SM OVC075 02/M03 A2942 RMK AO2 SLP964 T00221033 400331022 51005 TSNO $ CPSV 220900Z AUTO 35004KT M03/M03 RMK AO1 T10251026 PALP 220055Z 22010KT 8SM SCT018 SCT034 M29/M33 A2984 OITZ 220900Z 21006KT 8000 FEW020 FEW030CB SCT035 BKN090 01/M03 Q1016 PAMH 220456Z AUTO 00000KT 10SM FEW120 M34/M37 A2990 RMK AO2 SLP150 T13391372 FZRANO PANA 220856Z AUTO 03004KT 10SM CLR M32/M35 A3006 RMK AO2 SLP181 T13221350 412611344 51004 FZRANO PAMK 220856Z AUTO 00000KT 10SM CLR M28/M32 A3011 RMK AO2 SLP201 T12831317 412281289 53003 FZRANO $ PALU 220931Z AUTO 22036G44KT 110V280 5SM BR BKN043 M23/M26 A3000 RMK AO2 PK WND 21044/0913 SLP159 PANC 220853Z 00000KT 3SM R07R/6000VP6000FT -SN BR SCT006 OVC030 M10/M12 A2958 RMK AO2 SLP021 P0000 60000 T11001122 410941117 51004 DIBU 220800Z VRB02KT 6000 SCT006 OVC013 26/23 Q1014 NOSIG PAMR 220909Z 00000KT 1 1/2SM -SN BR OVC020 M11/M12 A2959 RMK AO2 P0000 T11061122 $ PANI 220936Z AUTO 00000KT 1SM OVC002 M41/ A3008 RMK AO1 UHBB 220930Z 24002MPS CAVOK M20/M24 Q1024 R36/090060 NOSIG RMK QFE750/1001 DIDK 220800Z ///// 9999 SCT013 24/23 Q1012 NOSIG DIDL 220800Z ///// 8000 SCT013 25/24 Q1013 NOSIG PANN 220853Z AUTO 29005KT 10SM OVC080 M30/M33 A2991 RMK AO2 SLP149 T13001333 412391322 58004 TSNO PAMY 220756Z AUTO 12006KT 10SM CLR M27/M29 A3004 RMK AO2 SLP174 T12721294 FZRANO PAOH 220856Z AUTO 12011KT 10SM SCT080 M02/M09 A2959 RMK AO2 SLP020 T10221094 51008 FZRANO PAPB 220853Z AUTO 07009KT 10SM BKN047 BKN055 M06/M08 A2977 RMK AO2 SNB08E26 SLP070 P0000 60000 T10611078 410331133 58018 TSNO $ PANT 220853Z AUTO 02004KT 10SM OVC055 07/M01 A2943 RMK SLP966 T00671006 400890000 50004 TSNO VIA AUTODIAL PAOM 220853Z AUTO 00000KT 10SM CLR M32/M34 A3012 RMK AO2 SLP199 T13171339 412671328 51003 TSNO PANV 220936Z 28003KT 10SM CLR M34/ RMK AO1 PANW 220856Z AUTO 33007KT 10SM CLR M26/M29 A2989 RMK AO2 SLP142 T12561294 412001256 52007 FZRANO UGKO 220930Z 29009KT 6000 -RA SCT016 OVC038 02/01 Q1029 R25/29//50 TEMPO 1500 SHRASN PAOO 220856Z AUTO 00000KT 10SM CLR M26/M29 A3005 RMK AO2 SLP187 60000 T12611289 412061267 56003 FZRANO PAPG 220936Z 00000KT 10SM SCT120 M04/M06 A2953 RMK AO1 PAPH 220856Z AUTO 06004KT 10SM SCT028 M17/M19 A2991 RMK AO2 SNE44 SLP133 P0000 60000 T11721194 56005 FZRANO PAOR 220853Z 00000KT 10SM SCT150 M38/ A2970 RMK AO2 SLP164 T1378 413171411 53002 OIZB 220900Z 13006KT CAVOK 18/07 Q1019 PAOT 220853Z 11011KT 10SM CLR M34/M38 A3015 RMK AO2 SLP208 T13391383 412391350 53009 OIZC 220800Z 080087KT 5000 HZ FEW030CB BKN035 24/18 Q1020 A3015 DIGA 220800Z 30006KT 8000 OVC011 24/23 Q1013 NOSIG PAOU 220856Z AUTO 18007KT 10SM CLR M11/M13 A2995 RMK AO2 SLP140 T11111128 56015 FZRANO PAPM 220856Z AUTO 34007KT 10SM BKN100 M23/M26 A2997 RMK AO2 SLP153 T12331261 412221261 58006 FZRANO CPXL 220900Z AUTO 30004KT M03/M04 RMK AO1 T10291035 PAPN 220856Z AUTO 11004KT 10SM CLR M23/M26 A2993 RMK AO2 SLP137 T12281256 50002 FZRANO PAPO 220856Z AUTO 19008KT 9SM -SN SCT042 M23/M26 A3009 RMK AO2 SLP189 P0000 60000 T12331256 412281256 51014 FZRANO OIZH 220930Z 23018KT 9999 SCT035TCU BKN090 BKN190 17/04 Q1019 A3010 PAQH 220856Z AUTO 35008KT 10SM CLR M31/M34 A3003 RMK AO2 SLP172 T13111339 412501328 51002 FZRANO OIZI 220900Z 26004KT 8000 FEW035TCU BKN100 22/11 Q1020 OIZJ 220900Z 12014KT 7000 SCT015 SCT070 23/21 Q1018 PAPT 220153Z 34005KT 25SM FEW080 M25/M28 A2949 RMK NOSPECI LAST NOSPECI 411601249 70000 931000 4/011 PARC 220918Z AUTO 32005KT 3SM BR CLR M41/ A2975 RMK AO2 FZRANO OIYY 220900Z 04002KT 7000 FEW035 SCT200 13/M01 Q1017 UGMS 211100Z VRB01KT 6000 OVC045 M03/M09 Q1021 WS RMK MT CLSD PASA 212256Z AUTO 12008KT 10SM CLR M23/M26 A3010 RMK AO2 SLP197 T12331261 FZRANO $ PAQT 220853Z AUTO 19014KT 10SM CLR M33/M36 A2997 RMK AO2 SLP152 T13331361 412941367 51010 TSNO $ PASC 220853Z 22016KT 10SM CLR M31/M34 A2999 RMK AO2 SLP161 T13111344 412831339 $ PASD 220936Z AUTO 28006KT 10SM CLR M07/M13 A2996 RMK AO1 YWCA 220930Z AUTO 08005KT //// // ////// 33/06 Q1006 RMK PASH 220936Z 25006KT 10SM CLR M27/M31 A3018 RMK AO1 PNO PASI 220853Z 00000KT 10SM BKN100 00/M05 A2946 RMK AO2 SLP974 T00001050 400331039 51007 YWBL 220930Z AUTO 15007KT //// NCD 20/11 Q1010 RMK PATA 220752Z AUTO 00000KT 6SM HZ CLR M46/ A3004 RMK AO2 SLP188 T1456 TSNO PNO $ PARS 220856Z AUTO 00000KT 3SM BR CLR M39/ A3008 RMK AO2 SLP193 T1394 50003 FZRANO $ OLBA 220900Z 01007KT 9999 FEW026 15/01 Q1025 PASK 220856Z AUTO 08006KT 10SM CLR M38/ A3018 RMK AO2 SLP218 60000 T1383 413781411 51007 FZRANO $ PASL 220936Z AUTO 00000KT 10SM CLR M31/ A3002 RMK AO1 PATC 220942Z AUTO 02011KT 10SM SCT065 M23/M25 A3011 RMK AO2 SLP209 PASM 220856Z AUTO 05003KT 10SM CLR M30/M33 A3007 RMK AO2 SLP202 T13001328 412391311 51004 FZRANO PASN 220853Z 04009KT 10SM FEW048 M09/M14 A2977 RMK AO2 SLP081 T10941144 410391156 58016 $ PATE 220858Z AUTO 15003KT 10SM CLR M25/M27 A3010 RMK AO2 SLP209 T12501272 412331261 53002 FZRANO PASO 220920Z AUTO 17005KT 6SM BR OVC010 M07/M09 A2961 RMK AO2 I1000 T10671089 TSNO YWBR 220900Z AUTO 01016KT //// // ////// 30/23 Q1006 PATG 220556Z AUTO 10SM CLR M23/M27 A2996 RMK AO2 SLP146 T12331272 11183 21239 53007 FZRANO $ PARY 220856Z AUTO 24005KT 10SM CLR M38/ A2995 RMK AO2 SLP181 T1378 50000 FZRANO MSV 220930Z AUTO 04010KT 9999 // NCD 19/14 Q1016 RMK PATK 220853Z AUTO 00000KT 10SM BKN046 OVC110 M14/M16 A2957 RMK AO2 SNE08 SLP023 P0000 60001 T11441161 410781167 53003 TSNO PATL 220855Z AUTO 10001KT 10SM CLR M31/M34 A2988 RMK AO2 SLP178 T13071336 54001 $ PASV 220935Z AUTO 21003KT 10SM -SHSN OVC070 M29/M32 A2965 RMK AO2 SLP134 MUI 220930Z AUTO 19012KT //// // NCD 24/13 Q1016 RMK PATO 220932Z AUTO 26004KT 10SM SCT010 OVC024 M09/M11 A2959 RMK AO2 T10891106 TSNO PASX 220936Z AUTO 00000KT 10SM OVC039 M11/M23 A2960 RMK AO1 UHHH 220930Z 24001MPS CAVOK M22/M25 Q1022 R23L/090060 NOSIG RMK QFE760/1014 PASY 220944Z AUTO 1 1/4SM -SN BKN009 OVC012 A2889 RMK AO2 TSNO $ PATQ 220914Z AUTO 23016KT 1 1/4SM -SN SCT007 BKN014 OVC025 M24/M27 A2988 RMK AO2 P0000 FZRANO TSNO PAVA 220856Z AUTO 06004KT 10SM CLR M24/M27 A3008 RMK AO2 SLP201 T12441267 53002 FZRANO PAVC 220856Z AUTO 00000KT 10SM OVC055 M09/M14 A2995 RMK AO2 SLP149 T10941144 56014 FZRANO NSTU 220852Z 00000KT 8SM -SHRA BKN018 OVC040 29/27 A2978 RMK SHRAB45 SLP086 60001 8/8// T02860267 52015 PAVD 220936Z 00000KT 10SM CLR M10/M14 A2956 RMK AO1 PAUN 220856Z AUTO 11008KT 10SM CLR M33/M37 A3012 RMK AO2 SLP206 T13331367 412891356 51003 FZRANO DIKO 220900Z 00000KT 8000 NSC 25/10 Q1015 NOSIG UIAA 220900Z 05001MPS 9999 NSC M26/M31 Q1028 R29/490150 NOSIG RMK QFE712 UGSB 220930Z 21007KT 9999 SCT026CB BKN070 06/00 Q1033 R13/19//60 NOSIG PAUT 220935Z AUTO 15020KT 10SM BKN043 OVC048 M05/M13 A2980 RMK AO2 T10501129 PAVL 220935Z AUTO 08005KT 7SM SCT016 M33/M37 A3012 RMK AO2 T13281367 TSNO $ PAWD 220853Z AUTO 01016G26KT 10SM FEW036 BKN110 M08/M12 A2954 RMK AO2 PK WND 36028/0759 SLP002 60000 T10831117 410441094 50006 TSNO $ PAWG 220936Z AUTO 05005KT 10SM BKN085 00/M07 A2954 RMK AO1 PAWI 220853Z AUTO 24014KT 7SM FEW032 M21/M23 A2983 RMK SNE0756 SLP103 P0000 60000 T12061228 412001306 51019 TSNO VIA AUTODIAL UIBB 220930Z 16003MPS 140V270 9999 FEW020CB M18/M21 Q1022 R30/390140 NOSIG RMK QFE723/0964 UGTB 220930Z 30032G43KT CAVOK 05/M05 Q1023 R31L/CLRD70 NOSIG PAWM 220858Z AUTO 00000KT 10SM CLR M29/M32 A3009 RMK AO2 SLP203 T12891317 412441294 50001 FZRANO PAWN 220856Z AUTO 36004KT 10SM CLR M38/ A3017 RMK AO2 SNB25E37 SLP234 P0000 60000 T1383 53009 FZRANO DIMN 220800Z 00000KT 8000 FEW013 22/21 Q1012 NOSIG YWHA 220930Z AUTO 11008KT 9999 // SCT090 30/14 Q1006 RMK PAYA 220853Z AUTO 00000KT 10SM CLR M13/M14 A2953 RMK AO2 SLP001 T11331144 410331161 51011 TSNO PAWS 220936Z AUTO 00000KT 10SM FEW060 BKN070 OVC090 M14/M16 A2966 RMK AO1 ZLXY 220900Z 00000MPS 6000 NSC 09/M11 Q1028 NOSIG DIOD 220800Z 30004KT 5000 HZ NSC 20/07 Q1015 NOSIG UHMA 220900Z 04005MPS CAVOK M30/M33 Q1020 RMK QFE761/1015 YWGT 220930Z AUTO 10005KT 9999 // NCD 29/09 Q1010 RMK YVRD 220930Z AUTO 00000KT //// // ////// 32/24 Q1004 PAZK 220936Z AUTO 03006KT 10SM CLR M20/M23 A2937 RMK AO1 UHMM 220930Z 00000MPS 5000 -SN SCT020 M23/M25 Q1011 R10/490150 NOSIG RMK QFE744 YWIS 220930Z AUTO 10007KT //// // ////// 26/23 Q1012 RMK OMAA 220900Z 17013KT 140V200 5000 DU NSC 28/15 Q1016 BECMG 7000 NSW OMAD 220900Z 16009KT 130V200 6000 NSC 27/15 Q1016 NOSIG ZMUB 220930Z 18002MPS 5000NW FU NSC M25/M29 Q1022 NOSIG RMK QFE658.6 67 NW MO OMAL 220900Z 17017KT 7000 FEW033 26/16 Q1018 NOSIG YWLG 220930Z AUTO 06010KT 9999 // NCD 35/16 Q1009 RMK TQPF 212100Z 36004KT 9999 SCT020 26/17 Q1014 YWLM 220930Z AUTO 07013KT 9999 // NCD 23/18 Q1014 DITB 220800Z 00000KT 9999 FEW013 24/24 Q1011 NOSIG UHPP 220900Z 36003MPS 9999 NSC M12/M17 Q1008 R34L/710260 NOSIG RMK QFE752/1003 EBBE 220925Z AUTO VRB01KT 9999 NCD M02/M06 Q1027 BLU DISP 220900Z 22002KT 6000 FEW013 24/24 Q1012 NOSIG OMDB 220900Z 17011KT 150V220 8000 FEW033 28/15 Q1017 NOSIG DISS 220800Z ///// 9999 FEW013 FEW020CB 23/22 Q1011 NOSIG EBBL 220937Z AUTO VRB01KT 7000 NCD M02/M04 Q1027 WHT EBAW 220920Z 11001KT 7000 NSC M03/M05 Q1027 NOSIG UIII 220930Z 16004MPS CAVOK M17/M21 Q1026 R12/320150 NOSIG RMK QFE727/0969 EBCI 220920Z VRB02KT 7000 NSC M03/M07 Q1027 NOSIG EBBR 220920Z 17004KT 9000 NSC M02/M06 Q1027 NOSIG CTCK 220900Z AUTO 05005KT 01/01 RMK AO1 SOG 12 0005 SLP086 T00110011 VAAH 220930Z 06003KT 5000 FU NSC 31/13 Q1016 NOSIG YWOL 220930Z AUTO 02009KT 9999 // NCD 23/18 Q1015 RMK VABB 220930Z 25010KT 4000 FU NSC 32/15 Q1013 NOSIG KA08 220935Z AUTO 00000KT 10SM CLR 15/15 A2949 RMK AO2 P0001 T01460146 OMDW 220900Z 18015KT 6000 NSC 27/16 Q1018 NOSIG EBCV 220925Z AUTO VRB01KT 5000 NCD M04/M06 Q1027 WHT UHSS 220930Z 01006MPS 9999 SCT033CB M14/M17 Q1016 R01/490347 NOSIG RMK MT OBSC QFE761/1014 OMFJ 220900Z 12005KT 090V150 7000 FEW030 24/20 Q1018 A3007 VAAU 220900Z 27003KT 4000M HZ FEW020 31/13 Q1018 NOSIG EBDT 220925Z AUTO VRB02KT 6000 NCD M05/M07 Q1027 WHT VABO 220900Z 05006KT 6000 NSC 32/11 Q1015 NOSIG VABP 220900Z 09004KT 4000 HZ FEW100 29/14 Q1020 NOSIG VABV 220400Z 31005KT 2000 FU NSC 20/13 Q1020 EBFN 220925Z VRB01KT 5000 BR FEW250 M03/M05 Q1027 WHT KA39 220935Z AUTO 14008KT 10SM CLR 06/03 A3018 RMK AO2 EBFS 220925Z VRB01KT 9999 FEW250 M06/M08 Q1026 BLU DIYO 220900Z 28006KT 9999 BKN011 27/23 Q1013 NOSIG YWUD 220930Z AUTO 15011KT //// // ////// 30/13 Q1006 YWTN 220930Z AUTO 13006KT //// // ////// 33/22 Q1007 RMK UHWW 220930Z 02004MPS 9999 NSC M14/M22 Q1023 R07R/0///70 NOSIG RMK QFE767 TRPG 212200Z 13003KT 9999 FEW023 23/18 Q1014 VAID 220900Z 11008KT 5000 HZ FEW020 28/12 Q1019 NOSIG EBLB 220925Z AUTO VRB01KT 9999 NCD M09/M10 Q1024 BLU EBLG 220920Z 14005KT 9000 NSC M04/M08 Q1026 NOSIG YWWL 220930Z AUTO 05005KT //// // ////// 31/12 Q1010 RMK VAJB 220600Z 36002KT 4000 HZ NSC 21/12 Q1024 VAJJ 220930Z 32013KT 290V350 6000 SKC 33/21 Q1013 NOSIG UKBB 220930Z VRB02MPS 9999 BKN016 M00/M02 Q1032 R36R/350145 R36L/390130 NOSIG YWYM 220930Z AUTO 09010KT //// // ////// 32/26 Q1004 RMK CTNK 220900Z AUTO 00000KT 01/M00 RMK AO1 SOG 38 3004 SLP076 T00081001 50002 UKDD 220930Z 26002MPS 220V300 CAVOK M02/M07 Q1031 R26/710245 NOSIG UKDE 220930Z 32002MPS 280V360 CAVOK M03/M08 Q1032 R02/290346 NOSIG YWYY 220930Z AUTO 34006KT 9999 // NCD 18/13 Q1012 RMK TTCP 220900Z 10010KT 9999 VCSH FEW016 24/21 Q1012 NOSIG RMK SHWRS-E UIUU 220930Z 22001MPS 4000 BR NSC M26/M31 Q1030 R26/811095 NOSIG RMK QFE728/0970 EBOS 220920Z VRB01KT 5000 BR NSC M03/M05 Q1027 BECMG 7000 UKDR 220930Z 33003MPS CAVOK M03/M07 Q1033 R36/09//60 NOSIG OMRK 220900Z 18006KT 9999 FEW040 28/13 Q1017 A3006 CTRA 220900Z AUTO 06002KT 01/M00 RMK AO1 SOG 27 3008 SLP044 T00051002 VANP 220900Z 08002KT 3000 HZ NSC 32/13 Q1017 NOSIG NVSG 212100Z VRB02KT 9999 BKN020 29/25 Q1010 RMK HZ OMSJ 220900Z 21010KT 160V230 9999 SCT030 SCT140 28/16 Q1017 EDAC 220920Z VRB01KT CAVOK M09/// Q1028 EDAH 220920Z 16006KT 110V180 8000 OVC006 01/M00 Q1030 UKHH 220930Z 29004MPS CAVOK M04/M08 Q1029 R25/710760 NOSIG PFCL 220856Z AUTO 00000KT CLR M23/M26 A2994 RMK AO2 SLP141 T12281261 411561233 51005 PWINO FZRANO $ YYNG 220930Z AUTO 00000KT //// // ////// 27/13 Q1011 RMK ULAA 220930Z 35004MPS 310V050 9999 SCT021CB M05/M07 Q0998 R26/590335 NOSIG RMK QFE747/0996 VARK 220400Z 35003KT 5000 HZ NSC 21/10 Q1021 EDDB 220920Z 09005KT 060V130 7000 SCT005 SCT250 M00/M01 Q1029 R07/19//95 NOSIG EDDC 220920Z 13009KT CAVOK M01/M08 Q1027 NOSIG EDDE 220920Z 25003KT 220V280 0150 R28/0175N FZFG VV/// M07/M08 Q1026 NOSIG EDDF 220920Z 08008KT CAVOK M04/M08 Q1027 R88/0///95 NOSIG EDDG 220920Z 00000KT 8000 NSC M03/M04 Q1028 NOSIG EDDH 220920Z 14006KT 110V180 6000 OVC004 00/M00 Q1029 TEMPO BKN005 KC07 220935Z AUTO 27011G23KT 1/4SM +SN OVC002 A2980 RMK AO2 P0004 KAAA 220935Z AUTO 01008KT 1/4SM FG OVC002 05/05 A2954 RMK AO2 T00470047 KC09 220935Z AUTO 00000KT 1/4SM FG OVC006 03/03 A2957 RMK AO2 T00320029 PFEL 220858Z AUTO 35004KT 10SM CLR M26/M29 A3012 RMK AO2 SLP203 T12611289 50003 FZRANO EDDK 220920Z 14004KT 110V170 CAVOK M03/M08 Q1027 NOSIG NVVW 220300Z 28008KT 9999 FEW025 BKN300 31/23 Q1008 RMK VCSH EDDL 220920Z 18004KT 150V210 CAVOK M01/M07 Q1027 NOSIG EDDM 220920Z 17001KT 0500 0200NE R08L/0750N R08R/0225V0325N -SN FZFG BKN001 M13/M14 Q1025 R08L/290095 R08R/190094 BECMG 0800 BKN002 EDDN 220920Z VRB02KT 5000 NSC M07/M09 Q1026 NOSIG KAAF 220906Z AUTO 21014KT 10SM BKN018 OVC100 23/22 A2960 RMK AO2 T02280222 VCBI 220910Z 05013KT 9999 SCT017 FEW019CB 29/22 Q1011 RESHRA NOSIG RMK N/E/S/SW EDDP 220920Z VRB01KT 0200 R26L/0250N R26R/0250N FZFG OVC001 M07/M08 Q1028 TEMPO 2000 BR SCT003 UKKK 220930Z 30005MPS 9999 BKN018 M00/M04 Q1032 R26/610150 NOSIG EDDR 220920Z 05006KT 020V080 CAVOK M05/M09 Q1025 NOSIG VAUD 220930Z 17003KT 4000 HZ NSC 26/13 Q1019 NOSIG EDDS 220920Z VRB01KT 5000 BR NSC M06/M09 Q1024 NOSIG UKKM 220930Z AUTO 27005MPS 240V300 9000 ///019/// 01/M03 Q1032 EDDT 220920Z 12007KT 9000 FEW007 01/M01 Q1030 R88/090095 TEMPO BKN007 ZPPP 220900Z 23009MPS CAVOK 17/01 Q1023 NOSIG KABE 220932Z 00000KT 1/4SM FG VV002 06/05 A2972 RMK AO2 T00610050 EDDV 220920Z 12005KT 090V170 0300 R09L/0550V0800D R09R/0350V0500N FZFG OVC001 M03/M03 Q1028 TEMPO 0800 EDFE 220920Z 08005KT 5000 BR NSC M04/M08 Q1027 EDDW 220920Z 14004KT 100V170 1800 BR OVC003 M02/M02 Q1029 R88/290095 TEMPO 3000 KAAO 220854Z AUTO 01007KT 10SM SCT045 OVC050 08/07 A2949 RMK AO2 RAE05 SLP988 P0000 6//// T00780067 53016 $ UKLI 220930Z 00000MPS 9999 OVC013 01/M00 Q1034 R28/290065 NOSIG KABH 220856Z AUTO 32006KT CLR A2972 RMK AO2 SLPNO 53017 $ EDFH 220920Z 14010KT CAVOK M07/M10 Q1024 KABI 220852Z 28023G33KT 10SM -RA BKN060 OVC075 10/M01 A2947 RMK AO2 PK WND 28036/0813 RAB43 SLP967 P0000 60000 T01001011 56005 UKLL 220930Z 13002MPS 090V210 9000 OVC005 00/M01 Q1034 R31/620339 TEMPO -FZDZ KAAT 220855Z AUTO 16012G17KT 10SM FEW048 BKN070 OVC085 01/M03 A2967 RMK AO2 SNB20E37 SLP050 P0000 60000 T00111028 58014 TSNO KACB 220935Z AUTO 00000KT 1/4SM FG OVC003 02/02 A2959 RMK AO2 T00160015 KC29 220935Z AUTO 00000KT 3SM OVC002 04/04 A2956 RMK AO1 T00430043 UKLN 220930Z 00000MPS 3300 -DZ BR OVC017 01/00 Q1034 R33/19//60 NOSIG EDFM 220920Z 00000KT 6000 SKC M05/M07 Q1027 KC35 220935Z AUTO 00000KT 1 1/2SM BR SCT004 SCT010 OVC025 03/03 A2956 RMK AO2 T00260026 UKLR 220930Z 27003MPS 9999 OVC020 M00/M01 Q1034 NOSIG KABQ 220852Z 32005KT 10SM BKN048 BKN090 03/M06 A2997 RMK AO2 SLP137 MTN TOP OBSC NE T00281056 51025 KABR 220853Z AUTO 28005KT 8SM OVC011 M01/M03 A2966 RMK AO2 SLP057 T10111033 53017 KACJ 220935Z AUTO 14006KT 10SM SCT004 OVC030 15/15 A2960 RMK AO2 LTG DSNT E THRU S UKLU 220930Z 00000MPS 4000 BR OVC018 M02/M03 Q1036 R10/390735 NOSIG KACK 220853Z AUTO 25005KT 1/4SM R24/2400V2600FT FG VV002 04/04 A2975 RMK AO2 SLP075 T00440044 58006 KADC 220934Z AUTO 00000KT 1 1/2SM BR OVC002 01/01 A2961 RMK AO2 KADF 220913Z AUTO 00000KT 3SM BR SCT002 BKN110 12/12 A2940 RMK AO2 KABY 220933Z AUTO 21010KT 3SM -TSRA BR BKN037 BKN070 OVC100 18/17 A2957 RMK AO2 LTG DSNT ALQDS P0060 T01830167 $ KADG 220853Z AUTO 00000KT 1/2SM FG VV002 02/02 A2961 RMK AO2 SLP031 T00220022 58003 $ KACP 220935Z AUTO 32006KT 7SM -RA SCT060 BKN070 OVC090 14/12 A2955 RMK AO2 P0001 T01410122 KACQ 220933Z AUTO 33004KT 1/2SM FG OVC001 00/00 A2959 RMK AO2 KADH 220935Z AUTO 27003KT 10SM CLR 10/05 A2935 RMK AO2 EDHI 211720Z VRB02KT 6000 BKN026 02/01 Q1031 EDGS 220920Z 12009KT CAVOK M05/M10 Q1024 KACT 220851Z AUTO 26017G23KT 10SM CLR 13/01 A2948 RMK AO2 SLP978 T01280011 57005 EDHK 220920Z 14005KT 9999 OVC009 01/M00 Q1029 EDHL 220920Z 15003KT 090V210 7000 OVC004 00/M01 Q1029 KACV 220853Z AUTO 16012G19KT 10SM -RA OVC050 09/06 A2945 RMK AO2 PK WND 14035/0804 RAB0757 SLP978 P0002 60003 T00940061 53001 KADM 220935Z AUTO 00000KT 10SM CLR 08/06 A2937 RMK AO2 T00750059 UKOH 220930Z 03003MPS 350V050 CAVOK 00/M04 Q1033 R03/190055 NOSIG KAEG 220935Z AUTO 31008KT 10SM CLR 00/M07 A2997 RMK AO2 T10041066 KACY 220945Z 10005KT 4SM RA BR SCT003 BKN050 OVC085 07/06 A2972 RMK AO2 P0009 T00720061 KAEJ 220935Z AUTO 35006KT 10SM CLR M07/M13 A2983 RMK AO2 T10691130 KADS 220935Z AUTO 25006KT 10SM CLR 13/03 A2942 RMK AO2 T01300029 DNAA 220900Z 25006KT 220V290 4000 HZ NSC 29/16 Q1013 NOSIG EDJA 220920Z 21002KT 0200 R24/0225N FZFG BKN002 M13/M14 Q1023 KAEL 220935Z AUTO 30003KT 1/4SM FG OVC002 01/01 A2957 RMK AO2 KADU 220935Z AUTO 34006KT 5SM BR BKN006 M02/M03 A2961 RMK AO2 UKON 220900Z 03003MPS 340V060 CAVOK 01/M04 Q1034 NOSIG KC62 220935Z AUTO 00000KT 10SM SCT110 08/08 A2957 RMK AO2 T00860086 UKOO 220930Z 01003MPS 9999 OVC033 02/M02 Q1034 R16/290050 NOSIG KADW 220939Z AUTO 03003KT 3/4SM R01L/3500FT BR VV002 07/07 A2968 RMK AO2 CWAE 220100Z 00000KT 15SM FEW011 SCT034 BKN055 OVC100 00/00 A2947 RMK SC2SC1SC2AC3 LAST OBS/NEXT 221500UTC SLP996 KAFF 220858Z AUTO 34007KT 10SM CLR M05/M08 A2973 RMK AO2 SLP082 T10471080 52018 CWAF 220900Z AUTO 05021KT M00/M04 RMK AO1 PK WND 05025/0858 T10011035 KAFJ 220935Z AUTO 00000KT 5SM OVC070 07/06 A2968 RMK AO1 CWBA 220900Z AUTO 00000KT 01/01 RMK AO1 SOG 29 T00110009 CWAJ 220900Z AUTO RMK AO1 KAFK 220935Z AUTO 36009KT 5SM BR CLR 01/01 A2961 RMK AO2 T00070007 KAGC 220853Z 34003KT 6SM HZ BKN085 10/08 A2966 RMK AO2 SLP046 T01000083 56007 TTPP 220900Z 00000KT 9999 FEW014 BKN036 23/23 Q1012 NOSIG KAFN 220923Z AUTO 00000KT 1/2SM FG VV001 01/00 A2972 RMK AO2 T00060000 CWBE 220900Z AUTO 07008KT 02/02 RMK AO1 SLP067 T00220016 56003 KAEX 220853Z 25009KT 5SM RA BR OVC070 14/12 A2956 RMK AO2 RAE10B29 SLP013 P0006 60008 T01440122 53029 KAFO 220935Z AUTO 05003KT 10SM SCT025 SCT044 OVC055 M04/M06 A2991 RMK AO2 KAFP 220940Z AUTO 00000KT 3SM BR BKN002 OVC007 14/13 A2967 RMK AO2 T01360127 KC75 220935Z AUTO 35003KT M1/4SM FG OVC001 03/03 A2956 RMK AO2 T00250025 CWAQ 220900Z AUTO 30007KT M02/M03 RMK AO1 SOG 20 3016 SLP067 T10231030 CWAR 220900Z AUTO 00000KT M05/M07 RMK AO1 SOG 01 1011 SLP009 T10461071 PFKT 220928Z AUTO 00000KT 9SM BKN027 M28/M31 A3016 RMK AO2 FZRANO CWCA 220900Z 35027G39KT 12SM -SN DRSN SCT020 OVC070 M05/M05 A2973 RMK SC4AS4 SLP072 CWBK 220900Z AUTO 31009KT M02/M02 RMK AO1 SOG 22 3012 SLP046 T10161015 PFKW 220856Z AUTO 02005KT 10SM CLR M34/ A3006 RMK AO2 SLP180 T1344 412561372 53001 FZRANO CWAV 220900Z AUTO 07003KT M06/M08 RMK AO1 SOG 14 1006 SLP131 T10571079 KAFW 220853Z 25008KT 10SM SCT200 11/01 A2939 RMK AO2 SLP946 T01110011 56007 CWCF 220900Z AUTO 09002KT 01/M00 RMK AO1 SOG 06 3011 SLP050 T00081004 CWBO 220900Z AUTO 35006KT M03/M03 RMK AO1 7PAST HR SOG 01 1020 SLP113 P0003 T10301034 50007 CWCI 220900Z AUTO 12014KT 03/03 RMK AO1 PK WND 11019/0858 SLP021 T00280027 53003 KAGS 220853Z AUTO 17005KT 5SM -RA BR FEW007 BKN090 OVC100 17/15 A2967 RMK AO2 SLP047 P0009 60017 T01670150 58002 KAIA 220853Z AUTO 28007KT 10SM CLR M08/M09 A2970 RMK AO2 SLP078 T10781089 53014 EDMA 220920Z VRB02KT 0100 R25/0175 FZFG VV000 M10/M12 Q1026 CWDA 220900Z AUTO 33011KT M06/M06 RMK AO1 SLP016 T10551059 51007 CWCJ 220900Z AUTO 04006KT 01/01 RMK AO1 2PAST HR SOG 37 6001 SLP034 P0001 T00050009 50060 CWBS 220800Z AUTO 34002KT 01/M01 RMK AO1 T00061011 KAIB 220935Z AUTO 10007KT 10SM SCT047 SCT055 M04/M06 A3004 RMK AO2 CWBT 220900Z AUTO 02005KT M05/M08 RMK AO1 SLP097 T10541083 51031 KAID 212048Z 17010G15KT 10SM CLR 17/12 A2958 CWDC 220900Z AUTO 35006KT M16/M19 RMK AO1 SOG 32 3026 SLP219 T11641187 CWBU 220900Z AUTO 33005KT M02/M03 RMK AO1 6PAST HR SOG 09 2013 SLP053 P0002 T10241029 50015 CWBV 220900Z AUTO 32008KT M00/ RMK AO1 PK WND 33017/0801 SLP045 T1001 51014 KAHN 220941Z AUTO 05005KT 6SM -RA BR FEW004 BKN065 OVC100 14/14 A2961 RMK AO2 P0011 T01390139 EDLN 220920Z VRB03KT CAVOK M02/M06 Q1027 CWCO 220900Z AUTO 15004KT 03/02 RMK AO1 SLP047 T00290022 58001 KAIG 220935Z AUTO 00000KT 1/4SM FG OVC002 00/00 A2953 RMK AO2 T00040004 CWBY 220900Z AUTO 04011G16KT M05/M07 RMK AO1 SOG 44 3034 PK WND 04020/0832 SLP087 T10511072 50002 EDLP 220920Z 20005KT CAVOK M04/M09 Q1026 KAHQ 220935Z AUTO 34004KT 7SM CLR M01/M02 A2964 RMK AO2 T10111019 CWBZ 220900Z AUTO 06005KT 01/01 RMK AO1 SLP094 T00120012 50009 UMBB 220900Z 25004MPS 1300 R29/1300 FZDZ BR OVC002 M00/M01 Q1034 NOSIG RMK QBB060 KD07 220856Z AUTO 30010KT M06/M07 A2967 RMK AO1 SLP081 T10611072 53016 OOMS 220850Z 06014KT 9999 SCT025 26/19 Q1017 NOSIG CWDJ 220900Z AUTO 32007KT M04/M06 RMK AO1 SOG 02 2015 SLP065 T10401057 KBAB 220943Z AUTO 13015KT 7SM R15/5000FT -RA BKN030 BKN036 OVC049 08/08 A2971 RMK AO2 $ KAIK 220935Z AUTO 14008KT 7SM RA SCT004 BKN017 OVC039 14/13 A2968 RMK AO2 LTG DSNT SE AND SW CWDK 220900Z AUTO 02004KT M03/M04 RMK AO1 SOG 00 3020 SLP120 T10281035 CWCT 220900Z AUTO 33009KT M07/M08 RMK AO1 SLP134 T10721077 52018 CWEB 220900Z AUTO 11011G20KT 07/05 RMK AO1 0000 PK WND 12021/0812 SLP968 T00680048 50001 KBAC 220935Z AUTO 30005KT 6SM BR OVC010 00/00 A2965 RMK AO2 KBAD 220858Z AUTO 18008KT 10SM CLR 14/10 A2942 RMK AO2 SLP964 T01410103 58018 EDLV 220920Z VRB02KT CAVOK M03/M06 Q1028 PFNO 220858Z AUTO 10007KT 10SM BKN080 M38/ A3017 RMK AO2 SLP218 T1378 413671406 51006 FZRANO CWEE 220800Z AUTO M03/M03 RMK AO1 SLP105 T10261026 53018 KBAF 220937Z AUTO 00000KT 1/4SM R20/2200V3500FT FG VV003 01/01 A2973 RMK AO2 T00110011 EDLW 220920Z 00000KT CAVOK M01/M06 Q1027 KAIO 220935Z AUTO 00000KT 1/4SM FZFG OVC002 M02/M02 A2962 RMK AO2 EDMO 220920Z 00000KT 0300 R22/M0350V0500N FZFG BKN001 M11/M12 Q1024 CWEF 220900Z AUTO 30007KT M01/M03 RMK AO1 SLP030 T10121028 51008 CWDO 220900Z AUTO 25013G21KT M05/M06 RMK AO1 SOG 38 0005 PK WND 28022/0833 SLP999 T10471063 KAJG 220935Z AUTO 12003KT 10SM CLR 09/07 A2951 RMK AO2 T00850074 CWEH 220900Z AUTO 24003KT M04/M04 RMK AO1 SOG 26 2027 SLP087 T10441035 CWDQ 220900Z AUTO 00000KT M02/M04 RMK AO1 SOG 40 1012 SLP113 T10231035 EEEI 220850Z 21005KT CAVOK 02/01 Q1020 R24/190095 NOSIG KBAK 220245Z 00000KT 10SM SKC 11/10 A2963 RMK LAST KAIT 220932Z AUTO 32003KT 4SM BR BKN002 OVC021 02/01 A2959 RMK AO2 KBBB 220551Z AUTO 00000KT OVC007 02/00 A2958 RMK AO2 PWINO CWDT 220900Z AUTO 03005KT M07/M10 RMK AO1 SLP141 T10661096 51027 CWEK 220900Z AUTO 06028G33KT 07/02 RMK AO1 PK WND 05035/0848 SLP962 T00660024 53002 CWEL 220900Z AUTO 15014KT 07/05 RMK AO1 PK WND 16018/0805 SLP010 T00700046 50008 NWWW 220930Z AUTO 03002KT 9999 FEW040 SCT052 OVC160 26/21 Q1010 NOSIG CWDV 220900Z AUTO 05003KT M00/M00 RMK AO1 SOG 46 3003 SLP040 T10031003 KBAN 220945Z AUTO 2 1/2SM -SN M02/M05 A2967 RMK AO2 P0001 T10221050 $ KAJO 220756Z AUTO 00000KT BKN100 OVC120 09/07 A3014 RMK AO2 SLP220 T00940067 401560083 PWINO $ KBBF 220935Z AUTO 33028KT 10SM FEW055 A2962 RMK A01 ULLI 220930Z 29009MPS 9999 BKN007 OVC017 02/00 Q1014 R88/290050 NOSIG CWFF 220900Z AUTO 32006KT M03/M04 RMK AO1 SOG 10 3016 SLP063 T10251039 50002 KBBG 220935Z AUTO 00000KT 7SM -RA SCT037 BKN043 OVC065 10/10 A2940 RMK AO2 KD25 220935Z AUTO 00000KT 1/4SM FG OVC004 01/01 A2953 RMK AO2 T00050005 CWEP 220900Z AUTO 33013KT M00/M02 RMK AO1 SLP044 T10011019 51011 KAKH 220854Z AUTO 00000KT 6SM BR OVC002 13/11 A2963 RMK AO2 SLP032 T01280106 58015 KAIZ 220856Z AUTO 04008KT 10SM BKN040 BKN047 OVC090 09/08 A2948 RMK AO2 SLP769 60001 T00940083 55010 CWEQ 220900Z AUTO 03004KT 00/00 RMK AO1 2PAST HR SOG 04 3012 SLP041 P0001 T00000000 50002 KAJR 220935Z AUTO 09005KT 7SM RA SCT001 BKN041 OVC047 12/12 A2965 RMK AO2 LTG DSNT NE T01230123 CWER 220900Z AUTO 23004KT RMK AO1 CWFJ 220900Z AUTO 23001KT M05/M07 RMK AO1 T10451072 KALB 220926Z 00000KT 1SM R01/P6000FT BR BCFG FEW060 OVC080 04/03 A2974 RMK AO2 T00390028 KBCB 220935Z AUTO 00000KT 5SM BR SCT005 OVC010 10/10 A2966 RMK AO2 T00960096 CWGB 220900Z AUTO 11018KT 07/05 RMK AO1 PK WND 11023/0858 SLP003 T00730052 50004 CWEU 220900Z 14020KT 1 1/2SM -SN DRSN OVC012 M18/M21 A2964 RMK SN4SC4 PRESFR SLP039 CWGD 220900Z AUTO 14007KT 05/05 RMK AO1 SLP030 T00510050 58001 KBCE 220853Z AUTO 00000KT 10SM CLR M18/M20 A3000 RMK AO2 SLP190 I1000 I3000 T11781200 51010 TSNO $ CWEW 220900Z AUTO 03002KT M00/M00 RMK AO1 SOG 09 1008 SLP113 T10041004 KAKO 220853Z AUTO 29011KT 10SM OVC110 M01/M04 A2972 RMK AO2 SLP070 T10111039 53019 KBAX 220935Z AUTO 00000KT 1/2SM FG OVC003 04/04 A2961 RMK AO2 T00400040 KBBP 220935Z AUTO 22005KT 5SM BKN016 OVC023 17/15 A2966 RMK AO2 PWINO EDOP 211420Z 21003KT 7000 OVC021 03/02 Q1031 EDNY 220920Z 04004KT 2800 BR OVC002 M10/M11 Q1026 KBAZ 220851Z AUTO 29020G31KT 10SM CLR 16/M02 A2961 RMK AO2 PK WND 30033/0759 SLP021 60000 T01561022 51009 KAKQ 220923Z AUTO 00000KT 2SM -RA BR FEW003 OVC006 10/10 A2964 RMK AO2 RAB0855 P0002 T01000100 KAJZ 220935Z AUTO 25012KT 10SM CLR 01/M03 A2998 RMK AO2 T00081035 CWFQ 220900Z AUTO 34003KT 01/01 RMK AO1 SOG 00 0006 SLP084 T00060006 CWEZ 220900Z AUTO 13013G18KT 08/04 RMK AO1 PK WND 14021/0801 SLP015 T00800035 50006 KALI 220853Z AUTO 32013G21KT 10SM CLR 18/01 A2969 RMK AO2 SLP052 T01780006 53014 $ KAKR 220854Z AUTO 14006KT 4SM RA BR FEW038 BKN050 OVC070 12/11 A2964 RMK AO2 RAE01B40 SLP034 P0001 60001 T01220106 58009 KAMA 220944Z AUTO 35020G30KT 10SM OVC009 05/04 A2965 RMK AO2 PK WND 34034/0914 CIG 008V012 T00500039 ULMM 220930Z 29003MPS 9999 -SHSN BKN014CB M05/M07 Q1002 R31/490334 TEMPO 31007G14MPS 0200 +SHSN BLSN VV002 RMK QFE744 KD39 220931Z AUTO 00000KT 1/2SM FG OVC003 00/00 A2962 RMK AO2 T00030003 KBCK 220935Z AUTO 00000KT M1/4SM FG OVC007 02/02 A2955 RMK AO2 T00150015 KALK 220856Z AUTO 26004KT 10SM CLR M01/M04 A3014 RMK AO2 SLP178 T10111039 50001 CWGL 220900Z AUTO 09007KT 02/01 RMK AO1 SLP059 T00170014 50005 KALM 220935Z AUTO 02007KT 10SM CLR 03/M05 A3003 RMK AO2 CWGM 220900Z AUTO 21003KT M03/M04 RMK AO1 T10311042 KBDE 220933Z AUTO 00000KT 3/4SM BR VV004 01/00 A2963 RMK AO2 T00060000 KBBW 220853Z AUTO 34010KT 10SM CLR 01/M01 A2966 RMK AO2 SLP050 T00111011 53013 KALN 220935Z AUTO 00000KT 10SM CLR 08/05 A2950 RMK AO2 T00820054 KALO 220854Z 25005KT 3SM BR OVC005 01/00 A2958 RMK AO2 CIG 003V009 SLP022 T00060000 53005 KAMG 220944Z AUTO 20005KT 2 1/2SM +TSRA BR BKN014 OVC033 19/18 A2962 RMK AO2 LTG DSNT ALQDS RAE00B33 TSB10E25B42 P0008 T01890183 $ KBDG 220935Z AUTO 02006KT 10SM CLR M08/M09 A3007 RMK AO1 T10801090 KBDH 220935Z AUTO 00000KT 2SM BR OVC004 01/01 A2963 RMK AO2 NZAA 220930Z AUTO 26017G29KT 230V290 9999 VCSH BKN029/// BKN036/// OVC055/// 18/13 Q1002 TEMPO 7000 SHRA OOSA 220850Z 14014KT 9999 FEW025 27/19 Q1017 NOSIG CWHI 220800Z AUTO 33007KT M06/M06 RMK AO1 T10561059 CWGR 220900Z AUTO 36009KT M03/M03 RMK AO1 SLP042 T10261033 51014 ZSAM 220900Z 09007MPS CAVOK 15/03 Q1025 NOSIG KALS 220852Z AUTO 19004KT 6SM BR FEW011 SCT060 M17/M18 A2983 RMK AO2 SLP156 T11671183 53028 KBEA 220935Z AUTO 30012KT 10SM CLR 17/02 A2969 RMK AO2 T01700020 KBCT 220350Z 20006KT 10SM CLR 21/17 A2988 RMK LAST KANB 220853Z AUTO 20005KT 10SM FEW018 SCT026 BKN080 17/14 A2953 RMK AO2 LTG DSNT NE-SE RAE43 SLP998 P0003 60028 T01670144 50012 KD50 220935Z AUTO 29008KT 1 1/2SM BR OVC002 M02/M02 A2968 RMK AO2 CWGT 220900Z AUTO 13018KT 07/05 RMK AO1 PK WND 12023/0827 SLP003 T00740047 50003 KBDL 220923Z 00000KT 1/8SM R06/0800V1000FT FG VV002 03/03 A2973 RMK AO2 TWR VIS 1/2 T00330033 CWHL 220900Z AUTO 11017KT 08/M00 RMK AO1 PK WND 10023/0844 SLP963 T00791004 53007 KAND 220856Z AUTO 18003KT 6SM -RA BR BKN002 OVC012 13/13 A2966 RMK AO2 LTG DSNT W RAB53 SLP040 P0000 60000 T01330128 55010 KBED 220856Z AUTO 00000KT 10SM CLR 01/M01 A2973 RMK AO2 SLP082 T00111006 58000 EDQM 220920Z VRB01KT CAVOK M04/M11 Q1025 CWID 220900Z AUTO 00000KT M33/M37 RMK AO1 SLP271 T13321372 51015 KBDN 220935Z AUTO 13009G17KT 10SM CLR 04/M03 A2953 RMK AO2 KALW 220853Z AUTO 14009KT 10SM OVC075 07/M01 A2968 RMK AO2 SLP055 60000 T00721011 51002 KANE 220934Z AUTO 33003KT 3SM BR OVC003 02/02 A2958 RMK AO2 KAMN 220935Z AUTO 00000KT 1/4SM FG OVC002 01/01 A2959 RMK AO2 T00080008 CWGW 220900Z AUTO 03003KT M06/M07 RMK AO1 SOG 17 1013 SLP135 T10561067 KALX 220935Z AUTO 00000KT 10SM SCT033 SCT070 17/16 A2955 RMK AO2 LTG DSNT SW P0001 T01680160 CWGX 220900Z AUTO 12004KT M03/M04 RMK AO1 SOG 14 3010 SLP097 T10321036 CWHO 220900Z AUTO 00001KT M13/M14 RMK AO1 SLP176 T11301142 51029 CWHP 220900Z AUTO 04021KT M03/M03 RMK AO1 3022 PK WND 05026/0833 SLP058 T10271033 50008 CWIG 220900Z AUTO 21008KT RMK AO1 CWGY 220900Z AUTO 30012KT M04/M06 RMK AO1 PK WND 29017/0845 SLP121 T10351056 51021 KBEH 220853Z AUTO VRB03KT 1/4SM FG VV002 04/03 A2959 RMK AO2 SLP020 I1000 I3000 T00390033 58002 CWGZ 212100Z 34004KT 240V340 15SM SCT140 M27/M31 A2991 RMK AC3 -24.0/-34.9/0.0/20/LAST OBS/NXT 241300Z SLP138 ULPB 220900Z AUTO 26004MPS 9999 // NCD M07/M10 Q1009 RMK QFE753/1004 CWHQ 220900Z AUTO 01002KT M01/M02 RMK AO1 T10141020 KBDR 220852Z AUTO 21003KT 1/4SM FG VV002 06/05 A2975 RMK AO2 SLP074 T00610050 56007 KD57 220935Z AUTO 00000KT 10SM OVC003 M13/M15 A2969 RMK AO2 CWII 220900Z AUTO 13004KT 01/01 RMK AO1 T00110007 KANJ 220924Z AUTO 10006KT 1 3/4SM BR OVC002 03/02 A2960 RMK AO2 T00330022 CWIJ 220900Z AUTO 26007KT M29/M33 RMK AO1 SOG 70 2032 SLP256 T12941328 KANK 220935Z AUTO 28004KT 10SM CLR M04/M09 A2990 RMK AO1 T10391090 OPKC 220925Z 03004KT 8000 NSC 26/M05 Q1019 NOSIG KD60 220935Z AUTO 28013KT 1 1/2SM BR OVC002 M02/M02 A2966 RMK AO2 CWJB 220900Z AUTO 22002KT M01/M02 RMK AO1 SOG 60 T10061015 CWHT 220900Z AUTO 10001KT M37/M42 RMK AO1 SOG 22 1006 SLP133 T13741417 CWIK 220900Z AUTO 29006KT M04/M05 RMK AO1 SOG 15 3014 SLP047 T10411051 50002 EDSB 220920Z VRB02KT 0250 R21/0350N FZFG VV/// M07/M07 Q1027 KBDU 220936Z AUTO 28013G17KT 10SM CLR 02/M10 A2976 RMK AO2 UKWW 220930Z /////MPS 9999 OVC022 00/M03 Q1033 NOSIG ULOO 220900Z AUTO 26005MPS 9999 // ///010/// 03/01 Q1020 RMK QFE761 CWIL 220900Z AUTO 29019KT M23/ A2996 RMK SLP155 KBFD 220948Z AUTO 00000KT 1/2SM FG BKN001 OVC060 06/06 A2968 RMK AO2 CWJD 220900Z AUTO 05003KT M00/M00 RMK AO1 SOG 21 3010 SLP055 T10021002 CWHV 220900Z AUTO 35001KT M02/ RMK AO1 SLP093 T1021 53012 UMGG 220930Z 24007MPS 9999 OVC008 M03/M04 Q1030 R28/310150 NOSIG KAMW 220933Z AUTO 34009KT 7SM BKN009 00/00 A2959 RMK AO2 T00000000 NZAP 220900Z 31012KT 25KM BKN030 13/10 Q0997 RMK ALT VATSIM USE ONLY KBFF 220853Z AUTO 30006KT 10SM CLR M03/M06 A2974 RMK AO2 SLP085 T10331056 53020 CXAF 220900Z AUTO 02005KT M09/M10 RMK AO1 T10941095 TUPJ 220200Z VRB03KT 9999 SCT018 SCT035 23/20 Q1016 RMK A3000 CXAG 220900Z AUTO 34006KT M08/M09 RMK AO1 T10811089 CWIP 220900Z AUTO 01008KT M04/ RMK AO1 PK WND 01017/0802 T1035 KANQ 220955Z AUTO 00000KT M1/4SM OVC001 03/M02 A2957 RMK KAOH 220936Z AUTO 00000KT 1/2SM FG SCT035 BKN060 08/08 A2960 RMK AO2 RAE0854 P0000 T00830083 CWJH 220900Z AUTO 35002KT M03/M03 RMK AO1 6PAST HR SOG 35 3017 SLP094 P0002 T10311033 50016 KBFI 220853Z 16006KT 10SM OVC038 06/05 A2960 RMK AO2 RAE23 SLP022 P0000 60001 T00610050 50001 OPLA 220925Z 03003KT 4000 HZ FEW100 19/07 Q1022/A30.18 BECMG 3000 FU CWJI 220900Z AUTO 29010KT M02/M03 RMK AO1 SOG 01 3014 SLP072 T10181026 KAPA 220853Z 24005KT 10SM FEW070 FEW120 SCT220 M03/M07 A2975 RMK AO2 SLP095 T10331072 53020 PHBK 220856Z AUTO 03011KT 10SM CLR 22/10 A3018 RMK AO2 SLP223 T02170100 53011 CXBA 220900Z AUTO 32011KT M05/M05 RMK AO1 T10501053 50004 CXAJ 220900Z AUTO 02006KT M09/M10 RMK AO1 SOG 05 T10911099 CWIS 220900Z AUTO 03018G23KT M05/M05 RMK AO1 SOG 104 3017 PK WND 03023/0856 SLP093 T10501053 CXAK 220900Z AUTO 35006KT M07/M07 RMK AO1 T10681073 KAPC 220920Z AUTO 11012G19KT 6SM RA BR FEW019 BKN025 OVC032 10/08 A2969 RMK AO2 P0005 T01000078 KBFL 220854Z AUTO 10004KT 10SM -RA OVC070 11/03 A2997 RMK AO2 RAE12B29 SLP147 P0000 60000 T01110033 58004 KBFM 220853Z AUTO 22007KT 8SM BR OVC010 23/21 A2953 RMK AO2 CIG 008V014 SLP000 T02280211 56006 KBGD 220946Z AUTO 36017G23KT 10SM -RA FEW012 OVC028 04/03 A2966 RMK AO2 PK WND 35027/0915 P0000 CWKD 220800Z AUTO 03010KT M15/M17 RMK AO1 SLP147 T11511171 53026 KANW 220935Z AUTO 30006KT 10SM CLR M03/M04 A2969 RMK AO2 T10301036 KBGE 220935Z AUTO 23012G18KT 10SM SCT011 SCT016 SCT022 23/21 A2957 RMK AO2 PWINO CWIW 220900Z AUTO 32009KT M04/M05 RMK AO1 2PAST HR SOG 03 3014 SLP066 P0001 T10371049 50004 EEKE 220850Z AUTO 26008KT 220V290 9999NDV SCT002 OVC004 03/03 Q1024 KAOO 220853Z AUTO 00000KT 1/4SM FG VV002 06/06 A2969 RMK AO2 SLP058 T00610056 58007 KAPF 220853Z AUTO 19008KT 10SM FEW023 23/21 A2980 RMK AO2 SLP088 T02280211 57006 $ KBGF 220935Z AUTO 08004KT 4SM SCT009 BKN014 OVC031 13/13 A2948 RMK CWIX 220900Z AUTO 24003KT M02/M03 RMK AO1 SLP107 T10201028 51018 CWJO 220900Z AUTO 26004KT M01/M02 RMK AO1 SLP115 T10071019 51018 NZCH 220930Z AUTO 23011KT 9999 -DZ OVC050/// 14/10 Q0985 NOSIG NZCI 220900Z 32017KT 45KM BKN080 18/08 Q0992 RMK ALT NZNR VATSIM USE ONLY CWIY 220900Z AUTO 32007KT M02/M03 RMK AO1 SLP083 T10191030 51019 CWKG 220900Z AUTO 02002KT M01/M01 RMK AO1 SOG 01 1015 SLP065 T10071013 CWKH 220900Z AUTO 04/03 RMK AO1 SLP998 T00360027 50005 CWIZ 220900Z AUTO 04004KT M00/M00 RMK AO1 SOG 00 T10011001 CWJR 220900Z AUTO 10002KT M00/M01 RMK AO1 SOG 22 3010 SLP108 T10021012 CXBI 220900Z AUTO 11005KT 01/01 RMK AO1 SOG 13 0003 SLP065 T00120008 CXCA 220900Z AUTO 26005KT 01/01 RMK AO1 SOG 16 8002 SLP039 T00130013 KBHB 220856Z AUTO 02005KT 10SM OVC005 01/00 A2979 RMK AO2 SLP090 60000 T00060000 51008 FZRANO NZCM 220855Z 34008KT 9999 FEW010 FEW120 FEW150 M03/M08 A2909 RMK SLPNO CXAT 220800Z AUTO 15011KT M17/M21 RMK AO1 PK WND 14020/0712 SLP097 T11711211 56015 CWKK 220900Z AUTO 08012KT 01/M00 RMK AO1 SOG 11 1006 SLP049 T00061003 CWLB 220900Z AUTO 01005KT M09/M10 RMK AO1 SOG 11 1019 SLP169 T10911101 CXBK 220900Z AUTO 31007KT M03/M04 RMK AO1 SOG 25 3015 SLP050 T10311042 CWJT 220900Z AUTO 00000KT M00/M00 RMK AO1 SLP098 T10011001 51011 KBHC 220935Z AUTO 18006KT 7SM VCTSRA OVC015 19/19 A2961 RMK AO2 LTG DSNT ALQS PNO EDTL 220920Z 35002KT 2500 BR OVC004 M07/M07 Q1027 CWLC 220900Z AUTO 08002KT 06/02 RMK AO1 T00550024 CWJU 220900Z AUTO 08014G26KT 06/03 RMK AO1 PK WND 07026/0858 SLP937 T00630029 58002 KBGM 220910Z 19003KT 1/4SM FG VV001 04/04 A2969 RMK AO2 T00440044 CXCD 220900Z AUTO 02001KT M14/M17 RMK AO1 T11411166 CWJV 220900Z AUTO 11001KT M01/M02 RMK AO1 SLP074 T10071015 51008 CWKM 220900Z AUTO 00000KT A3005 KBFW 220934Z AUTO 00000KT 7SM -DZ OVC006 02/02 A2957 RMK AO2 KAPN 220942Z AUTO 00000KT 1/4SM FG VV005 02/02 A2961 RMK AO2 T00220017 DNKN 211600Z 13004KT CAVOK 35/10 Q1010 NOSIG CWJW 220900Z AUTO 02002KT M08/M10 RMK AO1 SOG 15 1014 SLP126 T10801102 CWLE 220900Z AUTO 32009KT M03/M04 RMK AO1 SOG 00 3018 SLP078 T10311036 VCRI 220610Z 05013KT 9999 -SHRA SCT016 OVC080 27/21 Q1014 NOSIG CXBO 220900Z AUTO 00000KT RMK AO1 CWKO 220900Z AUTO 29007KT M03/M04 RMK AO1 SOG 10 3016 SLP079 T10341038 CWJX 220900Z AUTO 32004KT M03/M04 RMK AO1 SOG 01 1019 SLP104 T10261036 UMII 220900Z 26005G08MPS 4900 BR OVC003 M01/M02 Q1023 TEMPO 2000 BKN002 RMK QBB110 UNAA 220930Z 33002MPS 4400 BR FU NSC M09/M13 Q1024 R02/090060 NOSIG RMK QFE745 CWKP 220900Z AUTO ///// M22/ A2987 RMK PRESRR SLP168 CXCH 220900Z AUTO M01/M02 RMK AO1 0PAST HR SOG 08 M P0004 T10051024 50017 KBGR 220937Z 35004KT 3SM -SN BR FEW009 OVC032 00/00 A2980 RMK AO2 P0000 T00000000 CXBR 220900Z AUTO 34006KT M05/M07 RMK AO1 T10501069 CWLI 220900Z AUTO ///// 3/4SM //// BKN120 OVC160 M31/M34 A3005 KARA 220943Z AUTO 29020G26KT 8SM SCT018 BKN024 BKN035 19/16 A2956 RMK AO2 PK WND 30026/0943 T01890156 KBHK 220851Z AUTO 31004KT 10SM CLR M11/M12 A2969 RMK AO2 SLP091 I1000 I3001 T11061122 53016 KARB 220853Z AUTO 00000KT 1/4SM FG VV001 03/03 A2960 RMK AO2 SLP026 T00280028 56002 CXDB 220900Z AUTO 28009KT M07/M08 RMK AO1 T10681076 CXCK 220900Z AUTO 00000KT M39/M44 RMK AO1 SOG 36 5002 SLP172 T13941440 NZDN 220900Z 23021G32KT 10KM SHRA BKN020 12/10 Q0990 RMK ALT VATSIM USE ONLY KBHM 220853Z 21006KT 10SM SCT100 14/13 A2953 RMK AO2 SLP995 60020 T01390128 53009 CWLM 220900Z AUTO 13013G19KT 07/05 RMK AO1 PK WND 12019/0853 SLP005 T00650051 50007 KBIE 220935Z AUTO 32005KT 7SM CLR M01/M01 A2963 RMK AO2 T10111013 EDVE 220920Z 15005KT 100V180 1100 R26/1300VP2000U BR BKN001 M04/M04 Q1029 CXBW 220800Z AUTO 31005KT M04/M04 RMK AO1 T10351040 CWME 220900Z AUTO 04023KT 06/01 RMK AO1 PK WND 05032/0828 T00560012 CXDE 220900Z AUTO 10005KT M29/M32 RMK AO1 SOG 13 1007 SLP222 T12861318 CWKW 220900Z AUTO ///// M22/ A2999 RMK SLP222 KBIF 220858Z AUTO 27018G27KT 10SM CLR 05/M04 A3004 RMK AO2 PK WND 26038/01 SLP155 T00511040 52025 KAQO 220935Z AUTO 27015G21KT 10SM CLR 14/M02 A2961 RMK AO2 CWKX 220900Z AUTO 06005KT M21/M24 RMK AO1 SOG 28 1006 SLP130 T12121236 KARG 220935Z AUTO 00000KT 10SM OVC021 13/11 A2944 RMK AO1 KD95 220934Z AUTO 03003KT M1/4SM FG OVC002 01/01 A2960 RMK AO2 T00080008 KAQP 220935Z AUTO 33005KT 3SM BR OVC002 02/01 A2963 RMK AO2 KAPY 220935Z AUTO 32008KT 10SM CLR 16/02 A2974 RMK AO2 T01590030 OPNH 220900Z 31508KT 3000M FU NSC 23/05 Q.1022 NOSIG EDTY 220920Z 09006KT 2500 BR NSC M11/M12 Q1025 CWLP 220900Z AUTO 13029G35KT 09/04 RMK AO1 PK WND 13037/0813 SLP961 T00880040 51010 CXCP 220900Z AUTO 34006KT M05/M05 RMK AO1 T10501054 KBIH 220946Z AUTO 18016G25KT 7SM -SN BKN019 OVC034 02/M01 A2989 RMK AO2 PK WND 16027/0920 SNB21 P0001 T00171006 TSNO UNBB 220930Z 20004MPS CAVOK M05/M12 Q1020 R24/430540 NOSIG RMK QFE742 KAQR 220935Z AUTO 00000KT 10SM BKN095 OVC110 10/06 A2938 RMK AO2 CXDI 220900Z AUTO 03001KT 01/01 RMK AO1 SOG 00 8001 SLP048 T00060005 OPMT 220900Z 05004KT 4000 HZ FEW120 21/05 Q1022 NOSIG KBIJ 220935Z AUTO 00000KT 10SM SCT025 SCT050 SCT065 21/17 A2955 RMK AO2 LTG DSNT E CXCS 220900Z AUTO 33010KT M06/M07 RMK AO1 T10591066 CWLS 220900Z AUTO 15002KT 03/03 RMK AO1 SOG 03 0000 SLP050 T00310031 CXEA 220900Z AUTO 09002KT 01/01 RMK AO1 SOG 25 3009 SLP057 T00110011 CWMJ 220900Z AUTO 36001KT M00/M00 RMK AO1 SOG 41 1006 SLP095 T10031003 EDVK 220930Z 11003KT 1500 BR SCT001 M07/M07 Q1027 RMK ATIS J CXDK 220900Z AUTO 27001KT M24/M27 RMK AO1 SLP228 T12431270 50001 KBIL 220853Z 24012KT 10SM BKN090 M02/M07 A2975 RMK AO2 SLP106 T10221072 53016 KBJC 220936Z AUTO 30011KT 10SM CLR 00/M08 A2977 RMK AO2 KE11 220935Z AUTO 30018G23KT 10SM CLR 07/M05 A2974 RMK AO2 T00711050 CXEC 220900Z AUTO 01003KT M07/M07 RMK AO1 SOG 20 1016 SLP157 T10671071 CWNC 220900Z AUTO 00000KT 03/02 RMK AO1 SOG 00 0001 SLP056 T00280016 KAQV 220856Z AUTO VRB03KT 10SM OVC080 13/12 A2953 RMK AO2 RAB07E49 SLP997 P0006 60007 T01280117 51019 $ KASD 220853Z AUTO VRB03KT 4SM BR OVC005 21/20 A2952 RMK AO2 SLP997 T02060200 53005 KCAD 220934Z AUTO 00000KT 1/2SM FG OVC007 03/03 A2956 RMK AO2 T00410036 KARM 220935Z AUTO 27007KT 10SM CLR 15/06 A2962 RMK AO2 T01500055 CWND 220900Z AUTO 19007KT M31/M35 RMK AO1 SLP159 T13121348 53013 CWMM 220900Z AUTO 07002KT 05/03 RMK AO1 SLP027 T00520033 53007 DNMM 220900Z 27004KT 8000 BKN013 30/26 Q1012 NOSIG KAQW 220913Z AUTO 00000KT 1/4SM FG VV003 01/01 A2974 RMK AO2 T00060006 KASE 220941Z AUTO 03004KT 5SM -SN BR SCT014 BKN030 OVC049 M06/M07 A2990 RMK AO2 P0001 T10561067 KCAE 220942Z 15004KT 7SM -RA BKN010 BKN070 OVC085 16/14 A2966 RMK AO2 P0008 T01560144 CWNE 220900Z AUTO 34011KT M01/M04 RMK AO1 SLP058 T10131040 51015 KAQX 220935Z AUTO 00000KT 2SM +RA OVC003 16/16 A2966 RMK AO2 LTG DSNT SE-W KASG 220248Z 10006KT 10SM SKC 12/10 A2946 VEBI 220700Z 05005KT 6000 NSC 22/06 Q1020 CWLX 220900Z AUTO 12012KT M30/ A3008 RMK SLP217 KCAG 220853Z AUTO 28005KT 10SM SCT042 OVC090 M04/M08 A2992 RMK AO2 SNE04 SLP166 P0000 60000 T10391078 51022 CXDP 220900Z AUTO 35004KT M07/M08 RMK AO1 T10741078 CXEG 220900Z AUTO M07/M07 RMK AO1 SOG 07 T10661067 CWLY 220900Z AUTO 19003KT 150V260 1/8SM FG VV002 01/01 A2966 RMK SLP053 KASH 220756Z AUTO 28003KT 10SM CLR 02/01 A2975 RMK AO2 SLP085 T00170011 KE16 220935Z AUTO 12017G22KT 5SM -RA FEW029 BKN035 OVC043 09/07 A2978 RMK AO2 CWNH 220900Z AUTO 02006KT M01/M03 RMK AO1 SOG 28 3022 SLP104 T10121027 VEAT 220930Z 30003KT 5000 HZ NSC 27/19 Q1014 NOSIG UMKK 220930Z 22006MPS 1500 R24/1500U BR OVC002 M00/M00 Q1031 R24/29//60 NOSIG RMK QBB060 OBST OBSC QFE773/1030 CWMQ 220800Z AUTO 30006KT M03/M04 RMK AO1 SLP103 T10341040 53017 ZSHC 220930Z 05004MPS CAVOK 06/M07 Q1032 NOSIG KARR 220917Z AUTO 00000KT 1/4SM FG VV002 01/00 A2959 RMK AO2 T00060000 $ KBJI 220932Z AUTO 00000KT 4SM BR OVC008 00/00 A2962 RMK AO2 T00000000 PFWS 220856Z AUTO 36009KT 10SM CLR M23/M26 A2993 RMK AO2 SLP142 T12281261 411721228 51004 FZRANO KASJ 220940Z AUTO 00000KT 1/2SM -DZ 11/10 A2963 RMK AO2 T01050104 KBIS 220852Z AUTO 25003KT 5SM BR OVC007 M04/M05 A2968 RMK AO2 SLP071 I3000 T10391050 53019 KBJJ 220936Z AUTO 00000KT 4SM BR FEW044 SCT120 08/07 A2963 RMK AO2 T00780072 VECC 220930Z 32007KT 4000 HZ NSC 26/08 Q1015 NOSIG KCAK 220851Z 00000KT 5SM BR BKN050 BKN080 OVC100 11/09 A2966 RMK AO2 SLP042 60005 T01060094 56009 KBKB 220854Z AUTO 00000KT 7SM -RA OVC075 13/13 A2952 RMK AO2 RAB00 PRESFR SLP022 P0012 60018 T01330128 50019 KART 220912Z AUTO 05008KT 4SM BR FEW003 02/02 A2970 RMK AO2 T00220022 VEBN 220930Z 24004KT 2500 HZ FEW200 24/09 Q1018 CWMT 220900Z AUTO 12001KT M40/M44 RMK AO1 SLP278 T13951440 53019 CWNK 220900Z AUTO 13002KT M00/M00 RMK AO1 T10011001 KASL 220935Z AUTO 21007KT 10SM CLR 14/07 A2942 RMK AO1 T01350067 CWNL 220900Z AUTO 10007KT 03/02 RMK AO1 SLP036 T00280015 50000 CWOC 220900Z AUTO 35004KT M03/M04 RMK AO1 SLP070 T10321043 52017 KBIV 220853Z AUTO 00000KT OVC003 03/03 A2960 RMK AO2 SLP024 T00330028 50002 $ KARV 220935Z AUTO 00000KT 1/4SM FG OVC002 03/02 A2953 RMK AO2 T00250021 KBKD 220935Z AUTO 28017G25KT 10SM OVC050 13/00 A2944 RMK AO2 T01251001 CWOD 220900Z AUTO 02010KT M00/M03 RMK AO1 SOG 54 3018 SLP103 T10021031 50002 CWNM 220900Z AUTO 10005KT 02/M01 RMK AO1 SOG 22 1008 SLP093 T00221009 KCBE 220944Z AUTO 00000KT 2 1/2SM OVC008 07/07 A2975 RMK AO1 ZSFZ 220900Z 05008MPS CAVOK 12/03 Q1028 NOSIG KBKE 220853Z AUTO 11012KT 10SM CLR M02/M03 A2974 RMK AO2 SLP092 T10171033 51004 KARW 220935Z AUTO 20004KT 4SM TSRA SCT007 BKN044 OVC050 16/16 A2970 RMK AO2 LTG DSNT ALQS P0009 KASN 220935Z AUTO 19009KT 10SM SCT085 16/14 A2953 RMK AO2 T01610144 CWOE 220900Z AUTO 30009KT M02/M03 RMK AO1 SLP100 T10151027 51024 CXDW 220800Z AUTO 13002KT M00/ RMK AO1 SOG 35 1013 SLP038 T1001 KBIX 220948Z AUTO 23006KT 2 1/2SM R03/4000FT BR OVC002 20/20 A2951 RMK AO2 VIS 3/4V2 1/2 KCAO 220855Z AUTO 31014KT 10SM CLR 01/M01 A2970 RMK AO2 SLP048 T00061006 53034 KCBF 220935Z AUTO 31004KT 9SM CLR M01/M01 A2963 RMK AO2 KBKF 220858Z 21005KT 10SM FEW070 SCT110 BKN220 M03/M04 A2976 RMK AO2A SLP080 T10281038 52020 KCBG 220936Z AUTO 33003KT 3/4SM BR OVC002 02/02 A2958 RMK AO2 CWNP 220900Z AUTO 34002KT M01/M01 RMK AO1 SOG 34 1009 SLP097 T10071012 VEBS 220930Z 04004KT 3000 HZ NSC 31/11 Q1015 NOSIG CWMZ 220900Z AUTO 11017KT 02/02 RMK AO1 PK WND 11020/0853 SLP043 T00210018 58005 CWNQ 220900Z AUTO 00000KT M01/M01 RMK AO1 SLP098 T10081014 53008 KCAR 220854Z AUTO 31005KT 10SM SCT025 OVC044 M01/M04 A2975 RMK AO2 SLP084 T10061039 51009 KCCA 220655Z AUTO VRB03G10KT 8SM -DZ FEW030 SCT055 BKN075 14/13 A2941 RMK AO2 KAST 220855Z AUTO 16004KT 10SM CLR 06/03 A2946 RMK AO2 SLP974 T00610033 58027 KCBK 220935Z AUTO 32007KT 10SM CLR M01/M01 A2971 RMK AO2 CXET 220900Z AUTO 13004KT 01/01 RMK AO1 SOG 11 0001 SLP056 T00140009 KBKL 220853Z AUTO 15007KT 10SM CLR 13/10 A2962 RMK AO2 SLP030 T01330100 58006 KATL 220936Z 13003KT 3SM +TSRA BR SCT004 SCT020CB OVC055 14/14 A2960 RMK AO2 TSB 35 VIS SW-W 2 OCNL LTGICCG SW TS SW MOV NE P0005 T01440139 EFET 220920Z AUTO 00000KT CAVOK M14/M15 Q1009 CWPC 220900Z AUTO 02004KT 02/01 RMK AO1 SLP056 T00180009 51003 KCAV 220935Z AUTO 30006KT 2 1/2SM BR OVC003 00/00 A2960 RMK AO2 PWINO CXFM 220900Z AUTO 30007KT M03/M03 RMK AO1 T10291032 CWPD 220900Z AUTO 03001KT M05/M05 RMK AO1 SLP093 T10501050 53015 UMMG 220900Z 24003MPS 3200 BR OVC002 M01/M01 Q1032 NOSIG RMK QBB080 KASW 220935Z AUTO 00000KT 1/2SM FG OVC001 01/01 A2955 RMK AO2 CWPE 220900Z AUTO 33005KT M00/M02 RMK AO1 SOG 00 1014 SLP080 T10011020 KBLF 220852Z AUTO 10005KT 1/4SM FG VV002 08/08 A2965 RMK AO2 SLP027 T00830083 58006 KASX 220853Z AUTO 00000KT 3/4SM BR VV003 01/01 A2957 RMK AO2 SLP023 T00110006 53010 KAUG 220853Z AUTO 01008KT 10SM OVC022 02/M02 A2977 RMK AO2 SLP084 T00171017 53009 CWPF 220945Z AUTO 04003KT 07/05 RMK AO1 T00710049 KATP 220935Z AUTO VRB05G12KT 4SM BR BKN019 24/22 A2953 RMK A01 KBLH 220852Z AUTO 21005KT 10SM OVC120 12/06 A3009 RMK AO2 SLP187 T01170061 53007 KAUH 220935Z AUTO 33008KT 10SM CLR 00/00 A2965 RMK AO2 T00001005 PHHI 220858Z AUTO VRB03G23KT 10SM CLR 19/12 A3017 RMK AO2 SLP210 T01940122 $ NZGS 220900Z 31019KT 30KM BKN043 19/08 Q0995 RMK ALT VATSIM USE ONLY CWNZ 220900Z AUTO 08005KT M00/M00 RMK AO1 SOG 43 1006 SLP078 T10021002 50002 CXGH 220900Z AUTO 14005KT 01/01 RMK AO1 T00070005 KBLI 220853Z AUTO 00000KT 10SM SCT050 OVC060 05/03 A2960 RMK AO2 SLP031 T00500033 51009 OPPS 220900Z 00000KT 4000 HZ SCT100 SCT200 19/06 Q1024 NZHK 220900Z 06005KT 4000 RA BKN100 15/14 Q0987 RMK ALT VATSIM USE ONLY ULWC 220930Z 27003MPS 9999 SCT020 M06/M08 Q1009 R21/750240 NOSIG RMK QFE747/0996 CXFR 220900Z AUTO 06005KT M15/M17 RMK AO1 T11501170 KATS 220935Z AUTO 30020G29KT 10SM CLR 07/M06 A2981 RMK AO2 KE38 220935Z AUTO 29024G40KT 10SM CLR 05/M07 A2999 RMK AO2 T00491072 KBKS 220935Z AUTO 32009G15KT 10SM CLR 18/00 A2971 RMK AO1 T01841003 KCDA 220935Z AUTO 00000KT 1/2SM FG BKN010 OVC016 01/01 A2977 RMK AO2 T00050005 UMMM 211400Z 32005MPS 9999 BKN009 01/00 Q1023 RMK QFE747 PFYU 220256Z 00000KT 8SM HZ CLR M40/ A2999 CXHA 220900Z AUTO 16004KT 05/04 RMK AO1 SLP028 T00480043 58002 KATT 220851Z AUTO 26008KT 10SM CLR 15/M01 A2960 RMK AO2 SLP013 T01501011 50008 $ EFHA 220920Z AUTO 25005KT 9999 FEW006 BKN063 02/02 Q1014 KBKT 220935Z AUTO 01006KT 10SM OVC003 10/08 A2964 RMK AO1 T00970078 UNEE 220930Z 18006MPS CAVOK M06/M12 Q1018 R23/851032 NOSIG RMK QFE741 CWPK 220900Z AUTO 05002KT M03/M03 RMK AO1 SOG 62 0009 SLP109 T10311033 KCDC 220853Z AUTO 10SM CLR M04/M10 A2999 RMK AO2 SLP167 T10391100 50006 KBMC 220935Z AUTO 00000KT 10SM M05/M07 A2999 RMK AO1 T10511069 KAVC 220936Z AUTO 01006KT 10SM OVC003 10/10 A2969 RMK AO2 T00980098 NZHN 220900Z 28019KT 15KM VCSH BKN050 17/11 Q1000 RMK ALT NZTG VATSIM USE ONLY KCDD 220927Z AUTO 00000KT 1 3/4SM -RA OVC006 M01/M01 A2963 RMK AO2 KBKV 220853Z AUTO 17008KT 10SM BKN014 20/19 A2974 RMK AO2 SLP071 T02000189 58017 KAUM 220936Z AUTO 00000KT 1/4SM FG OVC002 01/00 A2957 RMK AO2 KBLM 220856Z AUTO 00000KT 1/4SM FG OVC002 07/07 A2973 RMK AO2 SLP072 T00670067 58021 RVRNO CXHD 220900Z AUTO 34006KT M07/M07 RMK AO1 T10671072 KBKW 220851Z AUTO 11005KT 10SM CLR 09/08 A2964 RMK AO2 SLP029 T00940078 58009 KATW 220935Z AUTO 23003KT 1/4SM FG OVC003 02/02 A2954 RMK AO2 KAUN 220935Z AUTO 14016G20KT 4SM FEW001 BKN024 OVC065 06/04 A2973 RMK AO1 P0002 EDXW 220920Z 15007KT 9999 BKN015 03/02 Q1028 KAUO 220942Z AUTO 11005KT 10SM SCT005 SCT018 BKN030 15/15 A2957 RMK AO2 TSE14RAE34 P0000 KBKX 220856Z AUTO 32006KT 5SM BR OVC005 M01/M01 A2962 RMK AO2 SLP060 T10061011 53016 FZRANO KCCO 220935Z AUTO 09003KT 7SM -TSRA OVC005 15/15 A2959 RMK AO2 LTG DSNT NE THRU S T01470147 CXHF 220900Z AUTO 01/01 RMK AO1 T00080008 CWPO 220900Z AUTO 22005KT M00/M00 RMK AO1 SOG 21 3015 SLP051 T10021003 KBMG 220946Z AUTO 00000KT 4SM BR CLR 04/04 A2953 RMK AO2 T00440039 KATY 220936Z AUTO 31005KT 3SM BR OVC002 00/M01 A2962 RMK AO2 I1000 T00001006 EFHF 220920Z 25005KT 210V280 CAVOK 02/M00 Q1017 CWOY 220900Z AUTO 29005KT M04/M05 RMK AO1 3PAST HR SOG 08 3014 SLP056 P0001 T10391048 50005 UMMS 220930Z 24005MPS 7000 OVC003 M01/M01 Q1028 R31/310149 NOSIG RMK QBB100 KCDH 220935Z AUTO 00000KT 1/2SM FG OVC001 12/10 A2939 RMK AO2 NZHS 220900Z 32017KT 45KM BKN080 18/08 Q0992 RMK ALT NZNR VATSIM USE ONLY CWQH 220900Z AUTO 35002KT M00/M00 RMK AO1 SOG 04 T10011001 KCCR 220853Z AUTO 00000KT 6SM -RA OVC040 10/06 A2971 RMK AO2 SLP047 P0002 60015 T01000056 58036 KCDI 220932Z AUTO 00000KT 2 1/2SM BR OVC080 08/08 A2963 RMK AO2 T00830083 KBMI 220856Z AUTO 02012KT 1/4SM R20/1200V1400FT FG OVC002 03/03 A2956 RMK AO2 SLP038 T00330028 58009 NZHT 220900Z 26010KT 40KM BKN018 14/10 Q0989 RMK ALT VATSIM USE ONLY CWPR 220900Z AUTO 11001KT M03/M03 RMK AO1 SOG 25 0007 SLP058 T10321033 KBNA 220853Z 04003KT 10SM SCT150 OVC250 12/09 A2950 RMK AO2 SLP987 T01170094 56014 KAUS 220853Z 27012G24KT 8SM CLR 16/M02 A2959 RMK AO2 SLP011 T01611017 51015 $ KCDJ 220852Z AUTO 00000KT 06/05 A2958 RMK AO1 SLP020 T00610050 53002 CWPS 220900Z AUTO 01008KT 02/02 RMK AO1 SLP044 T00180015 58004 CWRA 220900Z AUTO 29007KT RMK AO1 PK WND 29019/0810 KAVK 220935Z AUTO 36015KT 10SM OVC008 07/07 A2952 RMK AO2 KCCU 220415Z AUTO 1/2SM SN OVC001 M08/M12 A2965 RMK AO2 CWQK 220900Z AUTO 14004KT 06/05 RMK AO1 SLP003 T00620054 51006 CXIB 220900Z AUTO 00000KT M03/M04 RMK AO1 SLP036 T10281040 51004 KBML 220905Z AUTO VRB04KT 10SM BKN014 OVC022 03/01 A2974 RMK AO2 T00330006 KBLU 220919Z AUTO 14011G22KT SN OVC004 M01/M02 A2970 RMK AO2 PK WND 13026/0908 P0001 T10111017 TSNO $ EFHK 220920Z 26008KT 9999 FEW013 BKN200 02/M00 Q1017 NOSIG KAVL 220937Z AUTO 00000KT 7SM OVC002 11/10 A2966 RMK AO2 T01110100 KCEC 220856Z AUTO 18021G36KT 7SM RA OVC046 10/06 A2940 RMK AO2 PK WND 18037/0846 SLP956 P0005 60015 T01000061 57005 EEPU 220850Z 23006KT 210V270 9999 OVC004 01/01 Q1022 OPRN 220930Z 23004KT 6000 HZ FEW040 SCT200 21/04 Q1023.4/30.22 KBLV 220928Z AUTO 00000KT 5SM R14L/5000FT BR CLR 08/08 A2947 RMK AO2 CXHM 220900Z AUTO 07002KT 03/ RMK AO1 SLP054 T0034 50001 PGRO 220850Z 05015KT 7SM SCT014 BKN080 26/22 A2998 KAUW 220854Z AUTO 00000KT 1/4SM FG VV002 02/02 A2953 RMK AO2 SLP013 T00220022 53006 KCDN 220935Z AUTO 22004KT 10SM OVC016 16/14 A2968 RMK AO2 KCEF 220921Z AUTO 00000KT 1/4SM R23/0900FT FG VV004 00/00 A2972 RMK AO2 PHJH 220345Z 03025G36KT 7SM SCT015 BKN025 19/18 A3008 RMK LAST CWQO 220900Z AUTO 01011G16KT M01/M06 RMK AO1 PK WND 02018/0803 T10081063 CWPX 220900Z AUTO 32019KT 7SM //// NCD M30/M34 A3000 CWRF 220900Z AUTO ///// A2975 KCCY 220935Z AUTO 29005KT 9SM OVC010 01/01 A2958 RMK AO2 KAVP 220943Z 11003KT 1/2SM R04/1600V2000FT FG VV002 06/06 A2971 RMK AO2 T00560056 KAWG 220935Z AUTO 00000KT M1/4SM FZFG OVC001 M02/M02 A2960 RMK AO2 CXHP 220900Z AUTO 27002KT M13/M14 RMK AO1 T11301142 CWQP 220900Z AUTO 05012KT 02/02 RMK AO1 PK WND 05017/0804 SLP061 T00230018 50000 KBMQ 220853Z AUTO 27013G24KT 10SM CLR 13/M03 RMK AO2 SLPNO T01281028 $ KAVQ 220935Z AUTO 11004KT 10SM CLR 03/01 A3014 RMK AO2 T00340005 CWPZ 220900Z AUTO 11004KT M04/M08 RMK AO1 SOG 26 1013 SLP062 T10421084 50001 CWRH 220900Z AUTO ///// M21/ A3003 RMK SLP226 KCDR 220853Z AUTO 00000KT 10SM CLR M07/M08 A2974 RMK AO2 SLP109 I1000 I3001 T10671078 53019 CXHR 220900Z AUTO 33006KT M06/M06 RMK AO1 5PAST HR M P0002 T10601063 50017 CWQR 220900Z AUTO 02021KT M05/ RMK AO1 PK WND 02027/0811 T1048 OPSK 220900Z 05004KT 4000 HZ NSC 24/04 Q1020 NOSIG KCDS 220853Z AUTO 33021KT 10SM BKN014 BKN029 OVC047 08/06 A2946 RMK AO2 RAB0755E30 SLP966 P0000 60000 T00780056 53033 KAXA 220935Z AUTO 31007KT 3SM BR OVC003 01/01 A2959 RMK AO2 CWQS 220900Z AUTO 09015G24KT 08/04 RMK AO1 3001 PK WND 10028/0813 SLP911 T00800040 50002 CWRJ 220900Z AUTO 32012KT M03/M05 RMK AO1 SLP083 T10251047 53015 CWSA 220948Z AUTO 22010KT 6SM -RA BR SCT021 OVC030 04/03 A2962 RMK SLP030 EGAA 220920Z 15004KT 5000 BR NSC 02/02 Q1023 KBMT 220935Z AUTO 00000KT 10SM SCT060 OVC090 15/14 A2956 RMK AO2 T01500136 CYAB 212300Z 28003KT 230V300 10SM OVC100 M25/M27 A2998 RMK AC8 -24.6/-28.9/0.0/10 HARD PACK LAST STFD OBS/NXT 231200Z SLP158 CWRK 220900Z AUTO 36001KT 01/01 RMK AO1 SOG 55 1005 SLP076 T00130013 KBNL 220935Z AUTO 00000KT 4SM RA SCT001 BKN016 OVC021 16/16 A2967 RMK AO2 LTG DSNT SE-W ORBD 220855Z 36008KT 9999 FEW025 SCT031 12/05 A3013 RMK SLP201 WND DATA/ALSTG/SLP ESTMD 50001 EGAC 220920Z 20004KT 9999 SCT028 BKN035 03/01 Q1023 UMOO 220900Z 26006MPS 8000 OVC006 M02/M03 Q1028 NOSIG RMK QBB180 KAWM 220908Z AUTO 09010G17KT 7SM -RA BKN035 BKN075 OVC095 14/14 A2937 RMK AO2 WSHFT 0848 P0002 T01390139 $ PGSN 220854Z 04018G23KT 10SM SCT018 BKN036 OVC110 26/23 A2999 RMK AO2 RAE31 SLP175 P0000 60000 T02560228 53014 KCFD 220935Z AUTO 26010G18KT 10SM CLR 14/01 A2955 RMK AO2 T01400013 CWQV 220900Z AUTO 29004KT M00/M02 RMK AO1 T10011019 CWRM 220900Z AUTO 35001KT M06/M07 RMK AO1 SOG 25 1007 SLP133 T10641069 CWSD 220900Z AUTO 29003KT M02/M03 RMK AO1 SOG 05 3013 SLP060 T10181027 KCDW 220935Z AUTO 00000KT 1/2SM FG VV002 06/06 A2973 RMK AO2 T00610061 TSNO KCFE 220934Z AUTO 00000KT 1 3/4SM BR OVC005 01/01 A2960 RMK AO2 T00100006 EGAE 211520Z VRB03KT 9999 FEW040 06/01 Q1024 CWRN 220900Z AUTO 30013G19KT 00/M01 RMK AO1 PK WND 31019/0819 SLP038 T00001011 53007 KBNO 220853Z AUTO 35003KT 10SM CLR M11/M13 A2971 RMK AO2 SLP097 I3000 T11111128 58004 KAVX 220851Z AUTO 12012KT 10SM OVC070 09/07 A3007 RMK AO2 RAB33E51 SLP182 P0000 60000 T00890072 58006 TSNO $ CWRO 220900Z AUTO 08017KT 06/ RMK AO1 PK WND 08024/0833 T0064 CWSF 220900Z AUTO 01017KT M03/M05 RMK AO1 SOG 06 1035 PK WND 01021/0824 SLP093 T10251049 50002 NZKI 220900Z 24014KT 30KM BKN055 17/10 Q0984 RMK ALT VATSIM USE ONLY CWSG 220900Z AUTO 01015G20KT M03/M06 RMK AO1 PK WND 00020/0807 SLP102 T10321063 51031 PHJR 220853Z AUTO 06017G29KT 10SM 23/13 A3015 RMK AO2 PK WND 05031/0801 SLP216 T02280128 53003 TSNO $ ORBI 220900Z 31011KT 270V350 9999 R33R/1200VP2000N SCT025 13/05 Q1021 NOSIG KAXH 220935Z AUTO 26012G19KT 10SM SCT095 OVC110 17/03 A2959 RMK AO2 T01670034 CYAH 220900Z AUTO 09004KT 9SM CLR M18/M20 A3010 RMK SLP225 KBOI 220853Z 11010KT 10SM FEW085 02/M02 A2982 RMK AO2 SLP109 T00171017 50007 PGUA 220938Z AUTO 04020G27KT 10SM BKN018 BKN024 BKN029 26/22 A2998 RMK AO2 CIG 018V027 BKN018 V SCT NZKK 220900Z 26023G34KT 15KM VCSH BKN022 17/12 Q1002 RMK ALT NZAA VATSIM USE ONL KCFJ 220935Z AUTO 00000KT 1 1/4SM BR VV007 06/06 A2954 RMK AO2 T00610061 OPST 220900Z 09004KT 1500 FU SCT040 SCT100 19/09 Q1023 BECMG 2000 RH54 CXKA 220900Z AUTO 08006KT M00/M00 RMK AO1 SOG 60 1012 SLP079 T10041004 KBOK 220932Z AUTO 17010G22KT 110V220 6SM RA BR BKN018 BKN023 OVC033 08/07 A2943 RMK AO2 P0008 CYBB 220100Z 20019G25KT 5/8SM SN BLSN OVC020 M13/M15 A2991 RMK SN3SC5 -11.9/-29.6/3.0/25/SNW CVR/MUCH LOOSE SLP133 CWSK 220900Z AUTO 34001KT 02/02 RMK AO1 SOG 16 1006 SLP025 T00180015 CWRT 220900Z AUTO 00000KT M05/M06 RMK AO1 T10521056 EGBB 220920Z 14003KT 4400 BR FEW045 M01/M01 Q1025 KCEU 220939Z AUTO 00000KT 2SM +RA BR FEW002 FEW013 OVC030 14/13 A2969 RMK AO2 LTG DSNT NW P0008 T01390128 KCGC 220935Z AUTO 17003KT 10SM SCT014 BKN095 21/19 A2971 RMK AO2 KBPC 220935Z AUTO 35016G21KT 10SM -RA BKN019 BKN030 OVC035 05/03 A2962 RMK AO2 CWRU 220900Z AUTO 12042G48KT 07/ RMK AO1 0PAST HR 0009 PK WND 12052/0821 SLP922 P0004 T0070 50044 CWSL 220900Z AUTO 08002KT M00/M00 RMK AO1 SOG 23 1011 SLP081 T10011001 CYBC 220900Z AUTO 01011G18KT 9SM CLR M05/M10 A2986 RMK SLP113 CYBD 220100Z 00000KT 15SM OVC150 01/00 A2946 RMK AC8 LAST STFD OBS/NEXT 221500 UTC SLP979 VDPP 220930Z 04011KT 9999 SCT017 SCT040 31/19 Q1011 KCGE 220939Z AUTO 04005KT 7SM OVC003 08/08 A2966 RMK AO1 KAXN 220942Z AUTO 32004KT 1SM BR VV009 01/01 A2962 RMK AO2 T00060006 EFIV 220920Z 29009KT 260V320 CAVOK M06/M11 Q1008 KCEW 220930Z AUTO 22012G20KT 7SM BKN014 BKN022 OVC029 23/21 A2955 RMK AO2 T02280206 PHKO 220853Z AUTO 01008KT 10SM CLR 22/18 A3005 RMK AO2 SLP177 T02220183 53007 TSNO CYAM 220900Z 09006KT 3/4SM R12/P6000FT/D -DZ BR BKN002 OVC007 02/02 A2961 RMK FG4ST3ST1 SLP035 KBNW 220935Z AUTO 31011KT 10SM OVC008 M00/M00 A2958 RMK AO2 KCGF 220345Z 17010KT 10SM OVC090 15/11 A2966 EGBE 220920Z 12004KT 7000 NSC M01/M02 Q1025 CXKE 220900Z AUTO 06002KT 02/02 RMK AO1 SOG 07 0001 SLP078 T00180018 50002 EFKE 220920Z 00000KT CAVOK M12/M14 Q1013 KCEY 212235Z AUTO 18003KT 10SM CLR 18/10 A2957 RMK AO1 CWRX 220900Z AUTO 18021KT 5SM //// FEW005 OVC010 ///// A//// EFJO 220920Z AUTO 29007KT 9999 OVC005 M04/M05 Q1012 KBPG 220935Z AUTO 27028G36KT 4SM SCT008 SCT016 09/M04 A2968 RMK AO2 T00901036 CWTG 220900Z AUTO 02005KT M07/M10 RMK AO1 SLP113 T10711103 51035 CWSP 220900Z AUTO 08004KT 06/04 RMK AO1 SLP001 T00610036 56001 CWRY 220900Z AUTO 34009KT M03/M04 RMK AO1 SOG 01 1018 SLP103 T10281039 CYBG 220900Z 27005KT 15SM OVC040 M01/M02 A2983 RMK SC8 SLP110 ZSNB 220900Z 36003MPS 330V040 8000 NSC 07/M06 Q1032 NOSIG KCEZ 220853Z AUTO 04004KT 10SM FEW070 M07/M08 A2999 RMK AO2 SLP171 T10721078 51018 PHLI 220853Z AUTO 04028G36KT 10SM BKN041 22/13 A3024 RMK AO2 PK WND 04036/0853 SLP236 T02220133 51005 TSNO $ CWRZ 220900Z AUTO 35009KT M02/M05 RMK AO1 SLP060 T10201048 51018 VEGT 220930Z 34006KT 4000 HZ NSC 27/15 Q1014 NOSIG KBPI 220853Z AUTO 33005KT 10SM SCT043 BKN050 M16/M18 A2987 RMK AO2 SLP178 T11611178 53020 $ KCGI 220853Z AUTO 00000KT 10SM CLR 09/08 A2947 RMK AO2 SLP979 T00890083 55003 CWSR 220900Z AUTO 33014KT M05/M06 RMK AO1 SOG 04 3025 PK WND 31020/0847 SLP086 T10521055 CXKI 220900Z AUTO 00/00 RMK AO1 SOG 23 3010 SLP091 T00000000 EFKI 220920Z AUTO 26006KT CAVOK M07/M08 Q1012 KCHA 220942Z AUTO 20003KT 10SM FEW009 BKN012 OVC040 14/13 A2952 RMK AO2 RAE41 TSE02 P0008 T01390128 KBOS 220854Z 18003KT 6SM BR OVC190 04/04 A2975 RMK AO2 SLP072 T00440044 58001 KCFS 220934Z AUTO 00000KT 1/4SM FG OVC001 04/04 A2959 RMK AO2 T00440044 KAXS 220935Z AUTO 35018KT 10SM BKN005 06/04 A2946 RMK AO2 T00550040 NZMC 220900Z 26010KT 40KM BKN018 14/10 Q0989 RMK ALT NZHT VATSIM USE ONLY CYAS 212200Z CCA 34004KT 310V020 15SM SKC M20/M24 A3024 RMK SN COV/MED PACK LAST STFD OBS / NEXT 221300UTC SLP258 EGBJ 220920Z 00000KT 6000 NSC 02/00 Q1025 R27/39//// CWSS 220900Z AUTO 31002KT M00/M02 RMK AO1 SOG 02 1015 SLP086 T10041019 KBPK 220917Z AUTO 13003KT 10SM FEW018 SCT023 BKN090 13/12 A2941 RMK AO2 T01280117 KE80 220935Z AUTO 00000KT 10SM CLR 00/M07 A3000 RMK AO2 T00031066 CXLB 220900Z AUTO 27010KT 01/M02 RMK AO1 SLP063 T00061015 51016 CWST 220900Z AUTO 23002KT M01/M02 RMK AO1 SOG 31 3016 SLP096 T10091024 CYCB 220900Z 31018KT 4SM IC DRSN FEW045 SCT120 M27/M31 A3008 RMK SC2AC1 SLP191 CYBK 220900Z 21002KT 10SM -SN BKN011 OVC022 M11/M12 A2995 RMK SC5SC3 SLP147 CYAT 220900Z AUTO 08007KT 9SM OVC005 M03/M04 A2996 RMK SLP147 EFKK 220920Z AUTO 00000KT 7000 FEW001 OVC007 M00/M00 Q1013 PGUM 220938Z 04016G21KT 10SM FEW022 BKN029 OVC034 27/23 A2997 RMK AO2 KAZC 220935Z AUTO 00000KT 10SM CLR M05/M06 A3010 RMK AO2 KCHD 220347Z 18006KT 10SM SKC 09/04 A3004 RMK LAST CYBL 220500Z 12003KT 5SM BR FEW003 BKN007 OVC012 05/05 A2951 RMK SF1SF6SC1 LAST OBS/NEXT 221400 UTC SLP997 KCFV 220923Z AUTO 04013KT 10SM -RA BKN014 OVC033 09/08 A2942 RMK AO2 LTG DSNT S AND SW RAB05 P0000 T00940078 EGCC 220920Z AUTO 18004KT 140V220 9000 SCT034 OVC041 01/M02 Q1025 NOSIG KAXV 220935Z AUTO 00000KT 5SM BR SCT028 BKN050 BKN065 10/08 A2961 RMK AO2 NZMF 220900Z 20021G32KT 15KM VCSH BKN049 10/07 Q0995 RMK ALT NZQN VATSIM USE ONL CXKM 220900Z AUTO 36005KT M06/M07 RMK AO1 T10551071 CYCD 220500Z VRB02KT 10SM FEW035 SCT090 02/02 A2955 RMK SC2AC2 POCKETS OF BR VC ARPT LAST OBS/NEXT 221400 UTC SLP008 VEGY 220930Z 32008KT 3500 HZ NSC 25/06 Q1018 NOSIG KBOW 220935Z AUTO 17012KT 10SM BKN018 OVC025 19/19 A2976 RMK AO2 KAZE 220935Z AUTO 06007KT 5SM -VCTSRA SCT004 BKN013 OVC095 18/18 A2960 RMK AO2 LTG DSNT ALQS T01760176 CWSW 220000Z VRB02KT 20SM VCSH SCT090 OVC110 M03/M10 A2959 RMK AS3AS5 LAST STFD OBS/NEXT 221400Z SLP078 CWTN 220900Z AUTO 27003KT M00/M02 RMK AO1 SLP107 T10011015 53017 CYBN 220903Z AUTO 14005KT 3SM FEW002 OVC008 OVC016 OVC086 02/02 A2968 EETN 220950Z 25015KT CAVOK 05/01 Q1019 R08/290195 NOSIG KAXX 220935Z AUTO 00000KT 5SM -SN BKN018 OVC022 M05/M07 A2985 RMK AO2 T10501075 ZSNJ 220900Z 06002MPS CAVOK 05/M08 Q1033 NOSIG CYCG 220100Z 15002KT 15SM FEW005 OVC044 01/00 A2964 RMK SF1SC8 SF TR LAST OBS/NEXT 221400UTC SLP056 CYAY 220937Z AUTO 33013KT 9SM OVC014 M03/M04 A2958 RMK ICG SLP019 EFJY 220920Z AUTO 12002KT 2100 BR OVC004 00/00 Q1013 CYAZ 220100Z 11010KT 6SM -RA BR FEW013 BKN020 BKN037 06/06 A2942 RMK CF2SC3SC2 VRY LGT RA LAST STFD OBS/NEXT 221500UTC SLP966 CYBQ 220900Z AUTO 05003KT 1 1/4SM -SN OVC024 M07/M07 A2981 RMK SLP119 KCGS 220944Z AUTO 00000KT 2 1/2SM OVC003 07/06 A2969 RMK AO1 CYBR 220900Z 00000KT 3/8SM FG VV005 00/M00 A2959 RMK FG8 SLP043 PHMK 220932Z AUTO 04017G35KT 10SM BKN027 OVC033 20/13 A3015 RMK AO2 PK WND 05038/0906 RAE02 P0000 T02000133 TSNO KAYS 220935Z AUTO 19011G19KT 10SM SCT017 21/21 A2959 RMK AO2 LTG DSNT W THRU NE T02100210 CYDA 220000Z VRB02KT 20SM BKN220 M39/M43 A2991 RMK CI7 CLIMAT -39.0/-42.5/0.0 LAST STFD OBS/NXT 221500Z SLP199 VEIM 220900Z 15002KT 5000 HZ NSC 24/07 Q1016 NOSIG EFKS 220850Z 29004KT 260V340 CAVOK M10/M12 Q1008 EFMA 220920Z AUTO 24006KT 210V280 CAVOK 02/M00 Q1020 KBPT 220853Z AUTO VRB03KT 10SM BKN065 OVC090 15/12 A2957 RMK AO2 SLP013 T01500122 51007 PWINO $ KBQK 220935Z AUTO 18011G16KT 10SM BKN100 20/18 A2965 RMK AO2 LTG DSNT N AND NW KCHK 220935Z AUTO 36006KT 06/05 A2938 RMK AO2 SKY OBSCURED PWINO KF00 220935Z AUTO 25009KT 10SM SCT120 12/04 A2938 RMK AO2 CXKT 220900Z AUTO 33003KT M00/M02 RMK AO1 SOG 00 1019 SLP064 T10011020 CWTT 220900Z AUTO 06003KT M00/M00 RMK AO1 T10011001 CYDB 220900Z AUTO 29003KT 9SM CLR M32/M35 A2955 RMK SLP107 CYCK 220900Z AUTO 14007KT 4SM BR OVC016 06/06 A2962 RMK SLP034 ZSOF 220900Z 11002MPS 6000 NSC 08/M06 Q1031 NOSIG EFKT 220920Z 24004KT 200V300 CAVOK M07/M10 Q1009 KCIC 220935Z AUTO 13024G30KT 10SM OVC035 07/05 A2971 RMK AO1 P0004 CYDC 220100Z 00000KT 20SM FEW010 BKN070 BKN090 BKN270 01/M01 A2951 RMK ST1AC7AS1CI1 ST TR AS TR CI TR LAST STFD OBS/NEXT 221500 UTC SLP015 CXLL 220900Z AUTO 29001KT M28/M31 RMK AO1 SOG 36 1010 SLP240 T12821312 CWTU 220900Z AUTO ///// M14/ A2963 RMK SLP087 CYBU 220900Z AUTO 30006KT 1 1/4SM -SN SCT008 OVC011 M02/M02 A2963 RMK SLP056 EETU 220850Z AUTO 26015KT 9999 OVC007/// 02/00 Q1020 KCID 220940Z AUTO 00000KT 1/2SM FZFG FEW002 OVC021 M01/M01 A2958 RMK AO2 I1000 T10111011 EFKU 220920Z AUTO 31006KT 9999 BKN007 BKN062 M03/M04 Q1013 KBRD 220943Z AUTO 33004KT 2 1/2SM BR BKN002 BKN007 OVC019 01/01 A2961 RMK AO2 T00060006 CXMD 220900Z AUTO 21001KT M00/M00 RMK AO1 SOG 08 3014 SLP044 T10041004 CWVD 220900Z AUTO 07003KT M14/ A2979 RMK SLP161 PHNG 220757Z 05024G32KT 7SM BKN027 OVC045 23/16 A3018 RMK SLP216 CYBW 220917Z AUTO 08005KT 5SM BR OVC007 M06/M06 A2975 RMK SLP130 EGCN 220920Z 18003KT 7000 NSC M01/M01 Q1026 KAZO 220924Z AUTO 00000KT 1/4SM R35/1200V2000FT FG VV002 05/04 A2957 RMK AO2 T00500039 KCHO 220911Z AUTO 04005KT 3/4SM BR VV002 10/09 A2969 RMK AO2 T01000089 CYDF 220900Z 05004KT 15SM BKN029 BKN060 OVC130 M06/M09 A2963 RMK SC6SC1AC1 SLP037 CYCO 220946Z 23016KT 15SM IC SKC M25/M30 A3020 RMK SLP230 CYBX 220918Z 01013G19KT 15SM -SN OVC025 M03/M06 A2960 RMK SC8 SLP028 CWVF 220945Z AUTO 09013KT 07/ RMK AO1 PK WND 09018/0917 T0068 KF05 220935Z AUTO 32019G24KT 10SM CLR 06/02 A2942 RMK AO1 T00620022 KBQP 220935Z AUTO 00000KT 10SM OVC100 15/14 A2945 RMK AO2 T01450141 CYCP 220000Z VRB02KT 15SM FEW004 FEW017 OVC070 M01/M03 A2957 RMK ST1SC1AS8 ST TR SC TR LAST OBS/NEXT 221400Z SLP045 CXMG 220900Z AUTO 04005KT M16/M18 RMK AO1 T11581178 CWTY 220900Z AUTO 36006KT 01/M02 RMK AO1 SLP098 T00061020 51009 CWUP 220900Z AUTO 19030G37KT M17/ A2982 RMK SLP145 EFLP 220920Z AUTO 28004KT 230V330 4800 -SHRASN BR FEW003 SCT005 OVC013 00/00 Q1014 KCGZ 220856Z AUTO 05004KT 10SM CLR 04/02 A3013 RMK AO2 SLP206 6//// T00390022 50003 $ CYCQ 220000Z 06006KT 15SM FEW035 FEW045 SCT070 OVC080 M13/M19 A2987 RMK SC1SC1AC2AS4 LAST STFD OBS/NEXT 221400Z SLP166 CWVH 220900Z AUTO 11003KT A2999 CXMI 220900Z AUTO 34007KT M00/M02 RMK AO1 SLP052 T10021017 51007 CWVI 220900Z AUTO 36006KT M06/M07 RMK AO1 SOG 02 1015 SLP149 T10551072 ZSPD 220930Z 36005MPS CAVOK 04/M07 Q1033 NOSIG EFMI 220920Z AUTO VRB01KT 8000 -SG FEW004 OVC017 M00/M00 Q1014 KDAA 220943Z AUTO 00000KT 1 1/2SM R32/2600FT BR OVC003 08/08 A2970 RMK AO2 KCHS 220856Z 27005KT 7SM -RA SCT010 BKN050 OVC085 17/16 A2969 RMK AO2 LTG DSNT SW SLP053 P0008 60008 T01720156 58002 CYCS 212100Z 14021G26KT 15SM DRSN BKN012 OVC070 M14/M16 A3010 RMK ST7AC1 VIS W 8 -13.9/-17.5/NIL/31 MEDIUM PACK LAST STFD OBS NXT 221500Z SLP196 CWWA 220900Z AUTO 09002KT 07/01 RMK AO1 SLP021 T00650014 53009 CWUS 220900Z AUTO 27002KT 01/00 RMK AO1 2PAST HR 1009 SLP075 P0001 T00070000 50004 KDAB 220853Z 18008KT 10SM SCT044 SCT100 19/17 A2974 RMK AO2 SLP070 T01940167 58019 PHNL 220853Z 07019G27KT 10SM FEW033 SCT044 22/12 A3016 RMK AO2 PK WND 07034/0826 SLP212 T02170122 52003 CWWB 220900Z AUTO 02005KT 03/03 RMK AO1 SLP059 T00250029 50000 KBRL 220949Z AUTO 02003KT 1/4SM FG BKN001 OVC080 02/02 A2957 RMK AO2 CYDL 220900Z AUTO 06005KT 8SM OVC060 M21/M23 A2966 RMK SLP111 CXMM 220900Z AUTO 33006KT M13/M14 RMK AO1 SOG 20 1021 SLP198 T11281144 EGDM 220850Z 09007KT 3000 BR SKC M03/// Q1025 YLO1 BECMG 8000 HZ BLU CYED 220931Z AUTO 01006KT 3/4SM OVC002 M08/M11 A2988 RMK ICG KCIN 220935Z AUTO 32011G17KT 10SM OVC009 00/00 A2962 RMK AO2 NZNP 220900Z 28026G39KT 9000 SHRA BKN013 15/13 Q0996 RMK ALT VATSIM USE ONLY CWWE 220900Z AUTO 31004KT M00/M01 RMK AO1 SOG 00 1014 SLP069 T10011006 CWVN 220900Z AUTO 29006KT M03/M04 RMK AO1 SOG 10 1018 SLP086 T10321042 CYDN 220943Z AUTO 00000KT 1 3/4SM RA BR FEW010 OVC030 00/M00 A2962 RMK SLP047 KBRO 220853Z AUTO 34014G21KT 10SM CLR 20/06 A2967 RMK AO2 SLP046 T02000061 51059 PHOG 220854Z 05023G32KT 9SM OVC039 22/14 A3018 RMK AO2 PK WND 05036/0825 SLP223 60001 T02170144 53006 KBQX 220935Z AUTO 32024KT 10SM OVC060 20/07 A2961 RMK A01 NZOH 220900Z 30016KT 8000 SHRA BKN020 14/13 Q0991 RMK ALT NZPM VATSIM USE ONLY CXMO 220900Z AUTO 36004KT M06/M06 RMK AO1 T10561059 CWUX 220900Z AUTO 25004KT M01/M02 RMK AO1 SLP105 T10081018 51017 VDSR 220930Z 21005KT 9999 FEW018 SCT040 31/20 Q1011 CWWF 220900Z AUTO 33008KT M03/M04 RMK AO1 SOG 09 3017 SLP062 T10341039 CYCX 220900Z 30004KT 15SM OVC025 00/M01 A2977 RMK SC8 DA-1329FT SLP082 KDAG 220850Z AUTO 00000KT 10SM OVC090 08/04 A3005 RMK AO2 SLP168 T00780044 53005 NZNR 220900Z 32017KT 45KM BKN080 18/08 Q0992 RMK ALT VATSIM USE ONLY VEJS 220900Z 32006KT 4500 HZ NSC 30/04 Q1016 CYDP 220900Z 31018KT 15SM FEW021 M14/M18 A3009 RMK SC1 SC TR SLP191 CWVP 220900Z AUTO 33008KT M06/M07 RMK AO1 SOG 00 3019 SLP072 T10571072 CYCY 220900Z AUTO 35004KT 200V350 9SM BKN130 OVC150 M22/M26 A2990 RMK SLP132 CYEG 220900Z 36010KT 4SM BR OVC003 M07/M08 A2986 RMK ST8 SLP159 ORER 220700Z 16008KT 7000 FEW010 BKN035 07/05 Q1021 NOSIG NZNS 220900Z 15003KT 45KM BKN085 15/13 Q0987 RMK ALT VATSIM USE ONLY CWVQ 220900Z AUTO 05006KT M00/M00 RMK AO1 SOG 07 0011 SLP097 T10021002 CYDQ 220944Z AUTO 08003KT 9SM -SN OVC014 M15/M16 A2996 RMK SLP205 KCIR 220935Z AUTO 36003KT 10SM CLR 10/09 A2947 RMK AO2 T00950093 KF17 220935Z AUTO 22008KT 10SM OVC110 16/08 A2948 RMK AO2 T01610077 UNKL 220930Z 20004G09MPS CAVOK M03/M11 Q1019 R29/810160 NOSIG RMK QFE738 EGDR 220850Z AUTO 14011KT 9999 // BKN050/// 06/03 Q1023 PGWT 220859Z 06014KT 4SM -RA SCT015 BKN100 25/23 A2998 ZSQD 220900Z 35006MPS CAVOK M02/M15 Q1034 NOSIG KBTA 220935Z AUTO 34007KT 7SM CLR 00/M01 A2963 RMK AO2 T10021014 TVSV 220200Z 00000KT 9999 SCT017 24/22 Q1015 CWXA 220900Z AUTO 19001KT M11/M13 RMK AO1 SLP117 T11111134 51009 KCKB 220853Z AUTO 00000KT 10SM BKN065 OVC080 09/08 A2966 RMK AO2 SLP036 60000 T00890078 56010 NZNV 220900Z 22015KT 5000 RA BKN020 11/10 Q0997 RMK ALT VATSIM USE ONLY CWWK 220900Z AUTO 04004KT 06/05 RMK AO1 SLP029 T00610046 51009 CWVT 220900Z AUTO 34010KT M10/M11 RMK AO1 SOG 27 1022 SLP166 T11021114 CYFB 220900Z 34020G25KT 15SM IC DRSN SKC M25/M29 A3030 RMK PRESFR SLP267 CYEK 220900Z AUTO 15009KT 9SM -SN OVC010 M11/M13 A2998 RMK SLP154 KCIU 220908Z AUTO 11009KT 1/2SM -RA FG OVC002 02/02 A2960 RMK AO2 P0000 FZRANO KDAL 220853Z 26009G17KT 10SM FEW130 FEW250 14/02 A2941 RMK AO2 SLP952 T01440017 55004 $ KCKC 220934Z AUTO 01005KT 10SM OVC004 M01/M02 A2956 RMK AO2 VEKO 220700Z 02004KT 6000 NSC 23/10 Q1022 CWXC 220900Z AUTO 01007KT M03/M04 RMK AO1 SLP102 T10261037 53024 CWVU 220900Z AUTO 33011KT 03/M01 RMK AO1 SOG 01 1010 PK WND 32017/0823 SLP089 T00281011 CYFC 220934Z AUTO 30004KT 9SM OVC026 M00/M02 A2977 RMK SLP085 CXNM 220900Z AUTO 34001KT RMK AO1 SOG 153 KDAN 220853Z AUTO 35004KT 10SM OVC006 11/11 A2967 RMK AO2 SLP041 T01110111 53001 PHNY 220756Z AUTO 04038G53KT 9SM FEW023 SCT028 18/13 A3009 RMK AO2 PK WND 04053/0750 SLP175 T01830133 CYEN 220926Z 30015KT 10SM OVC014 M03/M03 A2964 RMK SC8 FG SLP069 KCKF 220935Z AUTO 09010KT 7SM RA BKN009 OVC027 18/17 A2962 RMK AO2 T01750171 EGEO 220920Z 11006KT 9000 SCT014 BKN020 03/01 Q1023 EGDX 220850Z 10008KT 5000 HZ FEW032 BKN070 03/02 Q1024 WHT EGFF 220920Z AUTO 11009KT 3700 BR BKN012 03/03 Q1025 CXNP 220900Z AUTO 35005KT M01/M02 RMK AO1 SOG 03 1013 SLP065 T10121019 EGDY 220850Z AUTO 13003KT 4000 HZ SCT080/// 00/M00 Q1025 CXMY 220900Z AUTO M01/M02 RMK AO1 T10101021 KCKI 220935Z AUTO 19004KT 10SM SCT007 OVC023 15/13 A2969 RMK AO2 KCJR 220935Z AUTO 00000KT 1/2SM FG OVC003 09/09 A2971 RMK AO2 T00930093 CWXI 220900Z AUTO 35011KT M03/M05 RMK AO1 SOG 04 1005 SLP024 T10321052 CYER 220900Z AUTO 11008KT 9SM SCT006 OVC021 M07/M08 A2999 RMK SLP159 KDCA 220923Z 04005KT 1 1/2SM BR OVC003 08/08 A2971 RMK AO2 T00830083 $ CXPA 220900Z AUTO 01003KT M14/M15 RMK AO1 T11411150 CWWS 220900Z AUTO 10004KT 01/M00 RMK AO1 SOG 40 3010 SLP052 T00051003 50002 NZPM 220900Z 30016KT 8000 SHRA BKN020 14/13 Q0991 RMK ALT VATSIM USE ONLY CYET 220932Z AUTO 07004KT 1/2SM FZFG VV003 M09/M09 A2984 RMK ICG SLP161 KBTL 220934Z AUTO 00000KT 1/4SM R23R/0800V1000FT FG VV002 06/06 A2957 RMK AO2 T00610061 CXOL 220900Z AUTO 35005KT M06/M06 RMK AO1 T10631064 CXPC 220900Z AUTO 03/03 RMK AO1 SOG 18 8005 SLP044 T00300026 CWXL 220900Z AUTO 32005KT M03/M04 RMK AO1 T10291037 KBTM 220853Z AUTO 00000KT 10SM CLR M12/M14 A2976 RMK AO2 SLP134 60000 T11221144 53011 KCKM 220935Z AUTO 20007KT 10SM CLR 12/12 A2943 RMK A01 VELP 220900Z 34004KT 7000 NSC 26/15 Q1013 NOSIG CYEV 220900Z 00000KT 15SM FEW180 M32/M35 A3009 RMK AC2 SLP202 KDBN 220935Z AUTO 00000KT 1 3/4SM +VCTSRA OVC003 16/15 A2966 RMK AO2 LTG DSNT SE THRU SW EGGD 220920Z AUTO 14009KT 100V160 7000 NCD 03/02 Q1024 KCLE 220851Z 15003KT 10SM SCT100 BKN150 12/08 A2966 RMK AO2 SLP041 T01220083 58005 KDAW 220851Z AUTO 31003KT 10SM CLR 01/M01 A2974 RMK AO2 SLP068 T00111006 53006 KCKN 220934Z AUTO 29003KT 1/4SM -SN OVC001 01/01 A2964 RMK AO2 NZPP 220900Z 30017KT 4000 RA BKN023 15/13 Q0988 RMK ALT VATSIM USE ONLY CYGE 220000Z 15004KT 20SM BKN080 OVC110 M04/M06 A2964 RMK AS5AS3 LAST STFD OBS/NEXT 221400Z SLP079 KBUF 220938Z 36006KT 2SM R23/2400V5500FT BR MIFG BKN002 BKN180 03/03 A2967 RMK AO2 VIS SE-SW 2 T00330028 CYFO 220000Z 09004KT 040V120 1 1/2SM -DZ BR VV003 01/01 A2953 RMK FG8 SNW CVR/MUCH LOOSE LAST OBS/NEXT 221200UTC SLP019 CWWX 220900Z AUTO 15006KT 03/03 RMK AO1 SLP037 T00320030 58002 VELR 220700Z 14004KT 5000 HZ NSC 27/13 Q1017 KBTP 220935Z AUTO 07003KT 8SM FEW060 09/08 A2969 RMK AO1 KCKP 220935Z AUTO 33005KT 10SM OVC015 00/00 A2962 RMK AO2 T00011002 KDAY 220856Z 09003KT 1/4SM R06L/1600V2400FT FG CLR 07/07 A2958 RMK AO2 TWR VIS 10 SLP017 T00720067 58020 KDBQ 220945Z AUTO 15004KT 1/4SM R36/P6000FT FZFG FEW002 SCT024 M01/M01 A2957 RMK AO2 T10061006 CYGH 220000Z 35003KT 20SM FEW070 FEW260 M31/M34 A2986 RMK AC1CI1 AC TR CI TR -28.3/-35.2/0.0/48 SNW CVR/MUCH LOOSE/LAST STFD OBS/NXT 221400UTC SLP127 CWWZ 220900Z AUTO 02005KT 03/02 RMK AO1 2PAST HR 0003 SLP060 P0001 T00300015 50002 KBTR 220948Z AUTO 22003KT 2 1/2SM BR FEW023 SCT030 18/18 A2949 RMK AO2 $ KCLI 220935Z AUTO 00000KT 1/4SM FG OVC002 01/01 A2956 RMK AO2 CWXR 220900Z AUTO 27029KT M15/ A3001 RMK SLP176 KCMA 220855Z 01004KT 10SM -RA BKN085 OVC110 11/09 A3009 RMK AO2 SLP199 P0002 60002 T01110094 50003 NZRC 220900Z 22015KT 5000 RA BKN020 11/10 Q0997 RMK ALT NZNV VATSIM USE ONLY CWZA 220900Z AUTO 03006KT 05/02 RMK AO1 SOG 02 1007 SLP028 T00480015 CWYJ 220900Z AUTO 12002KT 07/05 RMK AO1 SLP006 T00670053 50006 CYFS 220900Z 12003KT 15SM FEW210 M26/M29 A3021 RMK CI1 SLP257 KCLK 220955Z AUTO 35013G17KT 05/04 A2947 RMK AO2 PWINO CYFT 212100Z 22009KT 4SM -SN OVC010 M10/M11 A2976 RMK NS8 /S01/ AFT 18 UTC LAST OBS/NEXT221000 UTC SLP086 CYGK 220400Z 04010KT 1SM BR OVC002 02/02 A2973 RMK ST8 LAST STFD OBS/NEXT 221100 UTC SLP074 VEMN 220930Z 02006KT 5000 HZ FEW100 27/15 Q1014 NOSIG CWYK 220900Z AUTO ///// M22/ A2974 RMK SLP151 KDDC 220852Z AUTO 35013KT 10SM SCT060 OVC095 04/03 A2960 RMK AO2 SLP018 60001 T00440033 53028 KCLL 220853Z AUTO 27014G21KT 10SM CLR 16/03 A2953 RMK AO2 SLP996 60000 T01560028 56013 NZQN 220900Z 20021G32KT 15KM VCSH BKN049 10/07 Q0995 RMK ALT VATSIM USE ONLY EGHC 211050Z 08006KT 7000 SCT012 BKN016 04/M00 Q1025 CXPL 220900Z AUTO 36008KT M03/M03 RMK AO1 T10331033 CWYL 220900Z AUTO 06001KT M11/M12 RMK AO1 SOG 68 1011 SLP115 T11091117 CYGL 220931Z 07009KT 15SM SCT011 M13/M15 A3006 RMK SF3 SLP197 KCKV 220852Z AUTO 09003KT 10SM CLR 11/09 A2950 RMK AO2 SLP985 T01110089 56009 EFOU 220920Z AUTO 06002KT 9999 BKN078/// M07/M08 Q1013 R12/39//94 KCLM 220853Z AUTO 00000KT 10SM FEW021 00/M01 A2953 RMK AO2 SLP002 T00001006 50001 KBTV 220916Z 36004KT 6SM BR SCT006 BKN012 OVC017 03/02 A2978 RMK AO2 T00280022 KDCM 220935Z AUTO 00000KT 3SM BR OVC002 12/12 A2969 RMK AO2 LTG DSNT SE SW AND NW KCMD 220935Z AUTO 19004KT 10SM CLR 13/12 A2951 RMK AO2 T01290120 CWYM 220900Z AUTO 27026G32KT M23/ A2982 RMK SLP182 CYHD 220940Z AUTO 05005KT 1/4SM R12/2400FT/N FG VV002 01/01 A2963 RMK SLP055 KBVE 220936Z AUTO 24008KT 2 1/2SM BR BKN004 OVC010 20/20 A2953 RMK AO2 T02000200 EGHE 211220Z 13006KT 9999 BKN020 07/00 Q1024 CYHE 220900Z AUTO 07006KT 9SM OVC090 02/01 A2965 RMK SLP043 KF44 220935Z AUTO 25007KT 10SM BKN110 12/03 A2943 RMK AO2 VEMR 220700Z 00000KT 3500 HZ NSC 23/14 Q1017 CXOX 220900Z AUTO 35007KT M03/M04 RMK AO1 5PAST HR SOG 27 3018 SLP083 P0002 T10251044 50010 EFPO 220920Z AUTO 25006KT CAVOK 03/01 Q1017 CXOY 220900Z AUTO 34010KT M04/M04 RMK AO1 T10381043 CWZG 220900Z AUTO 00000KT M13/M14 RMK AO1 SOG 14 1012 SLP140 T11291140 CYGP 220900Z 32005KT 290V360 15SM OVC025 M03/M06 A2974 RMK SC8 SLP073 EGGP 220920Z 12004KT 6000 BKN038 02/M01 Q1025 KCMH 220851Z 09005KT 8SM R28L/1600VP6000FT FEW060 09/08 A2961 RMK AO2 SLP024 60000 T00940083 58014 KDDH 220941Z AUTO 00000KT 3/4SM BR SCT002 OVC075 02/01 A2973 RMK AO2 T00170011 KF46 220935Z AUTO 26007KT 10SM SCT100 13/04 A2941 RMK AO2 T01250040 KCKZ 220935Z AUTO 00000KT 1/2SM FG OVC003 06/06 A2971 RMK AO2 KBVI 212147Z 21004KT 10SM CLR 15/10 A2969 RMK LAST EGHH 220920Z 05001KT 3500 BR NSC M02/M02 Q1026 CYGQ 220942Z 06009KT 1 1/2SM -SN BR OVC003 M00/M01 A2967 RMK FG4ST4 CIG RAG SLP067 KBUR 220853Z 11007KT 10SM -RA FEW026 BKN050 OVC080 11/08 A3009 RMK AO2 RAB25 SLP181 P0000 60000 T01060078 58003 KCMI 220853Z AUTO 04009KT 10SM CLR 09/06 A2952 RMK AO2 SLP996 T00890056 58017 CYHI 220100Z 00000KT 15SM FEW200 M31/M36 A2997 RMK CI1 CI TR -29.9/-31.7/STR/DURING DAY/LST OBS TKN/NXT 221500/FROIN/SNW CVR HARD PACK SLP158 CYGR 220300Z 19004KT 10SM -SN BKN004 OVC012 M02/M02 A2962 RMK SF5SC3 LAST STFD OBS/NEXT 221000 UTC SLP032 EGHI 220920Z 03001KT 4500 BR NSC M04/M04 Q1027 KCLS 220935Z AUTO 00000KT 9SM CLR 03/03 A2952 RMK AO2 KCLT 220852Z 03006KT 1 1/2SM -DZ OVC002 12/11 A2963 RMK AO2 SLP032 P0000 60001 T01220111 58006 KCNB 220934Z AUTO 00000KT 5SM BR BKN006 BKN014 OVC018 01/01 A2964 RMK AO2 T00130012 CYGT 212300Z 17015KT 15SM BKN210 M22/M27 A3014 RMK CI7 CALLOUT SLP216 CXRB 220900Z AUTO 00000KT M19/M21 RMK AO1 SOG 01 3018 SLP040 T11921211 CYHK 220935Z AUTO 27014KT 3SM -SN OVC009 M21/M23 A2987 RMK SLP124 KDCU 220926Z AUTO 02007KT 3SM +RA BR FEW009 BKN055 OVC070 14/14 A2946 RMK AO2 PRESFR P0020 T01390139 $ KDEC 220854Z AUTO 04007KT 10SM CLR 06/05 A2952 RMK AO2 SLP997 T00560050 56016 KCNC 220935Z AUTO 00000KT M1/4SM FZFG BKN001 M02/M02 A2959 RMK AO2 KBUU 220935Z AUTO 00000KT 1/4SM FG BKN002 OVC015 02/02 A2957 RMK AO2 T00210021 CWZL 220900Z AUTO 13031G37KT 07/06 RMK AO1 5003 PK WND 14040/0830 SLP925 T00730063 50006 KDED 220935Z AUTO 18010KT 10SM BKN019 OVC025 21/17 A2974 RMK AO2 KBWD 220935Z AUTO 26017G24KT 10SM FEW033 SCT065 BKN090 12/M03 A2952 RMK AO2 NZRO 220900Z 28019KT 15KM VCSH BKN050 17/11 Q1000 RMK ALT NZTG VATSIM USE ONLY CYHM 220900Z 04009KT 0SM R12/0800FT/N FG VV001 03/03 A2968 RMK FG8 SLP058 CYGV 220900Z AUTO 02009G15KT 9SM BKN120 BKN140 BKN240 M07/M09 A2979 RMK SLP091 PHSF 220856Z AUTO 00000KT 10SM CLR 08/04 A3032 RMK AO2 SLP167 T00820042 50000 $ KBVN 220935Z AUTO 32009KT 10SM CLR M01/M04 A2964 RMK AO2 T10141036 KCLW 220935Z AUTO 17008G14KT 10SM OVC010 22/21 A2972 RMK AO2 CWZN 220900Z AUTO 32013KT M03/M07 RMK AO1 PK WND 32018/0808 SLP009 T10251070 51012 CYGW 220900Z AUTO 11012G17KT 9SM CLR M14/M17 A3016 RMK SLP216 EGGW 220920Z AUTO 16004KT 140V200 3500 BR NCD M02/M03 Q1026 KBVO 220927Z AUTO 01008KT 10SM -RA BKN011 OVC020 10/08 A2941 RMK AO2 RAB10 P0000 T01000078 TSNO CWZO 220900Z AUTO 15022G28KT RMK AO1 PK WND 16028/0859 CYGX 220900Z 11004KT 060V160 5SM BR OVC003 M03/M04 A2979 RMK ST8 SLP101 ZSSS 220930Z 01004MPS CAVOK 04/M10 Q1033 NOSIG KBUY 220944Z AUTO 01006KT 10SM OVC005 12/11 A2964 RMK AO2 CIG 004V009 T01170111 TSNO PNO $ KBWG 220853Z AUTO 00000KT 10SM CLR 10/09 A2952 RMK AO2 SLP993 T01000089 56014 KDCY 220935Z AUTO 00000KT 10SM CLR 09/08 A2952 RMK AO2 T00850075 CWYY 220900Z AUTO 29001KT 01/01 RMK AO1 SOG 04 1007 SLP076 T00090007 KDEH 220935Z AUTO 00000KT M1/4SM FG OVC002 01/01 A2955 RMK AO2 EGHQ 220920Z 15007KT 9999 FEW010 04/03 Q1023 UNNT 220930Z 20006MPS CAVOK M07/M12 Q1016 R25/810160 R16/810160 NOSIG RMK QFE752/1003 CXRH 220900Z AUTO 00000KT M06/M08 RMK AO1 T10601080 CWZQ 220940Z AUTO 34010KT M01/M01 RMK AO1 T10071014 KBWI 220941Z 05007KT 1/4SM R10/2000V2200FT FG VV002 07/07 A2969 RMK AO2 T00720072 KCMR 220935Z AUTO 16009KT 10SM CLR M09/M10 A3006 RMK AO2 KCNI 220935Z AUTO 13005KT 7SM RA OVC004 13/12 A2962 RMK AO2 KBXA 220935Z AUTO 00000KT 4SM SCT014 SCT021 BKN031 20/18 A2953 RMK AO2 T02020182 KBVS 220935Z AUTO 06007KT 10SM BKN042 OVC049 05/03 A2958 RMK A01 EGJA 220920Z 14005KT CAVOK 05/01 Q1025 CWZS 220900Z AUTO 35008KT M04/M07 RMK AO1 SLP085 T10381066 51020 EFSA 220920Z AUTO 28005KT 9999 -SG BKN004 OVC062 M03/M04 Q1013 KCNK 220855Z AUTO 32005KT 10SM CLR 01/01 A2961 RMK AO2 SLP029 T00110006 53021 CYIK 212200Z VRB02KT 15SM FEW012 FEW065 FEW150 FEW250 M18/M24 A3037 RMK ST1SC1AS1CS1 ST TR SC TR AS TR CS TR SN CVR HARD PACK LAST STFD OBS/NEXT 221300UTC SLP291 EGJB 220920Z 12010KT CAVOK 05/00 Q1025 KBVU 220935Z AUTO 00000KT 10SM 08/01 A3006 RMK AO2 CXSC 220900Z AUTO 30006KT M03/M03 RMK AO1 T10281029 UNOO 220930Z 20006MPS 2100 R25/2000D -SN BLSN SCT010 M09/M11 Q1006 R25/820545 TEMPO 1200 SN RMK QFE747 CXRL 220900Z AUTO 30006KT M10/ RMK AO1 T1099 CYHU 220902Z AUTO 04006KT 6SM BR OVC016 M00/M01 A2982 RMK SLP101 KCNM 220853Z AUTO 31010KT 10SM CLR 06/M06 A2981 RMK AO2 SLP074 T00611056 51027 KCOD 220856Z AUTO 30008KT 10SM CLR M01/M08 A2976 RMK AO2 SLP120 T10111083 52015 FZRANO CWZV 220900Z AUTO 16016G22KT 07/ RMK AO1 PK WND 16026/0805 SLP926 T0066 51021 KDEN 220853Z 25006KT 9SM FEW090 SCT200 M02/M05 A2975 RMK AO2 SLP075 BR ALQDS T10221050 53020 KCOE 220943Z AUTO 08003KT 3SM -SN BR BKN005 BKN010 OVC050 01/00 A2976 RMK AO2 UPB31E33SNB33 P0001 FZRANO NZTG 220900Z 28019KT 15KM VCSH BKN050 17/11 Q1000 RMK ALT VATSIM USE ONLY NZSP 220550Z 36008KT 9999 IC BKN120 M31/ A2878 RMK CLN AIR 36008KT ALL WNDS GRID SDG/HDG CYIN 220700Z AUTO 12007KT 9SM SCT090 SCT130 M03/M03 A2955 RMK SLP040 CXSE 220900Z AUTO 28012KT M34/M38 RMK AO1 SOG 53 1031 PK WND 27019/0803 SLP138 T13411377 CWZW 220900Z AUTO 29001KT M26/M29 RMK AO1 SOG 23 0002 SLP145 T12601288 KCNO 220853Z 00000KT 7SM BKN085 OVC110 11/08 A3013 RMK AO2 SLP202 T01060083 50004 KCMX 220853Z AUTO 00000KT 1/4SM FG VV002 02/01 A2953 RMK AO2 SLP010 T00170006 51006 KBVX 220935Z AUTO 06004KT 10SM BKN100 13/12 A2941 RMK AO1 KCOF 220858Z AUTO 20014KT 10SM CLR 21/19 A2978 RMK AO2 SLP089 T02130185 58011 TSNO $ CYIO 220900Z AUTO 19010KT 9SM -SN SCT034 OVC065 M21/M24 A2993 RMK SLP149 EFRO 220920Z AUTO VRB03KT CAVOK M09/M11 Q1010 KBVY 220853Z AUTO 00000KT 6SM BR CLR 04/04 A2974 RMK AO2 SLP065 T00390039 50002 KCMY 220935Z AUTO 00000KT 1SM BR OVC004 02/02 A2957 RMK AO2 T00190019 KBWP 220935Z AUTO 30004KT 1SM OVC001 00/00 A2965 RMK AO1 CYHY 220900Z 00000KT 15SM SKC M29/M32 A3026 RMK SLP273 ZUCK 220900Z 03002MPS 4000 HZ NSC 14/03 Q1025 NOSIG KDEQ 220942Z AUTO 00000KT 1/2SM FG FEW001 OVC090 10/10 A2936 RMK AO2 T01000100 CXSH 220900Z AUTO 35002KT M00/M03 RMK AO1 SLP098 T10031030 51009 CYHZ 220900Z 35014G19KT 15SM OVC014 M01/M02 A2966 RMK SC8 SLP051 KDFI 220853Z AUTO 00000KT 7SM BKN075 OVC085 08/08 A2959 RMK AO2 RAE36 SLP021 P0001 60002 T00780078 58007 EFSI 220920Z AUTO CAVOK ///// Q//// EGKA 220920Z 36010KT 2000 HZ NSC M03/M04 Q1027 CYKA 220900Z 07009KT 40SM SCT100 01/M01 A2968 RMK AC3 SLP067 EGJJ 220920Z 12009KT CAVOK 03/M00 Q1025 NOSIG KDET 220853Z 00000KT 1/4SM FG VV002 04/04 A2962 RMK AO2 SLP032 T00440044 50003 KBXK 220935Z AUTO 11004KT 10SM OVC110 07/06 A3013 RMK AO1 KF70 220935Z AUTO 12004KT 10SM OVC085 07/05 A3011 RMK AO1 EGKB 220920Z 24003KT 6000 NSC M00/M01 Q1026 KCPC 220940Z AUTO 21008KT 10SM SCT021 16/14 A2967 RMK AO2 T01570140 KCNU 220852Z AUTO 03013G18KT 10SM -RA OVC036 09/08 A2946 RMK AO2 SLP973 P0002 60008 T00940078 53002 EHAK 220925Z AUTO VRB09KT 9999 OVC020/// 05/M00 Q1026 CXSL 220900Z AUTO 01007KT M09/M10 RMK AO1 T10921101 KCOM 220935Z AUTO 27019G25KT 10SM SCT110 11/M03 A2952 RMK AO2 CYKD 220000Z 32004KT 15SM SCT220 M28/M32 A2997 RMK CC3 0.0/SNWCVR/MUCHLOOSE LAST STFD OBS/NEXT 221500Z SLP151 CXTD 220900Z AUTO 31004KT M01/M02 RMK AO1 SOG 01 3005 SLP054 T10131018 CYIV 220900Z 10003KT 010V150 12SM -SN OVC006 M01/M01 A2970 RMK SC8 SLP073 KBWW 220935Z AUTO 31014KT 10SM CLR M06/M08 A2958 RMK AO2 KCON 220851Z AUTO 00000KT 5SM BR CLR 01/M01 A2975 RMK AO2 SLP078 T00061006 50008 KCNW 220450Z 23005KT 10SM SCT110 12/09 A2951 KDEW 220926Z AUTO 06007KT 9SM -RA FEW012 BKN017 OVC030 01/00 A2973 RMK AO2 UPB0856E0858RAB0858 P0005 T00110000 PHTO 220853Z AUTO 06015G22KT 10SM FEW020 SCT027 BKN039 22/18 A3018 RMK AO2 RAB0754E49 SLP220 P0001 60001 T02170183 51010 TSNO EHAM 220925Z 17001KT CAVOK M03/M03 Q1028 NOSIG CZBF 220800Z 28004KT 15SM FEW020 M03/M05 A2971 RMK SC1 SC TR SLP066 CYKF 220912Z AUTO 07002KT 1/8SM -RA FG VV002 01/01 A2967 RMK SLP056 KCNY 220853Z AUTO 00000KT 10SM CLR 00/M04 A2998 RMK AO2 SLP159 T00001044 51020 KBYG 220853Z AUTO 31006KT 10SM OVC090 00/M08 A2973 RMK AO2 SLP081 T00001083 53017 CYKG 212100Z 34015KT 50SM SKC M19/M24 A3025 RMK SLP268 CXSP 220900Z AUTO 33010KT M08/M08 RMK AO1 T10791080 KCOQ 220935Z AUTO 35004KT 3SM BR SCT003 OVC016 01/01 A2958 RMK AO2 CXTH 220900Z AUTO 35009KT M08/M08 RMK AO1 T10781075 VEPT 220930Z 28008KT 4000 HZ NSC 24/12 Q1016 NOSIG KBYI 220853Z AUTO 19010KT 10SM OVC080 02/M04 A2986 RMK AO2 SLP120 T00171044 50007 CXSR 220900Z AUTO 00000KT M16/M18 RMK AO1 SOG 30 1007 SLP172 T11611175 VERC 220930Z 30007KT 6000 NSC 25/06 Q1019 NOSIG KCOS 220854Z 33006KT 10SM FEW170 FEW240 M01/M07 A2974 RMK AO2 SLP088 T10111072 52019 NZTU 220900Z 24010KT 30KM BKN065 15/08 Q0986 RMK ALT VATSIM USE ONLY CYLA 212200Z 33007KT 15SM FEW022 M22/M26 A3027 RMK SC1 SC TR LAST STFD OBS8NEXT 221300UTC SLP255 CYKJ 220900Z AUTO 36011KT 1 1/4SM -SN SCT012 OVC018 M08/M09 A2981 RMK SLP133 KCOT 220853Z AUTO 32023G32KT 10SM CLR 19/M05 A2971 RMK AO2 PK WND 32044/0820 SLP052 T01941050 53008 TSNO KCQB 220935Z AUTO 00000KT 5SM BR OVC003 10/10 A2937 RMK AO2 KCPK 220935Z AUTO 35003KT 1SM BR OVC002 10/09 A2962 RMK AO2 T00950092 CYJT 220900Z 31002KT 15SM SCT015 OVC023 M03/M05 A2962 RMK SC3SC5 SLP033 EGKK 220920Z VRB02KT 3000 HZ NSC M03/M04 Q1027 KCOU 220854Z AUTO 03008KT 10SM -RA SCT070 OVC090 09/08 A2950 RMK AO2 RAE0756B41 SLP987 P0000 60009 T00890078 56029 EHBK 220925Z AUTO 17002KT 9999 NSC M02/M06 Q1027 NOSIG KCQC 220753Z AUTO 29028G35KT 10SM CLR M03/M07 A2980 RMK AO2 PK WND 28038/0707 SLP098 T10281072 KBYL 220935Z AUTO 10003KT 10SM CLR 08/08 A2956 RMK AO1 CYLC 220400Z 02006KT 340V080 15SM SCT040 M19/M26 A3028 RMK SC3 SLP262 CYKL 220947Z AUTO 32010G15KT 9SM SCT007 OVC027 M16/M18 A3006 RMK SLP230 EGLC 220920Z AUTO 34003KT 2800 HZ NCD M01/M02 Q1027 CYLD 220200Z 09004KT 070V140 5/8SM -DZ VV002 01/00 A2963 RMK FG8 LAST OBS/NEXT 22 1100Z SLP060 KDFW 220853Z 25014KT 10SM FEW120 SCT250 13/02 A2938 RMK AO2 SLP941 T01330017 56008 CXTN 220900Z AUTO 23023G28KT M24/M28 RMK AO1 PK WND 23028/0859 SLP185 T12371277 51034 KCQF 220935Z AUTO 23004KT 5SM BR OVC003 20/20 A2954 RMK AO2 CYKO 211600Z 12023KT 15SM DRSN SKC M19/M25 A3028 RMK SLP257 EGLF 220920Z 00000KT 3800 BR NSC M02/M02 Q1027 CXTO 220900Z AUTO 04/04 RMK AO1 SLP057 T00420038 50000 CYKP 220940Z AUTO 07005KT 5SM -SN OVC007 M03/M03 A2980 RMK SLP104 OSDI 221000Z 03004KT CAVOK 08/04 Q1023 EFTP 220920Z AUTO 24010KT CAVOK 01/00 Q1016 CYLH 220928Z AUTO 07006KT 5SM -SN FEW010 BKN016 OVC039 M04/M05 A2979 RMK SLP107 KCPR 220853Z AUTO 24014KT 10SM BKN080 M04/M08 A2976 RMK AO2 SLP099 T10391083 51017 NZWB 220900Z 15003KT 45KM BKN085 15/13 Q0987 RMK ALT NZNS VATSIM USE ONLY KCPS 220853Z AUTO 12003KT 10SM CLR 09/07 A2949 RMK AO2 SLP984 T00890067 55008 KBYS 220855Z AUTO 34002KT 10SM OVC080 08/02 A3005 RMK AO2 LTG DSNT SW SLP185 WND DATA ESTMD T00830019 53008 $ CYLJ 220000Z 01010KT 2SM -SN FEW004 OVC011 M03/M04 A2961 RMK SF1SC7 /S01/ LAST STFD OB/NXT 221200UTC SLP057 CYMA 220900Z 00000KT 20SM FEW060 M37/M41 A2977 RMK SC1 SC TR SLP171 EFVA 220920Z AUTO 28008KT 9999 FEW066/// 04/01 Q1014 R16/19//95 KCPT 220935Z AUTO 23011KT 10SM CLR 11/M00 A2944 RMK AO2 CYLK 212100Z 26012KT 25SM -SHSN FEW015 BKN035 M16/M20 A2989 RMK SC2SC4 -14.0/-16.0/TR/15 MUCHLOOSE/LAST OBS/NXT 221500Z SLP143 NZWD 212225Z 05006KT 9999 FEW080 SCT120 BKN160 M10/M12 A2929 RMK GRID22006KT SDG/HDG LAST CZDB 220900Z AUTO 31003KT M02/M04 RMK AO1 SLP060 T10221040 53013 KCPU 220935Z AUTO 14011KT 10SM BKN041 OVC048 07/05 A2977 RMK AO2 T00650045 ORMM 220700Z 06004KT 8000 NSC 14/05 Q1020 NOSIG CYLL 220942Z AUTO 33013G19KT 1 3/4SM BR OVC004 M06/M07 A2980 RMK SLP133 EGLL 220920Z AUTO VRB03KT 3500 BR NCD M02/M02 Q1027 BECMG 5000 EGMC 220920Z 04002KT 1500 HZ NSC M04/M06 Q1027 EFTU 220920Z AUTO 26005KT CAVOK 01/M00 Q1019 R08/39//93 KCQM 220936Z AUTO 00000KT 10SM OVC003 01/01 A2960 RMK AO2 VERP 220900Z 04005KT 5000 HZ NSC 30/12 Q1018 NOSIG CXTV 220900Z AUTO 28004KT M28/M31 RMK AO1 SLP193 T12821311 51010 EGMD 220920Z VRB01KT 4500 HZ FEW009 M03/M05 Q1027 KDHN 220902Z AUTO 23012KT 10SM SCT017 BKN027 OVC055 22/21 A2959 RMK AO2 LTG DSNT E AND SE T02170206 KCRE 220853Z AUTO 29003KT 10SM CLR 15/14 A2966 RMK AO1 SLP044 T01500144 58009 KDGW 220853Z AUTO 33011KT 10SM CLR M03/M08 A2975 RMK AO2 SLP090 T10331078 53017 KCPW 220932Z AUTO 21006KT OVC001 M13/M13 A2988 RMK AO2 PWINO KBZN 220856Z AUTO 18004KT 8SM BKN080 M08/M10 A2979 RMK AO2 SLP137 T10831100 51015 $ KCRG 220853Z AUTO 18009KT 10SM FEW033 BKN100 20/15 A2971 RMK AO2 SLP059 T02000150 55015 KBYY 220935Z AUTO 29014KT 10SM SCT120 17/05 A2962 RMK AO2 T01730050 CYKY 220900Z 34012KT 15SM -SN OVC015 M04/M05 A2972 RMK SC8 SLP101 ORNI 220700Z 31012KT 7000 SCT040 11/06 Q1021 NOSIG CYKZ 220900Z 07004KT 1/8SM FG VV001 04/03 A2969 RMK FG8 SLP062 CYMH 220947Z AUTO 01019G29KT 9SM -SN SCT017 SCT022 OVC032 M02/M04 A2961 RMK SLP030 NZWK 220900Z 28019KT 15KM VCSH BKN050 17/11 Q1000 RMK ALT NZTG VATSIM USE ONLY CZCR 220900Z AUTO 28006KT M01/M05 RMK AO1 SOG 57 3019 SLP082 T10111046 KDIJ 220913Z AUTO 17009KT 9SM -SN FEW028 OVC046 M04/M06 A2989 RMK AO2 P0000 KCQT 220947Z AUTO 10003KT 10SM -RA SCT031 OVC080 13/09 A3010 RMK AO2 RAE15B40 SLP194 P0000 T01280089 KDHT 220853Z AUTO 34015KT 10SM CLR 04/02 A2968 RMK AO2 PRESRR SLP037 T00390017 53043 CYNA 220933Z AUTO 01011KT 9SM -SN SCT049 M07/M09 A2976 RMK SLP079 KDIK 220929Z AUTO 32006KT 9SM BKN007 M11/M12 A2966 RMK AO2 CIG 006V010 I1000 T11061117 CXWB 220900Z AUTO 16013KT M12/M13 RMK AO1 PK WND 17019/0821 T11211133 EFUT 220920Z AUTO 27007KT 230V340 9999 OVC008 02/01 Q1014 CYLU 212200Z 02014KT 15SM FEW041 M17/M19 A3014 RMK SC1 LAST STFD OBS/NEXT 221300UTC SLP214 NZWN 220930Z AUTO 32003KT 9000 -DZ FEW045/// BKN050/// OVC065/// 14/13 Q0987 REDZ BECMG 9999 EHDL 220925Z AUTO VRB02KT 9999 FEW110 M03/M06 Q1027 BLU TXKF 220855Z 27012KT 9999 SCT023 BKN180 BKN300 19/17 Q1010 CYND 220200Z VRB02KT 3SM BR OVC025 01/00 A2977 RMK SC8 LAST STFD OBS/NEXT 221200 UTC SLP085 CXVM 220900Z AUTO 35009KT M06/M06 RMK AO1 T10581063 CYMM 220900Z AUTO 33009KT 9SM -SN BKN014 OVC020 M13/M14 A3005 RMK SLP209 KCQW 220935Z AUTO 25005KT 2 1/2SM -RA OVC005 14/14 A2967 RMK AO2 NZWP 220900Z 26023G34KT 15KM VCSH BKN022 17/12 Q1002 RMK ALT NZAA VATSIM USE ONL CXVN 220900Z AUTO 03002KT 04/03 RMK AO1 SOG 01 0002 SLP052 T00350033 CYNE 220948Z AUTO 07003KT 6SM -RA BR OVC003 00/00 A2968 RMK SLP063 CYLW 220915Z AUTO 06003KT 060V140 8SM BKN005 BKN055 BKN087 M03/M03 A2971 RMK SLP082 KCQX 220945Z AUTO 00000KT 1SM BR OVC002 03/03 A2975 RMK AO2 T00330028 KCSG 220909Z AUTO 11006KT 10SM FEW006 BKN041 OVC050 15/14 A2957 RMK AO2 LTG DSNT E AND SE T01500144 KCRP 220851Z 32012G19KT 10SM CLR 18/03 A2966 RMK AO2 SLP042 T01780033 50013 $ CYMO 220906Z AUTO 08011KT 9SM OVC005 00/00 A2990 RMK SLP126 NZWR 220900Z 26023G34KT 15KM VCSH BKN022 17/12 Q1002 RMK ALT NZAA VATSIM USE ONL KCRQ 220853Z 09003KT 10SM CLR 10/08 A3011 RMK AO2 SLP194 T01000078 58006 NZWS 220900Z 25018KT 4000 RA BKN023 16/13 Q0989 RMK ALT VATSIM USE ONLY EGNH 220920Z 15008KT 6000 NSC 01/00 Q1024 EHEH 220925Z AUTO VRB02KT 8000 BR FEW160 M04/M05 Q1027 BLU VRB03KT CAVOK KCRS 220853Z AUTO 23010KT 10SM CLR 12/06 A2946 RMK AO2 SLP974 T01220056 56010 KEBA 220935Z AUTO 00000KT 2 1/2SM -RA SCT001 BKN012 OVC030 15/15 A2969 RMK AO2 LTG DSNT S T01450145 NZWU 220900Z 30016KT 8000 SHRA BKN020 14/13 Q0991 RMK ALT NZPM VATSIM USE ONLY CZFA 212300Z 12004KT 080V150 30SM BKN240 M32/M36 A2981 RMK CI5 CLIMAT -32.4/-38.1/0.0 LAST STFD OBS/NXT 221500Z SLP210 CYOA 220000Z 33011KT 6SM -SN OVC050 M22/M25 A2981 EGNJ 220920Z 19006KT 6000 NSC M01/M01 Q1026 KCTB 220917Z AUTO 01006KT 10SM FEW006 M08/M10 A2976 RMK AO2 T10831100 KDKB 220935Z AUTO 00000KT 1/2SM FG OVC003 02/02 A2959 RMK AO2 T00170016 CYMT 220900Z AUTO 05006KT 9SM OVC014 M03/M05 A2986 RMK SLP133 CYOC 220200Z 23003KT 200V260 35SM FEW040 M30/M34 A2992 RMK SC1 CLIMAT -28.2/-37.1/TR CM/TR MWE/LAST STFD OBS/NXT 221400Z SLP176 CZEL 220900Z AUTO 08001KT 01/01 RMK AO1 SOG 00 0001 SLP056 T00090005 KCSM 220948Z AUTO 34015G22KT 8SM BKN007 05/04 A2948 RMK AO2 CXWM 220900Z AUTO 29005KT M04/M05 RMK AO1 T10421047 CYOD 220942Z 34008KT 8SM -FZDZ OVC007 M07/M08 A2988 RMK SF8 PCPN VRY LGT SLP153 CYNM 220904Z AUTO 09004KT 060V130 9SM BKN008 OVC027 M01/M02 A2984 RMK SLP123 EGNM 220920Z 20006KT 8000 SCT030 M00/M01 Q1024 KCRW 220854Z 07005KT 6SM BR OVC070 09/08 A2962 RMK AO2 SLP028 T00940083 58012 EHDV 220925Z AUTO VRB10KT 9999 FEW016/// 05/00 Q1026 EHFD 220925Z AUTO 19010KT 9999 BKN017/// BKN020/// 05/00 Q1026 KEAN 220935Z AUTO 25009G14KT 10SM CLR 00/M07 A2977 RMK AO2 T10021066 EGMW 220850Z VRB03KT 4000 HZ NSC M02/M04 Q1026 CXVW 220900Z AUTO 33001KT M14/M16 RMK AO1 T11401155 CXWN 220900Z AUTO 22001KT 01/01 RMK AO1 SLP046 T00140008 53016 KCRX 220935Z AUTO 13006KT 10SM FEW006 BKN090 14/13 A2941 RMK AO2 CYMX 220928Z 06004KT 020V090 4SM -FZDZ BR BKN004 OVC015 M00/M00 A2982 RMK SF7SC1 CIG VRB 3-5 SLP103 KEBG 220935Z AUTO 34011KT 10SM CLR 19/02 A2972 RMK AO2 T01910021 KCSQ 220935Z AUTO 01006KT 1/4SM FG OVC002 00/00 A2960 RMK AO2 UNTT 220930Z 19008MPS 9000 -SHSN DRSN SCT025CB M08/M12 Q1015 WS R21 R21/490232 NOSIG RMK QFE746 KEAR 220935Z AUTO 10SM CLR RMK AO1 EGNR 220920Z 16007KT 7000 SCT037 OVC045 01/M01 Q1025 KCTJ 220935Z AUTO 00000KT 10SM -DZ SCT004 BKN045 OVC070 15/ A2958 RMK AO2 LTG DSNT SE T0145 CYPA 220900Z 35010KT 10SM -SN FEW011 OVC018 M03/M05 A2965 RMK SF2SC6 SLP068 CYOJ 220939Z AUTO 02004KT 9SM BKN014 OVC110 M19/M21 A3014 RMK SLP246 EGPA 220920Z 00000KT 9999 FEW020 SCT030 03/02 Q1022 KCUB 220927Z AUTO 18004KT 7SM RA FEW019 BKN080 OVC090 16/14 A2969 RMK AO2 RAB00 P0003 T01560139 KDKK 220853Z AUTO 00000KT 6SM BR CLR 04/03 A2967 RMK AO2 SLP049 T00390033 58002 EGNS 220920Z VRB06KT 9999 FEW025 BKN030 04/02 Q1023 NOSIG KEAT 220927Z AUTO 05006KT 3SM BR OVC003 01/01 A2968 RMK AO2 T00060006 EGPB 220920Z 21005KT 9999 FEW025 06/02 Q1022 EGNT 220920Z VRB02KT 9999 BKN034 01/M00 Q1023 KEAU 220933Z AUTO 00000KT 3/4SM BR OVC003 01/ A2956 RMK AO2 T0011 $ CYPC 220000Z 18029KT 1SM BLSN SCT030 M20/M24 A2987 RMK SC3 -20.0/-29.3/0/45 MUCH LOOSE LAST STFD OB/NEXT 221400 UTC SLP116 ZUGY 220900Z 34002MPS 290V360 8000 BKN043 11/02 Q1024 NOSIG EGPC 220920Z AUTO 25003KT 9999 NCD 01/M00 Q1022 KCSV 220935Z AUTO VRB04KT 10SM SCT015 BKN022 11/10 A2955 RMK AO2 T01060100 CZFM 220000Z 27004KT 30SM FEW050 FEW150 M29/M33 A2997 RMK SC1AC1 -28.5/-34.0/0.0/SNWCVR/MUCH LOOSE LAST OBS/NEXT 221500Z SLP157 EGNV 220920Z 17007KT 3500 HZ FEW045 00/M01 Q1024 CZEV 222300Z AUTO 31006KT M29/M33 RMK AO1 SOG 23 1029 SLP138 T12911328 EGOM 220850Z AUTO 02002KT 5000 BR OVC031/// 00/M00 Q1021 EGPD 220920Z VRB03KT 9999 FEW031 00/M00 Q1023 NOSIG CYPD 220949Z AUTO 31008G15KT 5SM -SN BKN005 OVC009 M02/M03 A2962 RMK SLP037 CYPE 220900Z 03006KT 15SM FEW007 OVC019 M16/M18 A3000 RMK SF1SC7 SLP212 EGPE 220920Z 24005KT CAVOK M02/M03 Q1023 KDLF 220858Z AUTO 30022G30KT 10SM CLR 15/01 A2975 RMK AO2 PK WND 30035/18 SLP064 60001 T01540005 52008 $ CYOO 220933Z AUTO 09002KT 1/4SM -RA FG VV002 05/05 A2970 RMK SLP065 EGNX 220920Z 12005KT 7000 BKN042 M00/M02 Q1025 EGPF 220920Z 28001KT 5000 BR FEW011 SCT017 OVC023 01/01 Q1024 KECG 220854Z AUTO 21007KT 1/2SM FG VV002 13/12 A2961 RMK AO2 SLP027 60001 T01280122 56008 EGOP 220850Z AUTO 18018KT 6000 // FEW023/// BKN060/// 07/05 Q1023 EHGG 220925Z AUTO 11002KT 7000 NSC M02/M04 Q1028 NOSIG KDLH 220944Z 01005KT 1SM R09/P6000FT -DZ BR OVC003 01/01 A2957 RMK AO2 P0000 T00110011 KCUH 220935Z AUTO 02006KT 7SM SCT006 SCT024 10/09 A2936 RMK AO2 LTG DSNT E T01010093 CXYH 220900Z AUTO M26/M28 RMK AO1 SOG 36 0006 SLP217 T12551282 CYPH 220900Z AUTO 08010KT 360V120 9SM CLR M22/M25 A3031 RMK SLP270 EGPH 220920Z VRB02KT 1400 BR BKN002 02/02 Q1023 KDKR 220935Z AUTO 25013G16KT 10SM 14/05 A2951 RMK AO2 EGPI 220920Z AUTO 12004KT 9000 BKN045/// 04/03 Q1022 KEBS 220935Z AUTO 30005KT 10SM OVC010 00/ A2958 RMK AO2 KDMA 220858Z AUTO 16004KT 10SM CLR 03/01 A3015 RMK AO2 SLP202 T00290010 50002 $ CZFS 220900Z AUTO 13003KT M27/M30 RMK AO1 SOG 21 3012 SLP255 T12671295 50002 EGOS 220850Z AUTO 10003KT 3700 SG OVC040/// 00/M01 Q1024 CYQA 220938Z AUTO 11003KT 070V140 2 1/2SM BR OVC002 03/03 A2969 RMK SLP064 EHFS 220855Z AUTO 24003KT 6000 NCD M01/M03 Q1027 KCVB 220935Z AUTO 29021G28KT 10SM CLR 15/M02 A2969 RMK AO2 T01511020 CYQB 220900Z 00000KT 15SM OVC026 M01/M03 A2983 RMK SC8 SLP105 EGPK 220920Z 00000KT 6000 -RA FEW008 SCT012 02/01 Q1023 KCUL 220935Z AUTO 00000KT 10SM CLR 07/07 A2949 RMK AO2 T00710070 KCVC 220935Z AUTO 00000KT 10SM BKN080 OVC120 15/13 A2959 RMK AO2 LTG DSNT S KDLL 220935Z AUTO 00000KT 1/4SM FG OVC003 03/03 A2956 RMK AO2 T00310030 KEDC 220935Z AUTO 26014G21KT 10SM CLR 14/M02 A2958 RMK AO2 CYPL 220200Z 11006KT 8SM -SN OVC006 M01/M02 A2964 RMK SF8 LAST STFD OBS/NEXT 221100Z SLP058 CXZC 220900Z AUTO 07007KT M00/M00 RMK AO1 SOG 55 1017 SLP127 T10011002 EGPL 220920Z AUTO 13003KT 9999 NCD 03/00 Q1022 EGOV 220850Z AUTO 11007KT 6000 HZ OVC060/// 04/01 Q1023 CYQD 220900Z 05004KT 3/4SM BR VV004 00/M00 A2964 RMK FG8 CIG PROJECTOR 400 FT SLP051 KEDE 220940Z AUTO 00000KT 1/4SM FG OVC003 14/14 A2962 RMK AO2 T01400140 VGEG 220900Z 33011KT 3500 HZ NSC 27/13 Q1013 NOSIG KDLN 220853Z AUTO 19011KT 10SM SCT060 A2978 RMK AO2 SLPNO 52015 $ EGPM 220920Z AUTO 17009KT 9999 NCD 04/02 Q1021 EGOW 220850Z 14007KT 6000 HZ FEW025 SCT040 01/M01 Q1024 WHT EGPN 220920Z 27002KT 6000 -DZ FEW003 SCT011 BKN038 02/01 Q1023 CYOW 220900Z 04006KT 2 1/2SM -RA BR OVC031 01/01 A2978 RMK FG1SC7 SLP089 KDLO 220935Z AUTO 08003KT 10SM -RA OVC075 07/05 A2996 RMK AO2 CYQF 220900Z 34006KT 2SM BR VV002 M06/M07 A2981 RMK FG8 SLP152 CYPO 220900Z AUTO 09008KT 060V120 9SM OVC003 M05/M05 A2998 RMK SLP160 KECP 220942Z AUTO 19014G23KT 9SM SCT008 BKN012 OVC018 23/21 A2955 RMK AO2 T02330211 KCVG 220852Z 09003KT 8SM SCT160 10/09 A2957 RMK AO2 SLP007 T01000089 56022 EGPO 220920Z AUTO VRB04KT 9999 OVC034/// 05/01 Q1022 KDLP 220935Z AUTO 23011KT 3SM BR FEW010 SCT017 22/22 A2950 RMK A01 KCTY 220930Z AUTO 21011KT 10SM OVC008 22/21 A2968 RMK AO2 KCTZ 220940Z AUTO 24009KT 10SM BKN010 OVC017 16/15 A2965 RMK AO2 T01600153 CYQG 220900Z 21004KT 0SM R25/1200FT/N FG VV001 05/05 A2961 RMK FG8 SLP031 CYOY 220900Z AUTO 00000KT 9SM OVC024 OVC086 M02/M04 A2981 RMK SLP105 KCVH 220930Z AUTO 13019G25KT 8SM FEW022 SCT037 BKN044 10/07 A2978 RMK AO1 KDMH 220854Z AUTO 08/07 A2972 RMK AO1 SLP063 T00830067 58013 CYPQ 220900Z AUTO 03004KT 5/8SM BR VV003 02/02 A2971 RMK SLP070 CYQH 220900Z 33004KT 15SM OVC090 M19/M23 A2983 RMK AC8 SLP173 EHFZ 220925Z AUTO 20007KT 170V240 9999 SCT018 05/00 Q1026 KEDJ 220915Z AUTO 34007KT 9SM BKN048 BKN060 09/09 A2962 RMK AO1 CYPR 220900Z AUTO 11005KT 9SM OVC070 06/00 A2942 RMK SLP966 CYQI 220900Z 01006KT 15SM OVC020 01/00 A2974 RMK SC8 SLP073 KDLS 220928Z AUTO 08004KT 3SM BR OVC005 00/M01 A2967 RMK AO2 CIG 003V007 T00001006 EHGR 220925Z AUTO 15001KT 7000 BR NCD M04/M05 Q1027 WHT KECS 220935Z AUTO 01007KT 10SM CLR M07/M08 A2976 RMK AO2 KCWA 220935Z AUTO 00000KT 1/4SM FG OVC003 01/01 A2955 RMK AO2 KCUT 220853Z AUTO 31003KT 10SM CLR M06/M08 A2968 RMK AO2 SLP071 I1000 I3001 T10611078 53015 CYQK 220900Z 04003KT 1/4SM FG VV002 01/01 A2962 RMK FG8 SLP050 EGQK 220850Z AUTO 25005KT 9999 OVC110/// M00/M02 Q1022 CYRB 220900Z 00000KT 15SM -SN OVC012 M19/M22 A2965 RMK SC8 SLP051 KCWC 220935Z AUTO 25006KT 10SM CLR 09/00 A2940 RMK AO2 T00870000 KECU 220935Z AUTO 30020G35KT 10SM CLR 11/M04 A2971 RMK AO2 CYQL 220900Z AUTO 29004KT 7SM OVC010 M05/ A2979 RMK TD MISG SLP128 EGPU 220920Z AUTO 18005KT 9999 BKN034/// BKN042/// BKN049/// 06/02 Q1022 KEED 220856Z AUTO 02005KT 10SM OVC110 11/04 A3006 RMK AO2 SLP167 T01060039 53004 EGQL 220922Z 33001KT 5000 BR SCT009 BKN040 01/01 Q1023 GRN CYQM 220900Z 32006KT 15SM OVC032 M01/M04 A2971 RMK SC8 SLP066 KDMN 220853Z AUTO 26014G22KT 10SM CLR 02/M02 A3006 RMK AO2 SLP166 T00221017 51015 KCVN 220935Z AUTO 32009KT 10SM CLR 02/M05 A2973 RMK AO1 KEDN 220935Z AUTO 24005KT 7SM OVC014 21/21 A2953 RMK AO2 T02100206 EGQM 220850Z AUTO 19006KT 9999 OVC034/// 03/M01 Q1023 CYPW 220300Z VRB02KT 20SM BKN047 OVC130 05/04 A2949 RMK SC6AC2 LAST STFD OBS/NEXT221500UTC SLP992 KDMO 220853Z AUTO 02010KT 10SM CLR 09/07 A2951 RMK AO2 SLP991 60000 T00890067 58012 KCVO 220935Z 03005KT 10SM 06/04 A2944 RMK AO1 KCWF 220935Z AUTO 36003KT 10SM -RA SCT045 BKN080 OVC095 14/13 A2956 RMK AO2 P0002 T01400126 CYPX 220900Z AUTO 07010KT 9SM CLR M27/M31 A3038 RMK SLP295 CYPY 220900Z AUTO 35006KT 9SM OVC011 M16/M18 A3017 RMK SLP244 KDLZ 220934Z AUTO 09006KT 1/4SM FG VV002 06/06 A2959 RMK AO2 CYQQ 220900Z 17005KT 20SM FEW018 BKN048 OVC080 06/05 A2956 RMK SC0SC7AC1 SLP012 KCWI 220941Z AUTO 32003KT 3SM BR CLR 01/01 A2959 RMK AO2 FZRANO CYQR 220900Z 31008KT 15SM OVC034 M04/M05 A2963 RMK SC8 SLP068 KCVS 220933Z AUTO 31011KT 10SM BKN080 03/M03 A2973 RMK AO2 CYRJ 220900Z 31007KT 25SM BKN028 OVC045 M01/M03 A2984 RMK SC6SC2 SLP115 EHJA 220925Z AUTO 21006KT 180V240 8000 FEW014/// 04/01 Q1026 EGQS 220850Z 15002KT 9999 FEW030 SCT110 M02/M03 Q1022 BLU CYSB 220942Z 06011KT 3/4SM R22/5000FT/U BR VV002 01/00 A2968 RMK FG8 SLP066 CYQT 220942Z 00000KT 3SM -RASN BKN004 OVC012 00/00 A2961 RMK ST6SC2 VIS VRB 2-4 SLP038 OTBD 220900Z VRB02KT 7000 NSC 23/18 Q1017 NOSIG KDNL 220946Z AUTO 00000KT 2 1/2SM RA BR FEW002 BKN050 OVC070 16/14 A2964 RMK AO2 P0011 T01610139 KEDU 220935Z AUTO 15016G25KT 3SM FEW007 BKN012 OVC021 08/08 A2975 RMK AO1 P0004 CYRL 220300Z 10006KT 1/8SM -DZ FG VV000 01/01 A2958 RMK FG8 LAST STFD OBS/NEXT 22 1000 UTC SLP037 EGSC 220920Z 15002KT 6000 NSC M02/M03 Q1027 CYQU 220900Z 07008KT 15SM -SN OVC016 M13/M15 A2994 RMK SC8 SLP197 KEFD 220850Z 23006KT 10SM BKN070 16/12 A2958 CYSC 220937Z AUTO 05004KT 5SM BR OVC004 M00/M01 A2978 RMK SLP095 CXZV 220900Z AUTO 02008KT M06/M09 RMK AO1 SOG 77 3036 SLP113 T10601094 CYQV 220904Z AUTO 30007KT 1 1/2SM -SN OVC023 M03/M03 A2958 RMK SLP046 KDMW 220940Z AUTO 00000KT 1/2SM FG 06/06 A2970 RMK AO2 KEEN 220945Z AUTO 00000KT 3SM BR OVC002 00/M01 A2975 RMK AO2 FZRANO KCWN 220858Z AUTO 24004KT 10SM CLR 00/M10 A2969 RMK AO2 SLP973 T00021096 52019 $ KEDW 220940Z AUTO 24009KT 10SM -RA BKN055 07/04 A3002 RMK AO2 RAB10 KCVW 220940Z AUTO 35007KT 10SM FEW050 BKN065 OVC090 16/13 A2955 RMK A01 KCXE 220935Z AUTO 36004KT 10SM OVC004 10/09 A2964 RMK AO1 T01000092 KDNN 220935Z AUTO 12015G18KT 10SM SCT060 BKN075 BKN110 13/13 A2952 RMK AO2 CYQW 220931Z AUTO 33015G20KT 9SM -SN SCT016 OVC060 M04/M04 A2976 RMK SLP107 KEEO 220853Z AUTO 00000KT 10SM SCT044 BKN065 OVC085 M04/M05 A2992 RMK AO2 SLP150 60002 T10391050 51018 KCVX 220935Z AUTO 00000KT 1/2SM FG OVC003 04/04 A2961 RMK AO2 T00360036 EHHW 220925Z AUTO 18005KT 140V200 9999 NCD 03/M00 Q1027 CYSF 220923Z AUTO 36007KT 320V030 9SM -SN OVC015 M09/M11 A3000 RMK SLP180 CYQX 220900Z 30015KT 15SM -SHSN OVC009 M08/M09 A2952 RMK SC8 CVCTV CLD EMBD SLP007 OTBH 220858Z 09005KT 6000 HZ BKN100 BKN150 24/17 A3002 RMK AO2A SLP167 T02390166 57028 $ CZHY 220900Z AUTO 00017KT M29/M32 RMK AO1 SOG 44 2018 SLP270 T12941321 CYQY 220946Z 27002KT 15SM OVC020 M03/M03 A2961 RMK SC8 SLP033 CYQZ 220900Z AUTO 33007KT 9SM BKN046 M01/M05 A2962 RMK SLP058 CYRQ 220900Z AUTO 35002KT 9SM OVC025 M00/M02 A2982 RMK SLP102 EGSH 220920Z 22004KT 6000 NSC M02/M03 Q1027 NOSIG KDPA 220852Z 00000KT 1/4SM FG VV002 01/00 A2957 RMK AO2 SLP017 T00110000 58003 RVRNO KDNS 220935Z AUTO 33010G15KT 10SM OVC009 M00/M01 A2961 RMK AO2 OSKL 221000Z 34012KT CAVOK 12/M06 Q1019 CYSJ 220900Z 35003KT 10SM OVC025 M02/M02 A2974 RMK SC8 SLP076 KEET 220853Z AUTO 19003KT 10SM CLR 14/13 A2952 RMK AO2 SLP994 60006 T01390133 53003 ORSU 220900Z 12010KT 4500 BR FEW020 BKN035 BKN070 05/05 Q1021 KEFK 220935Z AUTO 34004KT 1SM BR OVC005 00/00 A2978 RMK AO2 T00000000 CYRT 220900Z 16013KT 15SM SCT017 BKN120 M11/M13 A3002 RMK SC3AC3 SLP170 EGTC 211650Z 09003KT 9999 FEW019 02/01 Q1025 KCWV 220935Z AUTO 05006KT 5SM VCTSRA SCT008 BKN019 OVC065 A2964 RMK AO2 LTG DSNT ALQS KDNV 220935Z AUTO 01006KT 1/4SM -RA OVC001 06/06 A2951 RMK AO2 T00570055 CZKD 220900Z AUTO 09003KT M02/M02 RMK AO1 SLP079 T10221024 53010 CYSM 220900Z 35004KT 320V020 15SM OVC015 M18/M21 A3021 RMK SC8 SLP257 CYRV 220947Z AUTO 00000KT 5SM BR BKN042 OVC065 M02/M02 A2979 RMK SLP110 KEGE 220756Z AUTO 09005KT 10SM BKN050 OVC065 M04/M05 A2988 RMK AO2 SLP151 T10391050 FZRANO EHKD 220935Z AUTO 17001KT 5000 BR FEW350 M01/M02 Q1027 WHT 17004KT 8000 NSC CYSN 220200Z 28003KT 1/8SM FG VV001 03/03 A2970 RMK FG8 LAST STFD OBS / NEXT 221200UTC SLP061 EGTE 220920Z VRB03KT 7000 FEW015 SCT035 06/04 Q1025 CYTE 220900Z AUTO 28004KT 9SM BKN220 M17/M19 A3032 RMK SLP275 KCXO 220853Z 26009G17KT 10SM FEW075 BKN100 OVC120 16/05 A2954 RMK AO2 SLP000 60000 T01610050 58011 KCXP 220935Z AUTO 00000KT 1SM -SN OVC003 00/M02 A2975 RMK AO2 CYSP 212200Z 07003KT 4SM BR SCT003 OVC005 02/01 A2960 RMK SF4SC4 LAST STFD OBS/NEXT 221300UTC SLP039 CYTH 220900Z 06004KT 8SM -SN SCT004 BKN035 OVC064 M02/M02 A2972 RMK SF3SC3SC2 SLP080 KEGI 220908Z AUTO 21014G22KT 10SM SCT010 SCT014 23/21 A2952 RMK AO2 TSNO $ EHJR 220925Z AUTO 23006G07KT //// ///////// 04/00 Q1027 W///H6 OSLK 221000Z 27004KT CAVOK 15/02 Q1024 KEHA 220928Z AUTO 32010KT 02/M03 RMK AO1 /PK WND 17 M T00171033 EGSS 220920Z AUTO VRB03KT 2100 BR NCD M02/M03 Q1027 KEFT 220935Z AUTO 27007KT 1/4SM FG OVC002 02/02 A2957 RMK AO2 EGTK 220920Z 00000KT 5000 NSC M04/M04 Q1026 KDPL 220940Z AUTO 24008KT 10SM OVC010 16/15 A2964 RMK AO2 CYUB 220600Z 21008KT 15SM FEW110 M33/M36 A3006 RMK AS1 TRACE LOOSE AURBO SLP183 KCXU 220935Z AUTO 34003KT 7SM SCT008 BKN015 OVC031 21/21 A2958 RMK AO2 T02140205 KEHC 220935Z AUTO 33028KT 9SM FEW009 SCT020 BKN038 20/13 A2953 RMK A01 EGUB 220850Z 19003KT 4500 BR FEW080 M05/M05 Q1026 GRN BECMG 6000 HZ WHT CYTL 220900Z AUTO 11006KT 060V150 9SM OVC004 M05/M05 A2981 RMK SLP112 KDOV 220943Z 00000KT 7SM R19/5500FT -RA FEW008 OVC080 07/07 A2968 RMK AO2A $ KCXY 220939Z AUTO 00000KT 1SM R08/5000VP6000FT BR OVC003 07/06 A2971 RMK AO2 T00670056 CYSY 220000Z 12017KT 10SM -SN DRSN OVC080 M30/M34 A2979 RMK AC8 LAST OBS/NEXT 221400Z SLP108 KDQH 220935Z AUTO 25007G16KT 2SM TSRA BKN009 OVC026 20/19 A2960 RMK AO2 LTG DSNT ALQS VGHS 220930Z 28007KT 3500 HZ NSC 27/10 Q1014 NOSIG CYTQ 212200Z 02006KT 15SM FEW014 M19/M22 A3027 RMK SC1 LAST STFD OBS/NEXT 221300UTC SLP255 CYTR 220933Z 04007KT 8SM OVC013 02/01 A2972 RMK SF8 SLP069 KCYS 220853Z AUTO 31009KT 10SM BKN090 OVC100 M02/M08 A2973 RMK AO2 SLP074 T10171083 53016 $ KDRA 220855Z AUTO 30005KT 10SM SCT095 BKN110 04/00 A3000 RMK AO2 PRESRR SLP150 T00390000 53009 CYTS 220900Z 11006KT 3/4SM -FZDZ BR VV001 M00/M00 A2974 RMK FG8 SLP086 EHMA 220925Z AUTO 19006KT //// // NSC M00/M03 Q1027 RE// EGVA 220933Z AUTO 08003KT 4800 BR FEW065 M02/M02 A3030 RMK AO2 EICK 220930Z 09005KT 9999 FEW015 BKN070 04/02 Q1022 NOSIG KCZL 220935Z AUTO 14004KT 10SM SCT009 BKN047 OVC060 15/13 A2954 RMK AO2 T01480130 CYUL 220900Z 04010KT 5SM BR SCT006 OVC023 00/M01 A2981 RMK SF3SC5 SLP099 CYVC 220900Z 35008KT 1SM -SN VV018 M03/M04 A2972 RMK SN8 SLP088 KEGV 220935Z AUTO 00000KT 1/4SM DZ OVC003 01/01 A2953 RMK AO2 T00050005 EGUL 220858Z AUTO 00000KT 6000 BR CLR M05/M05 A3031 RMK AO2 SLP268 53010 FZRANO $ CZMD 220900Z AUTO 08005KT 6SM -SN BKN008 BKN013 OVC020 M02/M02 A2974 RMK SLP091 EHKV 220925Z AUTO 23007KT 170V250 9000 SCT014 05/01 Q1027 KEHO 220945Z AUTO 16004KT 5SM BR OVC005 12/12 A2968 RMK AO2 T01180118 EGUN 220858Z AUTO 00000KT 6000 BR CLR M04/M04 A3032 RMK AO2 SLP271 T10381038 53010 EHMG 220925Z AUTO 19004KT 9999 NCD 04/M01 Q1027 CYTZ 220900Z AUTO 07009KT 3/8SM R08/2600FT/N FG VV002 04/03 A2970 RMK SLP062 KEHR 220935Z 10005KT 10SM CLR 09/07 A2949 RMK AO1 KDRI 220935Z AUTO 00000KT 10SM -RA SCT070 OVC080 14/13 A2957 RMK AO2 P0001 T01400133 CZMJ 220900Z AUTO 31006KT M01/M02 RMK AO1 SOG 03 3014 SLP074 T10051021 KEIK 220934Z AUTO 00000KT 10SM CLR M03/M05 A2977 RMK AO2 T10351049 CYWA 220939Z AUTO 36002KT 2 1/4SM OVC016 OVC030 01/01 A2978 KCZT 220935Z AUTO 33015G24KT 10SM 16/00 A2975 RMK AO2 CYUT 212100Z 12013KT 15SM FEW020 OVC080 M21/M23 A3025 RMK SC2AC6 -20.5/-28.7/0.0/2.0 SNW CVR/TRACE LOOSE/LST STFD OBS/NXT 221500 SLP249 EGWC 220850Z 17003KT 3000 BR BKN035 BKN050 00/M00 Q1024 YLO1 CYVL 212000Z AUTO 10003KT 9SM CLR M33/M37 A2978 RMK SLP139 EIDL 211930Z 16011KT 9999 FEW042 02/M01 Q1024 KDRM 220936Z AUTO 08003KT 3/4SM BR OVC001 01/01 A2960 RMK AO2 T00130013 CYVM 220900Z AUTO 20013KT 9SM CLR M23/M27 A3000 RMK SLP161 EGUW 220850Z AUTO 23003KT 3500 NCD M03/M03 Q1026 CYWE 220900Z AUTO 00000KT 9SM CLR M36/M39 A3016 RMK SLP276 KDRO 220853Z AUTO 00000KT 10SM CLR M08/M11 A2990 RMK AO2 SLP168 T10831111 53022 $ KFAF 220923Z AUTO 32004KT 9SM OVC005 10/09 A2962 RMK AO2 $ EHLW 220937Z AUTO 17004KT 7000 BR NCD M01/M03 Q1027 WHT EGVN 220850Z 05002KT 4000 HZ SCT070 M04/M04 Q1026 GRN BECMG 5000 WHT EGVO 220850Z 12005KT 6000 3000SW BR FEW250 M03/M04 Q1026 YLO1 CYUX 220913Z AUTO 22022KT 1SM -SN BLSN OVC038 M14/M16 A2997 RMK PRESFR SLP153 CYVO 220900Z AUTO 08005KT 2SM BR OVC003 M00/M00 A2978 RMK SLP104 KEHY 220935Z AUTO 25019G28KT 1SM SN VV007 M05/M07 A2978 RMK AO2 EGVP 220850Z AUTO 00000KT 2500 // NCD M05/M05 Q1026 CYVP 220900Z 32005KT 15SM -SN OVC011 M22/M24 A3034 RMK SF8 SLP280 CYUY 220900Z 08006KT 1 1/2SM BR OVC003 M01/M01 A2978 RMK SF8 SLP100 CYWG 220927Z 15005KT 2SM -RA BR OVC003 01/01 A2965 RMK ST8 SLP052 KCZZ 220852Z AUTO 07003KT 02/02 A3008 RMK AO1 SLP180 T00220022 58006 CYWH 220500Z 02005KT 15SM FEW100 SCT180 07/05 A2952 RMK AC2AC2 LAST STFD OBS/NEXT 221400 UTC SLP999 CYVQ 220900Z 28004KT 30SM SKC M32/M35 A3004 RMK SLP187 KEIR 220935Z AUTO 27011KT 4SM BR OVC026 22/21 A2953 RMK A01 CYVR 220900Z 09009KT 20SM FEW026 BKN058 OVC090 07/04 A2960 RMK CF1SC6AC1 SLP025 KDTA 220935Z AUTO 16011KT 10SM CLR M05/M07 A3000 RMK AO1 CYWJ 220000Z 09008KT 40SM SKC M24/M31 A2998 RMK -23.6/-24.5/0/29 SNW CVR/MEDIUM LAST STFD OBS/NEXT 221800 UTC SLP186 KDRT 220853Z AUTO 28017G27KT 10SM CLR 15/M06 A2976 RMK AO2 PK WND 29032/0823 SLP066 T01501056 53005 CYVT 220400Z 36015G21KT 15SM -SN OVC004 M08/M09 A2979 RMK ST8 LAST STFD OBS/NEXT 221200 UTC SLP119 CZMT 220200Z 00000KT 15SM -RA FEW020 FEW040 OVC070 03/01 A2935 RMK SC1SC1AS6 LAST STFD OBS/NEXT 221500 UTC WND ESTD SLP939 CYWK 220900Z AUTO 01006KT 340V040 9SM -SN OVC013 M14/M16 A2995 RMK SLP189 CZMU 220900Z AUTO 35005KT M08/M08 RMK AO1 T10751083 CYXC 220900Z 33002KT 15SM -SN FEW023 BKN040 OVC090 M05/M05 A2978 RMK SC2SC5AC1 SLP128 CYWL 220900Z 11006KT 15SM FEW100 M03/M05 A2957 RMK AC2 SLP050 KDSM 220947Z 35008KT 2SM BR OVC002 01/01 A2959 RMK AO2 T00110006 KFAM 220937Z AUTO 07003KT 1/2SM FG OVC002 09/09 A2949 RMK AO2 EGXC 220850Z 12004KT 5000 BR FEW250 M04/M05 Q1026 WHT CYVV 220900Z 00000KT 1/8SM FG VV003 02/02 A2964 RMK FG8 SLP045 EGXE 220850Z AUTO 15008KT 3100 HZ NCD M00/M01 Q1024 CYXE 220900Z 33008KT 6SM -SN FEW020 OVC030 M03/M05 A2969 RMK SF2SC6 SLP083 EIDW 220930Z 30003KT 9999 FEW020 SCT030 BKN050 01/M01 Q1023 NOSIG KFBG 220920Z AUTO 24005KT 10SM OVC007 15/15 A2962 RMK AO2 $ CYXH 220933Z AUTO 33004KT 9SM OVC008 M02/M03 A2979 RMK SLP121 KFAR 220853Z 26003KT 1/2SM FG VV004 02/01 A2963 RMK AO2 SLP042 T00170006 53015 KDUA 220935Z AUTO 25003KT 10SM CLR 10/03 A2938 RMK AO2 KELA 220935Z AUTO 28009G16KT 10SM CLR 17/03 A2960 RMK AO2 T01740028 CYXJ 220900Z 04004KT 15SM BKN025 OVC078 M16/M18 A2994 RMK SC6AC2 SLP204 KFAT 220853Z VRB04KT 10SM -RA BKN060 OVC070 09/05 A2996 RMK AO2 RAE0756B23 SLP144 P0001 60005 T00940050 56016 KDUB 220935Z AUTO 32013KT 10SM OVC049 M06/M11 A2979 RMK AO2 CYYB 220935Z AUTO 07009KT 1SM R08/P6000FT/N -RA BR VV004 02/01 A2970 RMK SLP074 KDTL 220934Z AUTO 00000KT 1/2SM FG OVC003 01/01 A2963 RMK AO2 KDUC 220935Z AUTO 27003KT CLR 07/02 A2937 RMK AO2 PWINO TSNO KEKM 212252Z 19005KT 10SM CLR 14/10 A2953 RMK AO2 LAST CZOL 220900Z AUTO 04002KT M07/M08 RMK AO1 T10701075 EGWU 220850Z 03001KT 4000 BR SKC M06/M07 Q1027 GRN BECMG 7000 HZ WHT CYYC 220900Z 35006KT 4SM BR OVC006 M04/M06 A2977 RMK SC8 SLP130 CZPC 220946Z AUTO 32004KT 9SM -SN OVC044 M05/M07 A2976 RMK SLP125 CYXL 220900Z VRB02KT 6SM -SN BR BKN005 BKN016 OVC026 01/00 A2964 RMK SF5SC1SC2 SLP058 KELD 220853Z AUTO A2944 RMK AO2 SLPNO 58003 PWINO FZRANO $ KDSV 220854Z AUTO 15005KT 10SM SCT100 06/04 A2968 RMK AO2 SLP060 T00560044 58003 EGYD 220850Z 16003KT 7000 BR FEW060 M03/// Q1025 WHT BECMG 9999 NSW BLU CYYD 220900Z AUTO 20012KT 9SM SCT042 BKN055 BKN065 BKN092 M01/M06 A2962 RMK SLP052 KDTN 220853Z AUTO 20010KT 10SM BKN110 16/09 A2941 RMK AO2 SLP958 T01560089 58023 KEKN 220905Z AUTO 00000KT 3SM BR OVC060 07/06 A2968 RMK AO2 T00720061 CYXN 212100Z 14020KT 15SM DRSN FEW120 BKN230 M12/M14 A3002 RMK AC2CI4 -12.0/-13.0/0.0M/LAST OBS/NEXT 221500Z SLP168 CYYE 220900Z 32003KT 15SM BKN061 OVC110 M16/M18 A3007 RMK SC7AC1 SLP224 KDTO 220853Z AUTO 24010KT 10SM CLR 11/02 A2938 RMK AO2 SLP945 T01110022 56005 KEKO 220856Z AUTO VRB04KT 10SM CLR M06/M09 A2985 RMK AO2 SLP134 T10611094 50001 CYYF 220900Z 00000KT 12SM -RA FEW008 BKN018 OVC025 01/01 A2972 RMK SF2SC4SC2 SLP078 OTHH 220900Z VRB02KT 7000 NSC 22/17 Q1017 NOSIG KFAY 220945Z AUTO 22008KT 10SM BKN010 OVC014 17/15 A2964 RMK AO2 T01670150 KDUG 220856Z AUTO 11005KT 10SM CLR M02/M03 A3015 RMK AO2 SLP201 T10171033 50007 CYXP 212000Z 25003KT 220V280 15SM SKC M32/M35 A3026 RMK -31.0/-33.2/0.0/29 SNW CVR/MUCH LOOSE LAST STFD OBS/NEXT 221700Z SLP252 EGXP 220850Z AUTO 14003KT 4700 // NCD M03/M04 Q1025 CYYG 220914Z 32006KT 8SM -SN BKN007 OVC014 M02/M03 A2969 RMK SF6SC2 SLP058 KDUH 220933Z AUTO 00000KT 1/2SM FG BKN001 OVC100 08/07 A2959 RMK AO2 T00750068 KEKQ 220856Z AUTO VRB03KT 10SM CLR 08/07 A2957 RMK AO2 SLP037 T00780072 56022 KFCH 220935Z AUTO FEW024 FEW032 OVC044 09/07 A2994 RMK A01 EHPG 220925Z AUTO VRB04KT 8000 BKN011 05/01 Q1027 CYXQ 212300Z 19002KT 20SM SCT130 BKN220 M33/M36 A2963 RMK AS3CS4 CLIMAT -32.5/ -41.7/ 0.0/ LAST STFD OBS/ NXT 221700Z SLP136 CYYH 220900Z 20007KT 10SM IC DRSN SKC M21/M24 A2981 RMK SLP101 KFCI 220855Z AUTO 35005KT 10SM OVC004 10/02 A2968 RMK AO1 57003 KFBR 220935Z AUTO 25014KT 10SM CLR M05/M07 A2994 RMK AO2 T10551071 CYXR 220936Z AUTO 05005KT 1/2SM -RA FG VV003 01/00 A2976 RMK SLP092 KDUJ 220939Z AUTO 09007KT 3/4SM BR FEW002 OVC070 07/06 A2965 RMK AO2 T00720056 KDTS 220853Z AUTO VRB05KT 6SM BR BKN012 BKN020 24/23 A2954 RMK AO2 SLP002 60008 T02390228 58004 KEKS 220935Z AUTO 19013KT 10SM BKN060 OVC075 M04/M07 A2985 RMK A01 EGXS 220850Z AUTO 19005KT 5000 // NCD M02/M03 Q1026 CYXS 220900Z AUTO 35011KT 9SM OVC042 M03/M06 A2962 RMK SLP067 CYYJ 220900Z 11009KT 12SM BKN014 OVC026 07/05 A2956 RMK SC7SC1 SLP011 KELK 220935Z AUTO 33018KT 10SM SCT008 SCT036 05/04 A2946 RMK AO2 T00470042 CYXT 220900Z 36007KT 20SM BKN070 BKN180 02/M01 A2953 RMK AC5AC1 SLP011 EGXU 220850Z AUTO 16006KT 3800 // BKN049/// M00/M01 Q1025 CYXU 220900Z 09006KT 1SM R15/P6000FT/N BR OVC019 02/02 A2965 RMK FG6SC2 SLP047 KELM 220853Z AUTO 00000KT 1/4SM R24/0800V1000FT FG VV002 04/03 A2970 RMK AO2 SLP060 T00440028 57004 KFCM 220853Z AUTO 34005KT 3/4SM BR VV002 02/01 A2957 RMK AO2 SLP021 T00170011 53013 CYYL 220900Z AUTO 05006KT 1SM -SN OVC022 M03/M03 A2973 RMK SLP092 EGYM 220850Z AUTO 15001KT 1000 NCD M06/M06 Q1027 KDTW 220853Z 13004KT 1/8SM R03R/1000V1200FT FG VV001 05/04 A2963 RMK AO2 TWR VIS 4 SLP034 T00500044 53001 KELN 220932Z AUTO 00000KT 2SM BR FEW006 OVC021 02/00 A2965 RMK AO2 T00170000 EGXV 220850Z AUTO 17002KT 3000 BR NCD M02/M02 Q1025 CYZE 220941Z AUTO 09004KT 2 1/4SM BR OVC003 02/02 A2963 RMK SLP041 CYYN 220947Z AUTO 33013G18KT 6SM BR OVC004 M03/M03 A2967 RMK ICG PAST HR SLP085 KEKX 220955Z AUTO 00000KT 10SM CLR 09/09 A2953 RMK AO2 T00940085 KELO 220933Z AUTO 00000KT 2SM BR OVC001 01/01 A2959 RMK AO2 EHQE 220925Z AUTO ///02KT 9999 FEW017 05/01 Q1027 EGXW 220850Z 15004KT 7000 HZ FEW060 M03/M04 Q1025 WHT BECMG 9999 NSW BLU CYZF 220900Z 02004KT 15SM SKC M32/M35 A3023 RMK SLP269 CYXX 220900Z 02003KT 10SM BKN060 OVC085 03/02 A2960 RMK SC5AC3 SLP028 KELP 220851Z 29012KT 10SM CLR 06/M05 A3005 RMK AO2 PK WND 28026/0815 SLP153 T00561050 53033 $ KEKY 220656Z AUTO 14013G17KT 10SM FEW009 SCT030 BKN048 16/15 A2947 RMK AO2 LTG DSNT ALQDS RAB05E26 SLP994 P0000 T01560150 CYZG 212200Z 00000KT 15SM FEW150 M21/M23 A3029 RMK AC1 SNW CVR/HARDPACK/LAST STFD OBS/NEXT221300 UTC SLP293 CYXY 220900Z 00000KT 15SM -SHSN OVC055 M29/M32 A2964 RMK SC8 CVCTV CLD ASOCTD SLP136 EGYP 220850Z 30013KT 9999 FEW018 BKN080 10/05 Q1008 BLU NOSIG CYXZ 220000Z 01005KT 340V050 15SM SCT010 BKN030 02/01 A2962 RMK ST4SC2 LAST OBS/NEXT 221100UTC SLP044 EGXZ 220850Z AUTO 14005KT 2100 BR FEW060/// M02/M03 Q1025 CYYQ 220900Z 10007KT 12SM -SN OVC004 M07/M08 A2990 RMK ST8 SLP130 CYZH 220900Z AUTO 27008KT 9SM OVC012 M10/M11 A2995 RMK SLP186 KFCS 220858Z AUTO 32004KT 10SM CLR M02/M08 A2973 RMK AO2 SLP104 T10251076 52019 CYYR 220900Z 01017KT 12SM -SN DRSN SCT028 BKN048 OVC072 M07/M10 A2992 RMK SC3SC3AC2 SLP138 CZPS 220900Z AUTO 36004KT M07/M08 RMK AO1 T10711076 KFDK 220940Z AUTO 00000KT 3/4SM BR OVC003 07/07 A2974 RMK AO2 LTG DSNT W KDVK 220935Z AUTO 19003KT 3/4SM BR OVC001 05/05 A2957 RMK AO2 KEMK 220935Z AUTO 15032G41KT 10SM SCT042 SCT110 25/13 A2957 RMK A01 CYYT 220900Z 30015KT 15SM OVC020 M05/M07 A2947 RMK SC8 CIG ESTD SLP989 KDVL 220930Z AUTO 25007KT 5SM BR OVC009 M01/M02 A2964 RMK AO2 FZRANO CYYU 220900Z 10006KT 1 1/2SM -DZ BR OVC002 00/00 A2975 RMK ST8 SLP086 KEND 220858Z AUTO 10009KT 10SM -DZ FEW100 14/05 A2935 RMK AO2 SLP936 54000 KDVN 220933Z AUTO 00000KT 1/4SM FZFG VV002 M01/M02 A2959 RMK AO2 I1001 T10111017 EHRD 220925Z AUTO 25001KT 8000 NSC M02/M02 Q1027 NOSIG CYYW 220900Z AUTO 08005KT 030V130 9SM OVC006 M00/M00 A2967 RMK SLP066 KDUX 220935Z AUTO 33016KT 10SM CLR 02/02 A2968 RMK AO2 T00210015 PWINO KDVO 220935Z AUTO 15011G16KT 2SM RA BKN005 OVC010 09/08 A2967 RMK AO2 KEMP 220853Z AUTO 01005KT 10SM OVC075 07/06 A2950 RMK AO2 SLP991 T00720061 52006 KELY 220853Z AUTO 20016KT 10SM BKN110 M05/M08 A2993 RMK AO2 SLP145 T10501083 58000 KDVP 220932Z AUTO 31009KT 4SM BR OVC005 00/00 A2960 RMK AO2 T00001001 CYZP 220947Z AUTO 12026G34KT 7SM BKN010 BKN015 BKN027 OVC034 07/06 A2931 RMK SLP927 CYYY 220900Z 02021G27KT 30SM BKN035 M02/M07 A2983 RMK SC7 SLP106 KDWH 220853Z AUTO 26006KT 10SM -RA FEW070 BKN100 OVC120 15/09 A2956 RMK AO2 RAB14 SLP009 P0000 60002 T01500094 55007 KELZ 220931Z AUTO 00000KT 3/4SM BR FEW120 08/06 A2969 RMK AO2 T00780061 KFDR 220853Z AUTO 30006KT 10SM CLR 04/02 A2934 RMK AO2 SLP930 T00440017 53006 CYYZ 220900Z 09003KT 1/4SM R06L/1600FT/N R05/1400FT/N FG OVC001 04/03 A2969 RMK FG2ST6 SLP060 CYZR 220900Z AUTO 16004KT 1SM R33/3000VP6000FT/ BR CLR 04/04 A2962 RMK SLP034 KEMT 220345Z 21004KT 10SM BKN028 OVC050 13/05 A3010 EHSA 220925Z AUTO VRB01G03KT 9999 ///////// 06/01 Q1027 W06/H4 CYZS 220900Z 09006KT 15SM SCT130 M18/M20 A3023 RMK AC4 SLP249 KDVT 220853Z 08005KT 10SM CLR 06/03 A3010 RMK AO2 SLP188 T00610028 50006 CYZT 220900Z 11016G21KT 15SM BKN060 BKN100 07/04 A2944 RMK SC5AC2 SLP972 KFFC 220945Z AUTO 11004KT 4SM VCTS RA BR SCT009 BKN031 OVC070 14/14 A2960 RMK AO2 LTG DSNT NE RAB00E10B30 TSB25E45 P0014 T01440139 KENL 220935Z AUTO 10003KT 5SM BR CLR 09/09 A2949 RMK AO2 T00850085 EHSC 220925Z AUTO 17006G07KT 6000 ///////// 03/01 Q1027 W06/H4 CYZU 220500Z 30010KT 8SM -SG OVC005 M11/M12 A2984 RMK ST8 LAST OBS/NEXT 221300Z SLP159 KEMV 220935Z AUTO 33003KT 5SM -RA SCT002 OVC019 10/10 A2965 RMK AO2 TSNO KEOD 220858Z AUTO 00000KT 10SM SCT150 11/09 A2949 RMK AO2 LTG DSNT SE SLP987 T01080093 57006 CYZV 220900Z 03011G17KT 15SM FEW050 BKN110 OVC150 M06/M11 A2985 RMK SC1AC6AC1 SLP114 KFDW 220935Z AUTO 20003KT 10SM OVC018 15/13 A2965 RMK AO1 KEOE 220935Z AUTO 00000KT 7SM RA SCT019 SCT033 BKN043 14/13 A2969 RMK AO2 P0001 CYZW 220100Z 04003KT 300V050 15SM BKN060 M27/M31 A2967 RMK SC5 CLIMAT -25.6/-36.1/0.0 CM/44028/LAST STFD OBS/NXT 221700 UTC SLP145 CYZX 220900Z 33005KT 15SM OVC026 01/M02 A2975 RMK SC8 WNDY HILL 35010G15KT SLP076 KFDY 220901Z AUTO 28007KT 7SM -RA BKN055 OVC070 10/08 A2961 RMK AO2 P0000 T01000083 KFEP 220935Z AUTO 00000KT M1/4SM FG OVC001 00/00 A2960 RMK AO2 T00000000 CYZY 220900Z AUTO 17003KT 9SM FEW080 OVC092 M09/M15 A2976 RMK SLP124 KDYA 220935Z AUTO 00000KT 10SM A2949 RMK AO2 CZSJ 220900Z AUTO 09006KT 9SM OVC005 M01/M01 A2969 RMK SLP072 KDYB 220935Z AUTO 19003KT 10SM -RA SCT010 BKN075 OVC090 A2971 RMK AO1 LTG DSNT S KEOK 220935Z AUTO 00000KT 1 3/4SM BR BKN060 OVC075 03/ A2957 RMK AO2 KFET 220935Z AUTO 00000KT 7SM CLR M02/M02 A2965 RMK AO2 T10181018 CZTB 220900Z AUTO 08004KT 01/01 RMK AO1 4PAST HR SOG 04 1007 SLP035 P0005 T00050005 50021 KDWU 220935Z AUTO 00000KT 1/4SM OVC001 07/06 A2957 RMK AO1 KFFL 220935Z AUTO 00000KT 3/4SM BR OVC001 M01/M01 A2958 RMK AO2 PWINO KFFM 220935Z AUTO 00000KT 1/2SM FG OVC002 01/01 A2968 RMK AO2 KENV 220935Z AUTO 07007KT 10SM CLR M06/M08 A2994 RMK AO1 CZSM 220900Z AUTO 32003KT M18/ RMK AO1 SOG 43 1021 SLP253 T1183 KENW 220853Z AUTO 00000KT 1/4SM FG VV013 03/03 A2957 RMK AO2 SLP017 T00330033 58003 KFEW 220858Z AUTO 30013KT 10SM OVC090 M02/M08 A2975 RMK AO2 SLP092 T10181084 52016 $ KFFO 220908Z 00000KT 1/2SM R23R/1200FT FG CLR 04/04 A2958 RMK AO2A KDWX 220935Z AUTO 23006KT 10SM SCT045 OVC065 M04/M07 A2995 RMK AO2 T10381068 VHHH 220930Z 29004KT CAVOK 19/04 Q1024 NOSIG PLCH 220900Z 12004KT 9999 FEW020 25/24 Q1011 CZSP 220900Z AUTO 34008KT M01/M04 RMK AO1 SOG 04 2012 SLP058 T10131035 KEPH 220853Z AUTO 01006KT 10SM OVC012 01/M01 A2967 RMK AO2 SLP057 T00111011 50006 ZUUU 220900Z VRB01MPS 3000 BR NSC 11/07 Q1026 NOSIG KDXR 220934Z AUTO 00000KT 2 1/2SM BR CLR 03/03 A2973 RMK AO2 T00330028 KH78 211140Z 18025KT 12SM OVC015 24/23 A2975 RMK SEAS 4-6 KEQA 220935Z AUTO 05008KT 10SM BKN042 OVC055 08/07 A2948 RMK AO2 KFFT 220853Z AUTO 35003KT 5SM BR CLR 07/05 A2955 RMK AO2 SLP005 T00670050 56021 KDZB 220935Z AUTO 27014G21KT 10SM CLR 14/M03 A2960 RMK AO2 T01371028 KFHB 220935Z AUTO 19009KT 10SM SCT045 BKN110 21/17 A2967 RMK AO1 CZST 220100Z VRB04KT 15SM FEW065 M01/M01 A2947 RMK CU2 LAST STFD OBS/NEXT221500Z SLP982 KDYL 220854Z AUTO 18003KT 3/4SM BR VV002 07/07 A2973 RMK AO2 SLP069 T00670067 56014 FABL 220900Z 36009KT 320V060 CAVOK 26/16 Q1023 NOSIG FABM 220341Z 07002KT 4000 BR BKN010 15/12 Q1027 KFGN 220932Z AUTO 00000KT 3/4SM BR OVC002 01/00 A2964 RMK AO2 EIKN 220930Z 13002KT 4000 BR FEW026 BKN048 01/00 Q1022 NOSIG KDXX 220933Z AUTO 31005KT 3SM BR OVC005 02/02 A2963 RMK AO2 KFFX 220935Z AUTO 00000KT 1/4SM FG OVC002 02/02 A2958 RMK AO2 T00200020 KFFZ 220247Z 20006KT 30SM SCT060 A2998 PKMJ 212356Z 04017KT 15SM FEW015 SCT050 BKN300 29/24 A2984 KDYR 220935Z AUTO 15003KT 10SM SCT110 14/11 A2944 RMK AO1 KDYS 220858Z 32022G30KT 10SM SCT050 BKN065 11/M01 A2947 RMK AO2A PK WND 29036/38 RAB30E43 SLP958 P0000 60000 T01141010 55007 $ KDYT 220934Z AUTO 36007KT 4SM BR OVC009 01/01 A2960 RMK AO2 VIAG 211330Z 00000KT 5000 HZ FEW100 BKN250 13/08 Q1020 NOSIG CZUM 220939Z AUTO 02005KT 340V070 9SM BKN019 BKN050 M12/M14 A2995 RMK SLP180 EIME 220900Z 05003KT 9999 BKN060 02/M02 Q1022 KFGX 220935Z AUTO 07007KT 7SM CLR 09/09 A2957 RMK AO2 T00940093 KFIG 220854Z AUTO 34003KT 1/4SM FG VV002 04/04 A2970 RMK AO2 SLP062 T00440044 57003 EIKY 220930Z 10006KT CAVOK 04/02 Q1021 PKMR 220856Z 03011KT 15SM FEW014 SCT045 BKN110 OVC300 28/25 A2983 RMK SLP102 60005 8/878 T02790253 52008 KFHR 220937Z AUTO 10012KT 10SM SCT020 07/04 A2956 RMK AO2 T00720039 KERI 220851Z 00000KT 10SM OVC095 09/07 A2966 RMK AO2 SLP045 T00890072 51001 $ FACT 220900Z 21009KT 160V240 CAVOK 24/14 Q1011 NOSIG KFHU 220858Z AUTO 00000KT 10SM CLR 00/M03 A3014 RMK AO2 SLP202 T10011032 50002 $ EHVK 220934Z AUTO 11001KT 7000 BR NCD M03/M05 Q1027 WHT KESC 220945Z AUTO 00000KT 1 3/4SM BR BKN004 OVC022 01/01 A2956 RMK AO2 FZRANO KGAD 220943Z AUTO 22004KT 10SM BKN025 15/13 A2952 RMK AO2 CZVL 220937Z AUTO 03009KT 1SM R26/P6000FT/U -FZRA BR OVC002 M07/M08 A2988 RMK ICG SLP163 EHVL 220945Z AUTO 16005KT 6000 BR NCD 01/M00 Q1027 WHT KFIN 212350Z 00000KT 10SM SCT055 23/16 A2981 FACV 220838Z 25005KT CAVOK 34/M00 Q1014 KESF 220853Z AUTO 27008KT 9SM -RA BKN080 OVC090 14/13 A2955 RMK AO2 PK WND 28026/0800 RAE23B42 PRESRR SLP007 P0004 60004 T01440128 53020 $ KGAF 220935Z AUTO 00000KT 2SM BR OVC004 00/00 A2965 RMK AO2 VIAR 220930Z 30004KT 270V340 3500 FU SCT100 21/05 Q1022 NOSIG KEQY 220948Z AUTO 00000KT 2SM -RA BR OVC002 13/12 A2967 RMK AO2 RAB32 P0001 KGAG 220921Z AUTO 36013KT 9SM -RA OVC007 07/05 A2954 RMK AO2 RAB19 CIG 004V009 P0000 T00670050 TSNO $ KI16 220837Z AUTO 1 3/4SM BR VV007 06/05 A2968 RMK AO2 KGAI 220935Z AUTO 00000KT 1SM OVC003 07/06 A2973 RMK AO1 KFKA 220934Z AUTO 00000KT 5SM BR OVC024 00/00 A2957 RMK AO2 T00020000 KFIT 220852Z AUTO 00000KT 5SM BR CLR 02/01 A2974 RMK AO2 SLP073 T00170006 50000 KI19 220930Z AUTO 00000KT 10SM CLR 10/08 A2960 RMK AO2 T00950083 KETB 220935Z AUTO 24003KT 4SM BR OVC010 04/04 A2957 RMK AO2 FAEL 220900Z 07014KT CAVOK 28/19 Q1012 KERV 220935Z AUTO 28018G26KT 10SM CLR 14/M04 A2967 RMK AO2 T01351040 KGBD 220856Z AUTO 35011KT 10SM CLR 04/03 A2958 RMK AO2 SLP019 60000 T00440028 53021 The requested URL /pol3/metar/metar_converted.txt was not found on this VICG 220930Z 31007KT 6000 NSC 23/11 Q1021 NOSIG KESN 220952Z AUTO 07005KT 4SM RA BKN004 BKN009 OVC013 09/08 A2971 RMK AO2 T00900080 EINN 220930Z 31003KT 6000 FEW010 BKN035 00/M01 Q1022 NOSIG KGAO 220935Z AUTO 24006KT 5SM BR SCT008 SCT024 SCT029 22/20 A2950 RMK AO2 T02150195 FAEO 220523Z 08006KT 9999 SCT015 15/13 Q1028 VIBR 220600Z 00000KT 7000 SCT035 15/03 Q1026 EHWO 220925Z AUTO 36001KT 6000 BR NCD M04/M06 Q1027 WHT KERY 220934Z AUTO 12004KT 1/2SM FG OVC003 02/01 A2956 RMK AO2 T00160011 KGBG 220935Z AUTO 02005KT 2 1/2SM BR SCT120 00/00 A2957 RMK AO2 T00000000 FADY 220741Z 02006G16KT CAVOK 29/10 Q1020 KETH 220936Z AUTO 00000KT 3SM BR OVC005 04/04 A2967 RMK AO2 VIDD 220930Z 02004KT 2000 HZ FEW100 24/16 Q1020 NOSIG KEST 220852Z AUTO 30009KT 4SM BR OVC004 00/00 A2958 RMK AO2 SLP027 T00000000 53009 $ KGBK 220935Z AUTO 20019KT 10SM CLR 24/22 A2952 RMK A01 KGCC 220853Z AUTO 04003KT 10SM OVC095 M03/M06 A2972 RMK AO2 SLP086 T10331056 53018 KFKL 220935Z 00000KT 10SM 10/08 A2967 RMK AO1 KFLD 220853Z AUTO 21005KT 1/2SM FG BKN002 OVC034 04/03 A2956 RMK AO2 SLP016 T00390028 51003 KGCD 220935Z AUTO 10003G29KT 10SM CLR 03/M03 A2965 RMK AO2 T00311034 KFKN 220935Z AUTO 35004KT 2SM BR OVC002 10/10 A2964 RMK AO2 T00970095 KEUF 220858Z AUTO 33003KT 10SM FEW008 BKN020 OVC025 18/17 A2956 RMK AO2 RAE24B39E52 SLP005 P0000 60037 I1000 I3/// T01780167 55004 $ KEUG 220854Z AUTO 05008KT 8SM -RA BKN042 OVC070 05/04 A2945 RMK AO2 RAB21 PRESFR SLP975 P0005 60005 T00500044 58025 KFLG 220917Z AUTO 00000KT 10SM BKN006 M06/M06 A3006 RMK AO2 CIG 004V011 T10561061 KI35 220935Z AUTO 00000KT 1/4SM OVC002 08/08 A2960 RMK AO1 FAGG 220910Z 19007KT 160V230 CAVOK 27/16 Q1011 KFKR 220935Z AUTO 12005KT 7SM CLR 10/09 A2956 RMK AO2 T01000092 KFKS 220932Z AUTO 00000KT 4SM BR OVC012 05/04 A2958 RMK AO2 T00450042 KEVB 220247Z 18005KT 10SM FEW045 22/16 A2985 RMK LAST KGDB 220932Z AUTO 29006KT 1SM BR OVC002 02/02 A2964 RMK AO2 T00150015 KGCK 220854Z AUTO 34012KT 10SM CLR 01/M01 A2963 RMK AO2 SLP034 60000 T00111006 53027 VIDN 220900Z 26006KT 6000 FEW040 24/09 Q1020 KFLL 220853Z 20009KT 10SM SCT024 SCT250 24/21 A2982 RMK AO2 SLP098 T02390211 56008 KEUL 220856Z AUTO 11010KT 10SM BKN090 02/M02 A2982 RMK AO2 SLP111 T00171017 50004 FZRANO KGCM 220935Z AUTO 09003KT 7SM RA SCT011 BKN042 OVC070 10/09 A2938 RMK AO2 LTG LTG DSNT W THRU E VIDP 220930Z 32005KT 1200 R28/1200 R29/1300 FU FEW100 24/11 Q1020 NOSIG KFME 220942Z AUTO 00000KT 1/2SM OVC002 07/06 A2971 RMK AO1 KGCN 220854Z 06003KT 10SM CLR M17/M18 A3006 RMK AO2 SLP221 I3000 T11721183 53005 $ KFLO 220853Z AUTO 26005KT 10SM OVC018 16/14 A2965 RMK AO2 SLP039 T01610144 58006 KFLP 220935Z AUTO 04005KT 10SM CLR 12/08 A2937 RMK AO1 KFMH 220935Z RMK AO2 PWINO FZRANO TSNO WEA KGDJ 220935Z AUTO 23007KT 10SM CLR 12/00 A2945 RMK AO2 T01151002 CZZJ 220900Z AUTO 07002KT M09/M10 RMK AO1 SOG 21 3009 SLP158 T10911096 KFNB 220853Z AUTO 30005KT 8SM BKN110 02/01 A2958 RMK AO2 SLP017 T00170011 53008 KEWB 220853Z AUTO 19003KT 1/2SM R05/2600V3000FT FG VV003 04/03 A2974 RMK AO2 SLP070 T00390033 58006 URFF 220930Z 34002MPS 290V020 9999 FEW007 OVC034 00/M00 Q1031 R01/650395 TEMPO 0800 FZFG OVC003 KEVM 220933Z AUTO 00000KT 5SM BR OVC004 02/02 A2960 RMK AO2 T00160015 KGED 220926Z AUTO 05005KT 10SM -RA BKN004 OVC008 08/07 A2970 RMK AO2 CIG 003V007 P0001 T00780072 KFMM 220935Z AUTO 33009KT 10SM SCT100 M01/M04 A2976 RMK AO2 T10091045 KFMN 220853Z AUTO 29008KT 10SM CLR M02/M04 A2997 RMK AO2 SLP162 T10171044 53017 KGDP 220851Z AUTO 25032G44KT 10SM CLR 00/M04 A2990 RMK AO2 PK WND 26045/0802 SLP121 T00001044 51015 $ KGEG 220909Z 13008KT 10SM SCT035 OVC065 02/00 A2971 RMK AO2 RAE03SNE03 P0000 T00170000 KFLY 220935Z AUTO 34011G15KT 10SM CLR M02/M06 A2976 RMK AO2 T10181065 KGFA 220858Z AUTO 22004KT 10SM BKN060 M03/M05 A2976 RMK AO2 SLP112 T10321048 52017 TSNO $ KFOA 220935Z AUTO 07003KT 10SM CLR 10/09 A2951 RMK AO2 T01020089 FAHS 220900Z AUTO 18011KT //// // ////// 26/17 Q1020 KEWK 220915Z AUTO 01012KT 10SM -RA BKN005 OVC060 07/06 A2952 RMK AO2 CIG 004V009 P0000 FAJB 220100Z AUTO 01001KT //// // ////// 18/15 Q1024 KFNL 220935Z AUTO 00000KT 10SM CLR M01/M04 A2977 RMK AO1 KEVU 220935Z AUTO 36006KT 7SM CLR 03/03 A2958 RMK AO2 KFOD 220935Z AUTO 29004KT 10SM OVC008 00/M02 A2961 RMK AO1 KEVV 220854Z AUTO 00000KT 10SM CLR 11/08 A2952 RMK AO2 SLP993 T01060078 55018 KGDV 220923Z AUTO 36003KT 10SM BKN009 M05/M07 A2972 RMK AO2 FZRANO DRRM 220900Z 08004KT 6000 NSC 26/06 Q1013 VIGG 220930Z 21005KT 6000 FEW035 22/06 Q1022 KEVW 220853Z AUTO 23009KT 10SM BKN055 M08/M11 A2991 RMK AO2 SLP163 T10781106 52014 KFOE 220853Z AUTO 9SM OVC055 08/06 A2953 RMK AO2 SLP998 60001 T00780061 53006 $ KEWN 220913Z AUTO 22006KT 10SM BKN018 BKN031 16/14 A2966 RMK AO2 T01560144 KI63 220935Z AUTO 33004KT 1SM BR OVC002 05/05 A2956 RMK AO2 LTG DSNT SW T00460045 DRRN 220900Z 34008KT 8000 NSC 26/M04 Q1012 NOSIG KFMY 220912Z AUTO 19008KT 10SM BKN019 23/21 A2978 RMK AO2 T02330211 EISG 220900Z 04004KT 340V120 9999 OVC052 03/M01 Q1022 EKAH 220920Z AUTO 21001KT 9999NDV OVC016/// 05/03 Q1028 KEWR 220947Z 00000KT 1 1/2SM BR OVC003 07/06 A2973 RMK AO2 SFC VIS 3 KI67 220935Z AUTO 00000KT 1/4SM OVC001 05/04 A2958 RMK AO1 FAIR 220549Z 08008KT 9999 BKN018 21/16 Q1027 KFNT 220853Z AUTO 00000KT 1/4SM R09/1000FT FG VV002 02/02 A2960 RMK AO2 SLP026 T00220022 58001 KFOK 220912Z AUTO 00000KT 3/4SM BR VV002 06/05 A2975 RMK AO2 T00560050 TSNO KGFK 220948Z AUTO 25003KT 3SM BR OVC008 01/00 A2964 RMK AO2 KI69 220936Z AUTO 00000KT 10SM CLR 10/10 A2958 RMK AO2 T01010101 KGEU 220147Z 22005KT 10SM FEW060 13/02 A2998 RMK LAST DRRT 220900Z 06008KT CAVOK 28/05 Q1012 KGFL 220912Z AUTO 00000KT 3SM BR OVC003 02/01 A2976 RMK AO2 T00220006 KGEV 220945Z AUTO 00000KT 1/4SM FG OVC003 09/09 A2965 RMK AO2 T00850085 KGGE 220935Z AUTO 29004KT 10SM -RA SCT010 BKN050 OVC110 15/14 A2970 RMK AO2 LTG DSNT SW KEYE 220853Z AUTO 05004KT 10SM CLR 08/07 A2955 RMK AO2 SLP004 T00830072 56015 KEYF 220945Z AUTO 29004KT 10SM CLR 16/15 A2964 RMK AO2 T01560148 VIGR 220900Z 00000KT 3000 HZ NSC 25/10 Q1020 KGEY 220853Z AUTO 00000KT 10SM OVC100 M09/M11 A2980 RMK AO2 SLP150 T10891111 53014 $ KGGG 220853Z AUTO 21011KT 10SM CLR 14/09 A2942 RMK AO2 SLP958 T01440089 56020 KI75 220935Z AUTO 31005KT M1/4SM FG OVC002 00/00 A2959 RMK AO2 T00000000 KGEZ 220853Z AUTO 07007KT 7SM CLR 08/07 A2954 RMK AO2 SLP002 T00830067 58019 $ Additionally, a 404 Not Found error was encountered while trying to use KGGI 220955Z AUTO 00000KT 1/2SM FG OVC001 00/00 A2959 RMK AO2 T00001001 EKBI 220920Z AUTO 19003KT 9999NDV OVC015/// 04/02 Q1028 FALA 220900Z 03008KT 9999 BKN025 22/15 Q1025 NOSIG KFPK 220935Z AUTO 00000KT 1/2SM OVC001 06/06 A2957 RMK AO2 T00610060 PWINO KFOT 220935Z AUTO 14017G21KT 5SM SCT033 OVC040 08/06 A2951 RMK AO1 P0008 KGHB 220935Z AUTO 21015KT 7SM OVC017 24/23 A2950 RMK A01 KFQD 220940Z AUTO 00000KT 3SM BR BKN002 OVC013 11/11 A2967 RMK AO2 T01120112 FAKM 220900Z 01010KT CAVOK 30/14 Q1021 KEXX 220940Z AUTO 00000KT 10SM OVC005 11/11 A2966 RMK AO2 T01130113 FALE 220900Z 04015KT CAVOK 28/20 Q1016 NOSIG FAKN 220900Z 20002KT 9999 BKN020 22/17 Q1023 NOSIG KEZF 220935Z AUTO 36003KT 3/4SM BR OVC001 09/09 A2970 RMK AO2 T00900090 KGGP 220935Z AUTO 11005KT 7SM SCT002 07/06 A2956 RMK AO2 KGHG 220935Z AUTO VRB03KT 4SM BR FEW001 03/03 A2974 RMK AO2 KFOZ 220845Z AUTO 00000KT 3/4SM BR OVC002 01/01 A2960 RMK AO2 WAAA 220930Z 12003KT 070V150 7000 -RA FEW018CB SCT019 25/25 Q10 10 RETS NOSIG KFPR 220853Z AUTO 18004KT 10SM BKN031 19/18 A2981 RMK AO2 SLP095 T01940178 58006 EKCH 220920Z 21005KT 6000 OVC010 03/03 Q1029 NOSIG PKWA 220940Z AUTO 05014KT 10SM SCT018 SCT024 28/24 A2989 RMK AO2 T02780242 KGIC 220935Z AUTO 14005KT 10SM OVC080 00/M02 A2973 RMK AO1 KEZM 220935Z AUTO 14005KT 3SM +VCTSRA SCT004 BKN049 OVC070 17/17 A2963 RMK AO2 LTG DSNT ALQS T01690169 KEYW 220853Z AUTO 19015G21KT 10SM CLR 26/23 A2981 RMK AO2 PK WND 20026/0825 SLP094 T02560228 56011 KGGW 220947Z AUTO 31009KT 1 1/4SM BR BKN002 BKN006 OVC010 M03/M04 A2973 RMK AO2 I1000 KGIF 220907Z AUTO 17009KT 10SM BKN015 BKN027 20/18 A2977 RMK AO2 T02000178 KFRG 220917Z AUTO 09003KT 1/2SM FG VV002 07/06 A2972 RMK AO2 T00670061 URKA 220930Z 03003MPS 350V060 9999 SCT010 02/01 Q1030 R04/290150 RMK QFE768/1024 WABB 220700Z 25008KT 9000 FEW017CB SCT018 31/25 Q1008 RERA KFRI 220858Z AUTO 04005KT 10SM FEW100 BKN120 06/06 A2956 RMK AO2 SLP008 T00590059 52019 KEZS 220935Z AUTO 00000KT 1/4SM FG OVC003 02/01 A2956 RMK AO2 T00150010 EKEB 220920Z AUTO 20003KT 8000NDV OVC018/// 04/02 Q1028 KFRM 220944Z AUTO 33010KT 1 1/4SM BR OVC003 01/01 A2959 RMK AO2 FZRANO KFSD 220856Z AUTO 31009KT 8SM OVC020 00/M01 A2962 RMK AO2 SLP046 T00001011 51008 VIJP 220930Z 13006KT 5000 HZ FEW100 24/06 Q1020 NOSIG KHAE 220935Z AUTO 02006KT 5SM BR SCT070 SCT085 OVC095 06/05 A2956 RMK AO2 FAMM 220900Z 04013KT 9999 BKN020 24/15 Q1023 NOSIG KGHW 220933Z AUTO 00000KT 2 1/2SM BR BKN005 OVC013 01/01 A2962 RMK AO2 KFSE 220934Z AUTO 00000KT 1/2SM FZFG OVC002 M01/M01 A2963 RMK AO2 FALW 220900Z AUTO 04008KT //// // ////// 22/12 Q1011 KHAF 220935Z AUTO 17033G43KT 1 3/4SM BR SCT010 BKN014 OVC019 10/09 A2967 RMK AO2 P0001 PMDY 220856Z AUTO 16022KT 10SM OVC036 22/16 A3015 RMK AO2 PK WND 17027/0844 SLP208 T02220161 53001 EIWF 220930Z 09005KT 9000 FEW030 BKN055 04/03 Q1023 URKK 220930Z 32004MPS 280V350 9999 BKN012 01/M01 Q1029 R23C/290050 TEMPO 2000 -SHRASN BR BKN005 BKN020CB RMK QFE768 KHAI 220935Z AUTO 00000KT M1/4SM -SN OVC001 05/05 A2958 RMK AO2 T00510051 KFRR 220935Z AUTO 00000KT 1/4SM OVC002 07/07 A2970 RMK AO1 KFSI 220858Z AUTO 27005KT 10SM CLR 07/03 A2934 RMK AO2 SLP932 T00670028 53003 VIJU 220930Z 19005KT 5000 HZ SCT090 21/07 Q1021 NOSIG USCC 220930Z 26004MPS 9999 FEW030 M10/M17 Q0994 R27/000060 NOSIG RMK QFE726 VILD 220930Z 36003KT 2000 HZ NSC 22/10 Q1021 FAOB 220900Z AUTO 18007KT //// // ////// 25/16 Q1012 VIKO 220600Z 05002KT 3000 HZ FEW100 SCT200 20/10 Q1023 NOSIG KFSM 220940Z AUTO 06006KT 3SM -RA BR BKN031 BKN038 OVC047 12/11 A2936 RMK AO2 LTG DSNT W AND NW RAB30 P0000 T01220111 KHBE 220935Z AUTO 00000KT 3/4SM OVC001 04/03 A2958 RMK AO2 PWINO VILH 220830Z VRB02KT 6000 SOCC FEW060 SCT070 03/M14 Q1024 NOSIG RMK K W-AC E-APC C-ANC KHAO 220901Z AUTO 00000KT 3/4SM BR VV002 04/04 A2958 RMK AO2 T00390039 KFSO 220935Z AUTO 01003KT 1/4SM FG OVC002 01/01 A2980 RMK AO2 T00060006 KFTG 220935Z AUTO 24007KT 10SM CLR 00/M02 A2977 RMK AO2 KHBG 220907Z AUTO 20005KT 3SM BR SCT021 SCT034 18/17 A2953 RMK AO2 T01780172 $ VILK 220930Z 30008KT 2000 HZ NSC 25/11 Q1018 NOSIG KHBI 220950Z AUTO 00000KT 10SM OVC004 11/11 A2968 RMK AO2 T01130113 KGKJ 220853Z AUTO 21008KT 10SM -RA FEW060 BKN080 OVC095 11/08 A2967 RMK AO2 RAB31 SLP044 P0001 60001 T01110083 58003 WADD 220930Z 27009KT 9999 SCT016 28/25 Q1008 NOSIG USCM 220930Z 30004MPS 9999 SCT020 M10/M16 Q0995 R19/090060 NOSIG RMK QFE709 KFST 220853Z AUTO 29028G37KT 10SM CLR 08/M06 A2982 RMK AO2 PK WND 29043/0832 SLP072 T00831056 51017 KFTK 220858Z AUTO 05004KT 10SM CLR 09/08 A2951 RMK AO2 SLP994 T00920080 57019 KGJT 220853Z AUTO 00000KT 10SM CLR M02/M03 A2996 RMK AO2 SLP158 T10171028 53021 KGLD 220853Z AUTO 29009KT 10SM CLR M02/M04 A2968 RMK AO2 SLP056 T10221039 53017 KHCD 220932Z AUTO 33004KT 3/4SM BR OVC002 01/02 A2962 RMK AO2 T00130015 URMG 220930Z 30006MPS 5000 -SHSN SCT009 BKN021CB OVC040 M00/M01 Q1027 R26/590537 NOSIG RMK QFE755/1007 KFSW 220935Z AUTO 00000KT 1/2SM FG OVC075 02/02 A2958 RMK AO2 KGLE 220935Z AUTO 27005KT 10SM CLR 10/00 A2940 RMK AO2 T00960003 KFTN 220935Z AUTO 31017G27KT 10SM CLR 18/M03 A2976 RMK A01 FAPE 220900Z 08010KT 040V100 CAVOK 27/17 Q1010 NOSIG KGLH 220853Z AUTO 19004KT 7SM CLR 11/09 A2947 RMK AO2 SLP984 T01110094 53006 KHBR 220926Z AUTO 34012KT 8SM FEW007 05/03 A2943 RMK AO2 T00500033 URML 220930Z 34011MPS 2300 -SN BKN007 OVC018 00/M01 Q1024 R32/290060 TEMPO 33011G20MPS 0900 +SHSN BLSN BKN003 BKN010CB RMK MT OBSC QFE768/1024 FAOR 220930Z 05010KT 020V100 9999 BKN026 22/15 Q1026 NOSIG WADL 220930Z 30004KT 6000 FEW015CB SCT016 26/25 Q1010 RERA NOSIG RMK CB TO NE DRZA 220900Z 28002KT 260V340 6000 NSC 27/07 Q1014 URMM 220930Z 27008MPS 1900 SHSN BKN017 OVC026CB M01/M01 Q1026 R30/590232 TEMPO 0500 +SHSN BLSN BKN002 BKN015CB RMK MT OBSC QFE741/0988 KGKT 220935Z AUTO 00000KT 8SM CLR 08/08 A2958 RMK FBFT 220900Z 09014KT 070V130 9999 -RA BKN015 22/20 Q1020 URMN 220930Z 32004MPS 9999 BKN007 BKN016CB M00/M02 Q1025 R24/210250 NOSIG RMK MT OBSC QFE732 KFUL 220853Z AUTO 09006KT 10SM OVC085 12/09 A3009 RMK AO2 SLP189 T01220089 58005 KHDC 220935Z AUTO 00000KT 4SM BR BKN010 OVC014 20/18 A2950 RMK AO2 URMO 220930Z 27005MPS 1800 R09/1800U SHSN BKN007 OVC018CB M01/M02 Q1025 RESHSN R09/591030 TEMPO 0500 +SHSN BKN003 OVC018CB RMK QFE725/0966 KHBV 220935Z AUTO 32005KT 10SM CLR 13/03 A2974 RMK AO2 T01290033 ZWSH 220900Z 00000MPS 7000 NSC 02/M11 Q1022 NOSIG KFTW 220853Z 25012KT 10SM CLR 13/01 A2940 RMK AO2 SLP952 T01280006 55002 $ KFVE 220915Z AUTO 33008KT 10SM FEW022 BKN028 OVC036 M01/M04 A2975 RMK AO2 T10111044 KHDE 220935Z AUTO 32007KT 10SM CLR 00/M01 A2967 RMK AO2 T00001014 FAPN 220900Z AUTO 06010KT //// // ////// 26/14 Q1022 KHCO 220934Z AUTO 00000KT 1/2SM -DZ OVC001 01/01 A2964 RMK AO2 KFTY 220853Z 11004KT 9SM -RA SCT004 BKN047 OVC090 14/13 A2959 RMK AO2 SLP016 P0019 60036 T01390128 56022 KGKY 220853Z AUTO 25008G17KT 10SM CLR 13/01 A2941 RMK AO2 SLP953 T01280011 56002 FAPP 220900Z 10008KT 9999 FEW020 23/14 Q1022 NOSIG URMT 220930Z 32005MPS 5000 -GS SCT010 BKN023CB M02/M03 Q1025 R25/490335 NOSIG RMK QFE730 KGLR 220853Z AUTO 00000KT 1/4SM FG VV002 04/02 A2957 RMK AO2 SLP022 T00390022 53003 FAPR 220657Z 07003KT 9999 BKN030 20/15 Q1025 KGLS 220852Z AUTO 28004KT 10SM CLR 19/12 A2957 RMK AO2 SLP013 60000 T01890117 50000 KFWA 220854Z 15007KT 10SM -RA OVC070 11/09 A2960 RMK AO2 SLP021 P0005 60032 T01060089 58008 KGNA 220856Z AUTO 05003KT 03/01 A2959 RMK AO1 SLP026 T00280011 53009 KGMJ 220935Z AUTO 03006KT 10SM OVC049 11/10 A2939 RMK AO2 LTG DSNT NE KFWB 220935Z AUTO 05003KT 10SM FEW020 BKN070 OVC075 10/10 A2940 RMK AO2 KFWC 220935Z AUTO 00000KT 10SM CLR 08/08 A2950 RMK AO1 T00820076 KGNC 220935Z AUTO 30021G29KT 10SM CLR 07/M04 A2974 RMK AO2 T00701044 KHDN 220935Z AUTO 27003KT 10SM CLR M05/M08 A2993 RMK AO1 KGLW 220935Z AUTO 10003KT 10SM CLR 10/09 A2953 RMK AO2 T01030086 KHEF 220245Z 00000KT 1/2SM FG OVC004 M/M A2980 RMK KHEF AWOS OTS SKY CONDITION ESTIMATED. KHDO 220851Z AUTO 30019G26KT 10SM CLR 16/00 A2968 RMK AO2 PK WND 29035/0812 SLP036 T01560000 51010 KGLY 220935Z AUTO 02006KT 5SM -RA FEW038 SCT050 OVC065 08/07 A2950 RMK AO2 P0002 ZYCC 220900Z 30002MPS 7000 FEW030 M17/M22 Q1031 NOSIG KHEI 220853Z AUTO 31005KT 10SM CLR M08/M11 A2968 RMK AO2 SLP083 T10831106 53017 DRZR 220900Z 36006KT CAVOK 29/02 Q1012 FASB 220653Z 25006KT CAVOK 25/01 Q1016 KGMU 220943Z AUTO 18005KT 1/2SM -RA FG VV002 13/12 A2970 RMK AO2 RAB30 P0000 T01330122 KHFD 220910Z AUTO 00000KT 1SM BR BKN006 03/03 A2974 RMK AO2 T00280028 KFXE 220921Z 19008KT 10SM SCT020 24/20 A2982 RMK AO2 T02390200 KFWN 220945Z AUTO 00000KT 3/4SM BR OVC003 05/05 A2972 RMK AO2 T00500050 KHFF 220906Z AUTO 24004KT 3SM BR OVC005 15/15 A2964 RMK AO2 LTG DSNT SW SHRAE04 $ KFVX 220935Z AUTO 02007KT 5SM BR OVC003 11/11 A2965 RMK AO2 T01050105 KHEQ 220935Z AUTO 30011KT 10SM CLR 02/M01 A2971 RMK AO2 KGNR 220856Z AUTO 36006KT M03/M03 A2972 RMK AO1 SLP081 T10281033 53008 $ KFWS 220935Z AUTO 26008KT 10SM CLR 12/00 A2944 RMK AO2 T01170000 KHFJ 220930Z AUTO 04012KT 10SM VCTS SCT011 OVC095 09/08 A2940 RMK AO2 LTG DSNT NE DTKA 220900Z 04007KT 360V100 9999 FEW020 11/03 Q1012 NOSIG EKKA 220948Z AUTO 18002KT 9999NDV OVC014/// 04/03 Q1028 KGOK 220933Z AUTO 35007KT 10SM BKN012 OVC042 09/07 A2940 RMK AO2 T00890067 KGNT 220935Z AUTO 28015G21KT 10SM CLR M03/M08 A3001 RMK AO2 T10281082 FCBB 220900Z 00000KT 9999 BKN016 29/23 Q1012 NOSIG KGNV 220929Z AUTO 18009KT 10SM BKN015 BKN035 OVC045 28/18 A2971 RMK AO2 T02830178 KGON 220856Z AUTO 00000KT 1/2SM R05/2600V3500FT FG VV002 04/04 A2975 RMK AO2 SLP072 T00440039 58005 FBKE 220400Z 11008KT 9999 FEW015 OVC065 20/20 Q1015 USHH 220930Z 19006MPS 5000 -SHSN BLSN BKN046CB M12/M14 Q0990 R24/451035 TEMPO 1400 SHSN OVC005CB RMK QFE739 KGOO 220935Z AUTO 14010G20KT 3SM BKN003 OVC008 01/01 A2971 RMK AO1 P0004 KHEY 220853Z AUTO 23004KT 6SM BR BKN014 OVC019 20/19 RMK AO2 RAE0755 SLPNO P0000 60027 T02000189 $ KFYG 220935Z AUTO 35007KT 10SM SCT110 11/06 A2949 RMK AO2 KGOP 220930Z AUTO 26016G29KT 10SM CLR 13/00 A2953 RMK AO2 KGPH 220955Z AUTO 05003KT 10SM BKN055 OVC065 07/07 A2956 RMK AO2 LTG DSNT SE KHEZ 220935Z AUTO 30014G18KT 7SM SCT014 BKN020 OVC110 18/15 A2950 RMK AO1 KFWZ 220935Z AUTO 25010KT 10SM CLR M07/M14 RMK AO2 KGPI 220931Z AUTO 00000KT 2 1/2SM -SN BR BKN043 OVC070 M04/M05 A2979 RMK AO2 SNB17 P0000 T10441050 KFYJ 220935Z AUTO 36004KT 10SM BKN004 OVC008 09/09 A2966 RMK AO2 T00880087 KGOV 220934Z AUTO 00000KT 1/4SM FG OVC002 03/02 A2959 RMK AO2 T00260023 KGPM 220935Z AUTO 25010G18KT 10SM CLR 13/00 A2943 RMK AO2 T01311005 KHHF 220935Z AUTO 35014G18KT 10SM DZ SCT009 OVC012 06/06 A2958 RMK AO2 T00620055 KFXY 220935Z AUTO 30004KT 1/2SM FG OVC003 00/00 A2958 RMK AO2 KFZG 220935Z AUTO 02003KT 10SM -TSRA SCT017 BKN022 OVC040 17/17 A2960 RMK AO2 LTG DSNT ALQS T01720172 KHFY 220935Z AUTO 12003KT 2SM CLR 09/09 A2957 RMK AO2 T00850085 KHHG 220935Z AUTO 13003KT 10SM OVC110 09/09 A2956 RMK AO2 T00930087 WAHS 220930Z 26005KT 6000 TS FEW015CB BKN016 29/25 Q1009 NOSIG UTAA 220900Z 10004KT 030V160 9000 SCT033 09/03 Q1020 R30L/CLRD70 NOSIG KHGR 220946Z AUTO 33004KT 2SM BR OVC002 07/06 A2970 RMK AO2 T00670061 KHIB 220936Z AUTO 32003KT 2 1/2SM BR BKN004 OVC012 00/00 A2959 RMK AO2 T00000000 $ KGPT 220938Z AUTO VRB03KT 4SM BR BKN006 OVC013 21/21 A2951 RMK AO2 T02110206 $ KGRB 220853Z AUTO 00000KT 1/4SM FG VV002 03/03 A2956 RMK AO2 SLP015 T00280028 53002 RVRNO DTMB 220900Z VRB02KT 8000 NSC 10/03 Q1015 KGRD 220856Z AUTO 09005KT 5SM -RA BR OVC006 13/13 A2965 RMK AO2 RAB29 CIG 003V008 SLP036 P0001 60001 T01330128 58005 $ KFYV 220853Z AUTO 00000KT 7SM CLR 09/09 A2936 RMK AO2 SLP935 T00890089 56023 $ KK02 220935Z AUTO 25003KT 1/2SM FG OVC002 08/08 A2948 RMK AO2 LTG DSNT W T00790078 KHIE 220852Z AUTO 00000KT 3/4SM BR SCT002 OVC028 01/01 A2976 RMK AO2 SLP090 T00110006 53007 KGRF 220858Z AUTO 00000KT 10SM FEW041 04/04 A2957 RMK AO2 SLP018 60002 T00410041 58006 $ KHIF 220858Z AUTO 12006KT 10SM CLR M04/M07 A2995 RMK AO2 SLP159 60000 T10401072 52011 URRR 220930Z 35004MPS 310V030 CAVOK 00/M06 Q1028 R04/350045 NOSIG RMK QFE764/1019 WAJJ 220900Z 28010KT 9999 FEW014CB FEW015 29/22 Q1007 FAUP 220900Z 35019G30KT CAVOK 34/13 Q1016 NOSIG KGPZ 220949Z AUTO 34004KT 1/2SM FG OVC003 01/01 A2962 RMK AO2 RAE10UPB0859E09 P0000 FZRANO UTAK 220900Z 27008KT 9999 FEW033 OVC100 07/01 Q1021 R16R/19//60 NOSIG KHHR 220853Z AUTO 10006KT 10SM -RA BKN080 OVC100 12/09 A3010 RMK AO2 RAB29 SLP194 P0000 60000 T01220094 58002 KGRI 220853Z AUTO 33004KT 10SM CLR M01/M02 A2965 RMK AO2 SLP055 T10111017 53019 KHII 220935Z AUTO 13010G15KT 10SM OVC110 12/03 A3007 RMK AO2 VISM 220700Z 23002KT 6000 SCT080 15/07 Q1026 ZWWW 220930Z VRB01MPS 1600 FU NSC M11/M17 Q1025 NOSIG KGSB 220919Z AUTO 23008KT 10SM OVC009 16/16 A2962 RMK AO2 UTAM 220900Z 34004KT 6000 SCT040 BKN100 07/02 Q1023 NOSIG RMK SC07 KIAB 220908Z AUTO 01011KT 10SM -RA SCT040 OVC050 08/06 A2948 RMK AO2 KGRK 220855Z 27012G22KT 10SM CLR 13/M02 A2953 RMK AO2A SLP990 T01291016 58002 FAWB 220900Z AUTO 06003KT //// // ////// 25/17 Q1024 FAUT 220900Z 05003KT CAVOK 29/19 Q1017 KIAD 220852Z 07004KT 1/8SM R01R/P6000FT BR OVC002 08/08 A2970 RMK AO2 SFC VIS 2 1/2 SLP057 T00830078 56013 KHHV 220940Z AUTO 35020G29KT 8SM FEW019 BKN060 22/14 A2959 RMK A01 KHHW 220935Z AUTO 25004KT 10SM SCT080 OVC090 13/06 A2936 RMK AO2 T01330060 FBMN 220900Z 08015KT 9999 BKN025 27/19 Q1017 KHIO 220853Z AUTO 03003KT 10SM CLR 04/02 A2950 RMK AO2 SLP989 T00390022 58028 VISR 220930Z VRB02KT 6000 FEW025 SCT080 04/-01 Q1030 NOSIG KIAG 220853Z AUTO 33005KT 1/4SM R28R/1400V1800FT FG VV002 03/01 A2968 RMK AO2 SLP058 T00280006 50002 KFZY 220948Z AUTO 00000KT 1 1/4SM BR CLR 04/03 A2968 RMK AO2 VIS 1/2V2 1/2 $ URSS 220930Z 12002MPS 9999 -SHRA BKN016 OVC030CB 04/01 Q1029 WS ALL RWY R02/210350 R06/210250 NOSIG RMK R06/12004G07MPS MT OBSC QFE770 ZYHB 220900Z 27003MPS 5000 FU NSC M19/M24 Q1030 NOSIG KGSH 220938Z AUTO 00000KT 1/4SM FG VV001 03/02 A2955 RMK AO2 T00280017 KIAH 220853Z 23006KT 10SM SCT090 OVC110 16/11 A2956 RMK AO2 RAB26E40 SLP009 P0000 60004 T01560106 58002 KHJH 220935Z AUTO 33007KT 7SM CLR 01/01 A2964 RMK AO2 T00100010 DTNH 220930Z AUTO 26004KT CAVOK 08/03 Q1015 UTAT 220900Z 24009KT 9999 BKN046 OVC100 05/M01 Q1019 R08/CLRD70 NOSIG RMK ICE INC AT 6600 FT 5600 FT KGRR 220927Z AUTO 00000KT 1/4SM R26L/0700V1000FT FG VV003 01/M01 A2958 RMK AO2 T00061006 KHKA 220853Z AUTO 16004KT 10SM FEW120 15/12 A2943 RMK AO2 SLP966 T01500117 58001 KGTB 220938Z AUTO 08006KT 2SM R21/3500FT BR CLR 01/00 A2970 RMK AO2 VIS 2V5 UTAV 220900Z 32006KT 5000 BR OVC033 05/02 Q1023 FAWK 220900Z AUTO 06002KT //// // ////// 25/17 Q1026 EKOD 220920Z 18004KT 9999 OVC018 05/03 Q1028 FAVV 220900Z AUTO /////KT //// // ////// 23/// Q1025 KHJO 220853Z AUTO 17004KT 10SM SCT055 OVC075 09/07 A2997 RMK AO2 RAB19E50 SLP151 P0000 60001 T00890072 56016 KGSO 220854Z 02005KT 3SM -DZ BR OVC003 11/11 A2965 RMK AO2 DZB43 SLP037 P0000 60000 T01110111 58003 KGTF 220853Z AUTO 29004KT 10SM OVC065 M04/M07 A2975 RMK AO2 SLP115 T10391067 53017 KGSP 220853Z 16006KT 1 1/4SM BR OVC002 12/12 A2964 RMK AO2 SLP032 T01220117 55010 KGRY 220940Z AUTO 21022KT 3SM BR FEW017 BKN024 BKN029 24/22 A2952 RMK A01 WALL 220930Z 02003KT 280V060 9000 FEW018CB SCT018 28/24 Q1009 RMK CB TO N AND SW UTDD 220930Z 08004MPS 1800 1300N -RA BR FU FEW021 BKN036 OVC041 07/05 Q1020 R09/29//50 TEMPO 1000 BR FU RMK QFE696/0929 KHLC 220853Z AUTO 34011KT 10SM CLR 01/M01 A2965 RMK AO2 SLP044 T00111011 53016 TSNO KGUC 220856Z AUTO 00000KT 10SM SCT060 M11/M12 A2989 RMK AO2 SNB29E45 SLP185 P0000 60000 T11061117 53023 FZRANO KIBM 220936Z AUTO 31010KT 10SM CLR M01/M04 A2974 RMK AO2 KHLG 220853Z AUTO 32007KT 9SM OVC055 11/09 A2967 RMK AO2 SLP050 T01060089 55001 URWA 220930Z 30009MPS CAVOK M02/M11 Q1022 R27/450140 NOSIG RMK QFE768/1024 UTDK 220930Z VRB02MPS 9999 BKN120 10/02 Q1019 R01/09//70 RMK QFE707/0942 KGTR 220935Z 18009KT 10SM BKN045 BKN050 14/12 A2943 RMK AO1 UTDL 220930Z 08012MPS 4200 BR FEW130 OVC200 04/M01 Q1020 88CLRD70 NOSIG RMK QFE726/0968 KHKS 220853Z AUTO 17003KT 10SM CLR 13/12 A2948 RMK AO2 SLP977 T01330122 53005 KIDA 220853Z AUTO 19005KT 10SM SCT034 M07/M07 A2991 RMK AO2 SLP163 T10671072 53021 WAMM 220930Z 32005KT 9999 SCT021 28/24 Q1011 NOSIG KGTU 220935Z 27014G19KT 10SM CLR 13/M02 A2956 RMK AO1 KICL 220935Z AUTO 03004KT 1 1/4SM BR BKN002 M02/M02 A2962 RMK AO2 PWINO KGUL 220935Z AUTO 00000KT 4SM HZ CLR 23/21 A2954 RMK A01 KHLN 220853Z AUTO 00000KT 6SM BR OVC075 M11/M13 A2980 RMK AO2 SLP164 T11061128 51014 KGVE 220935Z AUTO 03004KT 1SM BR OVC002 09/09 A2968 RMK AO1 T00900090 URWI 220930Z 30005MPS CAVOK M03/M07 Q1024 R27/390045 KHKY 220900Z AUTO 04004KT 5SM BR OVC002 11/11 A2963 RMK AO2 T01110111 KGUP 220853Z AUTO 25004KT 10SM CLR M08/M10 A3004 RMK AO2 SLP224 T10831100 51018 UTDT 220930Z 02005MPS 9999 BKN110 OVC130 11/05 Q1018 35CLRD70 RMK QFE724/0966 KICR 220853Z AUTO 27007KT 10SM CLR M02/M04 A2969 RMK AO2 SLP069 T10221044 53019 $ KGUR 220935Z AUTO 28008KT 10SM CLR 00/M03 A2978 RMK AO2 T00011027 KIDI 220935Z AUTO 11003KT 5SM BR OVC085 06/06 A2969 RMK A01 KHLR 220858Z AUTO 27013G21KT 10SM CLR 13/M01 A2949 RMK AO2 SLP979 T01321012 55001 KGUS 220858Z AUTO 11006KT 10SM CLR 09/09 A2954 RMK AO2 SLP006 60017 T00860086 58017 KICT 220853Z 36009KT 8SM -RA OVC050 08/07 A2949 RMK AO2 SLP986 P0003 60015 T00780067 53018 $ KHNB 220935Z 00000KT 10SM CLR 11/08 A2951 RMK AO2 SLP295 PWINO FZRANO RVRNO KGWB 220935Z AUTO 00000KT 7SM SCT080 BKN100 08/07 A2958 RMK AO2 USNN 220930Z 20007MPS 9000 DRSN SCT019 M11/M14 Q0997 R21/39//33 NOSIG RMK QFE743 KGVL 220935Z AUTO 08009KT 4SM RA BR BKN002 OVC025 13/13 A2961 RMK AO2 P0010 T01280128 UTFF 220930Z 36004KT 1000 BR BKN008 03/M02 Q1020 R18/CLRD70 KHND 220856Z AUTO 21007KT 10SM FEW110 07/01 A3003 RMK AO2 PRESRR SLP172 6//// T00670006 51000 PNO $ KHMN 220858Z AUTO VRB04KT 10SM CLR 04/M06 A3003 RMK AO2 SLP143 T00411062 52025 $ KHLX 220935Z AUTO 00000KT 1/4SM FG OVC002 09/09 A2964 RMK AO2 T00900090 KGUY 220853Z AUTO 34013KT 10SM FEW015 BKN031 OVC110 04/03 A2963 RMK AO2 SLP021 60006 T00440033 51029 KHMP 220935Z AUTO 12005KT 10SM DZ SCT005 BKN065 OVC070 14/14 A2960 RMK AO2 LTG DSNT S THRU NW T01420142 KIDP 220935Z AUTO 04011G16KT 10SM SCT011 BKN034 OVC040 09/07 A2943 RMK AO2 LTG DSNT E WBGB 220900Z 30007KT 230V350 9999 SCT014 FEW015CB BKN150 29/25 Q1010 KGXA 220855Z AUTO 02002KT 9SM -RA FEW036 BKN048 05/03 A3001 RMK AO2 RAB0818E0820B0838DZB0820E0838 SLP181 WND DATA ESTMD P0000 60000 T00540028 55001 TSNO $ KIFA 220955Z AUTO 30008KT 10SM OVC011 00/00 A2960 RMK AO2 T00030000 KHOB 220050Z 26014KT 10SM FEW110 07/M02 A2955 KGVT 220935Z AUTO 24005KT 10SM SCT065 SCT075 BKN100 12/05 A2941 RMK AO2 UTFN 220930Z 16004KT 5000 BR FEW048 06/M02 Q1020 R28/CLRD70 NOSIG URWW 220930Z 30009MPS CAVOK M05/M09 Q1021 R24/420240 NOSIG EKSB 220920Z 17004KT 9999 BKN020 04/01 Q1028 EKRK 220931Z 18004KT 4500 BR SCT002 BKN010 03/03 Q1029 WAOO 220930Z 23002KT 9999 FEW018 28/25 Q1008 WBGG 220930Z 01009KT 320V060 9999 FEW015CB SCT020 BKN150 29/24 Q1010 NOSIG KIEN 220852Z AUTO 00000KT 10SM CLR M10/M11 A2973 RMK AO2 SLP102 I1000 I3000 T11001111 53018 KHOE 220935Z AUTO 19012G17KT 10SM SCT012 BKN018 BKN110 20/19 A2960 RMK AO2 LTG DSNT NW THRU NE KGWO 220853Z AUTO 20006KT 10SM CLR 12/10 A2947 RMK AO2 SLP976 60001 T01170100 53001 EKRN 220920Z AUTO 23008KT 200V260 9999NDV OVC007/// 03/02 Q1030 KGXF 220858Z AUTO 16007KT 10SM SCT120 08/04 A3011 RMK AO2 SLP194 T00750040 51006 KHMZ 220935Z AUTO 00000KT 1/4SM FG OVC002 05/05 A2970 RMK AO2 T00510047 KGWR 220935Z AUTO 30008KT 5SM FEW014 BKN027 OVC032 01/01 A2965 RMK AO1 KHNR 220935Z AUTO 35011KT 6SM BR BKN006 M01/M01 A2965 RMK AO2 KIER 220935Z AUTO 19006KT 10SM OVC095 13/12 A2950 RMK AO2 T01270117 DTTA 220930Z 11005KT 9999 FEW023 11/04 Q1014 NOSIG KGYB 220935Z AUTO 27011G19KT 10SM CLR 15/M01 A2959 RMK AO2 T01521010 DTTB 220900Z 15006KT CAVOK 11/03 Q1014 FBSK 220900Z 05012G22KT 010V110 9999 SCT020 28/12 Q1013 NOSIG WAPP 220930Z VRB01KT 9999 FEW018 27/24 Q1008 NOSIG USPP 220930Z 26005MPS 9999 -SHSN SCT015CB M09/M11 Q0991 R21/490550 NOSIG RMK QFE733 DTTD 220900Z 28004KT 240V330 CAVOK 11/M02 Q1017 KGWW 220945Z AUTO 23007KT 10SM OVC010 15/15 A2963 RMK AO2 T01470147 KHON 220922Z AUTO 32011KT 10SM BKN009 BKN016 OVC027 M01/M02 A2968 RMK AO2 CIG 007V012 T10111022 WBGR 220900Z 32004KT 260V010 9999 -SHRA SCT014 FEW015CB BKN150 27/26 Q1009 DTTF 220900Z 20007KT 8000 NSC 10/01 Q1014 NOSIG KIFP 220935Z AUTO 12006KT 10SM BKN110 10/04 A3008 RMK AO2 KHOP 220858Z AUTO 08003KT 10SM CLR 11/10 A2949 RMK AO2 SLP986 T01130103 55007 WBGS 220900Z 34006KT 9999 FEW015CB SCT018 BKN150 29/24 Q1009 DTTG 220900Z 28006KT 9000 FEW030 09/00 Q1016 NOSIG FBSP 220900Z 11010KT 9999 BKN020 24/18 Q1020 EKSP 220920Z 17003KT 9999 OVC015 04/02 Q1028 KHNZ 220945Z AUTO 34003KT 3/4SM BR OVC003 09/09 A2964 RMK AO2 T00900087 KGYH 220855Z AUTO 14003KT 3SM BR OVC003 12/12 A2965 RMK AO2 LTG DSNT W KGYI 220935Z AUTO 21006KT 10SM CLR 09/04 A2939 RMK AO2 T00920044 DTTJ 220930Z 18008KT CAVOK 14/02 Q1015 NOSIG KHOT 220908Z AUTO 08006KT 5SM BR SCT029 OVC120 12/12 A2941 RMK AO2 T01170117 DTTK 220900Z 00000KT CAVOK 09/01 Q1015 KHOU 220853Z 24006KT 10SM OVC110 16/12 A2956 RMK AO2 SLP015 60004 T01610122 56011 KGYL 220935Z AUTO 29004KT 1/4SM FG OVC001 01/02 A2960 RMK AO2 T00140015 DTTL 220900Z AUTO 00000KT NCD 13/07 Q1015 KIGM 220851Z AUTO 12011KT 10SM FEW120 03/M05 A3006 RMK AO2 SLP155 T00331050 51006 WBGY 220900Z 34009KT 9999 FEW015CB SCT022 BKN150 27/24 Q1008 KHPN 220939Z 35005KT 1/4SM R16/1600V4000FT FG VV001 06/06 A2970 RMK AO2 T00610056 WAQQ 220900Z 02004KT 9999 SCT015 27/24 Q1009 DTTN 220900Z 03006KT 9999 FEW020 08/06 Q1013 KGXY 220856Z AUTO 27004KT 10SM BKN080 M02/M03 A2976 RMK AO2 SLP102 T10221033 53019 FZRANO KHQG 220935Z AUTO 34013KT 10SM CLR 03/01 A2967 RMK AO2 T00330011 KGZH 220853Z AUTO 23005KT 7SM FEW020 21/19 A2953 RMK AO2 SLP995 60000 T02110194 55002 KIGQ 220935Z AUTO 00000KT 1/4SM -SN OVC002 03/03 A2959 RMK AO2 T00260026 KGYR 220347Z 23005KT 10SM FEW060 12/01 A3005 RMK LAST KHQI 220935Z AUTO 31027KT 6SM HZ FEW028 SCT037 22/18 A2956 RMK A01 DTTR 220900Z 17004KT CAVOK 09/M02 Q1017 KK88 220935Z AUTO 02013KT 10SM OVC045 08/08 A2948 RMK AO1 T00830083 KIIB 220935Z AUTO 00000KT 3/4SM BR OVC013 00/00 A2957 RMK AO2 KHQM 220853Z AUTO 06012KT 9SM CLR 06/05 A2950 RMK AO2 SLP993 60001 T00560050 58013 KGZN 220920Z AUTO 28013G24KT 10SM FEW043 SCT049 BKN055 12/M01 A2947 RMK AO2 EKVD 220920Z 20003KT 9999 BKN016 04/02 Q1028 KIGX 220934Z AUTO 00000KT 10SM BKN006 OVC016 11/11 A2965 RMK AO2 T01110111 WARR 220330Z 12005KT 9999 FEW020 30/24 Q1011 NOSIG USRR 220930Z 20008MPS 170V230 7000 DRSN SCT019CB BKN027 M10/M13 Q0993 REBLSN R25/450237 TEMPO 2000 SHSN BLSN RMK QFE739 DTTX 220900Z 00000KT 8000 FEW033 13/05 Q1015 NOSIG KGYY 220915Z AUTO 03003KT 1/4SM -SN OVC001 04/04 A2959 RMK AO2 T00410041 EKVG 220950Z AUTO 27008KT 9999NDV FEW017/// 05/02 Q1018 DTTZ 220900Z 13008KT CAVOK 08/M00 Q1015 NOSIG KHRI 220923Z AUTO 04003KT 1/4SM FZFG BKN002 BKN095 M03/M03 A2966 RMK AO2 I1000 T10331033 $ KHSA 220155Z 19009G16KT 7SM OVC007 22/19 A2952 UUBC 220930Z 29006MPS 9999 SCT046 M03/M07 Q1019 R31/850248 NOSIG RMK QFE747/0997 KHRJ 220940Z AUTO 32004KT 2SM BR OVC002 14/14 A2964 RMK AO2 T01350135 KGZS 220935Z AUTO 00000KT 3SM BR SCT008 BKN015 OVC035 13/13 A2951 RMK A01 KHSB 220935Z AUTO 06004KT 10SM CLR 09/09 A2949 RMK AO2 T00890086 KHRL 220852Z 35016KT 10SM CLR 18/07 A2967 RMK AO2 SLP047 T01780072 51042 KJAC 220935Z AUTO 20011KT 10SM BKN029 OVC034 M04/M06 A2986 RMK AO1 KHQU 220935Z AUTO 00000KT 2 1/2SM BKN006 BKN016 OVC027 16/16 A2970 RMK AO1 T01640164 KIJD 220852Z AUTO 00000KT 1/2SM FG OVC002 02/02 A2975 RMK AO2 SLP076 T00220022 56006 KHSD 220935Z AUTO 29005KT 10SM FEW110 08/07 A2940 RMK A01 KHSE 220851Z AUTO 25010KT 3SM BR CLR 16/14 A2965 RMK AO2 SLP040 T01560139 TSNO $ KHRO 220853Z AUTO 12006KT 10SM FEW065 OVC100 11/09 A2941 RMK AO2 RAB06E46 SLP953 P0001 60001 T01060094 56009 $ ELLX 220920Z 06007KT CAVOK M04/M08 Q1025 NOSIG KHSG 220935Z AUTO 20004KT 10SM OVC095 M05/M07 A2979 RMK AO2 T10531073 USSS 220930Z 22004MPS 9999 SCT027 M12/M17 Q0991 R26R/450240 NOSIG RMK QFE723/0965 KHQZ 220935Z AUTO 22004KT 10SM CLR 11/03 A2942 RMK AO1 T01060026 WBKK 220930Z 04003KT 9999 FEW014 SCT040 BKN270 27/24 Q1010 NOSIG KHSI 220853Z AUTO 34009KT 10SM CLR 01/M02 A2965 RMK AO2 SLP047 I3000 T00061017 53017 WBKL 220900Z 01006KT 320V050 9999 FEW010 FEW014CB SCT140 BKN290 28/25 Q1010 KL18 220935Z AUTO 00000KT 10SM SCT090 OVC110 08/07 A3013 RMK AO2 KHRT 220858Z 23008KT 7SM R36/5500FT -RA OVC009 22/18 A2953 RMK AO2A RAB09E10DZB10E11RAB11E19DZB19E20RAB20E21RAB47E55DZB55E57RAB57 SLP001 P0000 60002 T02200181 58013 $ UUBP 220930Z 26006MPS 9999 BKN033 M03/M05 Q1024 R16/7901// NOSIG RMK QFE749/0999 KJAN 220854Z 17006KT 10SM CLR 13/13 A2949 RMK AO2 SLP981 T01330128 51004 KHRX 220935Z AUTO 34019G23KT 10SM OVC020 05/02 A2968 RMK AO2 T00480021 USTR 220930Z 19003MPS 150V210 CAVOK M11/M14 Q0994 R21/390050 NOSIG RMK QFE736/0981 KIKG 220935Z AUTO 31012G18KT 10SM CLR 19/02 A2970 RMK AO2 T01860019 KIIY 220935Z AUTO 30003KT 3SM +RA SCT003 BKN008 OVC015 16/16 A2968 RMK AO2 LTG DSNT S KHSP 220935Z AUTO 09005KT 10SM OVC050 09/08 A2964 RMK AO2 WBKS 220900Z 24002KT 9999 -RA FEW010 FEW016CB SCT035 OVC200 24/24 Q1011 KJAQ 220935Z AUTO 17013G25KT 10SM BKN047 OVC050 06/05 A2972 RMK AO1 T00630045 WATT 220930Z 06002KT 9999 FEW015CB SCT016 BKN070 27/26 Q1009 NOSIG RMK CB TO SE WBKT 220900Z 00000KT 5000 -RA FEW007 SCT012 BKN030 23/23 Q1012 KJAS 220935Z AUTO 00000KT 10SM SCT065 OVC080 16/10 A2954 RMK AO2 T01580103 KJCA 220935Z AUTO 05005KT 2SM -RA BKN001 BKN017 OVC037 13/13 A2961 RMK AO2 VIS 3/4V4 LTG DSNT NE AND S KHUA 220943Z AUTO 06013KT 4SM RA BR SCT002 BKN006 OVC065 14/13 A2942 RMK AO2 CIG 004V070 PRESFR UUDD 220930Z 28007MPS 9999 FEW019 M04/M08 Q1016 R88/520295 NOSIG KHST 220858Z AUTO 18008KT 10SM CLR 23/23 A2982 RMK AO2 SLP101 T02250225 56004 KIKK 220935Z AUTO 00000KT 1/2SM FG OVC002 03/03 A2957 RMK AO2 T00310027 WBKW 220900Z 02004KT 330V060 9999 FEW017 SCT140 BKN280 24/23 Q1010 UUBW 220930Z 27006MPS 9999 SCT020 M04/M07 Q1016 R30/450340 NOSIG KHTL 220853Z AUTO 00000KT 1/4SM FG VV003 04/03 A2959 RMK AO2 SLP028 T00390033 53004 $ KJAU 220935Z AUTO 00000KT 3/4SM BR OVC003 07/07 A2962 RMK A01 KHSV 220920Z AUTO 25010KT 6SM RA BR SCT004 OVC065 14/14 A2951 RMK AO2 P0012 T01440139 KILE 220856Z AUTO 27010G21KT 10SM CLR 13/M01 A2953 RMK AO2 SLP010 T01331006 56001 KHUF 220917Z 06004KT 4SM BR CLR 06/05 A2953 RMK AO2 T00560050 $ KJAX 220856Z 18010KT 10SM BKN100 BKN250 19/17 A2969 RMK AO2 SLP054 60002 T01890167 56018 $ KIJX 220935Z AUTO 02009KT 3SM BR SCT004 05/05 A2954 RMK AO2 T00530048 KHTO 220935Z AUTO 22003KT 4SM BR OVC003 05/05 A2973 RMK AO2 T00470046 KILG 220851Z 01003KT R01/3500V4500FT OVC003 07/07 A2973 RMK AO2 SLP067 T00720072 56015 $ KL35 220935Z AUTO 25006G23KT 5SM -SN BKN027 OVC035 00/M09 A3003 RMK AO2 KJBR 220853Z AUTO 00000KT 10SM FEW041 BKN090 OVC110 13/12 A2943 RMK AO2 RAE45 SLP965 P0001 60001 T01280117 55002 UUDL 220930Z 27006MPS 9999 DRSN BKN016 M07/M11 Q1010 R23/490340 NOSIG RMK QFE749 KHTS 220905Z 00000KT 3/4SM BR VV002 09/08 A2959 RMK AO2 T00890083 KL38 220935Z AUTO 19003KT 4SM BR BKN013 OVC018 20/19 A2950 RMK AO2 T01960191 KIKT 220350Z AUTO VRB05G15KT 3SM BR SCT013 BKN023 OVC036 25/23 A2960 RMK A01 UUEE 220930Z 27008MPS CAVOK M04/M07 Q1015 R24R/520340 R24L/420245 NOSIG KHUL 220853Z AUTO 00000KT 10SM OVC026 M01/M03 A2975 RMK AO2 SLP082 T10111033 51017 KILM 220909Z AUTO 21008KT 10SM SCT020 15/14 A2967 RMK AO2 T01500144 $ KHUM 220935Z AUTO 25005KT 5SM BR BKN009 BKN014 BKN019 21/20 A2950 RMK AO2 T02100204 KIKV 220935Z AUTO 34004KT 1/2SM FG OVC003 00/00 A2961 RMK AO2 KJDD 220935Z AUTO 24007G15KT 10SM OVC100 14/06 A2941 RMK AO2 KIKW 220933Z AUTO 33003KT M1/4SM FG OVC003 03/03 A2959 RMK AO2 T00280025 KILN 220854Z AUTO 10004KT 10SM CLR 09/09 A2957 RMK AO2 SLP019 T00940089 58026 $ KHVE 220935Z AUTO 10SM CLR M03/M05 A3004 RMK AO2 FCPP 220900Z 19010KT 150V250 9999 BKN016 29/24 Q1011 NOSIG KJCT 220851Z AUTO 27017G32KT 10SM CLR 12/M04 A2964 RMK AO2 PK WND 27034/0835 SLP009 T01221044 56003 KHUT 220852Z AUTO 36010KT 10SM FEW050 BKN070 OVC100 07/05 A2952 RMK AO2 SLP990 T00720050 53019 UTNN 220930Z 18008KT 9999 OVC026 02/M03 Q1019 R33/150057 NOSIG EKYT 220920Z 21008KT 9999 OVC017 05/03 Q1027 KIML 220853Z AUTO 30006KT 10SM BKN080 M01/M04 A2970 RMK AO2 SLP069 T10061039 53016 KHWD 220854Z AUTO 16023G32KT 8SM -RA SCT038 OVC055 11/04 A2969 RMK AO2 PK WND 15032/0852 RAB48 SLP064 P0000 60000 T01110044 58033 KIND 220854Z 06006KT 6SM BR FEW160 09/08 A2954 RMK AO2 SLP001 T00890078 58019 KJDN 220948Z AUTO 29006KT M07/M09 A2974 RMK AO1 SLP100 T10721089 KHVN 220943Z AUTO 00000KT 1/4SM R02/1600V2000FT FG VV002 04/04 A2974 RMK AO2 T00440044 KJEF 220853Z AUTO 02008KT 10SM FEW070 OVC110 10/07 A2949 RMK AO2 RAB0758E16 SLP974 P0000 60011 T01000072 55030 KINF 220935Z AUTO 17010G14KT 10SM OVC011 21/20 A2972 RMK AO2 ZYTL 220930Z 35005MPS 330V030 9999 FEW020 M09/M16 Q1034 NOSIG KHVR 220853Z AUTO 22008KT 10SM OVC006 M06/M07 A2977 RMK AO2 SLP112 I3000 T10561067 51023 UTNU 220930Z 24009KT 6000 NSC 06/M02 Q1019 R31/CLRD70 NOSIG KIMS 220931Z AUTO 00000KT 7SM CLR 08/08 A2957 RMK AO1 KHVS 220935Z AUTO 23005KT 10SM SCT019 BKN080 BKN120 15/13 A2968 RMK AO2 KINJ 220935Z AUTO 24008G15KT 10SM CLR 11/03 A2945 RMK AO2 T01130025 KINK 220853Z AUTO 28027G35KT 10SM CLR 08/M06 A2977 RMK AO2 PK WND 29035/0853 SLP061 T00831056 53018 KIMT 220942Z AUTO 00000KT 1/2SM FG BKN005 OVC029 01/M01 A2953 RMK AO2 T00061006 KIOB 220935Z AUTO 09003KT 10SM CLR 10/09 A2957 RMK AO2 KINL 220914Z AUTO 00000KT 1/2SM FG VV004 01/01 A2961 RMK AO2 T00110006 KHXD 220935Z AUTO VRB04G10KT 1 3/4SM +TSRA BKN002 BKN006 OVC010 16/16 A2968 RMK AO2 LTG DSNT ALQDS KHWO 220853Z AUTO 19007KT 10SM FEW019 SCT060 23/21 A2984 RMK AO2 SLP105 T02330206 55005 KJER 220853Z AUTO 06007KT 10SM BKN090 M01/M06 A2986 RMK AO2 SLP129 T10061056 50004 KJES 220935Z AUTO 20006KT 10SM SCT019 SCT031 BKN110 20/16 A2962 RMK AO2 KHYA 220948Z AUTO 21003KT 1/4SM FG VV002 03/03 A2973 RMK AO2 T00330028 KINS 220858Z AUTO 26005KT 10SM FEW130 SCT150 03/00 A2998 RMK AO2 SLP143 T00261001 50001 $ KJFK 220946Z 00000KT 1/8SM R04R/1400V6000FT FG VV003 07/07 A2974 RMK AO2 SFC VIS 1/4 $ KINT 220924Z AUTO 04006KT 10SM BR BKN005 OVC031 11/09 A2965 RMK AO2 T01060094 ZYTX 220930Z 08002MPS 6000 -SN BKN030 M12/M15 Q1034 NOSIG ENAL 220920Z 21016KT 9999 BKN032 08/03 Q1020 KHWV 220937Z AUTO 00000KT 3/4SM BR VV003 06/06 A2973 RMK AO2 T00560056 TSNO KINW 220856Z AUTO 00000KT 10SM CLR M03/M05 A3007 RMK AO2 SLP190 T10331050 51008 ENAN 220920Z AUTO 15013KT 5000 -FZRA FEW013/// BKN022/// OVC027/// M01/M03 Q1007 REFZUP KHWY 220935Z AUTO 04003KT 2 1/2SM BR OVC002 10/08 A2970 RMK AO2 T00950081 KJGG 220935Z AUTO 00000KT 4SM SCT004 OVC013 11/11 A2965 RMK AO1 P0001 KHYI 220935Z 27020G26KT 10SM CLR 15/M03 A2962 RMK AO1 FDJR 220900Z AUTO 36004KT //// // ////// 26/13 Q1023 KIPJ 220950Z AUTO 13003KT 5SM BR 12/11 A2967 RMK AO2 T01150114 FDLB 220900Z AUTO 22003KT //// // ////// 28/19 Q//// ENAT 220850Z 21009KT 9999 SCT034 BKN061 M04/M07 Q1009 RMK WIND 700FT 21010KT KIPL 220853Z AUTO 12005KT 10SM CLR 10/05 A3009 RMK AO2 SLP189 T01000050 53006 $ ENBL 211450Z 26002KT 1500 VCFG SCT002 BKN020 04/03 Q1028 KHZD 220935Z AUTO 07006KT 10SM OVC075 14/11 A2943 RMK A01 KIOW 220852Z AUTO 00000KT 1/4SM FZFG VV001 M01/M02 A2960 RMK AO2 SLP029 I1001 I3002 T10111022 53005 KHZE 220935Z AUTO 23010KT 10SM BKN008 OVC013 A2969 RMK AO2 ENBN 220920Z AUTO 21014KT 9999NDV -SHRA FEW011/// SCT015/// OVC031/// 05/05 Q1013 KJFX 220935Z AUTO 00000KT 10SM CLR 13/13 A2950 RMK AO2 PWINO ENBO 220920Z 22016KT 9999 -SHRA FEW012 BKN025 05/05 Q1008 TEMPO 24025G35KT 4000 RADZ BKN010 UTSA 222000Z 13003KT 4600 BR BKN039 04/03 Q1022 R07/CLRD70 NOSIG KJFZ 220935Z AUTO 13004KT 10SM CLR 09/09 A2961 RMK AO2 T00940090 UTSB 220930Z 31005KT 1400 DZ BR OVC005 04/02 Q1021 R01/290055 NOSIG RMK BASE500 WBSB 220930Z 35009KT 9999 SCT015 BKN280 29/25 Q1010 NOSIG KHYR 220917Z AUTO 00000KT 1/2SM FG VV004 01/01 A2956 RMK AO2 T00110006 ENBR 220920Z 14007KT 9000 4000N DZ FEW002 SCT005 BKN015 04/03 Q1025 TEMPO 4000 DZ BKN008 RMK WIND 1200FT 14015KT KHYS 220856Z AUTO 35010KT 10SM CLR 02/01 A2961 RMK AO2 SLP032 T00220006 53020 FZRANO ENBS 211220Z 33032G42KT 9999 DRSN SCT036 SCT053 M04/M08 Q0999 RESHSN KIPT 220939Z AUTO 23004KT 1/2SM FG VV004 05/04 A2972 RMK AO2 T00500039 KHZL 220935Z AUTO 00000KT M1/4SM FG OVC002 05/04 A2972 RMK AO2 ENBV 211250Z 32031KT 8000 VCSH -BLSN FEW011 BKN056 M00/M06 Q1001 KHYW 220935Z AUTO 23004KT 7SM BKN010 OVC028 15/14 A2970 RMK AO2 KJHN 220935Z AUTO 31010KT 10SM CLR 00/M01 A2970 RMK AO2 T00031014 ENCN 220920Z 24007KT 9999 BKN018 04/02 Q1025 KHYX 220937Z AUTO 00000KT M1/4SM FG OVC001 03/02 A2959 RMK AO2 UTSK 220930Z 27004KT 5000 BR OVC030CB 07/03 Q1020 R16/CLRD70 KHZR 220935Z AUTO 30006KT 5SM BR SCT015 BKN020 OVC035 19/18 A2949 RMK AO2 T01850176 KM08 220935Z AUTO 22005KT 10SM FEW008 BKN075 OVC090 14/13 A2942 RMK A01 KIRK 220907Z AUTO 12005KT 2 1/2SM -RA BR FEW055 OVC085 05/04 A2958 RMK AO2 RAB03 P0000 T00500044 KJHW 220935Z AUTO 00000KT 10SM 09/07 A2967 RMK AO1 KHZX 220933Z AUTO 34003KT 1SM OVC002 01/01 A2960 RMK AO2 KHZY 220853Z AUTO 00000KT 10SM OVC070 11/09 A2967 RMK AO2 SLP044 60000 T01060094 50001 TSNO UTSS 220930Z 32005KT 290V350 7000 -SHRA BKN055CB 07/04 Q1018 R09/19//60 NOSIG UTST 220930Z 02008KT 9999 SCT066CB 12/04 Q1020 R88/CLRD70 NOSIG VLLB 220900Z 36004KT 9999 FEW019 SCT060 26/13 Q1019 NOSIG ENDR 220920Z AUTO 23036KT 07/05 Q1014 KIRS 220934Z AUTO 00000KT 1/4SM FG OVC001 06/06 A2957 RMK AO2 T00570057 KJKA 220935Z AUTO 23011G17KT 5SM BR OVC006 21/21 A2953 RMK AO2 T02120212 FDMS 220900Z 00000KT 9999 SCT030 24/17 Q1022 NOSIG KM19 220856Z AUTO 00000KT 10SM SCT031 BKN039 13/12 A2944 RMK AO2 LTG DSNT N RAE04 SLP974 P0000 6//// T01330122 ENFB 220920Z AUTO 20022KT 9999NDV OVC032/// 07/05 Q1021 W///S4 ENEK 220920Z 18016KT 9999 BKN020 06/01 Q1025 W07/S3 KM21 220935Z AUTO 00000KT 10SM CLR 09/09 A2951 RMK AO2 T00900090 ENDU 220920Z VRB02KT 9999 FEW040 BKN060 M07/M07 Q1009 TEMPO 2000 SN VV009 RMK WIND 1100FT 14005KT WIND 2200FT 11010KT KISM 220909Z 18005KT 10SM SCT022 SCT060 19/17 A2977 RMK AO2 FDMV 220300Z AUTO 22002KT //// // ////// 21/20 Q//// KISN 220908Z AUTO 27009KT 10SM OVC015 M01/M03 A2968 RMK AO2 T10111028 TSNO KISO 220940Z AUTO 22006KT 10SM BKN012 OVC026 16/15 A2963 RMK AO2 T01620151 FEFF 220900Z 28007KT 9999 FEW015 30/24 Q1010 NOSIG KISP 220903Z AUTO 00000KT 1/2SM R06/2600V3500FT FG VV002 06/06 A2972 RMK AO2 T00560056 KM25 220955Z AUTO 06005KT 10SM CLR 12/10 A2947 RMK AO2 LBBG 220930Z 25004KT 8000 BKN025 OVC041 00/M02 Q1035 NOSIG KISQ 220934Z AUTO 14003KT 1/4SM FG OVC003 01/01 A2956 RMK AO2 T00110007 KITH 220935Z AUTO 10004KT 2SM R32/2400VP6000FT BR CLR 04/04 A2969 RMK AO2 UTTT 220930Z 34006KT 310V010 2800 BR NSC 08/05 Q1019 R08R/29//50 NOSIG KJKJ 220934Z AUTO 00000KT 1/2SM FG OVC001 01/00 A2965 RMK AO2 KM30 220935Z AUTO 00000KT 10SM CLR 12/10 A2948 RMK AO2 T01160095 VLLN 220900Z 16002KT 9999 FEW020 BKN100 23/18 Q1019 NOSIG KJKL 220853Z AUTO 00000KT 9SM CLR 11/09 A2956 RMK AO2 SLP003 T01060094 58031 ENGC 220920Z 23023KT 9999 FEW014 BKN030 07/04 Q1021 W08/S5 ENFL 220920Z AUTO 15012KT 9999NDV -SHRA SCT002/// BKN006/// OVC013/// 04/03 Q1023 ENEV 220920Z 00000KT 2700 -SN VV011 M02/M02 Q1008 RMK WIND 1400FT 10014KT KISW 220854Z AUTO 23004KT 1/4SM FG VV002 03/03 A2956 RMK AO2 SLP019 T00280028 53005 KM33 220935Z AUTO 00000KT 10SM SCT110 12/10 A2953 RMK A01 KITR 220853Z AUTO 29010KT 10SM CLR M02/M04 A2971 RMK AO2 SLP062 T10171039 53019 FEFT 220800Z 28017KT 9999 BKN008 25/22 Q1010 UUMO 220930Z 28005MPS 9999 SCT013 BKN100 M04/M08 Q1016 R26/420345 NOSIG RMK QFE747/0996 ENGM 220920Z 23002KT 1000 R19R/P2000N R01R/1100U FZFG OVC002 M02/M03 Q1022 TEMPO 0700 FZFG VV001 KJLN 220944Z AUTO 04005KT 10SM FEW007 BKN029 OVC050 09/09 A2943 RMK AO2 RAE39 P0011 T00940094 ENHD 220920Z 11007KT 9999 4000SE VCFG SCT003 SCT007 BKN027 04/03 Q1025 ENHE 220920Z 25037KT 4200 -RADZ BKN010 07/06 Q1011 W///S5 ENHF 220850Z 35007KT 300V030 9999 VCSH SCT033 M01/M07 Q1007 RMK WIND 1254FT 32018KT FDPP 220600Z AUTO 15002KT //// // ////// 09/09 Q1027 UUOB 220930Z 27005MPS CAVOK M06/M08 Q1027 R29/850555 NOSIG KIWA 220935Z AUTO 11007KT 10SM CLR 05/02 A3012 RMK AO2 KIWD 220856Z AUTO 22003KT 1/4SM FG OVC002 01/01 A2955 RMK AO2 SLP018 60001 T00110006 53011 FZRANO TSNO RVRNO